Фактическая погода NOWCAST (расчётный прогноз на ближайшие 2 часа) AUTOTAF (расчётный прогноз на 9 часов) TAF (официальный синоптический прогноз)
Алматы
METAR UAAA 290130Z 23002MPS 170V280 9999 BKN050CB OVC100 13/04 Q1018 NOSIG


NOWCAST.SU UAAA 290100Z VRB02MPS 9999 FEW150 12/02 Q1021 NOSIG
AUTOTAF.ME UAAA 282200Z 2823/2908 VRB02MPS 9999 VCSH BKN170CB TX20/2908Z TN11/2823Z
FM290000 VRB02MPS CAVOK
TAF UAAA 282301Z 2900/2924 32003MPS 9999 SCT050CB BKN100 TX22/2910Z TN11/2901Z
TEMPO 2900/2903 22003G08MPS 5000 FU
TEMPO 2903/2914 04003G09MPS BKN050CB OVC100
BECMG 2914/2915 16003MPS
TEMPO 2914/2924 22003G08MPS 5000 FU
2024/05/28 00:21=
Балхаш
METAR UAAH 290130Z 07006MPS CAVOK 11/01 Q1021 NOSIG RMK QFE729/0972


NOWCAST.SU UAAH 290100Z VRB02MPS 9999 SKC 09/M02 Q1023 NOSIG
AUTOTAF.ME UAAH 282200Z 2823/2908 05003MPS CAVOK TX19/2908Z TN08/2823Z
TAF AMD UAAH 290102Z 2901/2909 06005MPS CAVOK=
Алматы (Боралдай)
SYNAR 36870 Алматы (Алма-Ата) 290000Z 00000MPS CAVOK 12/08 Q1021 RMK QFE690/0921 CLD:8AC
(160/14KM)


NOWCAST.SU UAAR 290100Z VRB02MPS 9999 FEW150 12/01 Q1021 NOSIG
AUTOTAF.ME UAAR 282200Z 2823/2908 VRB02MPS 9999 VCSH BKN170CB TX20/2907Z TN11/2823Z
FM290000 VRB02MPS CAVOK
 
Талды-Корган
METAR UAAT 281230Z 32004MPS 9999 FEW050CB BKN200 20/03 Q1016 NOSIG RMK QFE711/0948


NOWCAST.SU UAAT 290100Z VRB02MPS 9999 FEW230 10/02 Q1021 NOSIG
AUTOTAF.ME UAAT 282200Z 2823/2908 VRB02MPS CAVOK TX21/2908Z TN08/2823Z
TAF AMD UAAT 281250Z 2812/2821 CNL=
Аягуз
SYNAR 36622 Аягоз 290000Z 00000MPS CAVOK 03/00 Q1021 RMK QFE707/0943 CLD:SKC


NOWCAST.SU UAAY 290100Z VRB02MPS 9999 SKC 05/01 Q1022 NOSIG
AUTOTAF.ME UAAY 282200Z 2823/2908 VRB02MPS CAVOK TX17/2908Z TN03/2823Z
 
Нур-Султан
METAR UACC 290130Z 24008MPS CAVOK 10/05 Q1015 NOSIG RMK QFE730/0973


NOWCAST.SU UACC 290100Z 25009G16MPS 9999 FEW150 11/04 Q1017 NOSIG
RMK TURB: MOD FL70/FL80
AUTOTAF.ME UACC 282200Z 2823/2908 24009G17MPS CAVOK TX19/2907Z TN10/2823Z
BECMG 2904/2905 BKN040TCU
FM290700 26012G17MPS 9999 VCSH BKN040CB
TAF UACC 282301Z 2900/2924 22008MPS 9999 BKN030 BKN100 TX20/2910Z TN07/2901Z
TEMPO 2900/2906 25010G15MPS 3100 -SHRA BKN011 BKN030CB
BECMG 2906/2907 25010MPS SCT040CB BKN050
TEMPO 2906/2915 27013G18MPS 3100 -TSRA BKN011 BKN030CB
BECMG 2915/2917 VRB01MPS BKN011 BKN040
TEMPO 2915/2924 29005MPS 3100 -RA BR SCT005
2024/05/28 00:21=
Кокшетау
METAR UACK 281300Z 28012MPS CAVOK 18/04 Q1011 NOSIG RMK QFE734/0979


NOWCAST.SU UACK 290100Z 31004MPS 9999 -RA OVC008 10/08 Q1012 NOSIG
RMK TURB: MOD SFC/FL30
AUTOTAF.ME UACK 282200Z 2823/2908 29009G15MPS 9999 -RA OVC015 TX11/2823Z TN06/2906Z
FM290000 30004MPS 9999 -RA OVC008
FM290200 31004MPS 2500 RA BR OVC004
BECMG 2902/2903 -RA BR
FM290400 VRB02MPS 5000 -RA BR OVC008
FM290600 07005MPS 9999 -RA OVC008
FM290700 08005MPS 9000 -RA BR OVC015
BECMG 2907/2908 5000
TAF AMD UACK 281257Z 2812/2821 CNL=
Петропавловск
METAR UACP 281400Z 28010G16MPS CAVOK 18/05 Q1006 NOSIG RMK QFE742/0990


NOWCAST.SU UACP 290100Z VRB02MPS 9999 BKN027 04/00 Q1013 NOSIG
AUTOTAF.ME UACP 282200Z 2823/2908 05003MPS 2500 -RA BR BKN040 TX11/2908Z TN04/2901Z
FM290000 VRB02MPS 5000 -RA HZ BKN040
FM290100 VRB02MPS 9999 BKN025
TAF AMD UACP 281413Z 2812/2821 CNL=
Тараз (Аулие-Ата)
METAR UADD 290130Z 19002MPS 9999 NSC 13/02 Q1018 NOSIG RMK QFE707/0942


NOWCAST.SU UADD 290100Z VRB02MPS 9999 SCT120 10/01 Q1020 NOSIG
AUTOTAF.ME UADD 282200Z 2823/2908 VRB02MPS CAVOK TX24/2908Z TN08/2900Z
BECMG 2905/2906 05005MPS
TAF UADD 282300Z 2900/2924 20003G08MPS 9999 SCT050CB BKN100 TX23/2911Z TN10/2901Z
TEMPO 2903/2918 36003G08MPS
2024/05/28 00:21=
Толе-Би
SYNAR 38222 Толе Би 290000Z 03003MPS CAVOK 12/06 Q1019 RMK QFE723/0964 CLD:6AC


NOWCAST.SU UADO 290100Z 01003MPS 9999 BKN088 12/00 Q1020 NOSIG
AUTOTAF.ME UADO 282200Z 2823/2908 01004MPS CAVOK TX24/2907Z TN10/2823Z
 
 


NOSIG
 
Чимкент
METAR UAII 290130Z 13003MPS CAVOK 15/07 Q1015 NOSIG RMK QFE724/0966


NOWCAST.SU UAII 290100Z 07003MPS 9999 BKN150 12/03 Q1017 NOSIG
AUTOTAF.ME UAII 282200Z 2823/2908 07003MPS CAVOK TX26/2908Z TN10/2823Z
TAF UAII 282300Z 2900/2924 13003G08MPS 9999 SCT040 TX28/2909Z TN13/2901Z
TEMPO 2900/2903 08003G08MPS 3100 FU
BECMG 2903/2905 32003G08MPS
TEMPO 2905/2914 01003G08MPS SCT050CB
BECMG 2914/2916 13003G08MPS
2024/05/28 00:21=
Туркестан
METAR UAIT 290130Z 07006MPS CAVOK 18/M02 Q1017 NOSIG RMK QFE738/0984


NOWCAST.SU UAIT 290100Z 04005MPS 9000 HZ FEW280 14/M03 Q1019 NOSIG
RMK TURB: MOD FL50/FL60
AUTOTAF.ME UAIT 282200Z 2823/2908 04004MPS 9000 HZ NSC TX25/2908Z TN13/2823Z
TAF UAIT 282300Z 2900/2924 06006G11MPS CAVOK TX27/2910Z TN14/2901Z
TEMPO 2900/2912 09010G15MPS
2024/05/28 00:00=
Жезказган
METAR UAKD 290130Z 28002MPS CAVOK 10/00 Q1022 NOSIG RMK QFE733/0977


NOWCAST.SU UAKD 290100Z VRB02MPS 9999 SKC 08/01 Q1024 NOSIG
AUTOTAF.ME UAKD 282200Z 2823/2908 VRB02MPS CAVOK TX21/2908Z TN07/2823Z
TAF AMD UAKD 290050Z 2901/2909 30005MPS 9999 SCT030
TEMPO 2901/2905 VRB02MPS 3100 FU
TEMPO 2905/2909 VRB02MPS 5000 FU=
Караганда (Сары-Арка)
METAR UAKK 290130Z 23007MPS CAVOK 09/02 Q1019 NOSIG RMK QFE717/0956


NOWCAST.SU UAKK 290100Z 23007G13MPS 9999 SKC 06/00 Q1021 NOSIG
AUTOTAF.ME UAKK 282200Z 2823/2908 22005G13MPS CAVOK TX17/2907Z TN04/2823Z
FM290500 25010G15MPS 9999 BKN025TCU
TAF UAKK 282301Z 2900/2924 23007MPS 9999 SCT040 BKN100 TX19/2910Z TN07/2901Z
TEMPO 2900/2906 23007G12MPS
BECMG 2906/2908 27007MPS
TEMPO 2906/2912 27012MPS
BECMG 2915/2917 22004MPS
2024/05/28 00:21=
Байконур (Крайний)
SYNAR 35953 Жосалы (Джусалы) 290000Z 02007MPS CAVOK 10/01 Q1023 RMK QFE757/1010 CLD:SKC
(100/69KM)


NOWCAST.SU UAOL 290100Z 05004MPS 9999 SKC 12/M02 Q1023 NOSIG
AUTOTAF.ME UAOL 282200Z 2823/2908 04004MPS CAVOK TX23/2908Z TN11/2823Z
 
Байконур (Юбилейный)
SYNAR 35953 Жосалы (Джусалы) 290000Z 02007MPS CAVOK 10/01 Q1023 RMK QFE757/1010 CLD:SKC
(130/89KM)


NOWCAST.SU UAON 290100Z 05004MPS 9999 SKC 11/M02 Q1024 NOSIG
AUTOTAF.ME UAON 282200Z 2823/2908 05004MPS CAVOK TX23/2908Z TN10/2823Z
 
Кызылорда
METAR UAOO 290100Z 06004MPS CAVOK 10/M01 Q1021 NOSIG RMK QFE754/1005


NOWCAST.SU UAOO 290100Z 04006MPS 9999 SKC 12/M02 Q1022 NOSIG
AUTOTAF.ME UAOO 282200Z 2823/2908 04004MPS CAVOK TX23/2908Z TN11/2823Z
BECMG 2902/2903 04009G14MPS
TAF UAOO 282300Z 2900/2909 06004MPS CAVOK
2024/05/28 00:12=
Уральск (Ак-Жол)
METAR UARR 290130Z 17002MPS CAVOK 07/03 Q1022 NOSIG RMK QFE763/1018


NOWCAST.SU UARR 290100Z VRB02MPS 9999 SKC 11/00 Q1024 NOSIG
AUTOTAF.ME UARR 282200Z 2823/2908 VRB02MPS CAVOK TX23/2907Z TN10/2823Z
TAF UARR 282300Z 2900/2909 VRB02MPS CAVOK
BECMG 2904/2906 23004MPS
2024/05/28 00:12=
Семипалатинск-2
SYNAR 36026 Новониколаевка 290000Z 18004MPS 9999 //// 08/06 Q1017 RMK QFE740/0986 CLD:NO_OBSERVATIONS
(10/54KM)


NOWCAST.SU UASD 290100Z 22008G14MPS 9999 BKN042 09/02 Q1017 NOSIG
RMK TURB: MOD SFC/FL30
AUTOTAF.ME UASD 282200Z 2823/2908 21007G13MPS 9999 BKN040 TX20/2908Z TN07/2823Z
BECMG 2905/2906 25012G17MPS
 
Усть-Каменогорск
METAR UASK 290130Z 12005MPS 9999 NSC 08/04 Q1021 NOSIG RMK QFE740/0987


NOWCAST.SU UASK 290100Z 15003MPS 9999 FEW250 06/04 Q1021 NOSIG
AUTOTAF.ME UASK 282200Z 2823/2908 VRB02MPS CAVOK TX16/2908Z TN04/2823Z
TAF AMD UASK 281851Z 2818/2903 VRB01MPS 2100 BR SCT005
TEMPO 2819/2902 0200 FG VV002=
Павлодар
METAR UASP 290130Z 25009MPS 9999 BKN050CB 13/05 Q1010 NOSIG RMK QFE746/0995


NOWCAST.SU UASP 290100Z 25012G19MPS 9999 BKN035 13/05 Q1012 NOSIG
AUTOTAF.ME UASP 282200Z 2823/2908 24011G19MPS 9999 BKN040 TX15/2904Z TN10/2908Z
BECMG 2901/2902 -RA
BECMG 2906/2907 31004MPS
TAF UASP 282300Z 2900/2909 29010G18MPS 9999 BKN030CB
TEMPO 2900/2906 23010G18MPS 3100 -TSRA SQ BKN007 BKN020CB
2024/05/28 00:12=
Семей
METAR UASS 290130Z 21007MPS CAVOK 10/02 Q1018 NOSIG RMK QFE745/0994


NOWCAST.SU UASS 290100Z 21007G13MPS 9999 DRDU BKN042 08/01 Q1018 NOSIG
AUTOTAF.ME UASS 282200Z 2823/2908 21007G14MPS 9999 BKN040 TX20/2908Z TN07/2823Z
BECMG 2900/2901 DRDU
TAF UASS 290104Z 2902/2909 22007G12MPS 9999 SCT030 BKN100
TEMPO 2903/2909 25010G15MPS BKN030CB=
Урджар
SYNAR 36639 Урджар 290000Z 00000MPS CAVOK 02/M00 Q1020 RMK QFE721/0961 CLD:SKC


NOWCAST.SU UASU 290100Z VRB02MPS 9999 SKC 09/01 Q1021 NOSIG
AUTOTAF.ME UASU 282200Z 2823/2908 VRB02MPS CAVOK TX18/2907Z TN06/2823Z
 
Аральск
SYNAR 35746 Аральск 290000Z 03002MPS CAVOK 09/00 Q1025 RMK QFE763/1017 CLD:SKC


NOWCAST.SU UATA 290100Z VRB02MPS 9999 SKC 12/M02 Q1024 NOSIG
AUTOTAF.ME UATA 282200Z 2823/2908 VRB02MPS CAVOK TX21/2908Z TN11/2823Z
 
Актау
METAR UATE 290130Z 11006MPS CAVOK 19/05 Q1015 NOSIG RMK QFE759/1012


NOWCAST.SU UATE 290100Z 11010G15MPS 3000 HZ BKN100 22/06 Q1017 NOSIG
RMK TURB: MOD FL40/FL90
AUTOTAF.ME UATE 282200Z 2823/2908 09008G13MPS 2500 HZ NSC TX27/2908Z TN21/2902Z
BECMG 2902/2903 5000
TAF UATE 282301Z 2900/2924 12008G14MPS 9999 SCT040CB TX30/2909Z TN16/2903Z
BECMG 2910/2914 18004G10MPS
2024/05/28 00:21=
Форт-Шевченко
SYNAR 38001 Форт-Шевченко 290000Z 11007MPS CAVOK 23/05 Q1015 RMK QFE763/1017 CLD:3AC


NOWCAST.SU UATF 290100Z 11008G15MPS 3000 BLDU BKN100 21/05 Q1017 NOSIG
RMK TURB: MOD SFC/FL110
AUTOTAF.ME UATF 282200Z 2823/2908 10007G14MPS 5000 BLDU NSC TX28/2908Z TN21/2823Z
BECMG 2823/2900 2500
BECMG 2901/2902 5000
BECMG 2904/2905 DRDU
FM290600 13012G17MPS 5000 DRDU NSC
 
Атырау
METAR UATG 290130Z 10004MPS CAVOK 17/05 Q1020 NOSIG RMK QFE767/1022


NOWCAST.SU UATG 290100Z 14005G10MPS 8000 HZ SKC 18/08 Q1021 NOSIG
RMK TURB: MOD FL50/FL60
AUTOTAF.ME UATG 282200Z 2823/2908 13004MPS CAVOK TX26/2907Z TN17/2823Z
BECMG 2823/2900 HZ
BECMG 2901/2902 7000
BECMG 2902/2903 5000
FM290500 14008G13MPS 9999 DRDU NSC
TAF UATG 282300Z 2900/2924 12008MPS CAVOK TX27/2910Z TN17/2902Z
BECMG 2915/2917 VRB02MPS
2024/05/28 00:21=
Актобе
METAR UATT 290130Z 15002MPS CAVOK 09/03 Q1022 NOSIG RMK QFE746/0995


NOWCAST.SU UATT 290100Z 26003MPS 9999 SKC 10/01 Q1024 NOSIG
AUTOTAF.ME UATT 282200Z 2823/2908 VRB02MPS CAVOK TX22/2908Z TN09/2823Z
TAF UATT 282300Z 2900/2924 24003MPS CAVOK TX25/2911Z TN08/2900Z
TEMPO 2906/2915 29008MPS
2024/05/28 00:21=
Тенгиз
SYNAR 35715 Кульсары 290000Z 11002MPS CAVOK 16/04 Q1026 RMK QFE767/1023 CLD:SKC
(30/67KM)


NOWCAST.SU UATZ 290100Z 14005G10MPS 8000 HZ SKC 17/02 Q1022 NOSIG
AUTOTAF.ME UATZ 282200Z 2823/2908 14005G10MPS 5000 HZ NSC TX26/2908Z TN17/2823Z
BECMG 2901/2902 9000
BECMG 2905/2906 DRDU
 
Аркалык (Северный)
SYNAR 35363 Аркалык 290000Z 22004MPS CAVOK 08/04 Q1018 RMK QFE732/0977 CLD:2CI
(220/14KM)


NOWCAST.SU UAUR 290100Z 24006MPS 9999 FEW260 10/04 Q1020 NOSIG
AUTOTAF.ME UAUR 282200Z 2823/2908 23006G11MPS CAVOK TX20/2908Z TN09/2823Z
BECMG 2904/2905 26011G16MPS
 
Костанай (Наримановка)
METAR UAUU 290130Z 27008MPS CAVOK 12/06 Q1013 NOSIG RMK QFE744/0993


NOWCAST.SU UAUU 290100Z 27005G13MPS 9999 BKN043 14/05 Q1016 NOSIG
AUTOTAF.ME UAUU 282200Z 2823/2908 27008G16MPS CAVOK TX21/2907Z TN13/2823Z
BECMG 2900/2901 BKN040
BECMG 2902/2903 NSC
FM290500 28008G13MPS 9999 VCSH BKN040CB
BECMG 2907/2908 -SHRA
TAF UAUU 282306Z 2900/2909 28006G12MPS CAVOK
TEMPO 2900/2909 25008G14MPS
2024/05/28 00:12=
Baku Bine Arpt
METAR UBBB 290130Z 14006KT CAVOK 17/15 Q1013 NOSIG


NOWCAST.SU UBBB 290100Z 17006KT 7000 HZ FEW310 18/14 Q1015 NOSIG
AUTOTAF.ME UBBB 282200Z 2823/2908 20004KT 7000 HZ NSC TX18/2823Z TN18/2823Z
BECMG 2903/2904 17010KT
BECMG 2905/2906 BR
BECMG 2907/2908 HZ
TAF UBBB 282257Z 2900/2924 14006KT CAVOK TX28/2910Z TN17/2901Z
TEMPO 2900/2904 VRB04KT SCT012
BECMG 2906/2908 15014KT
TEMPO 2908/2916 17018KT SCT030CB
BECMG 2916/2918 16005KT
2024/05/28 00:15=
Gyandzha
METAR UBBG 290130Z 29004KT 260V330 9999 SCT100 17/14 Q1015 NOSIG


NOWCAST.SU UBBG 290100Z 25004KT 9999 OVC250 15/11 Q1021 NOSIG
AUTOTAF.ME UBBG 282200Z 2823/2908 24004KT 9000 HZ NSC TX23/2908Z TN15/2823Z
BECMG 2904/2905 HZ
FM290600 02004KT 9000 VCSH HZ SCT040CB
FM290700 03006KT 9999 -SHRA SCT040CB
TEMPO 2907/2909 5000 SHRA
BECMG 2907/2908 VCSH
TAF UBBG 282300Z 2900/2924 VRB04KT 9999 FEW040 SCT100 TX29/2912Z TN16/2902Z
TEMPO 2905/2909 28008KT
TEMPO 2909/2918 08008KT
2024/05/28 00:03=
Lenkoran
METAR UBBL 282300Z VRB02KT 9999 SCT060 14/14 Q1015 NOSIG


NOWCAST.SU UBBL 290100Z 18006KT 9999 SKC 18/11 Q1015 NOSIG
RMK TURB: MOD FL120/FL130
AUTOTAF.ME UBBL 282200Z 2823/2908 18006KT CAVOK TX22/2908Z TN18/2823Z
TAF UBBL 282256Z 2900/2924 VRB04KT 9999 SCT080 TX27/2911Z TN14/2901Z
TEMPO 2900/2904 5000 BR FEW010
BECMG 2906/2908 14008KT
TEMPO 2908/2916 17012KT SCT030
BECMG 2916/2918 VRB04KT
2024/05/28 00:00=
Nakhchivan
METAR UBBN 290130Z 08006KT 9999 NSC 17/11 Q1014 NOSIG RMK QFE685


NOWCAST.SU UBBN 290100Z 13004KT 9999 FEW130 16/08 Q1019 NOSIG
RMK TURB: MOD FL110/FL120
AUTOTAF.ME UBBN 282200Z 2823/2908 12004KT CAVOK TX26/2908Z TN16/2823Z
TAF UBBN 282254Z 2900/2924 VRB04KT 9999 FEW045CB SCT100 TX30/2912Z TN16/2902Z
TEMPO 2900/2905 10010KT
TEMPO 2906/2912 26008KT
PROB40 2912/2918 VRB14KT -TSRA SCT043CB BKN086
2024/05/28 00:00=
METAR UCFL 290100Z 36004MPS 9999 BKN030CB 12/04 Q1020


NOSIG
TAF UCFL 282240Z 2900/2924 20003G08MPS 9999 BKN030CB
TEMPO 2900/2905 32007G12MPS 3000 -SHRA FEW005 BKN015CB
BECMG 2905/2906 15003G08MPS
TEMPO 2905/2913 24003G08MPS 3000 -SHRA BKN015CB
BECMG 2915/2916 30003G08MPS
2024/05/28 00:00=
Bishkek Manas
METAR UCFM 290130Z 26003MPS 9999 FEW066CB 12/06 Q1018 NOSIG


NOWCAST.SU UCFM 290100Z VRB02MPS 9999 VCSH BKN080CB 12/06 Q1020 NOSIG
AUTOTAF.ME UCFM 282200Z 2823/2908 VRB02MPS CAVOK TX22/2908Z TN11/2823Z
FM290000 VRB02MPS 9999 VCSH BKN080CB
TAF UCFM 282246Z 2900/2924 31003G08MPS 9999 SCT050CB
TEMPO 2900/2906 25007G12MPS 3000 -SHRA FEW003 BKN020CB
TEMPO 2906/2914 27003G08MPS BKN030CB
BECMG 2914/2916 18003G08MPS
BECMG 2919/2921 09003G08MPS
2024/05/28 00:00=
Osh
METAR UCFO 290130Z VRB01MPS 9999 FEW050 17/12 Q1017 NOSIG


NOWCAST.SU UCFO 290100Z 16003MPS 9999 SCT085 13/07 Q1023 NOSIG
AUTOTAF.ME UCFO 282200Z 2823/2908 15004MPS CAVOK TX21/2907Z TN11/2823Z
FM290200 VRB02MPS 9000 VCSH HZ BKN080CB
BECMG 2903/2904 VCSH
FM290600 VRB02MPS CAVOK
TAF UCFO 282248Z 2900/2924 31003G08MPS 9999 SCT050CB
TEMPO 2900/2906 3000 -SHRA BKN030CB
PROB40 TEMPO 2900/2906 VRB12MPS -TSRA BKN020CB
BECMG 2912/2914 17003G08MPS
PROB40 TEMPO 2912/2918 VRB12MPS -TSRA BKN030CB
2024/05/28 00:00=
Shirak
METAR UDSG 290130Z VRB02KT 9999 FEW049 10/08 Q1019 NOSIG


NOWCAST.SU UDSG 290100Z 08004KT 9999 SKC 07/07 Q1031 NOSIG
AUTOTAF.ME UDSG 282200Z 2823/2908 07006KT 8000 VCSH BR BKN015CB TX18/2908Z TN07/2823Z
FM290000 07006KT 8000 BR NSC
BECMG 2903/2904 VRB02KT
BECMG 2906/2907 23008KT
TAF UDSG 282258Z 2900/2924 05006KT 9999 SCT040
TEMPO 2910/2918 VRB18KT -TSRA BKN030CB
2024/05/28 00:00=
Zvartnots
METAR UDYZ 290130Z 00000KT 9999 NSC 16/12 Q1015 NOSIG


NOWCAST.SU UDYZ 290100Z VRB02KT 9999 FEW160 15/11 Q1017 NOSIG
AUTOTAF.ME UDYZ 282200Z 2823/2908 VRB02KT 9999 SCT220CB TX24/2908Z TN15/2823Z
TEMPO 2823/2824 VCTS
FM290000 VRB02KT CAVOK
FM290200 VRB02KT 9999 VCSH SCT220CB
FM290300 VRB02KT CAVOK
TAF UDYZ 282300Z 2900/2924 14006KT 9999 SCT040=
Батагай
SYNAR 24263 Батагай 290000Z 09003MPS CAVOK 22/08 Q1019 RMK QFE745/0993 CLD:SKC


NOWCAST.SU UEBB 290100Z VRB02MPS 9999 FEW360 22/00 Q1019 NOSIG
RMK TURB: MOD SFC/FL50
AUTOTAF.ME UEBB 282200Z 2823/2908 VRB02MPS CAVOK TX25/2904Z TN20/2823Z
 
Саккырыр
SYNAR 24261 Батагай-Алыта 290000Z 00000MPS CAVOK 19/M02 Q1019 RMK QFE720/0960 CLD:3CI


NOWCAST.SU UEBS 290100Z 18003MPS 9999 SCT227 19/00 Q1020 NOSIG
RMK TURB: MOD FL40/FL50
AUTOTAF.ME UEBS 282200Z 2823/2908 VRB02MPS CAVOK TX21/2905Z TN17/2823Z
 
Талакан
SYNAR 24928 Комака 290000Z 09001MPS CAVOK 15/05 Q1009 RMK QFE729/0973 CLD:SKC
(40/56KM)


NOWCAST.SU UECT 290100Z VRB02MPS 9999 FEW330 21/02 Q1008 NOSIG
RMK TURB: MOD SFC/FL50
AUTOTAF.ME UECT 282200Z 2823/2908 VRB02MPS CAVOK TX26/2906Z TN17/2823Z
 
Алдан
SYNAR 31004 Алдан 290000Z 09003MPS CAVOK 15/01 Q1016 RMK QFE702/0936 CLD:2CI


NOWCAST.SU UEEA 290100Z 10003MPS 9999 FEW290 15/03 Q1016 NOSIG
RMK TURB: MOD FL50/FL60
AUTOTAF.ME UEEA 282200Z 2823/2908 12003MPS CAVOK TX19/2907Z TN12/2823Z
BECMG 2902/2903 SCT040TCU
BECMG 2904/2905 NSC
BECMG 2906/2907 BKN040TCU
 
Себян-Кюель
SYNAR 24462 Себян-Кюель 290000Z 09002MPS CAVOK 15/01 Q1022 RMK QFE698/0930 CLD:8ACCI


NOWCAST.SU UEED 290100Z 22003MPS 9999 OVC095 13/04 Q1023 NOSIG
AUTOTAF.ME UEED 282200Z 2823/2908 22003MPS CAVOK TX17/2907Z TN10/2823Z
FM290600 VRB02MPS 9999 VCSH BKN060CB
 
Якутск
METAR UEEE 290130Z 05001MPS CAVOK 23/06 Q1018 R23/09//70 NOSIG RMK QFE755


NOWCAST.SU UEEE 290100Z VRB02MPS 9999 FEW120 21/06 Q1019 NOSIG
RMK TURB: MOD SFC/FL30
AUTOTAF.ME UEEE 282200Z 2823/2908 VRB02MPS CAVOK TX24/2905Z TN17/2823Z
TAF UEEE 282300Z 2900/3006 04003G10MPS 9999 SCT030CB=
Покровск
SYNAR 24856 Покровск 290000Z 07002MPS CAVOK 18/06 Q1019 RMK QFE753/1004 CLD:2CI


NOWCAST.SU UEEP 290100Z 11003MPS 9999 FEW150 20/06 Q1018 NOSIG
RMK TURB: MOD SFC/FL30
AUTOTAF.ME UEEP 282200Z 2823/2908 VRB02MPS CAVOK TX24/2907Z TN16/2823Z
BECMG 2823/2900 SCT040TCU
BECMG 2900/2901 NSC
 
Чульман
SYNAR 30393 Нерюнгри 290000Z 10002MPS 9999 SCT020 12/02 Q1015 RMK QFE686/0914 CLD:4SCCI


NOWCAST.SU UELD 290100Z VRB02MPS 9999 BKN041TCU 14/02 Q1014 NOSIG
RMK TURB: MOD FL50/FL70
AUTOTAF.ME UELD 282200Z 2823/2908 VRB02MPS 9999 BKN040TCU TX18/2905Z TN11/2823Z
BECMG 2904/2905 NSC
BECMG 2906/2907 BKN040TCU
 
Нерюнгри (Чульман)
SYNAR 30393 Нерюнгри 290000Z 10002MPS 9999 SCT020 12/02 Q1015 RMK QFE686/0914 CLD:4SCCI


NOWCAST.SU UELL 290100Z VRB02MPS 9999 BKN041TCU 14/02 Q1014 NOSIG
RMK TURB: MOD FL50/FL70
AUTOTAF.ME UELL 282200Z 2823/2908 VRB02MPS 9999 BKN040TCU TX18/2906Z TN11/2823Z
BECMG 2904/2905 NSC
BECMG 2906/2907 BKN040TCU
 
Оймякон
SYNAR 24688 Оймякон 290000Z 13001MPS CAVOK 18/M03 Q1021 RMK QFE700/0934 CLD:1CI


NOWCAST.SU UEMJ 290100Z VRB02MPS 9999 FEW310 16/M04 Q1022 NOSIG
RMK TURB: MOD SFC/FL90
AUTOTAF.ME UEMJ 282200Z 2823/2908 VRB02MPS CAVOK TX20/2905Z TN14/2823Z
 
Маган
SYNAR 24959 Якутск 290000Z 06001MPS CAVOK 21/05 Q1019 RMK QFE755/1006 CLD:6CI
(170/12KM)


NOWCAST.SU UEMM 290100Z 11003MPS 9999 FEW130 21/06 Q1019 NOSIG
RMK TURB: MOD SFC/FL30
AUTOTAF.ME UEMM 282200Z 2823/2908 VRB02MPS CAVOK TX25/2907Z TN18/2823Z
 
Олёкминск
SYNAR 24944 Олекминск 290000Z 07002MPS CAVOK 19/04 Q1013 RMK QFE739/0985 CLD:3CI


NOWCAST.SU UEMO 290100Z 13004MPS 9999 FEW320 20/04 Q1013 NOSIG
RMK TURB: MOD SFC/FL40
AUTOTAF.ME UEMO 282200Z 2823/2908 11003MPS CAVOK TX24/2907Z TN17/2823Z
 
Усть-Мая
SYNAR 24966 Усть-Мая 290000Z 16001MPS CAVOK 20/03 Q1018 RMK QFE748/0997 CLD:SKC


NOWCAST.SU UEMU 290100Z 09003MPS 9999 FEW250 20/04 Q1019 NOSIG
RMK TURB: MOD SFC/FL90
AUTOTAF.ME UEMU 282200Z 2823/2908 VRB02MPS CAVOK TX22/2904Z TN17/2823Z
 
Верхневилюйск
SYNAR 24644 Верхневилюйск 290000Z 08002MPS CAVOK 19/06 Q1014 RMK QFE749/0999 CLD:2CI


NOWCAST.SU UENI 290100Z 14003MPS 9999 FEW150 21/06 Q1014 NOSIG
RMK TURB: MOD SFC/FL70
AUTOTAF.ME UENI 282200Z 2823/2908 VRB02MPS CAVOK TX25/2907Z TN18/2823Z
 
Нюрба
SYNAR 24639 Нюрба 290000Z 08002MPS CAVOK 21/06 Q1012 RMK QFE748/0997 CLD:2CI


NOWCAST.SU UENN 290100Z 13003MPS 9999 SCT062TCU 22/06 Q1013 NOSIG
RMK TURB: MOD SFC/FL90
AUTOTAF.ME UENN 282200Z 2823/2908 11003MPS CAVOK TX26/2907Z TN19/2823Z
 
Айхал
SYNAR 24322 Полярный 290000Z 02002MPS CAVOK 14/03 Q1014 RMK QFE715/0954 CLD:2CI
(20/94KM)


NOWCAST.SU UERA 290100Z VRB02MPS 9999 FEW300 14/06 Q1013 NOSIG
RMK TURB: MOD FL40/FL50
AUTOTAF.ME UERA 282200Z 2823/2908 VRB02MPS CAVOK TX21/2906Z TN11/2823Z
BECMG 2902/2903 13007MPS
 
Ленск
SYNAR 24923 Ленск 290000Z 09002MPS CAVOK 17/03 Q1010 RMK QFE736/0981 CLD:2CI


NOWCAST.SU UERL 290100Z 11003MPS 9999 SKC 20/02 Q1010 NOSIG
RMK TURB: MOD SFC/FL110
AUTOTAF.ME UERL 282200Z 2823/2908 VRB02MPS CAVOK TX23/2904Z TN16/2823Z
BECMG 2905/2906 HZ
 
Полярный
METAR UERP 290130Z VRB01MPS CAVOK 16/04 Q1012 R35/090060 NOSIG RMK QFE715


NOWCAST.SU UERP 290100Z VRB02MPS 9999 FEW310 17/04 Q1013 NOSIG
RMK TURB: MOD SFC/FL40
AUTOTAF.ME UERP 282200Z 2823/2908 VRB02MPS CAVOK TX24/2907Z TN14/2823Z
BECMG 2906/2907 15005G10MPS
TAF UERP 282300Z 2900/2924 29003MPS 9999 SCT023
BECMG 2902/2904 12004MPS
2024/05/28 00:21=
Мирный
METAR UERR 290130Z 14004MPS CAVOK 23/M01 Q1010 R25/CLRD60 NOSIG RMK QFE727/0969


NOWCAST.SU UERR 290100Z 12004MPS 9999 BKN070TCU 21/03 Q1011 NOSIG
RMK TURB: MOD SFC/FL110
AUTOTAF.ME UERR 282200Z 2823/2908 10003MPS CAVOK TX24/2904Z TN17/2823Z
TAF UERR 282300Z 2900/2924 13004G10MPS CAVOK
2024/05/28 00:21=
Саскылах
SYNAR 21802 Саскылах 290000Z 20002MPS CAVOK 12/04 Q1010 RMK QFE755/1007 CLD:SKC


NOWCAST.SU UERS 290100Z 21007MPS 9999 FEW270 13/07 Q1011 NOSIG
RMK TURB: MOD SFC/FL20
AUTOTAF.ME UERS 282200Z 2823/2908 20005G10MPS CAVOK TX14/2902Z TN12/2823Z
BECMG 2902/2903 23010MPS
BECMG 2906/2907 25005MPS
 
Оленегорск
SYNAR 21946 Чокурдах 290000Z 06006MPS CAVOK 03/M01 Q1025 RMK QFE763/1017 CLD:3CI
(10/91KM)


NOWCAST.SU UESN 290100Z 08005MPS 9999 BKN290 09/M05 Q1023 NOSIG
RMK TURB: MOD SFC/FL20
AUTOTAF.ME UESN 282200Z 2823/2908 08005MPS CAVOK TX10/2902Z TN08/2823Z
 
Чокурдах
SYNAR 21946 Чокурдах 290000Z 06006MPS CAVOK 03/M01 Q1025 RMK QFE763/1017 CLD:3CI


NOWCAST.SU UESO 290100Z 08005MPS 9999 BKN024 04/M04 Q1025 NOSIG
RMK TURB: MOD SFC/FL20
AUTOTAF.ME UESO 282200Z 2823/2908 08005MPS CAVOK TX05/2902Z TN03/2823Z
BECMG 2900/2901 BKN025
BECMG 2901/2902 NSC
 
Черский
SYNAR 25123 Черский 290000Z 33005G10MPS 9999 -SN BKN010 M01/M02 Q1017 RMK QFE760/1013 CLD:8SCAC


NOWCAST.SU UESS 290100Z 35013G18MPS 9999 DRDU BKN021TCU 03/M03 Q1014 NOSIG
RMK TURB: MOD SFC/FL30
AUTOTAF.ME UESS 282200Z 2823/2908 35014G19MPS 9999 DRDU BKN025TCU TX06/2906Z TN02/2823Z
BECMG 2903/2904 36009G14MPS
BECMG 2907/2908 NSC
 
Тикси
SYNAR 21824 Тикси 290000Z 02003MPS CAVOK 04/01 Q1016 RMK QFE761/1015 CLD:8CI
(180/13KM)


NOWCAST.SU UEST 290100Z VRB02MPS 9999 SCT280 13/05 Q1017 NOSIG
RMK TURB: MOD FL50/FL60
AUTOTAF.ME UEST 282200Z 2823/2908 VRB02MPS CAVOK TX16/2904Z TN10/2823Z
 
Kopitnari
METAR UGKO 290130Z VRB02KT 9999 SCT020CB BKN044 16/15 Q1013 NOSIG


TSAR UGKO 290100Z LAST HOUR TS OBS: 010/62-168KM, 020/67-172KM, 030/75-133KM, 040/84-113KM, 050/96-148KM, 060/68-135KM, 070/126KM, 280/114KM, 290/104-119KM, 300/115-129KM, 310/130-142KM, 320/108-177KM, 330/41-168KM, 340/64-146KM, 350/36-113KM, 360/61-137KM
NEAREST TS 350/36KM
NOWCAST.SU UGKO 290100Z VRB02KT 9999 SKC 15/14 Q1017 NOSIG
AUTOTAF.ME UGKO 282200Z 2823/2908 18004KT CAVOK TX21/2908Z TN15/2900Z
FM290200 VRB02KT 7000 BR NSC
FM290300 VRB02KT 5000 VCSH BR BKN040CB
BECMG 2905/2906 2500
FM290700 33006KT 8000 VCSH HZ BKN040CB
BECMG 2907/2908 VCSH
TAF UGKO 282300Z 2900/2924 26007KT 9999 BKN050 TX28/2911Z TN15/2903Z
TEMPO 2900/2903 25017KT
TEMPO 2910/2916 CAVOK
2024/05/28 00:05=
Batumi
METAR UGSB 290130Z 10007KT 080V140 9999 FEW012 OVC041 18/17 Q1013 NOSIG


TSAR UGSB 290100Z LAST HOUR TS OBS: 010/149-152KM, 020/129-163KM, 030/111-178KM, 040/159-187KM, 320/92-152KM, 330/83-181KM, 340/106-158KM, 350/101-150KM, 360/148-148KM
NEAREST TS 330/83KM
NOWCAST.SU UGSB 290100Z 18004KT 9000 -RA BR BKN039 17/16 Q1014 NOSIG
AUTOTAF.ME UGSB 282200Z 2823/2908 22004KT 5000 -SHRA BR BKN025CB TX18/2903Z TN17/2823Z
BECMG 2823/2900 -RA BR
BECMG 2900/2901 9000
BECMG 2901/2902 -RA
FM290300 19004KT 9999 VCSH BKN015CB
FM290400 21004KT 9999 VCSH BKN002 BKN010CB
FM290500 25004KT 9999 -SHRA BKN002 BKN010CB
FM290600 27006KT 9999 -SHRA BKN015CB
FM290700 28006KT 9999 -SHRA BKN015CB
FM290800 29006KT 8000 VCSH BR BKN015CB
TAF UGSB 282300Z 2900/2924 25007KT 9999 SCT020 BKN100 TX21/2912Z TN17/2902Z
TEMPO 2900/2905 15010KT 5000 RA BR SCT008 BKN020
2024/05/28 00:05 Ammendment=
Tbilisi Novo-al
METAR UGTB 290130Z 03004KT 9000 SCT045 15/14 Q1017 NOSIG


TSAR UGTB 290100Z LAST HOUR TS OBS: 010/93-121KM, 020/72-126KM, 030/102-132KM, 320/114-182KM, 330/135-164KM, 340/128-157KM
NEAREST TS 20/72KM
NOWCAST.SU UGTB 290100Z 31004KT 9000 -SHRA BR BKN034CB 15/13 Q1018 NOSIG
AUTOTAF.ME UGTB 282200Z 2823/2908 34004KT 9000 -SHRA BR SCT160CB TX24/2908Z TN15/2900Z
BECMG 2901/2902 VCSH
FM290400 VRB02KT CAVOK
TAF UGTB 282300Z 2900/2924 03005KT 9999 SCT045CB TX28/2912Z TN16/2902Z
BECMG 2906/2908 CAVOK
BECMG 2918/2920 SCT050CB
PROB40 TEMPO 2920/2924 VRB12KT TSRA BKN040CB
2024/05/28 23:05=
Благовещенск (Игнатьево)
METAR UHBB 290130Z 35006MPS 310V030 CAVOK 13/03 Q1010 R36R/090062 NOSIG RMK QFE740/0986


NOWCAST.SU UHBB 290100Z 35007MPS 9999 BKN088 14/02 Q1010 NOSIG
RMK TURB: MOD SFC/FL40
AUTOTAF.ME UHBB 282200Z 2823/2908 36005G10MPS CAVOK TX15/2902Z TN11/2823Z
BECMG 2901/2902 BKN040TCU
TAF UHBB 282235Z 2900/2924 36003G08MPS 9999 SCT033CB=
Зея
SYNAR 31300 Зея 290000Z 02002MPS 9999 BKN020 11/02 Q1013 RMK QFE739/0985 CLD:6SCACCI


NOWCAST.SU UHBE 290100Z 05004MPS 9999 BKN042TCU 13/02 Q1012 NOSIG
RMK TURB: MOD SFC/FL50
AUTOTAF.ME UHBE 282200Z 2823/2908 05003MPS 9999 BKN025TCU TX17/2906Z TN11/2823Z
BECMG 2905/2906 NSC
 
Февральск
SYNAR 31397 Февральск 290000Z 07006MPS 9999 SCT020 10/04 Q1010 RMK QFE733/0978 CLD:8SCACCS


NOWCAST.SU UHBF 290100Z 07005G10MPS 9999 BKN022TCU 10/03 Q1009 NOSIG
RMK TURB: MOD FL30/FL40
AUTOTAF.ME UHBF 282200Z 2823/2908 06005G12MPS 9999 BKN025TCU TX15/2906Z TN08/2823Z
 
Свободный
SYNAR 31443 Мазаново 290000Z 02002MPS CAVOK 09/03 Q1010 RMK QFE743/0990 CLD:6ACCI
(70/52KM)


NOWCAST.SU UHBS 290100Z 01007MPS 9999 SCT040TCU 11/01 Q1010 NOSIG
RMK TURB: MOD SFC/FL40
AUTOTAF.ME UHBS 282200Z 2823/2908 01007MPS 9999 SCT025TCU TX14/2908Z TN09/2823Z
 
Тында
SYNAR 30499 Тында 290000Z 11001MPS CAVOK 13/03 Q1014 RMK QFE713/0951 CLD:5AC
(220/16KM)


NOWCAST.SU UHBW 290100Z 09003MPS 9999 BKN076 14/01 Q1013 NOSIG
RMK TURB: MOD SFC/FL70
AUTOTAF.ME UHBW 282200Z 2823/2908 VRB02MPS 9999 BKN040TCU TX17/2905Z TN11/2823Z
BECMG 2900/2901 NSC
BECMG 2902/2903 BKN040TCU
FM290400 08003MPS 9000 HZ NSC
BECMG 2904/2905 BKN040TCU
 
Билибино (Купол-1)
SYNAR 25356 Эньмувеем 290000Z 01003MPS CAVOK 07/M04 Q1007 RMK QFE748/0998 CLD:8AS
(110/173KM)


NOWCAST.SU UHED 290100Z VRB02MPS 9999 BKN033TCU 01/M01 Q1008 NOSIG
AUTOTAF.ME UHED 282200Z 2823/2908 VRB02MPS 0500 FG BKN004 BKN020TCU TX01/2823Z TNM03/2908Z
FM290100 VRB02MPS 9999 BKN040TCU
BECMG 2903/2904 NSC
BECMG 2904/2905 BKN040
 
Купол
SYNAR 25356 Эньмувеем 290000Z 01003MPS CAVOK 07/M04 Q1007 RMK QFE748/0998 CLD:8AS
(110/175KM)


NOWCAST.SU UHEK 290100Z VRB02MPS 9999 BKN033TCU 01/M01 Q1008 NOSIG
AUTOTAF.ME UHEK 282200Z 2823/2908 VRB02MPS 0500 FG BKN004 BKN020TCU TX01/2823Z TNM03/2908Z
FM290100 VRB02MPS 9999 BKN040TCU
BECMG 2903/2904 OVC015
BECMG 2904/2905 BKN040
 
Новая Кубака
SYNAR 25627 Лабазная 290000Z 27002MPS 9999 BKN020CB 14/M03 Q1012 RMK QFE697/0929 CLD:8CBACCS
(240/86KM)


NOWCAST.SU UHGK 290100Z 31007MPS 9999 OVC044 07/04 Q1011 NOSIG
RMK TURB: MOD FL50/FL60
AUTOTAF.ME UHGK 282200Z 2823/2908 32005MPS CAVOK TX07/2823Z TN04/2908Z
BECMG 2823/2900 SCT040
FM290200 31008G13MPS 9999 -SHRA BKN025CB
FM290500 34010MPS 9999 -SHRA BKN015CB
FM290600 35010MPS 1200 SHRA HZ BKN015CB
BECMG 2906/2907 BKN025CB
FM290800 36009MPS 9999 VCSH BKN060CB
 
Глухариное
SYNAR 25503 Коркодон 290000Z 30004G10MPS 9999 SCT050 19/M02 Q1014 RMK QFE751/1001 CLD:8SCACCS
(130/47KM)


NOWCAST.SU UHGL 290100Z 35010G16MPS 9999 BKN065TCU 18/01 Q1015 NOSIG
RMK TURB: MOD SFC/FL50
AUTOTAF.ME UHGL 282200Z 2823/2908 34009G15MPS CAVOK TX18/2823Z TN12/2908Z
BECMG 2906/2907 36014G19MPS
 
Биробиджан (Желтый Яр)
SYNAR 31713 Биробиджан 290000Z 07002MPS 9999 BKN020CB 10/02 Q1010 RMK QFE750/1001 CLD:7CB
(330/20KM)


NOWCAST.SU UHHB 290100Z 07004MPS 9999 BKN035TCU 11/02 Q1010 NOSIG
RMK TURB: MOD SFC/FL40
AUTOTAF.ME UHHB 282200Z 2823/2908 08004MPS 9999 BKN025TCU TX13/2905Z TN10/2823Z
 
Бриакан
SYNAR 31418 Веселая Горка 290000Z 33001MPS //// //// 02/00 Q1017 RMK QFE744/0992 CLD:NO_OBSERVATIONS


NOWCAST.SU UHHE 290100Z 35003MPS 0500 +RASN FG SCT230 03/02 Q1016 NOSIG
AUTOTAF.ME UHHE 282200Z 2823/2908 35003MPS 0500 +RASN FG VV025 TX08/2906Z TN02/2823Z
BECMG 2823/2900 OVC008
BECMG 2900/2901 NSC
FM290200 35003MPS 0500 RA FG VV015
FM290400 35003MPS 5000 -RA BR OVC015
FM290500 36004MPS 7000 -RA HZ OVC025
FM290600 36004MPS 8000 -SHRA HZ OVC025CB
FM290700 36003MPS 9999 VCSH OVC025CB
 
Хабаровск (Новый)
METAR UHHH 290130Z 04006MPS 010V070 9999 BKN029 11/04 Q1009 R88/090060 NOSIG RMK QFE751/1001


NOWCAST.SU UHHH 290100Z 05010G15MPS 9999 BKN037TCU 11/03 Q1010 NOSIG
RMK TURB: MOD SFC/FL40
AUTOTAF.ME UHHH 282200Z 2823/2908 06010G15MPS 9999 BKN025TCU TX13/2904Z TN09/2823Z
BECMG 2903/2904 DRDU
TAF UHHH 282255Z 2900/3006 04007MPS 9999 BKN017CB
TEMPO 2900/2910 03008G13MPS
BECMG 2912/2914 02003MPS
2024/05/28 00:21=
Чумикан
SYNAR 31285 Удское 290000Z 05003MPS 9999 BKN033CB 05/02 Q1019 RMK QFE758/1011 CLD:8CBACCS
(250/61KM)


NOWCAST.SU UHHY 290100Z VRB02MPS 9999 BKN084 04/02 Q1018 NOSIG
RMK TURB: MOD SFC/FL30
AUTOTAF.ME UHHY 282200Z 2823/2908 VRB02MPS 0500 FG VV004 TX07/2904Z TN02/2823Z
FM290000 VRB02MPS 9999 OVC008
BECMG 2900/2901 NSC
BECMG 2902/2903 BKN025
BECMG 2903/2904 NSC
 
Комсомольск-н/А (Дземги)
SYNAR 31561 Комсомольск-на-Амуре 290000Z 34005G10MPS 6000 OVC020 05/02 Q1013 RMK QFE757/1010 CLD:8SC


NOWCAST.SU UHKD 290100Z 35009G15MPS 0500 RA FG VV016 05/02 Q1012 NOSIG
RMK TURB: MOD SFC/FL20
AUTOTAF.ME UHKD 282200Z 2823/2908 35009G15MPS 0500 RA FG VV015 TX06/2902Z TN04/2823Z
BECMG 2901/2902 +RA BLDU
BECMG 2902/2903 BLDU
BECMG 2903/2904 FG
FM290500 35010G15MPS 0500 RA FG VV015
 
Комсомольск-на-Амуре (Хурба)
SYNAR 31561 Комсомольск-на-Амуре 290000Z 34005G10MPS 6000 OVC020 05/02 Q1013 RMK QFE757/1010 CLD:8SC
(20/14KM)


NOWCAST.SU UHKK 290100Z 35009G15MPS 0500 RA FG VV018 05/03 Q1012 NOSIG
RMK TURB: MOD SFC/FL20
AUTOTAF.ME UHKK 282200Z 2823/2908 35009G15MPS 0500 +RASN FG VV015 TX07/2903Z TN04/2823Z
BECMG 2823/2900 RA FG
BECMG 2901/2902 BLDU
BECMG 2903/2904 HZ
FM290600 35009G15MPS 0500 FG BKN015
FM290800 35010G16MPS 0500 RA FG VV015
 
Советская Гавань (Май-Гатка)
SYNAR 31770 Советская Гавань 290000Z 04002MPS 9999 BKN010CB 06/03 Q1010 RMK QFE755/1006 CLD:8CBAC
(70/21KM)


NOWCAST.SU UHKM 290100Z VRB02MPS 9999 BKN027TCU 08/01 Q1008 NOSIG
RMK TURB: MOD FL30/FL40
AUTOTAF.ME UHKM 282200Z 2823/2908 VRB02MPS 9999 BKN025TCU TX09/2904Z TN06/2823Z
BECMG 2904/2905 HZ
 
Анадырь (Угольный)
METAR UHMA 290130Z 11010MPS 9999 -SHSN FEW031CB BKN040 BKN049 02/M01 Q1007 WS R20 R20/190060 NOSIG RMK MID 12008MPS END R20/12007G10MPS MT OBSC QFE750/1000


NOWCAST.SU UHMA 290100Z VRB02MPS 4000 -SN BR OVC005 00/M01 Q1011 NOSIG
AUTOTAF.ME UHMA 282200Z 2823/2908 VRB02MPS 1200 SN BR OVC004 TX00/2823Z TNM00/2823Z
FM290000 VRB02MPS 2500 -SN BR OVC004
BECMG 2900/2901 5000
BECMG 2901/2902 OVC015
BECMG 2904/2905 OVC004
FM290600 VRB02MPS 2500 BR BKN004
FM290700 11003MPS 1200 BR BKN008
FM290800 11003MPS 0500 FG BKN004
TAF UHMA 282252Z 2900/2924 12007G12MPS 9999 SCT007 BKN020
TEMPO 2900/2924 09012G17MPS 1100 SHSN BR SCT002 BKN010CB
2024/05/28 00:20=
Бухта Провидения
METAR UHMD 290130Z 19004MPS 9999 FEW013 BKN026CB M00/M02 Q1011 RMK QBB400 MT OBSC QFE757/1010


NOWCAST.SU UHMD 290100Z VRB02MPS 9999 BKN113 00/M03 Q1011 NOSIG
AUTOTAF.ME UHMD 282200Z 2823/2908 VRB02MPS CAVOK TX00/2823Z TNM00/2823Z
BECMG 2901/2902 BKN015
BECMG 2902/2903 BKN025
BECMG 2903/2904 NSC
TAF UHMD 282251Z 2900/2906 20003MPS 6000 SCT007 BKN025
TEMPO 2900/2906 0500 FG VV002
2024/05/28 00:00=
Залив Креста
 


NOWCAST.SU UHME 290100Z VRB02MPS 9999 SKC 00/M04 Q1011 NOSIG
RMK TURB: MOD FL30/FL40
AUTOTAF.ME UHME 282200Z 2823/2908 VRB02MPS 9999 -SN OVC040 TX00/2823Z TNM01/2907Z
FM290100 VRB02MPS CAVOK
BECMG 2904/2905 BKN025
BECMG 2907/2908 NSC
 
Омсукчан
SYNAR 25715 Омсукчан 290000Z 02004MPS CAVOK 19/M06 Q1014 RMK QFE716/0954 CLD:6ACCI


NOWCAST.SU UHMF 290100Z 33010G15MPS 9999 BKN064TCU 16/M05 Q1014 NOSIG
RMK TURB: MOD FL50/FL90
AUTOTAF.ME UHMF 282200Z 2823/2908 33005G10MPS CAVOK TX16/2900Z TN12/2908Z
BECMG 2900/2901 33010G15MPS
FM290400 34014G20MPS 9999 -SHRA OVC060CB
BECMG 2904/2905 33016G22MPS
 
Мыс Шмидта
 


NOWCAST.SU UHMI 290100Z VRB02MPS 0250 SN FZFG VV014 M02/M03 Q1010 NOSIG
RMK TURB: MOD SFC/FL30
AUTOTAF.ME UHMI 282200Z 2823/2908 VRB02MPS 0500 SN FZFG BKN015 TXM01/2905Z TNM02/2823Z
BECMG 2903/2904 OVC008
FM290500 VRB02MPS 1200 SHSN BR BKN004 OVC010CB
BECMG 2906/2907 2500
 
Кепервеем
SYNAR 25147 Билибино 290000Z 05005MPS 9999 BKN020CB 04/M00 Q1010 RMK QFE732/0977 CLD:8CBAC
(30/25KM)


NOWCAST.SU UHMK 290100Z 04003MPS 2000 RASN HZ BKN016 05/M02 Q1010 NOSIG
RMK TURB: MOD SFC/FL50
AUTOTAF.ME UHMK 282200Z 2823/2908 VRB02MPS 1200 RASN BR OVC008 TX05/2900Z TN03/2908Z
FM290000 VRB02MPS 1200 RASN HZ BKN015
BECMG 2900/2901 2500
FM290200 05005MPS 9999 -RASN BKN040
BECMG 2902/2903 -RA
BECMG 2907/2908 NSC
 
Залив Лаврентия
SYNAR 25399 Уэлен 290000Z 21008MPS 9999 BKN010 M01/M02 Q1011 RMK QFE757/1010 CLD:6ST
(50/111KM)


NOWCAST.SU UHML 290100Z VRB02MPS 9999 BKN016 M01/M03 Q1012 NOSIG
RMK TURB: MOD SFC/FL20
AUTOTAF.ME UHML 282200Z 2823/2908 16003MPS 9999 BKN008 TXM01/2823Z TNM01/2823Z
BECMG 2823/2900 BKN015
BECMG 2903/2904 NSC
 
Магадан (Сокол)
METAR UHMM 290130Z 08006MPS 9999 SCT040 24/M07 Q1013 R10/70D NOSIG RMK QFE745 R28/08005MPS 020V130


NOWCAST.SU UHMM 290100Z 05008G13MPS 9999 SCT095TCU 23/M06 Q1014 NOSIG
RMK TURB: MOD SFC/FL110
AUTOTAF.ME UHMM 282200Z 2823/2908 04008G13MPS CAVOK TX23/2901Z TN19/2823Z
TAF UHMM 282255Z 2900/3006 22003G08MPS 9999 NSC
TEMPO 2903/2909 SCT030CB
BECMG 2916/2918 03008G14MPS
2024/05/28 00:20=
Омолон
SYNAR 25428 Омолон 290000Z 31006G10MPS 9999 BKN020CB 13/01 Q1009 RMK QFE733/0978 CLD:7CBACCI


NOWCAST.SU UHMN 290100Z 32014G19MPS 9999 BKN045TCU 13/M02 Q1010 NOSIG
RMK TURB: MOD SFC/FL70
AUTOTAF.ME UHMN 282200Z 2823/2908 31013G18MPS 9999 BKN040TCU TX13/2901Z TN09/2908Z
BECMG 2906/2907 NSC
BECMG 2907/2908 01009G14MPS
 
Марково
SYNAR 25551 Марково 290000Z 34003MPS CAVOK 11/M01 Q1007 RMK QFE752/1003 CLD:7ACCI


NOWCAST.SU UHMO 290100Z 36003MPS 9999 BKN033 06/00 Q1008 NOSIG
RMK TURB: MOD SFC/FL20
AUTOTAF.ME UHMO 282200Z 2823/2908 VRB02MPS 9999 BKN025 TX07/2902Z TN04/2908Z
BECMG 2904/2905 03007MPS
 
Певек
SYNAR 25051 Певек 290000Z 36004MPS CAVOK 01/M03 Q1013 RMK QFE759/1012 CLD:8ACCI
(240/18KM)


NOWCAST.SU UHMP 290100Z 04007MPS 9999 BKN060 02/M04 Q1014 NOSIG
AUTOTAF.ME UHMP 282200Z 2823/2908 05004MPS 9999 BKN040 TX02/2823Z TNM00/2905Z
BECMG 2823/2900 NSC
BECMG 2904/2905 BKN025TCU
BECMG 2905/2906 BKN015 BKN020TCU
FM290800 02005G11MPS 7000 BR NSC
 
Беринговский
 


NOWCAST.SU UHMR 290100Z 13003MPS 2000 BR BKN005 01/M01 Q1011 NOSIG
AUTOTAF.ME UHMR 282200Z 2823/2908 VRB02MPS 2500 BR BKN004 TX01/2823Z TN00/2906Z
 
Сеймчан
SYNAR 25703 Сеймчан 290000Z 32004MPS CAVOK 23/M04 Q1015 RMK QFE742/0990 CLD:7CI


NOWCAST.SU UHMS 290100Z 35009G14MPS 9999 BKN076TCU 21/M02 Q1015 NOSIG
RMK TURB: MOD SFC/FL90
AUTOTAF.ME UHMS 282200Z 2823/2908 35005G11MPS CAVOK TX21/2901Z TN18/2908Z
BECMG 2901/2902 35010G15MPS
 
Магадан-13
SYNAR 25913 Магадан 290000Z 27003MPS CAVOK 11/01 Q1014 RMK QFE750/1000 CLD:2CI
(240/15KM)


NOWCAST.SU UHMT 290100Z VRB02MPS 9999 SKC 10/02 Q1014 NOSIG
RMK TURB: MOD FL50/FL110
AUTOTAF.ME UHMT 282200Z 2823/2908 VRB02MPS CAVOK TX10/2900Z TN09/2823Z
BECMG 2904/2905 26005MPS
 
Усть-Омчуг
SYNAR 24898 Усть-Омчуг 290000Z 02003MPS 9999 FEW033 20/M06 Q1017 RMK QFE712/0949 CLD:2CUCI


NOWCAST.SU UHMV 290100Z 02006MPS 9999 BKN167 17/M06 Q1018 NOSIG
RMK TURB: MOD FL50/FL110
AUTOTAF.ME UHMV 282200Z 2823/2908 01005MPS CAVOK TX18/2902Z TN15/2823Z
 
Северо-Эвенск
SYNAR 25820 Эвенск 290000Z 18002MPS //// //// 12/04 Q1011 RMK QFE757/1009 CLD:NO_OBSERVATIONS


NOWCAST.SU UHMW 290100Z 35004MPS 9999 OVC099 16/01 Q1009 NOSIG
RMK TURB: MOD SFC/FL90
AUTOTAF.ME UHMW 282200Z 2823/2908 VRB02MPS CAVOK TX16/2900Z TN13/2908Z
FM290700 35003MPS 9999 VCSH BKN060CB
 
Богородское
SYNAR 31439 Богородское 290000Z 04002MPS 9999 OVC020 06/02 Q1014 RMK QFE757/1010 CLD:8SC


NOWCAST.SU UHNB 290100Z 02003MPS 9999 -RA BKN027 04/02 Q1012 NOSIG
RMK TURB: MOD SFC/FL30
AUTOTAF.ME UHNB 282200Z 2823/2908 03003MPS 9999 -RASN BKN025 TX05/2902Z TN03/2823Z
BECMG 2900/2901 -RA
FM290200 01003MPS 5000 -RA BR BKN008
BECMG 2902/2903 BKN025
BECMG 2907/2908 2500
 
Херпучи
SYNAR 31423 Удинск 290000Z 36003MPS 9999 OVC020 05/02 Q1017 RMK QFE761/1014 CLD:8ST


NOWCAST.SU UHNH 290100Z VRB02MPS 4000 -RA BR OVC016 05/03 Q1015 NOSIG
RMK TURB: MOD SFC/FL20
AUTOTAF.ME UHNH 282200Z 2823/2908 VRB02MPS 5000 BR BKN008 TX06/2902Z TN03/2823Z
FM290000 VRB02MPS 9999 -RA OVC015
FM290100 VRB02MPS 5000 -RA BR OVC015
BECMG 2901/2902 OVC025
FM290300 34003MPS 9999 -RA OVC025
FM290400 32003MPS 5000 -RA BR OVC025
FM290500 32003MPS 9000 -SHRA BR OVC015CB
BECMG 2905/2906 -SHRA
BECMG 2907/2908 -RA
 
Николаевск-на-Амуре
SYNAR 31369 Николаевск-на-Амуре 290000Z 33002MPS 9999 OVC020 04/01 Q1016 RMK QFE757/1010 CLD:8SC


NOWCAST.SU UHNN 290100Z 03005MPS 9999 -RA BKN021 05/00 Q1013 NOSIG
RMK TURB: MOD SFC/FL40
AUTOTAF.ME UHNN 282200Z 2823/2908 03004MPS 9999 -RA OVC015 TX05/2901Z TN03/2823Z
BECMG 2823/2900 -RA HZ
FM290100 03005MPS 9999 -RA BKN025
FM290400 02005MPS 5000 HZ BKN015
BECMG 2904/2905 BKN040
FM290600 02005MPS 7000 -DZ BR BKN008
FM290700 02004MPS 9999 -RA OVC040
 
Ургалан
SYNAR 31152 Нелькан 290000Z 07001MPS CAVOK 13/03 Q1018 RMK QFE734/0979 CLD:2CI
(90/99KM)


NOWCAST.SU UHNU 290100Z 09004MPS 9999 BKN226 13/M01 Q1017 NOSIG
RMK TURB: MOD SFC/FL50
AUTOTAF.ME UHNU 282200Z 2823/2908 VRB02MPS CAVOK TX16/2905Z TN10/2823Z
 
Нелькан
SYNAR 31152 Нелькан 290000Z 07001MPS CAVOK 13/03 Q1018 RMK QFE734/0979 CLD:2CI


NOWCAST.SU UHNX 290100Z 08003MPS 9999 FEW290 14/M01 Q1017 NOSIG
RMK TURB: MOD SFC/FL50
AUTOTAF.ME UHNX 282200Z 2823/2908 VRB02MPS CAVOK TX19/2907Z TN11/2823Z
 
Охотск
SYNAR 31088 Охотск 290000Z 34004MPS CAVOK 20/05 Q1017 RMK QFE762/1016 CLD:1CI


NOWCAST.SU UHOO 290100Z 07007MPS 9999 FEW310 20/02 Q1016 NOSIG
RMK TURB: MOD SFC/FL90
AUTOTAF.ME UHOO 282200Z 2823/2908 04005MPS CAVOK TX22/2903Z TN17/2823Z
BECMG 2907/2908 VRB02MPS
 
Оссора
SYNAR 32246 Оссора 290000Z 20004MPS CAVOK 13/00 Q1011 RMK QFE757/1010 CLD:2AC


NOWCAST.SU UHPD 290100Z 21004MPS 9999 SKC 06/01 Q1011 NOSIG
RMK TURB: MOD FL50/FL90
AUTOTAF.ME UHPD 282200Z 2823/2908 21005MPS CAVOK TX06/2823Z TN05/2907Z
 
Тигиль
SYNAR 32293 Тигиль 290000Z 23002MPS CAVOK 18/M06 Q1011 RMK QFE757/1009 CLD:SKC


NOWCAST.SU UHPG 290100Z 34003MPS 9999 SKC 16/00 Q1012 NOSIG
RMK TURB: MOD SFC/FL30
AUTOTAF.ME UHPG 282200Z 2823/2908 VRB02MPS CAVOK TX18/2904Z TN14/2823Z
 
Халактырка
SYNAR 32583 Петропавловск-Камчатский 290000Z 19002MPS 9999 -SHRA OVC006CB 03/02 Q1015 RMK QFE759/1012 CLD:8CB
(210/19KM)


NOWCAST.SU UHPH 290100Z 14005MPS 9999 BKN018 03/01 Q1015 NOSIG
AUTOTAF.ME UHPH 282200Z 2823/2908 14004MPS 9000 BR BKN015 TX03/2823Z TN02/2907Z
BECMG 2901/2902 BR
BECMG 2904/2905 BR
 
Палана
SYNAR 32227 Палана 290000Z 32004MPS CAVOK 17/M04 Q1012 RMK QFE757/1009 CLD:SKC


NOWCAST.SU UHPL 290100Z 33003MPS 9999 SKC 12/00 Q1012 NOSIG
RMK TURB: MOD SFC/FL90
AUTOTAF.ME UHPL 282200Z 2823/2908 VRB02MPS CAVOK TX12/2900Z TN10/2908Z
 
Мильково
SYNAR 32497 Пущино 290000Z 34001MPS CAVOK 14/02 Q1012 RMK QFE732/0976 CLD:6ACCC
(210/66KM)


NOWCAST.SU UHPM 290100Z VRB02MPS 9999 BKN027 12/01 Q1013 NOSIG
RMK TURB: MOD SFC/FL40
AUTOTAF.ME UHPM 282200Z 2823/2908 VRB02MPS 9999 BKN025 TX13/2903Z TN10/2823Z
BECMG 2903/2904 NSC
BECMG 2905/2906 SCT025
BECMG 2906/2907 NSC
 
Козыревск
SYNAR 32379 Козыревск 290000Z 32002MPS CAVOK 15/M02 Q1013 RMK QFE756/1008 CLD:SKC


NOWCAST.SU UHPO 290100Z VRB02MPS 9999 SKC 14/00 Q1012 NOSIG
RMK TURB: MOD SFC/FL40
AUTOTAF.ME UHPO 282200Z 2823/2908 VRB02MPS 9999 SCT040TCU TX16/2903Z TN12/2823Z
BECMG 2823/2900 NSC
 
Петропавловск-Камчатский (Елизово)
METAR UHPP 290130Z 16006MPS 9999 OVC008 04/00 Q1014 R16R/CLRD60 NOSIG RMK MT OBSC QFE758/1010


NOWCAST.SU UHPP 290100Z 14005MPS 9999 BKN018 03/01 Q1015 NOSIG
AUTOTAF.ME UHPP 282200Z 2823/2908 14004MPS 9999 BKN015 TX04/2823Z TN03/2900Z
BECMG 2903/2904 BKN025
BECMG 2904/2905 BKN015
BECMG 2906/2907 BKN025
TAF UHPP 282232Z 2900/3006 16003G10MPS 9999 FEW009 BKN025CB
BECMG 2912/2914 32005G12MPS
TEMPO 2917/3003 3100 -SHRA BR BKN007 OVC013CB
2024/05/28 23:20 Ammendment=
Соболево
SYNAR 32477 Соболево 290000Z 29003MPS 9999 FEW033 13/06 Q1011 RMK QFE755/1007 CLD:3SCAC


NOWCAST.SU UHPS 290100Z VRB02MPS 9999 BKN033TCU 12/04 Q1010 NOSIG
RMK TURB: MOD SFC/FL40
AUTOTAF.ME UHPS 282200Z 2823/2908 VRB02MPS 9999 BKN025TCU TX12/2900Z TN10/2908Z
BECMG 2903/2904 NSC
BECMG 2906/2907 30005MPS
 
Тиличики
SYNAR 25956 Апука 290000Z 25004MPS 9999 FEW020 06/03 Q1008 RMK QFE755/1007 CLD:1SC
(90/196KM)


NOWCAST.SU UHPT 290100Z VRB02MPS 9999 FEW250 10/02 Q1008 NOSIG
RMK TURB: MOD FL30/FL110
AUTOTAF.ME UHPT 282200Z 2823/2908 VRB02MPS CAVOK TX10/2900Z TN07/2908Z
 
Усть-Хайрюзово
SYNAR 32287 Усть-Хайрюзово 290000Z 33005MPS CAVOK 12/02 Q1012 RMK QFE758/1010 CLD:2CI


NOWCAST.SU UHPU 290100Z 35004MPS 9999 SKC 10/03 Q1012 NOSIG
AUTOTAF.ME UHPU 282200Z 2823/2908 VRB02MPS CAVOK TX11/2905Z TN10/2823Z
 
Авачинский
SYNAR 32583 Петропавловск-Камчатский 290000Z 19002MPS 9999 -SHRA OVC006CB 03/02 Q1015 RMK QFE759/1012 CLD:8CB
(160/35KM)


NOWCAST.SU UHQA 290100Z 14005MPS 9999 BKN018 03/01 Q1015 NOSIG
AUTOTAF.ME UHQA 282200Z 2823/2908 14004MPS 9999 BKN015 TX04/2823Z TN03/2900Z
BECMG 2903/2904 BKN025
BECMG 2904/2905 BKN015
BECMG 2906/2907 BKN025
 
Запорожье (Озерная)
SYNAR 32594 Озерная 290000Z 10009G13MPS 9999 BKN020 08/01 Q1009 RMK QFE753/1005 CLD:7SC


NOWCAST.SU UHQO 290100Z VRB02MPS 9999 OVC300 04/00 Q1010 NOSIG
AUTOTAF.ME UHQO 282200Z 2823/2908 10003MPS CAVOK TX04/2823Z TN03/2907Z
BECMG 2902/2903 BKN040
 
Буревестник
 


NOWCAST.SU UHSB 290100Z 35005MPS 1700 RA BR BKN002 04/03 Q1001 NOSIG
AUTOTAF.ME UHSB 282200Z 2823/2908 36005MPS 0500 RA FG VV004 TX04/2823Z TN03/2905Z
BECMG 2823/2900 OVC008
FM290100 35005MPS 1200 RA BR BKN004
FM290200 34005MPS 2500 -RA BR OVC004
FM290300 33005MPS 5000 -DZ BR NSC
BECMG 2903/2904 OVC004
FM290600 30007MPS 5000 BR OVC004
 
Оха (Новостройка)
SYNAR 32010 Оха 290000Z 02003MPS 9999 BKN006 04/01 Q1014 RMK QFE756/1009 CLD:7STAC


NOWCAST.SU UHSH 290100Z 03005MPS 9999 BKN030 04/02 Q1013 NOSIG
AUTOTAF.ME UHSH 282200Z 2823/2908 02005MPS 9999 BKN040 TX04/2823Z TN03/2907Z
BECMG 2901/2902 BKN015
BECMG 2904/2905 BKN040
BECMG 2907/2908 BKN015
 
Итуруп
 


NOWCAST.SU UHSI 290100Z 33005MPS 4000 -RA BR OVC010 04/03 Q1001 NOSIG
AUTOTAF.ME UHSI 282200Z 2823/2908 34004MPS 5000 -RA BR OVC008 TX04/2823Z TN04/2823Z
BECMG 2901/2902 2500
FM290400 31006MPS 5000 -DZ BR OVC008
BECMG 2905/2906 NSC
BECMG 2906/2907 29009MPS
 
Шахтерск
SYNAR 32098 Поронайск 290000Z 01004G07MPS 9999 -SHRA SCT020CB 08/03 Q1008 RMK QFE755/1006 CLD:8CBACCI
(90/74KM)


NOWCAST.SU UHSK 290100Z 34004MPS 9999 BKN013 05/04 Q1007 NOSIG
RMK TURB: MOD SFC/FL20
AUTOTAF.ME UHSK 282200Z 2823/2908 34003MPS 9000 BR BKN015 TX06/2905Z TN05/2823Z
BECMG 2905/2906 BKN008
 
Южно-Курильск (Менделеево)
SYNAR 32165 Южно-Курильск 290000Z 00000MPS 4000 -SHRA OVC020CB 05/04 Q1002 RMK QFE747/0996 CLD:8CB
(50/11KM)


NOWCAST.SU UHSM 290100Z 36010G15MPS 9999 FEW260 05/04 Q1003 NOSIG
RMK TURB: MOD SFC/FL20
AUTOTAF.ME UHSM 282200Z 2823/2908 36011G16MPS 5000 -RA BR OVC008 TX06/2905Z TN05/2823Z
FM290000 36011G16MPS 7000 -DZ BR NSC
FM290100 36010G15MPS CAVOK
BECMG 2902/2903 -DZ
BECMG 2904/2905 BKN015
BECMG 2905/2906 36006MPS
 
Ноглики
SYNAR 32053 Ноглики 290000Z 01006G09MPS 9999 -SHRA OVC010CB 02/02 Q1012 RMK QFE755/1007 CLD:8CB
(350/15KM)


NOWCAST.SU UHSN 290100Z 03009G14MPS 1300 RASN BR OVC003 02/02 Q1011 NOSIG
AUTOTAF.ME UHSN 282200Z 2823/2908 03009G15MPS 1200 RASN BR OVC002 TX03/2904Z TN02/2823Z
BECMG 2823/2900 OVC004
FM290600 02008G13MPS 0500 +RASN FG VV004
 
Зональное
SYNAR 32071 Тымовское 290000Z 35004G08MPS 9999 -SHRA BKN010CB 04/00 Q1009 RMK QFE748/0997 CLD:8CBAC


NOWCAST.SU UHSO 290100Z VRB02MPS 9999 BKN014 07/00 Q1006 NOSIG
RMK TURB: MOD SFC/FL50
AUTOTAF.ME UHSO 282200Z 2823/2908 VRB02MPS CAVOK TX08/2903Z TN04/2908Z
BECMG 2823/2900 OVC015
BECMG 2902/2903 OVC025
FM290800 01004MPS 9999 -RASN BKN015
 
Южно-Сахалинск (Хомутово)
METAR UHSS 290130Z 34007MPS 9999 BKN020 08/04 Q1006 R01/70D NOSIG RMK MT OBSC QFE753/1004


NOWCAST.SU UHSS 290100Z 01003MPS 9999 BKN028TCU 08/03 Q1006 NOSIG
RMK TURB: MOD FL30/FL40
AUTOTAF.ME UHSS 282200Z 2823/2908 02003MPS CAVOK TX10/2904Z TN06/2823Z
BECMG 2823/2900 BKN025TCU
BECMG 2907/2908 HZ
TAF UHSS 282250Z 2900/3006 36006MPS 9999 BKN030CB
BECMG 2906/2909 30003MPS
2024/05/28 00:20=
Одопту
SYNAR 32010 Оха 290000Z 02003MPS 9999 BKN006 04/01 Q1014 RMK QFE756/1009 CLD:7STAC
(330/45KM)


NOWCAST.SU UHSU 290100Z 01004MPS 9999 -DZ OVC240 02/01 Q1013 NOSIG
AUTOTAF.ME UHSU 282200Z 2823/2908 02005MPS 9999 -RA BKN015 TX02/2823Z TN01/2902Z
FM290100 01004MPS 9999 -DZ NSC
FM290200 36004MPS 9999 -RA OVC025
BECMG 2902/2903 NSC
BECMG 2903/2904 OVC015
BECMG 2904/2905 BKN025
FM290600 02004MPS 9999 -RA BKN015
FM290700 02004MPS 9999 -RA BKN008
FM290800 02005MPS 9000 -RA BR BKN008
 
Порт Восточный
SYNAR 31987 Партизанск 290000Z 14001MPS 9999 OVC020 10/04 Q1010 RMK QFE739/0985 CLD:8SC
(350/45KM)


NOWCAST.SU UHTK 290100Z VRB02MPS 9999 BKN026 11/07 Q1009 NOSIG
RMK TURB: MOD SFC/FL30
AUTOTAF.ME UHTK 282200Z 2823/2908 VRB02MPS 9999 BKN025 TX12/2902Z TN09/2823Z
BECMG 2903/2904 -RA
FM290500 VRB02MPS 2500 -SHRA BR BKN015CB
FM290600 VRB02MPS 1200 +SHRA FG BKN004 OVC010CB
FM290700 VRB02MPS 2500 -SHRA BR BKN004 OVC010CB
FM290800 VRB02MPS 5000 -RA BR BKN004
 
Самарга
SYNAR 31825 Агзу 290000Z 11001MPS //// //// 10/05 Q1008 RMK QFE741/0988 CLD:NO_OBSERVATIONS
(320/49KM)


NOWCAST.SU UHTS 290100Z VRB02MPS 3500 BR OVC015 05/03 Q1008 NOSIG
RMK TURB: MOD SFC/FL30
AUTOTAF.ME UHTS 282200Z 2823/2908 VRB02MPS 2500 BR OVC015 TX05/2823Z TN04/2908Z
BECMG 2906/2907 -RA BR
 
Арсеньев
SYNAR 31981 Анучино 290000Z 24002MPS 9999 OVC020 11/08 Q1009 RMK QFE739/0986 CLD:8SC
(230/29KM)


NOWCAST.SU UHWA 290100Z 25005G12MPS 9999 BKN036 13/08 Q1007 NOSIG
RMK TURB: MOD FL40/FL50
AUTOTAF.ME UHWA 282200Z 2823/2908 22003MPS 9999 -RA BKN025 TX14/2902Z TN11/2823Z
FM290200 26005G12MPS 9999 VCSH BKN040CB
BECMG 2903/2904 -SHRA
 
Остров Русский (Аякс)
SYNAR 31960 Владивосток 290000Z 14007MPS 9999 VCFG OVC006 09/09 Q1010 RMK QFE740/0987 CLD:8ST


NOWCAST.SU UHWH 290100Z 16005MPS 9999 OVC006 11/09 Q1010 NOSIG
RMK TURB: MOD FL40/FL50
AUTOTAF.ME UHWH 282200Z 2823/2908 15006MPS 9999 OVC015 TX11/2901Z TN10/2823Z
BECMG 2900/2901 OVC008
BECMG 2901/2902 OVC015
FM290300 19003MPS 5000 -RA BR OVC025
FM290400 18003MPS 2500 -RA BR NSC
BECMG 2904/2905 BKN004
FM290700 17004MPS 5000 -RA BR BKN015
FM290800 18003MPS 5000 -RA BR BKN008
 
Кавалерово
SYNAR 31959 Рудная Пристань 290000Z 13001MPS 9999 -SHRA BKN020CB 08/06 Q1011 RMK QFE755/1007 CLD:8CBAS
(80/62KM)


NOWCAST.SU UHWK 290100Z VRB02MPS 0500 RA FG VV020 05/05 Q1008 NOSIG
AUTOTAF.ME UHWK 282200Z 2823/2908 VRB02MPS 2500 -RA BR OVC015 TX07/2904Z TN05/2823Z
FM290000 VRB02MPS 1200 RA BR OVC015
FM290100 VRB02MPS 0500 RA FG VV025
BECMG 2904/2905 OVC004
FM290700 VRB02MPS 0500 BKN004 OVC010CB
TEMPO 2907/2908 TSRA
BECMG 2907/2908 SHRA FG
 
Озерные Ключи
SYNAR 31960 Владивосток 290000Z 14007MPS 9999 VCFG OVC006 09/09 Q1010 RMK QFE740/0987 CLD:8ST
(220/34KM)


NOWCAST.SU UHWL 290100Z 19005MPS 9999 BKN016 11/09 Q1009 NOSIG
AUTOTAF.ME UHWL 282200Z 2823/2908 18005G10MPS 9000 BR BKN015 TX13/2905Z TN10/2823Z
BECMG 2901/2902 -RA
FM290300 19004MPS 2500 -RA BR OVC015
FM290400 19004MPS 2500 -SHRA BR BKN015CB
BECMG 2904/2905 BKN025CB
BECMG 2905/2906 5000
FM290800 19003MPS 9999 VCSH BKN015CB
 
Уссурийск (Барановский)
SYNAR 31961 Тимирязевский 290000Z 18005G10MPS 9999 OVC010 12/10 Q1009 RMK QFE753/1004 CLD:8SC
(330/17KM)


NOWCAST.SU UHWU 290100Z 19005MPS 9999 BKN021 12/09 Q1009 NOSIG
AUTOTAF.ME UHWU 282200Z 2823/2908 18005G10MPS 9999 BKN015 TX15/2906Z TN11/2823Z
BECMG 2823/2900 BKN025
BECMG 2902/2903 -RA
FM290400 19004MPS 5000 -SHRA BR BKN025CB
FM290500 18004MPS 2500 -SHRA HZ BKN025CB
FM290600 18005MPS 9999 -SHRA BKN025CB
BECMG 2907/2908 VCSH
 
Владивосток (Кневичи)
METAR UHWW 290130Z 16002MPS 9999 BKN015 OVC026 12/09 Q1008 R25L/0///70 NOSIG RMK QFE755


NOWCAST.SU UHWW 290100Z 19005MPS 9999 BKN016 11/09 Q1009 NOSIG
AUTOTAF.ME UHWW 282200Z 2823/2908 18005G10MPS 9000 BR BKN015 TX13/2905Z TN10/2823Z
BECMG 2901/2902 -RA
FM290300 19004MPS 2500 -RA BR OVC015
FM290400 19004MPS 2500 -SHRA BR BKN015CB
BECMG 2904/2905 BKN025CB
BECMG 2905/2906 5000
FM290800 19003MPS 9999 VCSH BKN015CB
TAF UHWW 282300Z 2900/2924 22003G08MPS 6000 -SHRA FEW010 BKN016CB
BECMG 2910/2912 35003MPS
2024/05/28 00:20=
Чита (Кадала)
METAR UIAA 290130Z 06004MPS 9999 NSC 16/M01 Q1010 R29/70D NOSIG RMK QFE699/0932


NOWCAST.SU UIAA 290100Z 11004MPS 9999 FEW280 16/M01 Q1011 NOSIG
RMK TURB: MOD FL50/FL70
AUTOTAF.ME UIAA 282200Z 2823/2908 10004MPS CAVOK TX20/2905Z TN12/2823Z
TAF UIAA 282300Z 2900/2924 09005G10MPS 9999 SCT040CB
TEMPO 2900/2924 03003G08MPS
2024/05/28 00:21=
Красный Чикой
SYNAR 30935 Красный Чикой 290000Z 00000MPS 9999 -RA NSC 07/07 Q1008 RMK QFE688/0918 CLD:8AS


NOWCAST.SU UIAD 290100Z VRB02MPS 3000 -RA BR OVC021 07/07 Q1009 NOSIG
AUTOTAF.ME UIAD 282200Z 2823/2908 VRB02MPS 2500 -RA BR OVC025 TX10/2907Z TN07/2823Z
BECMG 2902/2903 5000
FM290500 VRB02MPS 5000 -SHRA BR BKN040CB
BECMG 2905/2906 BKN004 BKN010CB
BECMG 2906/2907 SCT015CB
FM290800 VRB02MPS 9000 -SHRA BR BKN025CB
 
Краснокаменск
SYNAR 30968 Забайкальск 290000Z 07006G10MPS CAVOK 13/04 Q1009 RMK QFE696/0928 CLD:4CI
(230/71KM)


NOWCAST.SU UIAE 290100Z 07009G14MPS 9999 FEW290 14/00 Q1010 NOSIG
RMK TURB: MOD SFC/FL50
AUTOTAF.ME UIAE 282200Z 2823/2908 06008MPS CAVOK TX19/2906Z TN10/2823Z
BECMG 2907/2908 DRDU
 
Кыра
SYNAR 30949 Кыра 290000Z 05002MPS 9999 SCT033 11/04 Q1008 RMK QFE677/0903 CLD:7SCAC


NOWCAST.SU UIAK 290100Z 06009MPS 9999 -SHRA BKN031CB 09/07 Q1008 NOSIG
AUTOTAF.ME UIAK 282200Z 2823/2908 07004MPS 9999 -SHRA OVC025CB TX09/2823Z TN08/2902Z
BECMG 2823/2900 05009MPS
BECMG 2902/2903 -SHRA BR
BECMG 2903/2904 -RA BR
FM290500 08005G13MPS 9999 -RA OVC025
FM290800 06009G14MPS 9999 -SHRA BKN040CB
 
Могоча
SYNAR 30673 Могоча 290000Z 00000MPS 9999 FEW033 10/02 Q1005 RMK QFE699/0932 CLD:1CU


NOWCAST.SU UIAM 290100Z VRB02MPS 9999 BKN085 15/01 Q1013 NOSIG
RMK TURB: MOD SFC/FL70
AUTOTAF.ME UIAM 282200Z 2823/2908 VRB02MPS 9999 SCT040 TX19/2906Z TN11/2823Z
BECMG 2900/2901 NSC
 
Чара
SYNAR 30372 Чара 290000Z 06001MPS CAVOK 14/M02 Q1012 RMK QFE696/0929 CLD:SKC


NOWCAST.SU UIAR 290100Z VRB02MPS 9999 FEW270 14/02 Q1013 NOSIG
RMK TURB: MOD FL50/FL60
AUTOTAF.ME UIAR 282200Z 2823/2908 VRB02MPS CAVOK TX21/2907Z TN10/2823Z
 
Газимурский завод
SYNAR 30875 Ямкун 290000Z 01001MPS CAVOK 09/02 Q1013 RMK QFE698/0931 CLD:SKC


NOWCAST.SU UIAS 290100Z 09004MPS 9999 SCT040TCU 13/00 Q1012 NOSIG
RMK TURB: MOD FL50/FL70
AUTOTAF.ME UIAS 282200Z 2823/2908 08003MPS CAVOK TX18/2907Z TN08/2823Z
BECMG 2823/2900 SCT040TCU
BECMG 2901/2902 NSC
 
Братск
METAR UIBB 290130Z 27007MPS 240V300 9999 BKN014CB 11/07 Q1009 R30/CLRD60 NOSIG RMK QFE714/0952


NOWCAST.SU UIBB 290100Z 29005G13MPS 9999 BKN031TCU 11/05 Q1012 NOSIG
RMK TURB: MOD SFC/FL40
AUTOTAF.ME UIBB 282200Z 2823/2908 28004MPS 9999 BKN015 BKN020TCU TX15/2907Z TN09/2823Z
BECMG 2900/2901 BKN025TCU
BECMG 2902/2903 BKN015 BKN020TCU
BECMG 2906/2907 BKN025TCU
TAF UIBB 282300Z 2900/2924 30007G14MPS 9999 SCT050CB
TEMPO 2900/2906 VRB12MPS
BECMG 2910/2912 24005G10MPS
2024/05/28 00:21=
Усть-Илимск
SYNAR 30127 Токма 290000Z 00000MPS CAVOK 07/05 Q1010 RMK QFE718/0958 CLD:5CS
(90/184KM)


NOWCAST.SU UIBS 290100Z 23005G12MPS 9999 BKN037TCU 16/05 Q1008 NOSIG
RMK TURB: MOD SFC/FL40
AUTOTAF.ME UIBS 282200Z 2823/2908 20004MPS CAVOK TX17/2908Z TN14/2823Z
BECMG 2823/2900 SCT040TCU
BECMG 2901/2902 26005G12MPS
BECMG 2905/2906 BKN015 BKN020TCU
FM290700 27004MPS 9999 BKN025TCU
 
Железногорск-Илимский
SYNAR 30323 Усть-Кут 290000Z 00000MPS CAVOK 09/05 Q1010 RMK QFE728/0971 CLD:8AC
(70/109KM)


NOWCAST.SU UIBV 290100Z VRB02MPS 9999 BKN044TCU 16/03 Q1009 NOSIG
RMK TURB: MOD SFC/FL40
AUTOTAF.ME UIBV 282200Z 2823/2908 VRB02MPS CAVOK TX17/2903Z TN12/2823Z
BECMG 2900/2901 BKN040TCU
BECMG 2904/2905 30005G10MPS
 
Хилок
SYNAR 30844 Хилок 290000Z 12002MPS CAVOK 11/06 Q1008 RMK QFE686/0915 CLD:8AS


NOWCAST.SU UICH 290100Z 12004MPS 9999 SCT065 14/03 Q1009 NOSIG
RMK TURB: MOD FL110/FL120
AUTOTAF.ME UICH 282200Z 2823/2908 VRB02MPS CAVOK TX18/2905Z TN11/2823Z
 
Белая
SYNAR 30710 Иркутск 290000Z 26001MPS 2700 RESHRA OVC020CB 09/09 Q1008 RMK QFE714/0952 CLD:8CB
(150/87KM)


NOWCAST.SU UIIB 290100Z VRB02MPS 9999 BKN019 12/07 Q1009 NOSIG
RMK TURB: MOD SFC/FL40
AUTOTAF.ME UIIB 282200Z 2823/2908 VRB02MPS 9999 BKN008 TX13/2905Z TN09/2823Z
BECMG 2823/2900 BKN015
BECMG 2901/2902 OVC025
BECMG 2902/2903 -RA
FM290400 33008G13MPS 9999 -RA OVC025
FM290600 32009G14MPS 5000 -RA BR OVC025
FM290800 31009G14MPS 9999 -RA OVC025
 
Хужир
SYNAR 30637 Узур 290000Z 27003MPS CAVOK 08/04 Q1010 RMK QFE716/0955 CLD:8ACCS
(60/22KM)


NOWCAST.SU UIIH 290100Z VRB02MPS 0500 VCSH FG BKN047CB 06/03 Q1010 NOSIG
AUTOTAF.ME UIIH 282200Z 2823/2908 VRB02MPS 0500 VCSH FG BKN004 BKN010CB TX08/2904Z TN04/2823Z
BECMG 2823/2900 BKN040CB
BECMG 2901/2902 BKN015CB
BECMG 2902/2903 FG
FM290400 VRB02MPS 0500 FG NSC
FM290700 22003MPS 0500 FG BKN015
 
Иркутск
METAR UIII 290130Z 09002MPS 060V120 9999 OVC007CB 10/10 Q1008 R12/290150 NOSIG RMK QBB230 MT OBSC QFE713/0951


NOWCAST.SU UIII 290100Z VRB02MPS 9000 BR BKN030 10/08 Q1009 NOSIG
AUTOTAF.ME UIII 282200Z 2823/2908 VRB02MPS 2500 BR OVC004 TX12/2905Z TN08/2823Z
FM290000 VRB02MPS 5000 BR NSC
FM290100 VRB02MPS 9000 BR BKN025
BECMG 2901/2902 OVC015
BECMG 2902/2903 -RA
BECMG 2907/2908 OVC025
TAF UIII 282300Z 2900/2924 32003MPS 9999 -SHRA BKN004 BKN009CB
TEMPO 2900/2903 0900 FG VV001
BECMG 2903/2904 BKN012CB
2024/05/28 00:21=
Кырен
SYNAR 30806 Кырен 290000Z 06001MPS CAVOK 10/05 Q1008 RMK QFE690/0920 CLD:2CI


NOWCAST.SU UIIN 290100Z VRB02MPS 9999 SCT216 09/02 Q1014 NOSIG
AUTOTAF.ME UIIN 282200Z 2823/2908 VRB02MPS CAVOK TX12/2904Z TN06/2823Z
FM290500 04004MPS 8000 HZ BKN040
FM290600 04004MPS 0500 BKN040CB
TEMPO 2906/2908 VCTS
BECMG 2907/2908 HZ
 
Иркутск-2 (Восточный)
SYNAR 30710 Иркутск 290000Z 26001MPS 2700 RESHRA OVC020CB 09/09 Q1008 RMK QFE714/0952 CLD:8CB
(140/13KM)


NOWCAST.SU UIIR 290100Z VRB02MPS 9999 OVC032 10/08 Q1009 NOSIG
AUTOTAF.ME UIIR 282200Z 2823/2908 VRB02MPS 2500 BR BKN004 TX11/2902Z TN09/2823Z
BECMG 2823/2900 5000
FM290100 VRB02MPS 9999 OVC025
FM290200 VRB02MPS 9999 -DZ OVC008
FM290300 VRB02MPS 5000 -RA BR OVC008
BECMG 2903/2904 OVC015
FM290500 28004MPS 9999 -RA OVC015
BECMG 2905/2906 28005G13MPS
FM290700 28009G14MPS 9999 -RA OVC025
 
Качуг
SYNAR 30622 Качуг 290000Z 27001MPS CAVOK 08/06 Q1009 RMK QFE711/0948 CLD:8ACCI


NOWCAST.SU UIIX 290100Z VRB02MPS 9999 VCSH SCT223CB 14/07 Q1010 NOSIG
RMK TURB: MOD SFC/FL50
AUTOTAF.ME UIIX 282200Z 2823/2908 VRB02MPS 9999 VCSH BKN080CB TX20/2906Z TN11/2823Z
TEMPO 2904/2906 VCTS
TEMPO 2906/2908 TS
BECMG 2907/2908 NSW
 
Бодайбо
SYNAR 30252 Мамакан 290000Z 07001MPS 9999 FU SKC 11/03 Q1011 RMK QFE736/0981 CLD:SKC
(250/15KM)


NOWCAST.SU UIKB 290100Z VRB02MPS 9999 FEW290 17/02 Q1010 NOSIG
RMK TURB: MOD SFC/FL50
AUTOTAF.ME UIKB 282200Z 2823/2908 VRB02MPS CAVOK TX23/2905Z TN13/2823Z
 
Таксимо
SYNAR 30356 Таксимо 290000Z 00000MPS 0500 HZ VV/// 09/01 Q1012 RMK QFE713/0951 CLD:OBSC


NOWCAST.SU UIKG 290100Z VRB02MPS 9999 FEW310 16/00 Q1012 NOSIG
RMK TURB: MOD FL50/FL60
AUTOTAF.ME UIKG 282200Z 2823/2908 VRB02MPS CAVOK TX23/2906Z TN12/2823Z
 
Киренск
SYNAR 30230 Киренск 290000Z 16001MPS CAVOK 11/06 Q1008 RMK QFE732/0977 CLD:8ACCI


NOWCAST.SU UIKK 290100Z VRB02MPS 9999 BKN110 17/07 Q1008 NOSIG
RMK TURB: MOD SFC/FL110
AUTOTAF.ME UIKK 282200Z 2823/2908 VRB02MPS CAVOK TX23/2906Z TN13/2823Z
FM290500 25003MPS 9999 VCSH BKN092CB
BECMG 2907/2908 26005MPS
 
Мама
SYNAR 30157 Мама 290000Z 14001MPS CAVOK 09/03 Q1010 RMK QFE737/0983 CLD:SKC


NOWCAST.SU UIKM 290100Z VRB02MPS 9999 FEW290 17/03 Q1009 NOSIG
RMK TURB: MOD SFC/FL50
AUTOTAF.ME UIKM 282200Z 2823/2908 VRB02MPS CAVOK TX23/2905Z TN13/2823Z
FM290600 VRB02MPS 9999 VCSH BKN090CB
FM290700 VRB02MPS CAVOK
 
Нижнеудинск
SYNAR 29698 Нижнеудинск 290000Z 30004MPS 9999 OVC020CB 08/01 Q1014 RMK QFE723/0965 CLD:8CB


NOWCAST.SU UINN 290100Z 31005G12MPS 9999 BKN030TCU 07/00 Q1015 NOSIG
RMK TURB: MOD SFC/FL40
AUTOTAF.ME UINN 282200Z 2823/2908 31005G13MPS 9999 BKN025TCU TX12/2907Z TN07/2823Z
BECMG 2905/2906 VRB02MPS
 
Казачинск
SYNAR 30337 Казачинск 290000Z 00000MPS CAVOK 13/09 Q1008 RMK QFE724/0966 CLD:7CI


NOWCAST.SU UITK 290100Z VRB02MPS 9999 VCSH OVC108CB 15/06 Q1008 NOSIG
RMK TURB: MOD FL120/FL130
AUTOTAF.ME UITK 282200Z 2823/2908 VRB02MPS 9999 VCSH OVC160CB TX20/2906Z TN12/2823Z
 
Усть-Кут
SYNAR 30323 Усть-Кут 290000Z 00000MPS CAVOK 09/05 Q1010 RMK QFE728/0971 CLD:8AC


NOWCAST.SU UITT 290100Z VRB02MPS 9999 BKN059 15/04 Q1009 NOSIG
AUTOTAF.ME UITT 282200Z 2823/2908 VRB02MPS CAVOK TX19/2905Z TN12/2823Z
BECMG 2902/2903 BKN040TCU
 
Бичура
SYNAR 30837 Мухоршибирь 290000Z 35001MPS 9999 -RA OVC010 06/06 Q1007 RMK QFE691/0922 CLD:8NS
(20/49KM)


NOWCAST.SU UIUA 290100Z VRB02MPS 4000 -RA BR OVC012 07/06 Q1009 NOSIG
AUTOTAF.ME UIUA 282200Z 2823/2908 VRB02MPS 9999 -RA OVC015 TX11/2908Z TN06/2823Z
FM290000 VRB02MPS 5000 -RA BR OVC004
BECMG 2900/2901 OVC015
BECMG 2901/2902 2500
BECMG 2906/2907 OVC025
 
Багдарин (Куликово Поле)
SYNAR 30554 Багдарин 290000Z 00000MPS CAVOK 10/M01 Q1014 RMK QFE682/0909 CLD:2CI


NOWCAST.SU UIUB 290100Z VRB02MPS 9999 BKN069 14/01 Q1014 NOSIG
RMK TURB: MOD FL70/FL80
AUTOTAF.ME UIUB 282200Z 2823/2908 VRB02MPS CAVOK TX19/2906Z TN10/2823Z
FM290500 13003MPS 9999 VCSH BKN080CB
 
Усть-Баргузин
SYNAR 30635 Усть-Баргузин 290000Z 36001MPS 9999 SCT066 10/06 Q1009 RMK QFE716/0955 CLD:8ACCI


NOWCAST.SU UIUI 290100Z VRB02MPS 9999 SCT033 09/05 Q1010 NOSIG
AUTOTAF.ME UIUI 282200Z 2823/2908 VRB02MPS CAVOK TX12/2905Z TN07/2823Z
BECMG 2823/2900 SCT015
BECMG 2900/2901 SCT040
BECMG 2901/2902 NSC
FM290300 29003MPS 7000 HZ NSC
FM290400 28003MPS 5000 HZ NSC
FM290700 VRB02MPS 7000 VCSH HZ SCT080CB
 
Нижнеангарск
SYNAR 30433 Нижнеангарск 290000Z 19002MPS 9999 VCFG SCT010 07/05 Q1009 RMK QFE714/0953 CLD:7STCI


NOWCAST.SU UIUN 290100Z VRB02MPS 9999 VCSH BKN125CB 12/05 Q1012 NOSIG
AUTOTAF.ME UIUN 282200Z 2823/2908 VRB02MPS CAVOK TX15/2904Z TN10/2823Z
FM290000 VRB02MPS 9999 VCSH SCT130CB
BECMG 2906/2907 -SHRA
 
Улан-Удэ (Байкал)
METAR UIUU 290130Z 35001MPS 9999 FEW006 BKN025CB 09/08 Q1008 R26/290250 NOSIG RMK QBB200 MT OBSC QFE712/0949


NOWCAST.SU UIUU 290100Z VRB02MPS 9999 -RA OVC046 09/07 Q1010 NOSIG
RMK TURB: MOD FL120/FL130
AUTOTAF.ME UIUU 282200Z 2823/2908 VRB02MPS 9999 -RA BKN040 TX17/2906Z TN08/2823Z
FM290300 VRB02MPS 9999 OVC015
FM290600 VRB02MPS 9999 VCSH SCT025CB
TAF UIUU 282300Z 2900/2924 11003G08MPS 6000 -SHRA BKN025CB
TEMPO 2900/2906 22005MPS BKN003 OVC009CB
TEMPO 2906/2915 32006G12MPS BKN014CB
2024/05/28 00:21=
Кабанск
SYNAR 30825 Иволгинск 290000Z 00000MPS 4000 -SHRA OVC020CB 08/07 Q1008 RMK QFE706/0942 CLD:8CB
(130/47KM)


NOWCAST.SU UIUX 290100Z VRB02MPS 9999 -RA BKN016 10/08 Q1010 NOSIG
AUTOTAF.ME UIUX 282200Z 2823/2908 VRB02MPS 9999 -RA OVC015 TX13/2904Z TN08/2823Z
BECMG 2902/2903 BKN025TCU
BECMG 2903/2904 BKN015 BKN020TCU
 
Александрия
SYNAR 33614 Светловодск 290000Z 08002MPS CAVOK 16/09 Q1015 RMK QFE753/1004 CLD:2AC
(10/41KM)


NOWCAST.SU UKBA 290100Z 06004MPS 9999 OVC044CB 16/09 Q1015 TEMPO VCSH
RMK TURB: MOD FL30/FL40
AUTOTAF.ME UKBA 282200Z 2823/2908 07004MPS 9999 VCSH BKN060CB TX21/2908Z TN16/2900Z
TEMPO 2824/2904 VCTS
BECMG 2903/2904 VCSH
FM290500 07009G16MPS 9999 -RA OVC040
BECMG 2905/2906 NSC
 
Киев (Борисполь)
SYNAR 33345 Киев 290000Z 00000MPS CAVOK 18/06 Q1016 RMK QFE747/0996 CLD:2CI
(290/24KM)


NOWCAST.SU UKBB 290100Z 09003MPS 9999 VCSH SCT080CB 16/08 Q1017 NOSIG
RMK TURB: MOD SFC/FL90
AUTOTAF.ME UKBB 282200Z 2823/2908 08004MPS 9999 VCSH SCT080CB TX22/2907Z TN15/2902Z
FM290200 08003MPS CAVOK
BECMG 2907/2908 BKN040TCU
 
Белая Церковь
SYNAR 33466 Мироновка 290000Z 00000MPS CAVOK 16/07 Q1016 RMK QFE747/0997 CLD:6ACCI
(100/72KM)


NOWCAST.SU UKBC 290100Z 08004MPS 9999 FEW130 16/07 Q1016 NOSIG
RMK TURB: MOD FL50/FL90
AUTOTAF.ME UKBC 282200Z 2823/2908 08004MPS CAVOK TX21/2907Z TN15/2902Z
BECMG 2904/2905 10009G16MPS
FM290800 09010G16MPS 9999 VCSH DRDU BKN060CB
 
Конотоп
SYNAR 33261 Конотоп 290000Z 07001MPS CAVOK 16/09 Q1019 RMK QFE750/1000 CLD:5AC


NOWCAST.SU UKBF 290100Z 08004MPS 9999 FEW140 17/09 Q1019 NOSIG
RMK TURB: MOD SFC/FL90
AUTOTAF.ME UKBF 282200Z 2823/2908 09004MPS CAVOK TX24/2908Z TN17/2901Z
BECMG 2907/2908 11009G14MPS
 
Кировоград (Фёдоровка)
SYNAR 33711 Кропивницкий 290000Z 11002MPS CAVOK 16/08 Q1014 RMK QFE745/0993 CLD:7AC
(0/17KM)


NOWCAST.SU UKBK 290100Z 08003MPS 9999 VCSH BKN055CB 16/07 Q1015 TEMPO FM0200 -SHRA
AUTOTAF.ME UKBK 282200Z 2823/2908 09004MPS 9999 VCSH BKN080CB TX20/2906Z TN16/2823Z
BECMG 2901/2902 NSW
TEMPO 2902/2905 -TSRA
BECMG 2904/2905 -SHRA
BECMG 2905/2906 -SHRA DRDU
FM290700 09005G13MPS 9999 -SHRA BKN040CB
 
Киев (Наливайковка)
SYNAR 33345 Киев 290000Z 00000MPS CAVOK 18/06 Q1016 RMK QFE747/0996 CLD:2CI
(100/60KM)


NOWCAST.SU UKBN 290100Z 09003MPS 9999 BKN085 15/08 Q1017 NOSIG
RMK TURB: MOD FL50/FL90
AUTOTAF.ME UKBN 282200Z 2823/2908 09003MPS CAVOK TX22/2908Z TN15/2900Z
 
Донецк
SYNAR 34415 Изюм 290000Z 00000MPS CAVOK 14/07 Q1018 RMK QFE756/1008 CLD:6AC
(350/127KM)


NOWCAST.SU UKCC 290100Z 09009G17MPS 9999 OVC076 19/04 Q1016 NOSIG
RMK TURB: MOD FL70/FL80
AUTOTAF.ME UKCC 282200Z 2823/2908 09009G16MPS CAVOK TX25/2908Z TN19/2901Z
 
Новоайдар
SYNAR 34432 Чертково 290000Z 11001MPS CAVOK 11/00 Q1020 RMK QFE751/1002 CLD:SKC
(60/90KM)


NOWCAST.SU UKCD 290100Z 09007G15MPS 9999 BKN280 17/00 Q1019 NOSIG
RMK TURB: MOD SFC/FL90
AUTOTAF.ME UKCD 282200Z 2823/2908 09008G16MPS CAVOK TX25/2908Z TN16/2902Z
BECMG 2904/2905 DRDU
 
Краматорск
SYNAR 34415 Изюм 290000Z 00000MPS CAVOK 14/07 Q1018 RMK QFE756/1008 CLD:6AC
(340/58KM)


NOWCAST.SU UKCK 290100Z 08009G16MPS 9999 DRDU BKN085 19/03 Q1017 NOSIG
RMK TURB: MOD FL70/FL90
AUTOTAF.ME UKCK 282200Z 2823/2908 09010G18MPS 9999 DRDU NSC TX25/2908Z TN18/2902Z
BECMG 2907/2908 DRDU
 
Мариуполь
SYNAR 34719 Должанка 290000Z 05005MPS CAVOK 19/12 Q1012 RMK QFE758/1011 CLD:6CS
(150/49KM)


NOWCAST.SU UKCM 290100Z 07009G15MPS 9999 BKN290 20/08 Q1013 NOSIG
AUTOTAF.ME UKCM 282200Z 2823/2908 07009G15MPS CAVOK TX21/2823Z TN20/2901Z
BECMG 2905/2906 SCT040TCU
BECMG 2906/2907 -RA
FM290800 10009G14MPS 9000 -SHRA HZ OVC025CB
 
Северодонецк
SYNAR 34415 Изюм 290000Z 00000MPS CAVOK 14/07 Q1018 RMK QFE756/1008 CLD:6AC
(290/96KM)


NOWCAST.SU UKCS 290100Z 09005G13MPS 9999 BKN095 17/01 Q1018 NOSIG
RMK TURB: MOD SFC/FL90
AUTOTAF.ME UKCS 282200Z 2823/2908 09005G13MPS 9999 DRDU NSC TX25/2908Z TN17/2901Z
BECMG 2905/2906 DRDU
 
Луганск
SYNAR 34535 Каменск-Шахтинский 290000Z 09003MPS CAVOK 15/01 Q1018 RMK QFE758/1010 CLD:6CI
(100/70KM)


NOWCAST.SU UKCW 290100Z 09005G13MPS 9999 BKN078 17/01 Q1018 NOSIG
RMK TURB: MOD SFC/FL70
AUTOTAF.ME UKCW 282200Z 2823/2908 09005G13MPS CAVOK TX25/2908Z TN16/2902Z
BECMG 2905/2906 DRDU
 
Енакиево
SYNAR 34720 Таганрог 290000Z 05003MPS 9999 BKN020 19/08 Q1014 RMK QFE757/1010 CLD:7SC
(150/121KM)


NOWCAST.SU UKCY 290100Z 08009G17MPS 9999 OVC077 19/03 Q1016 NOSIG
RMK TURB: MOD FL70/FL80
AUTOTAF.ME UKCY 282200Z 2823/2908 08009G17MPS CAVOK TX24/2908Z TN18/2902Z
 
Бердянск
SYNAR 34719 Должанка 290000Z 05005MPS CAVOK 19/12 Q1012 RMK QFE758/1011 CLD:6CS
(100/76KM)


NOWCAST.SU UKDB 290100Z 07010G18MPS 9999 DRDU BKN290 20/08 Q1013 NOSIG
RMK TURB: MOD SFC/FL70
AUTOTAF.ME UKDB 282200Z 2823/2908 07009G16MPS 9999 DRDU NSC TX21/2823Z TN19/2903Z
FM290700 11010G15MPS 9999 DRDU BKN040TCU
BECMG 2907/2908 -RA DRDU
 
Днепр
SYNAR 34504 Днепропетровск 290000Z 09003MPS CAVOK 20/04 Q1015 RMK QFE748/0997 CLD:7AC
(340/29KM)


NOWCAST.SU UKDD 290100Z 08009G16MPS 9000 DRDU BKN065 20/05 Q1015 NOSIG
RMK TURB: MOD SFC/FL40
AUTOTAF.ME UKDD 282200Z 2823/2908 09009G16MPS 9999 DRDU NSC TX22/2907Z TN20/2823Z
 
Запорожье (Мокрая)
SYNAR 34504 Днепропетровск 290000Z 09003MPS CAVOK 20/04 Q1015 RMK QFE748/0997 CLD:7AC
(340/85KM)


NOWCAST.SU UKDE 290100Z 08009G15MPS 9999 DRDU OVC070 20/05 Q1014 NOSIG
RMK TURB: MOD FL50/FL70
AUTOTAF.ME UKDE 282200Z 2823/2908 08010G17MPS 9999 DRDU NSC TX24/2907Z TN20/2823Z
 
Мелитополь
SYNAR 34719 Должанка 290000Z 05005MPS CAVOK 19/12 Q1012 RMK QFE758/1011 CLD:6CS
(100/186KM)


NOWCAST.SU UKDM 290100Z 06004MPS 8000 BKN064CB 19/08 Q1013 TEMPO TL0200 VCSH
RMK TURB: MOD SFC/FL70
AUTOTAF.ME UKDM 282200Z 2823/2908 06004MPS 9000 BKN040CB TX22/2906Z TN19/2900Z
TEMPO 2823/2824 -TSRA
BECMG 2823/2900 -SHRA HZ
TEMPO 2901/2902 VCTS
BECMG 2901/2902 VCSH HZ
FM290300 07004MPS 9000 HZ NSC
FM290600 12008G13MPS 9999 DRDU NSC
FM290800 11004MPS 5000 VCSH HZ BKN040CB
 
Кривой Рог (Лозоватка)
SYNAR 33791 Кривой Рог 290000Z 05003MPS CAVOK 19/12 Q1016 RMK QFE750/1001 CLD:8AC


NOWCAST.SU UKDR 290100Z 07004MPS 9999 OVC045CB 18/12 Q1014 TEMPO -SHRA TEMPO -SHRA
AUTOTAF.ME UKDR 282200Z 2823/2908 08004MPS 8000 BKN040CB TX21/2907Z TN17/2823Z
TEMPO 2823/2906 -TSRA
FM290600 10009G14MPS 9999 -SHRA DRDU OVC060CB
BECMG 2906/2907 -SHRA
BECMG 2907/2908 14004MPS
 
Днепропетровск (Майское)
SYNAR 34504 Днепропетровск 290000Z 09003MPS CAVOK 20/04 Q1015 RMK QFE748/0997 CLD:7AC
(280/50KM)


NOWCAST.SU UKEM 290100Z 08008G14MPS 9999 BKN070 19/04 Q1015 NOSIG
RMK TURB: MOD SFC/FL20
AUTOTAF.ME UKEM 282200Z 2823/2908 09009G16MPS 9999 DRDU NSC TX23/2908Z TN19/2823Z
BECMG 2907/2908 DRDU
 
Бахчисарай
SYNAR 33946 Симферополь 290000Z 22003MPS 9999 OVC005 15/15 Q1012 RMK QFE743/0990 CLD:8ST
(20/34KM)


TSAR UKFC 290100Z LAST HOUR TS OBS: 340/110-156KM, 350/102-153KM, 360/151KM
NEAREST TS 350/102KM
NOWCAST.SU UKFC 290100Z VRB02MPS 2600 VCSH BR BKN001 BKN010CB 13/12 Q1014 NOSIG
AUTOTAF.ME UKFC 282200Z 2823/2908 VRB02MPS 5000 VCSH BR BKN040CB TX16/2906Z TN13/2823Z
BECMG 2823/2900 2500
BECMG 2900/2901 BKN002 BKN010CB
FM290300 VRB02MPS 1200 VCSH BR BKN004 BKN010CB
FM290400 VRB02MPS 2500 BKN004 BKN010CB
TEMPO 2904/2905 VCTS
BECMG 2904/2905 VCSH BR
FM290600 VRB02MPS 2500 VCSH BR BKN025CB
FM290700 VRB02MPS 5000 -SHRA BR BKN025CB
 
Simferopol'
SYNAR 33946 Симферополь 290000Z 22003MPS 9999 OVC005 15/15 Q1012 RMK QFE743/0990 CLD:8ST
(180/30KM)


TSAR UKFF 290100Z LAST HOUR TS OBS: 310/65KM, 320/54-82KM, 330/45-102KM, 340/67-95KM, 350/91KM
NEAREST TS 330/45KM
NOWCAST.SU UKFF 290100Z 24003MPS 5000 BKN011CB 15/14 Q1013 TEMPO TS TEMPO TL0300 TS
AUTOTAF.ME UKFF 282200Z 2823/2908 24003MPS 9000 -RA BR NSC TX20/2908Z TN15/2823Z
BECMG 2823/2900 BR
FM290100 24003MPS 5000 BKN008CB
TEMPO 2901/2902 TS
FM290200 VRB02MPS 2500 BKN004 BKN010CB
TEMPO 2902/2903 -TSRA
BECMG 2902/2903 -SHRA BR
BECMG 2903/2904 5000
FM290500 VRB02MPS 9999 BKN015CB
TEMPO 2905/2907 -TSRA
FM290600 VRB02MPS 9999 OVC025CB
FM290700 VRB02MPS 9999 -SHRA BKN025CB
FM290800 26003MPS 5000 -SHRA HZ BKN025CB
 
 


NOSIG
 
Багерово
SYNAR 33983 Керчь 290000Z 29001MPS CAVOK 15/13 Q1010 RMK QFE752/1003 CLD:6AC
(110/15KM)


NOWCAST.SU UKFR 290100Z VRB02MPS 6000 BKN001 BKN010CB 17/16 Q1011 TEMPO -SHRA TEMPO TL0300 -SHRA
AUTOTAF.ME UKFR 282200Z 2823/2908 VRB02MPS 9000 SCT040CB TX18/2823Z TN17/2900Z
TEMPO 2823/2824 5000 -TSRA
TEMPO 2824/2903 -TSRA
FM290100 VRB02MPS 5000 BKN002 BKN010CB
BECMG 2901/2902 2500
FM290300 28004MPS 2500 -SHRA BR BKN004 BKN010CB
BECMG 2903/2904 5000
BECMG 2904/2905 OVC015CB
FM290600 29005MPS 5000 -SHRA BR BKN015CB
FM290700 29004MPS 9999 -SHRA BKN015CB
 
Севастополь (Бухта Круглая)
SYNAR 33998 Ай-Петри 290000Z 30001MPS 9999 FEW010 10/03 Q//// RMK CLD:7SCCI
(110/52KM)


TSAR UKFS 290100Z LAST HOUR TS OBS: 010/118-167KM, 320/182KM, 330/173-201KM, 350/117KM, 360/117-166KM
NEAREST TS 350/117KM
NOWCAST.SU UKFS 290100Z VRB02MPS 9999 BKN001 16/15 Q1013 NOSIG
AUTOTAF.ME UKFS 282200Z 2823/2908 VRB02MPS 9999 VCSH BKN015CB TX17/2906Z TN16/2823Z
FM290000 30003MPS 9999 BKN008
BECMG 2900/2901 BKN002
BECMG 2901/2902 BKN015
BECMG 2902/2903 NSC
FM290400 VRB02MPS 9999 BKN025
FM290500 VRB02MPS 9999 -RA BKN015
FM290600 28003MPS 9999 -RA BKN025
FM290700 27003MPS CAVOK
FM290800 26004MPS 9999 BKN015 BKN020TCU
 
Харьков (Северный)
SYNAR 34300 Харьков 290000Z 03001MPS CAVOK 17/05 Q1020 RMK QFE751/1001 CLD:3AC
(240/12KM)


NOWCAST.SU UKHD 290100Z 09004MPS 9999 SCT280 16/04 Q1019 NOSIG
RMK TURB: MOD SFC/FL50
AUTOTAF.ME UKHD 282200Z 2823/2908 10004MPS CAVOK TX25/2908Z TN16/2900Z
FM290700 10009G14MPS 9999 DRDU NSC
 
Харьков (Основа)
SYNAR 34300 Харьков 290000Z 03001MPS CAVOK 17/05 Q1020 RMK QFE751/1001 CLD:3AC
(290/12KM)


NOWCAST.SU UKHH 290100Z 09004MPS 9999 SCT280 16/04 Q1019 NOSIG
RMK TURB: MOD SFC/FL50
AUTOTAF.ME UKHH 282200Z 2823/2908 10004MPS CAVOK TX24/2908Z TN16/2901Z
BECMG 2906/2907 10009G14MPS
BECMG 2907/2908 DRDU
 
Кременчуг (Большая Кахновка)
SYNAR 33614 Светловодск 290000Z 08002MPS CAVOK 16/09 Q1015 RMK QFE753/1004 CLD:2AC
(240/19KM)


NOWCAST.SU UKHK 290100Z 10004MPS 9999 OVC065 18/06 Q1016 NOSIG
AUTOTAF.ME UKHK 282200Z 2823/2908 10003MPS CAVOK TX20/2907Z TN18/2901Z
FM290200 10005G13MPS 9999 VCSH BKN060CB
BECMG 2902/2903 10009G16MPS
FM290500 09009G16MPS CAVOK
 
Полтава-национальный (Супруновка)
SYNAR 33506 Полтава 290000Z 08002MPS CAVOK 17/07 Q1017 RMK QFE748/0997 CLD:2AC
(70/12KM)


NOWCAST.SU UKHP 290100Z 09005G13MPS 9999 BKN075 18/06 Q1017 NOSIG
RMK TURB: MOD FL40/FL90
AUTOTAF.ME UKHP 282200Z 2823/2908 09005G13MPS CAVOK TX20/2907Z TN18/2901Z
 
Сумы
SYNAR 33275 Сумы 290000Z 10002MPS CAVOK 15/11 Q1025 RMK QFE752/1003 CLD:SKC


NOWCAST.SU UKHS 290100Z 08003MPS 9999 SKC 17/07 Q1020 NOSIG
RMK TURB: MOD FL50/FL90
AUTOTAF.ME UKHS 282200Z 2823/2908 08003MPS 9000 HZ NSC TX25/2908Z TN16/2902Z
 
Чугуев
SYNAR 34300 Харьков 290000Z 03001MPS CAVOK 17/05 Q1020 RMK QFE751/1001 CLD:3AC
(290/39KM)


NOWCAST.SU UKHW 290100Z 09004MPS 9999 SCT280 16/04 Q1019 NOSIG
RMK TURB: MOD SFC/FL50
AUTOTAF.ME UKHW 282200Z 2823/2908 10004MPS CAVOK TX24/2908Z TN16/2900Z
BECMG 2905/2906 DRDU
BECMG 2906/2907 10009G14MPS
BECMG 2907/2908 7000
 
Черкассы
SYNAR 33466 Мироновка 290000Z 00000MPS CAVOK 16/07 Q1016 RMK QFE747/0997 CLD:6ACCI
(290/77KM)


NOWCAST.SU UKKE 290100Z 08003MPS 9999 OVC063 17/10 Q1016 NOSIG
RMK TURB: MOD FL40/FL70
AUTOTAF.ME UKKE 282200Z 2823/2908 08005G12MPS CAVOK TX20/2906Z TN17/2901Z
FM290200 VRB02MPS 9999 -RA NSC
FM290500 11005G13MPS 9999 OVC040
BECMG 2905/2906 10010G16MPS
BECMG 2906/2907 NSC
BECMG 2907/2908 -RA
 
Кировоград
SYNAR 33711 Кропивницкий 290000Z 11002MPS CAVOK 16/08 Q1014 RMK QFE745/0993 CLD:7AC


NOWCAST.SU UKKG 290100Z 08005G13MPS 9999 BKN050CB 17/08 Q1015 TEMPO TS TEMPO TL0300 TS
AUTOTAF.ME UKKG 282200Z 2823/2908 09005G13MPS 9999 BKN060CB TX21/2908Z TN17/2823Z
TEMPO 2823/2824 VCTS
BECMG 2823/2900 VCSH DRDU
TEMPO 2901/2903 TS
BECMG 2902/2903 -SHRA
BECMG 2905/2906 -SHRA DRDU
FM290800 11005G11MPS 9999 VCSH BKN060CB
 
Киев (Жуляны им. И.И.Сикорского)
SYNAR 33345 Киев 290000Z 00000MPS CAVOK 18/06 Q1016 RMK QFE747/0996 CLD:2CI


NOWCAST.SU UKKK 290100Z VRB02MPS 9999 VCSH SCT079CB 16/08 Q1017 NOSIG
RMK TURB: MOD SFC/FL110
AUTOTAF.ME UKKK 282200Z 2823/2908 09003MPS CAVOK TX23/2908Z TN16/2900Z
FM290100 VRB02MPS 9999 VCSH SCT080CB
FM290300 VRB02MPS CAVOK
FM290800 12004MPS 9999 VCSH BKN040CB
 
Киев (Киев/Антонов Международный)
SYNAR 33345 Киев 290000Z 00000MPS CAVOK 18/06 Q1016 RMK QFE747/0996 CLD:2CI
(130/35KM)


NOWCAST.SU UKKM 290100Z 09003MPS 9999 FEW140 15/09 Q1017 NOSIG
RMK TURB: MOD FL40/FL90
AUTOTAF.ME UKKM 282200Z 2823/2908 09003MPS CAVOK TX22/2908Z TN15/2823Z
FM290300 08003MPS 9999 VCSH SCT080CB
FM290500 14004MPS CAVOK
FM290800 10003MPS 9999 VCSH BKN060CB
 
Житомир (Смаковка)
SYNAR 33325 Житомир 290000Z 00000MPS 4000 BR NSC 14/12 Q1016 RMK QFE742/0989 CLD:3CI


NOWCAST.SU UKKV 290100Z 05003MPS 9999 BKN080 15/08 Q1017 NOSIG
RMK TURB: MOD FL70/FL90
AUTOTAF.ME UKKV 282200Z 2823/2908 VRB02MPS 9999 VCSH BKN080CB TX23/2908Z TN15/2901Z
BECMG 2823/2900 VCSH HZ
FM290100 05003MPS CAVOK
FM290600 10005G13MPS 9999 VCSH BKN080CB
BECMG 2906/2907 11010G15MPS
 
Самбор (Калинов)
SYNAR 33393 Львов 290000Z 00000MPS CAVOK 10/09 Q1016 RMK QFE732/0977 CLD:SKC
(60/53KM)


NOWCAST.SU UKLA 290100Z VRB02MPS 3000 VCSH BR BKN005 BKN010CB 12/11 Q1015 NOSIG
AUTOTAF.ME UKLA 282200Z 2823/2908 13003MPS 9999 VCSH BKN120CB TX20/2908Z TN12/2901Z
FM290000 VRB02MPS 1200 VCSH BR BKN004 BKN010CB
BECMG 2900/2901 2500
FM290400 10003MPS 5000 BR BKN008
FM290500 11003MPS 9999 BKN015
BECMG 2905/2906 BKN025TCU
FM290800 09003MPS 9999 VCSH BKN040CB
 
Ивано-Франковск
SYNAR 33526 Ивано-Франковск 290000Z 26004MPS CAVOK 12/11 Q1014 RMK QFE735/0980 CLD:2AC


NOWCAST.SU UKLI 290100Z VRB02MPS 5000 VCSH BR OVC074CB 13/12 Q1015 NOSIG
AUTOTAF.ME UKLI 282200Z 2823/2908 VRB02MPS 9999 VCSH BKN095CB TX20/2908Z TN12/2902Z
FM290100 VRB02MPS 5000 VCSH BR OVC080CB
FM290200 VRB02MPS 5000 BR BKN008
FM290400 VRB02MPS 9999 BKN015
BECMG 2905/2906 BKN025
FM290700 VRB02MPS 9999 VCSH BKN025CB
BECMG 2907/2908 -SHRA
 
Львов (Международный)
SYNAR 33393 Львов 290000Z 00000MPS CAVOK 10/09 Q1016 RMK QFE732/0977 CLD:SKC


NOWCAST.SU UKLL 290100Z VRB02MPS 9999 VCSH BKN015CB 13/12 Q1016 NOSIG
AUTOTAF.ME UKLL 282200Z 2823/2908 VRB02MPS 9999 VCSH BKN015CB TX21/2908Z TN13/2901Z
FM290200 VRB02MPS CAVOK
FM290600 VRB02MPS 9999 VCSH BKN040CB
BECMG 2907/2908 -SHRA
 
Черновцы
SYNAR 33658 Черновцы 290000Z 00000MPS CAVOK 14/13 Q1015 RMK QFE739/0985 CLD:7AC
(330/14KM)


NOWCAST.SU UKLN 290100Z VRB02MPS 9999 -RA BKN035 14/13 Q1015 NOSIG
AUTOTAF.ME UKLN 282200Z 2823/2908 VRB02MPS 9999 VCSH BKN040CB TX18/2907Z TN13/2902Z
BECMG 2823/2900 -RA
FM290300 VRB02MPS 9999 VCSH OVC060CB
TEMPO 2904/2905 VCTS
BECMG 2904/2905 VCSH
TEMPO 2907/2908 VRB11G16MPS TS
BECMG 2907/2908 NSW
 
Ровно
SYNAR 33301 Ровно 290000Z 04002MPS 9999 BKN020 15/13 Q1017 RMK QFE741/0989 CLD:7SCAC


NOWCAST.SU UKLR 290100Z VRB02MPS 9999 VCSH BKN059CB 14/12 Q1017 NOSIG
RMK TURB: MOD FL70/FL90
AUTOTAF.ME UKLR 282200Z 2823/2908 VRB02MPS 9999 VCSH BKN080CB TX22/2908Z TN14/2901Z
BECMG 2901/2902 VCSH BR
FM290400 07003MPS 8000 HZ NSC
FM290600 05004MPS 8000 VCSH HZ SCT080CB
FM290700 07004MPS 9000 HZ NSC
FM290800 09004MPS 9999 VCSH SCT040CB
 
Староконстантинов
SYNAR 33429 Хмельницкий 290000Z 00000MPS CAVOK 13/12 Q1016 RMK QFE730/0974 CLD:7ACCI
(210/41KM)


NOWCAST.SU UKLS 290100Z VRB02MPS 9999 BKN065 14/11 Q1016 NOSIG
RMK TURB: MOD FL70/FL90
AUTOTAF.ME UKLS 282200Z 2823/2908 VRB02MPS 9999 -SHRA OVC060CB TX20/2908Z TN13/2902Z
BECMG 2823/2900 VCSH
FM290100 VRB02MPS CAVOK
BECMG 2902/2903 HZ
BECMG 2904/2905 7000
FM290600 10008G13MPS 7000 HZ NSC
FM290700 10009G14MPS 8000 BKN040CB
TEMPO 2907/2908 VCTS
 
Ужгород
SYNAR 33631 Ужгород 290000Z 00000MPS CAVOK 12/11 Q1014 RMK QFE749/0999 CLD:2CI


NOWCAST.SU UKLU 290100Z VRB02MPS 9999 VCSH BKN080CB 14/10 Q1014 NOSIG
AUTOTAF.ME UKLU 282200Z 2823/2908 VRB02MPS CAVOK TX21/2908Z TN14/2901Z
FM290000 VRB02MPS 9999 VCSH BKN080CB
FM290200 VRB02MPS CAVOK
BECMG 2905/2906 BKN025TCU
FM290700 VRB02MPS 9999 VCSH SCT040CB
 
Львовский аэропорт Ягеллон
SYNAR 33393 Львов 290000Z 00000MPS CAVOK 10/09 Q1016 RMK QFE732/0977 CLD:SKC
(60/22KM)


NOWCAST.SU UKMC 290100Z VRB02MPS 5000 VCSH BR BKN009 BKN010CB 13/12 Q1015 NOSIG
AUTOTAF.ME UKMC 282200Z 2823/2908 13003MPS 9999 VCSH BKN120CB TX21/2908Z TN13/2901Z
FM290000 VRB02MPS 5000 VCSH BR BKN080CB
BECMG 2900/2901 BKN008 BKN010CB
FM290300 10003MPS 9999 VCSH BKN008CB
FM290400 10003MPS 9999 BKN015
BECMG 2904/2905 BKN025
FM290800 09003MPS 9999 VCSH BKN040CB
 
Киев (Гоголев)
SYNAR 33345 Киев 290000Z 00000MPS CAVOK 18/06 Q1016 RMK QFE747/0996 CLD:2CI
(250/36KM)


NOWCAST.SU UKNG 290100Z 09003MPS 9999 VCSH SCT081CB 15/08 Q1017 NOSIG
RMK TURB: MOD SFC/FL90
AUTOTAF.ME UKNG 282200Z 2823/2908 08004MPS 9999 VCSH SCT080CB TX22/2907Z TN15/2901Z
FM290200 08003MPS CAVOK
BECMG 2907/2908 BKN040TCU
 
Арциз (Червоноглинская)
SYNAR 33886 Чадыр-Лунга 290000Z 01003MPS 4000 -SHRA OVC020CB 15/15 Q1025 RMK QFE752/1003 CLD:8CB
(300/41KM)


TSAR UKOA 290100Z LAST HOUR TS OBS: 020/97-146KM, 030/103-159KM, 040/112-149KM, 050/94-132KM
NEAREST TS 50/94KM
NOWCAST.SU UKOA 290100Z VRB02MPS 9999 VCSH BKN022CB 15/12 Q1013 NOSIG
AUTOTAF.ME UKOA 282200Z 2823/2908 VRB02MPS 9999 VCSH BKN025CB TX18/2908Z TN14/2902Z
FM290200 VRB02MPS CAVOK
FM290600 VRB02MPS 9999 -RA BKN025
FM290700 VRB02MPS 9999 -SHRA BKN040CB
TEMPO 2907/2908 5000 SHRA
FM290800 VRB02MPS CAVOK
 
Одесса (Гидропорт)
SYNAR 33837 Одесса 290000Z 28002MPS 2400 TSRA OVC020CB 16/14 Q1011 RMK QFE754/1006 CLD:8CB
(160/17KM)


TSAR UKOE 290100Z LAST HOUR TS OBS: 110/103KM, 120/112-138KM, 130/126KM, 250/20KM, 260/34KM, 290/51-65KM, 300/38-75KM, 310/26-64KM, 320/54-81KM, 330/74KM, 340/46-68KM, 350/18-43KM
NEAREST TS 350/18KM
NOWCAST.SU UKOE 290100Z VRB02MPS 3000 -TSRA BR BKN005 OVC010CB 16/14 Q1013 NOSIG
AUTOTAF.ME UKOE 282200Z 2823/2908 VRB02MPS 5000 -SHRA BR BKN008 SCT010CB TX21/2908Z TN16/2823Z
FM290000 VRB02MPS 2500 -SHRA BR BKN004 BKN010CB
FM290200 VRB02MPS 9999 -SHRA BKN008 OVC010CB
BECMG 2902/2903 -SHRA BR
BECMG 2903/2904 NSW
TEMPO 2904/2905 -TSRA
FM290500 VRB02MPS 9999 BKN015CB
TEMPO 2905/2906 TS
BECMG 2905/2906 VCSH
FM290700 VRB02MPS 9999 VCSH BKN025CB
FM290800 19003MPS 9000 -SHRA HZ BKN025CB
 
Херсон (Чернобаевка)
SYNAR 33902 Херсон 290000Z 06002MPS CAVOK 17/13 Q1012 RMK QFE754/1006 CLD:6CI


TSAR UKOH 290100Z LAST HOUR TS OBS: 130/100-128KM, 140/90-146KM, 150/109-137KM, 200/70-98KM, 210/77KM, 220/58KM
NEAREST TS 220/58KM
NOWCAST.SU UKOH 290100Z VRB02MPS 9999 -SHRA BKN009 OVC010CB 17/14 Q1012 TEMPO 5000 SHRA TEMPO 5000 TSRA
AUTOTAF.ME UKOH 282200Z 2823/2908 09003MPS 9999 BKN015CB TX22/2908Z TN16/2902Z
TEMPO 2823/2824 5000 -TSRA
FM290000 10003MPS 9999 -SHRA BKN008CB
TEMPO 2824/2902 5000 SHRA
BECMG 2901/2902 NSW
TEMPO 2902/2904 3000 -TSRA
TEMPO 2904/2905 VRB08G13MPS 3000 VCTS
FM290500 VRB02MPS 5000 BKN015CB
TEMPO 2905/2909 VRB08G13MPS VCTS
BECMG 2905/2906 2500
FM290700 VRB02MPS 5000 BKN025CB
BECMG 2907/2908 9999
 
Николаев (Международный)
SYNAR 33902 Херсон 290000Z 06002MPS CAVOK 17/13 Q1012 RMK QFE754/1006 CLD:6CI
(130/69KM)


TSAR UKON 290100Z LAST HOUR TS OBS: 130/151KM, 140/170KM, 150/189KM, 170/109-133KM, 180/84-132KM, 240/126KM, 250/103-116KM, 260/97-111KM, 280/111KM
NEAREST TS 180/84KM
NOWCAST.SU UKON 290100Z 06003MPS 9999 OVC016CB 18/13 Q1012 TEMPO -SHRA TEMPO -TSRA
AUTOTAF.ME UKON 282200Z 2823/2908 07003MPS 9000 BKN025CB TX23/2908Z TN17/2902Z
TEMPO 2823/2902 -TSRA
BECMG 2823/2900 OVC015CB
TEMPO 2902/2904 5000 TS
TEMPO 2904/2905 VRB14G19MPS 5000 TS
BECMG 2904/2905 BKN025CB
TEMPO 2905/2906 VRB11G16MPS 5000 TS
TEMPO 2906/2908 VRB11G16MPS 5000 VCTS
 
Одесса (Центральный)
SYNAR 33837 Одесса 290000Z 28002MPS 2400 TSRA OVC020CB 16/14 Q1011 RMK QFE754/1006 CLD:8CB


TSAR UKOO 290100Z LAST HOUR TS OBS: 100/101KM, 110/107-121KM, 120/118-131KM, 290/33KM, 300/20-69KM, 310/57-84KM, 320/47-75KM, 330/39-94KM, 340/62-88KM, 350/84KM, 360/35-59KM
NEAREST TS 300/20KM
NOWCAST.SU UKOO 290100Z VRB02MPS 3000 -TSRA BR BKN005 OVC010CB 15/14 Q1013 NOSIG
AUTOTAF.ME UKOO 282200Z 2823/2908 VRB02MPS 9999 -SHRA BKN008 SCT010CB TX20/2908Z TN15/2901Z
TEMPO 2823/2824 5000 SHRA
FM290100 VRB02MPS 2500 -SHRA BR BKN004 OVC010CB
FM290200 VRB02MPS 5000 -SHRA BR BKN008 OVC010CB
FM290400 VRB02MPS 9999 BKN002 OVC010CB
TEMPO 2904/2905 -TSRA
FM290500 VRB02MPS 9999 BKN015CB
TEMPO 2905/2906 TS
BECMG 2905/2906 VCSH
BECMG 2906/2907 BKN025CB
 
Нежин
SYNAR 33135 Чернигов 290000Z 00000MPS //// SKC 13/09 Q1020 RMK QFE752/1003 CLD:SKC
(310/60KM)


NOWCAST.SU UKRN 290100Z 07004MPS 9999 VCSH SCT080CB 16/09 Q1018 NOSIG
RMK TURB: MOD SFC/FL90
AUTOTAF.ME UKRN 282200Z 2823/2908 07004MPS 9999 VCSH SCT080CB TX25/2908Z TN16/2823Z
FM290500 10004MPS CAVOK
FM290700 11008G13MPS 9999 VCSH BKN060CB
BECMG 2907/2908 11009G14MPS
 
Винница (Гавришовка)
SYNAR 33562 Винница 290000Z 00000MPS 9999 SCT020 14/13 Q1021 RMK QFE739/0985 CLD:6SCAC


NOWCAST.SU UKWW 290100Z 04003MPS 7000 HZ BKN074 14/10 Q1015 NOSIG
RMK TURB: MOD FL50/FL90
AUTOTAF.ME UKWW 282200Z 2823/2908 02003MPS 9000 HZ NSC TX19/2908Z TN14/2900Z
FM290300 06003MPS 8000 VCSH HZ BKN060CB
TEMPO 2905/2906 VCTS
TEMPO 2906/2907 TS
TEMPO 2907/2908 VRB17G22MPS TS
FM290800 10005G13MPS 9999 SCT025CB
 
Архангельск (Талаги)
METAR ULAA 290130Z 09005MPS 9999 OVC008CB 04/04 Q1018 R08/290060 NOSIG RMK QFE762/1016


NOWCAST.SU ULAA 290100Z 09003MPS 8000 -RA BR OVC032 05/03 Q1019 NOSIG
RMK TURB: MOD SFC/FL20
AUTOTAF.ME ULAA 282200Z 2823/2908 09004MPS 5000 OVC025CB TX10/2908Z TN05/2901Z
TEMPO 2823/2824 -TSRA
BECMG 2823/2900 -RA BR
BECMG 2901/2902 9999
FM290300 09003MPS 5000 -RA BR BKN015
BECMG 2903/2904 9999
FM290500 10004MPS 9999 -RA BKN015
FM290600 11004MPS 5000 -RA HZ OVC025
FM290800 11003MPS 9999 BKN025TCU
TAF ULAA 282300Z 2900/2924 10005G10MPS 6000 BKN013CB
TEMPO 2900/2903 07007G14MPS 1000 SHRA BR BKN003 BKN011CB
TEMPO 2903/2906 06006G12MPS 2100 -SHRA BR BKN005 BKN011CB
FM290600 10005G10MPS 9999 BKN020
2024/05/28 00:21=
Северодвинск
SYNAR 22546 Северодвинск 290000Z 09004MPS 9999 BKN023 05/03 Q1018 RMK QFE762/1017 CLD:8SCAC


NOWCAST.SU ULAD 290100Z 10004MPS 9999 -RA OVC030 06/04 Q1018 NOSIG
AUTOTAF.ME ULAD 282200Z 2823/2908 10004MPS 9999 OVC040CB TX10/2908Z TN06/2900Z
TEMPO 2823/2824 -TSRA
BECMG 2823/2900 -RA
BECMG 2901/2902 OVC015
BECMG 2902/2903 OVC040
FM290400 11004MPS 5000 -RA BR BKN025
FM290500 11004MPS 9999 -RA BKN025
 
Мезень
SYNAR 22471 Мезень 290000Z 09004MPS 9999 FEW033 M00/M06 Q1022 RMK QFE764/1019 CLD:7SCAC


NOWCAST.SU ULAE 290100Z 08004MPS 9999 OVC021 M02/M06 Q1023 NOSIG
AUTOTAF.ME ULAE 282200Z 2823/2908 08004MPS 9999 BKN040 TX04/2907Z TNM03/2900Z
BECMG 2901/2902 NSC
 
Архангельск (Васьково)
SYNAR 22550 Архангельск 290000Z 08002MPS 9999 OVC019 04/04 Q1018 RMK QFE762/1017 CLD:8ST
(70/16KM)


NOWCAST.SU ULAH 290100Z 09003MPS 9000 -RA BR OVC032 06/03 Q1019 NOSIG
RMK TURB: MOD SFC/FL20
AUTOTAF.ME ULAH 282200Z 2823/2908 09004MPS 7000 OVC040CB TX10/2908Z TN05/2902Z
TEMPO 2823/2824 -TSRA
FM290000 09004MPS 5000 -RA BR OVC040
BECMG 2900/2901 9000
BECMG 2902/2903 5000
BECMG 2903/2904 9999
FM290500 10004MPS 9999 -RA BKN025
 
Лешуконское
SYNAR 22573 Лешуконское 290000Z 03001MPS CAVOK 01/M05 Q1020 RMK QFE758/1011 CLD:8ACCI


NOWCAST.SU ULAL 290100Z 08003MPS 9999 OVC030 01/M04 Q1021 NOSIG
AUTOTAF.ME ULAL 282200Z 2823/2908 08003MPS 9999 -SN BKN040 TX08/2908Z TN01/2823Z
BECMG 2901/2902 BKN015 SCT020TCU
BECMG 2902/2903 NSC
 
Нарьян-Мар
SYNAR 23205 Нарьян-Мар 290000Z 30002MPS CAVOK M04/M06 Q1023 RMK QFE766/1021 CLD:6AC


NOWCAST.SU ULAM 290100Z 32003MPS 9999 BKN029 M06/M08 Q1023 NOSIG
AUTOTAF.ME ULAM 282200Z 2823/2908 32003MPS 9999 BKN025 TXM01/2908Z TNM07/2823Z
BECMG 2901/2902 BKN015
BECMG 2903/2904 BKN025TCU
BECMG 2904/2905 -SN
 
Шенкурск
SYNAR 22768 Шенкурск 290000Z 19001MPS 9999 RETS BKN031CB 14/13 Q1014 RMK QFE756/1009 CLD:7CBAC


TSAR ULAN 290100Z LAST HOUR TS OBS: 100/55-65KM, 110/60-69KM, 120/76KM, 130/68KM
NEAREST TS 100/55KM
NOWCAST.SU ULAN 290100Z VRB02MPS 9999 BKN012CB 12/12 Q1015 TEMPO -TSRA TEMPO TL0200 -TSRA
AUTOTAF.ME ULAN 282200Z 2823/2908 VRB02MPS 5000 -SHRA BR BKN008 BKN010CB TX13/2823Z TN12/2900Z
FM290000 VRB02MPS 9999 OVC025CB
TEMPO 2824/2902 -TSRA
BECMG 2900/2901 BKN015CB
FM290200 VRB02MPS 9999 -SHRA BKN008CB
FM290300 02003MPS 9000 BR BKN015
FM290400 03003MPS 9999 VCSH BKN015CB
BECMG 2906/2907 BKN025TCU
 
Онега
SYNAR 22641 Онега 290000Z 00000MPS 9999 OVC022 09/09 Q1017 RMK QFE761/1015 CLD:8SC


NOWCAST.SU ULAO 290100Z VRB02MPS 0500 VCSH FG BKN003 OVC010CB 08/06 Q1017 TEMPO FM0200 TS
AUTOTAF.ME ULAO 282200Z 2823/2908 VRB02MPS 0500 SHRA FG BKN004 BKN010CB TX11/2908Z TN08/2900Z
BECMG 2823/2900 VCSH FG
TEMPO 2902/2905 TS
BECMG 2902/2903 BKN008 OVC010CB
BECMG 2904/2905 VCSH FG
FM290600 VRB02MPS 0500 +SHRA FG VV008CB
FM290700 14003MPS 5000 -SHRA BR OVC040CB
FM290800 13004MPS 9000 -SHRA BR OVC040CB
 
Карпогоры
SYNAR 22671 Карпогоры 290000Z 07002MPS //// //// 03/02 Q1018 RMK QFE757/1010 CLD:NO_OBSERVATIONS


NOWCAST.SU ULAP 290100Z 08003MPS 6000 -RA BR OVC033 03/03 Q1019 NOSIG
AUTOTAF.ME ULAP 282200Z 2823/2908 08003MPS 5000 -RA BR OVC040 TX08/2908Z TN03/2901Z
BECMG 2823/2900 OVC004
BECMG 2900/2901 OVC040
FM290200 08003MPS 9999 -RA OVC015
BECMG 2906/2907 BKN025TCU
 
Каргополь
SYNAR 22845 Каргополь 290000Z 20001MPS 9999 FEW033 12/12 Q1017 RMK QFE751/1001 CLD:1SC


NOWCAST.SU ULAR 290100Z VRB02MPS 9999 SCT310 14/10 Q1017 NOSIG
RMK TURB: MOD FL70/FL110
AUTOTAF.ME ULAR 282200Z 2823/2908 VRB02MPS CAVOK TX25/2908Z TN14/2823Z
FM290300 VRB02MPS 9999 VCSH BKN080CB
 
Соловки
SYNAR 22429 Соловки 290000Z 07002MPS 9999 BKN004 05/05 Q1017 RMK QFE762/1016 CLD:8STAC


TSAR ULAS 290100Z LAST HOUR TS OBS: 280/52-61KM, 290/65-73KM, 300/49-79KM, 310/64KM
NEAREST TS 300/49KM
NOWCAST.SU ULAS 290100Z 05006MPS 0200 VCSH FG BKN001 BKN010CB 04/03 Q1018 TEMPO FM0200 TS
AUTOTAF.ME ULAS 282200Z 2823/2908 05005MPS 0200 VCSH FG BKN002 BKN010CB TX04/2823Z TN04/2823Z
FM290200 06005MPS 2500 BKN002 BKN010CB
TEMPO 2902/2904 TS
BECMG 2903/2904 1200
TEMPO 2904/2905 TSRA
FM290500 08005MPS 0500 RA FG VV004
FM290700 08005MPS 7000 -RA BR OVC040
BECMG 2907/2908 OVC015
 
Нижняя Пеша
SYNAR 22383 Нижняя Пеша 290000Z 08002MPS CAVOK M04/M08 Q1025 RMK QFE767/1022 CLD:SKC


NOWCAST.SU ULAV 290100Z 10003MPS 9999 FEW190 M03/M06 Q1024 NOSIG
AUTOTAF.ME ULAV 282200Z 2823/2908 09003MPS CAVOK TX01/2906Z TNM04/2823Z
 
Долгощелье
SYNAR 22365 Абрамовский маяк 290000Z 08007G10MPS CAVOK M00/M04 Q1023 RMK QFE765/1020 CLD:7AC
(350/37KM)


NOWCAST.SU ULBD 290100Z 08004MPS 9999 OVC027 M02/M05 Q1022 NOSIG
AUTOTAF.ME ULBD 282200Z 2823/2908 08004MPS 9999 OVC040 TX04/2908Z TNM02/2823Z
BECMG 2901/2902 OVC015
BECMG 2902/2903 NSC
BECMG 2904/2905 SCT025TCU
FM290600 07004MPS CAVOK
FM290800 06005MPS 8000 HZ NSC
 
Каменка
SYNAR 22471 Мезень 290000Z 09004MPS 9999 FEW033 M00/M06 Q1022 RMK QFE764/1019 CLD:7SCAC


NOWCAST.SU ULBK 290100Z 08004MPS 9999 OVC021 M02/M05 Q1023 NOSIG
AUTOTAF.ME ULBK 282200Z 2823/2908 08004MPS 9999 BKN040 TX04/2907Z TNM02/2823Z
BECMG 2901/2902 NSC
 
Шойна
SYNAR 22271 Шойна 290000Z 08003MPS CAVOK M05/M06 Q1025 RMK QFE768/1024 CLD:1CI


NOWCAST.SU ULBO 290100Z 10004MPS 9999 FEW160 M02/M05 Q1025 NOSIG
AUTOTAF.ME ULBO 282200Z 2823/2908 09004MPS CAVOK TXM01/2905Z TNM02/2823Z
 
Верхняя Золотица
SYNAR 22446 Зимнегорский Маяк 290000Z 05003MPS 9999 OVC020CB 03/01 Q1019 RMK QFE757/1009 CLD:8CB
(230/38KM)


NOWCAST.SU ULBW 290100Z 10004MPS 9999 BKN035 03/01 Q1020 NOSIG
RMK TURB: MOD SFC/FL20
AUTOTAF.ME ULBW 282200Z 2823/2908 09004MPS 9999 -RA BKN040 TX09/2908Z TN03/2823Z
BECMG 2902/2903 NSC
BECMG 2903/2904 BKN015
BECMG 2904/2905 HZ
FM290700 10003MPS 9999 BKN025TCU
 
Рогачёво (Амдерма-2)
SYNAR 20744 Малые Кармакулы 290000Z 36011MPS 9999 DRSN SCT010 M02/M05 Q1020 RMK QFE764/1018 CLD:7SCACCI
(10/83KM)


NOWCAST.SU ULDA 290100Z 34012G19MPS 2000 BLSN BKN021 M04/M07 Q1020 NOSIG
RMK TURB: MOD SFC/FL20
AUTOTAF.ME ULDA 282200Z 2823/2908 34012G18MPS 2500 BLSN BKN025 TXM02/2908Z TNM04/2823Z
 
Амдерма
SYNAR 23022 Амдерма 290000Z 29005MPS CAVOK M07/M09 Q1014 RMK QFE756/1008 CLD:6ACCC


NOWCAST.SU ULDD 290100Z 31007G13MPS 9999 BKN045 M06/M09 Q1016 NOSIG
AUTOTAF.ME ULDD 282200Z 2823/2908 31007G12MPS 9999 BKN025 TXM02/2907Z TNM07/2823Z
BECMG 2823/2900 DRSN
 
МР Титова
SYNAR 23112 Варандей 290000Z 30006MPS 9999 -SN OVC037 M03/M05 Q1019 RMK QFE763/1017 CLD:8NS
(340/60KM)


NOWCAST.SU ULDI 290100Z 28004MPS 5000 BR BKN014 M07/M08 Q1018 NOSIG
AUTOTAF.ME ULDI 282200Z 2823/2908 28004MPS 2500 BR OVC004 TXM03/2907Z TNM07/2823Z
BECMG 2823/2900 5000
BECMG 2900/2901 BKN015
FM290200 28004MPS 9999 BKN015
BECMG 2902/2903 BKN025
FM290500 28005G10MPS 9999 BKN015 BKN020TCU
FM290800 29005G11MPS 9999 BKN025TCU
 
МЛСП Приразломная
SYNAR 23112 Варандей 290000Z 30006MPS 9999 -SN OVC037 M03/M05 Q1019 RMK QFE763/1017 CLD:8NS
(150/57KM)


NOWCAST.SU ULDP 290100Z 31005MPS 9999 -SN BKN027 M03/M07 Q1018 NOSIG
RMK TURB: MOD SFC/FL20
AUTOTAF.ME ULDP 282200Z 2823/2908 31005MPS CAVOK TXM02/2823Z TNM03/2900Z
FM290000 31005MPS 9999 -SN BKN025
FM290200 31005MPS CAVOK
 
МР Требса
SYNAR 23112 Варандей 290000Z 30006MPS 9999 -SN OVC037 M03/M05 Q1019 RMK QFE763/1017 CLD:8NS
(50/17KM)


NOWCAST.SU ULDR 290100Z 27003MPS 9999 BKN015 M07/M08 Q1019 NOSIG
RMK TURB: MOD FL20/FL30
AUTOTAF.ME ULDR 282200Z 2823/2908 26003MPS 9999 BKN004 TXM02/2906Z TNM08/2823Z
FM290000 26003MPS 7000 BR BKN015
BECMG 2904/2905 BKN025TCU
BECMG 2907/2908 30008G13MPS
 
Каратайка
SYNAR 23022 Амдерма 290000Z 29005MPS CAVOK M07/M09 Q1014 RMK QFE756/1008 CLD:6ACCC
(10/112KM)


NOWCAST.SU ULDT 290100Z 33003MPS 9999 FEW120 M08/M09 Q1016 NOSIG
RMK TURB: MOD SFC/FL20
AUTOTAF.ME ULDT 282200Z 2823/2908 33003MPS CAVOK TXM02/2908Z TNM08/2823Z
BECMG 2901/2902 BKN015
BECMG 2902/2903 BKN025
 
Варандей
SYNAR 23112 Варандей 290000Z 30006MPS 9999 -SN OVC037 M03/M05 Q1019 RMK QFE763/1017 CLD:8NS


NOWCAST.SU ULDW 290100Z 31005MPS 9999 -SN BKN026 M03/M06 Q1019 NOSIG
RMK TURB: MOD SFC/FL20
AUTOTAF.ME ULDW 282200Z 2823/2908 31005MPS 5000 BR NSC TXM02/2906Z TNM03/2823Z
FM290000 31005MPS 9999 -SN BKN025
 
Харьягинский
SYNAR 23217 Харьяга 290000Z 33005MPS //// //// M04/M06 Q1021 RMK QFE757/1010 CLD:NO_OBSERVATIONS


NOWCAST.SU ULEG 290100Z 31004MPS 9999 BKN018 M06/M08 Q1021 NOSIG
AUTOTAF.ME ULEG 282200Z 2823/2908 31004MPS 9999 BKN015 TXM02/2907Z TNM07/2823Z
BECMG 2823/2900 BKN004
BECMG 2900/2901 BKN015
BECMG 2905/2906 BKN025
 
Хорей-Вер
SYNAR 23217 Харьяга 290000Z 33005MPS //// //// M04/M06 Q1021 RMK QFE757/1010 CLD:NO_OBSERVATIONS
(250/60KM)


NOWCAST.SU ULEH 290100Z 31003MPS 9999 SKC M07/M09 Q1019 NOSIG
AUTOTAF.ME ULEH 282200Z 2823/2908 32004MPS 9999 BKN025 TXM03/2907Z TNM08/2823Z
BECMG 2900/2901 NSC
BECMG 2901/2902 BKN040
BECMG 2902/2903 NSC
FM290400 29004MPS 9999 BKN025
FM290500 29004MPS 9999 -SN BKN015
FM290800 29008G13MPS 9999 DRSN BKN025
 
Индига
SYNAR 22292 Индига 290000Z 00000MPS 7000 SKC M04/M05 Q1025 RMK QFE768/1024 CLD:SKC
(280/16KM)


NOWCAST.SU ULEI 290100Z VRB02MPS 9999 BKN017 M05/M07 Q1024 NOSIG
AUTOTAF.ME ULEI 282200Z 2823/2908 VRB02MPS 9999 BKN040 TXM02/2906Z TNM06/2823Z
BECMG 2900/2901 BKN015
BECMG 2902/2903 SCT025
 
Коткино
SYNAR 23205 Нарьян-Мар 290000Z 30002MPS CAVOK M04/M06 Q1023 RMK QFE766/1021 CLD:6AC
(50/106KM)


NOWCAST.SU ULEK 290100Z 34003MPS 9999 BKN020 M05/M08 Q1024 NOSIG
AUTOTAF.ME ULEK 282200Z 2823/2908 34003MPS CAVOK TXM00/2908Z TNM07/2823Z
BECMG 2823/2900 BKN015
BECMG 2900/2901 BKN025
BECMG 2901/2902 BKN015
FM290300 34003MPS 9999 BKN025TCU
 
Южное Шапкино
SYNAR 23217 Харьяга 290000Z 33005MPS //// //// M04/M06 Q1021 RMK QFE757/1010 CLD:NO_OBSERVATIONS
(90/91KM)


NOWCAST.SU ULEU 290100Z 32003MPS 9999 BKN033 M06/M08 Q1022 NOSIG
AUTOTAF.ME ULEU 282200Z 2823/2908 32003MPS 9999 BKN025 TXM02/2907Z TNM07/2823Z
BECMG 2902/2903 BKN015
FM290500 32005MPS 9999 -SN BKN025
 
Красноборск
SYNAR 22876 Красноборск 290000Z 10004MPS 9999 OVC022 08/06 Q1016 RMK QFE756/1008 CLD:8SC


NOWCAST.SU ULKB 290100Z VRB02MPS 9999 BKN009 OVC010CB 07/05 Q1016 TEMPO -SHRA TEMPO TL0200 -SHRA
AUTOTAF.ME ULKB 282200Z 2823/2908 VRB02MPS 9999 BKN015CB TX08/2823Z TN06/2905Z
TEMPO 2823/2901 TS
BECMG 2823/2900 BKN008 OVC010CB
BECMG 2900/2901 NSW
TEMPO 2901/2902 -TSRA
FM290200 11003MPS 5000 -SHRA BR BKN008 OVC010CB
BECMG 2903/2904 OVC015CB
FM290500 09004MPS 5000 -RA BKN015
FM290600 08004MPS 7000 -RA BR OVC015
FM290700 08004MPS 9999 -RA OVC002
FM290800 08003MPS 9999 -RA OVC015
 
Котлас
SYNAR 22887 Котлас 290000Z 08001MPS 9999 BKN027 08/05 Q1016 RMK QFE756/1009 CLD:8SCACCI


NOWCAST.SU ULKK 290100Z VRB02MPS 9999 -SHRA BKN009 BKN010CB 08/06 Q1016 TEMPO FM0200 SHRA
AUTOTAF.ME ULKK 282200Z 2823/2908 VRB02MPS 9999 VCSH BKN008 BKN010CB TX09/2908Z TN07/2905Z
BECMG 2900/2901 -SHRA
FM290200 VRB02MPS 1200 BKN002 BKN010CB
TEMPO 2902/2903 TSRA
FM290300 VRB02MPS 2500 BKN004 BKN010CB
TEMPO 2903/2904 -TSRA
FM290400 09003MPS 1200 BKN004 BKN010CB
TEMPO 2904/2905 TSRA
FM290500 07004MPS 5000 -SHRA BR BKN004 BKN010CB
FM290600 07004MPS 5000 -RA BR OVC008
FM290700 06004MPS 9999 -RA OVC015
 
Котлас (Савватия)
SYNAR 22887 Котлас 290000Z 08001MPS 9999 BKN027 08/05 Q1016 RMK QFE756/1009 CLD:8SCACCI
(340/27KM)


NOWCAST.SU ULKS 290100Z VRB02MPS 9999 -SHRA BKN015CB 08/05 Q1016 TEMPO FM0200 -SHRA
AUTOTAF.ME ULKS 282200Z 2823/2908 VRB02MPS 9999 VCSH BKN025CB TX08/2823Z TN06/2906Z
FM290100 VRB02MPS 9999 -SHRA BKN015CB
FM290200 11003MPS 7000 BKN002 BKN010CB
TEMPO 2902/2905 -TSRA
FM290300 10003MPS 5000 BKN004 OVC010CB
BECMG 2903/2904 BKN008 OVC010CB
FM290500 08004MPS 9999 -RA OVC015
BECMG 2907/2908 OVC025
 
Верхняя Тойма
SYNAR 22778 Верхняя Тойма 290000Z 05003MPS 9999 BKN023 08/06 Q1016 RMK QFE757/1009 CLD:8SCAC


TSAR ULKT 290100Z LAST HOUR TS OBS: 220/70KM, 230/59-77KM, 240/67KM, 250/50-59KM
NEAREST TS 250/50KM
NOWCAST.SU ULKT 290100Z 07003MPS 3000 OVC012CB 08/06 Q1016 TEMPO -TSRA TEMPO -TSRA
AUTOTAF.ME ULKT 282200Z 2823/2908 09003MPS 9999 BKN015CB TX09/2823Z TN07/2903Z
TEMPO 2823/2903 -TSRA
BECMG 2900/2901 2500
FM290200 08003MPS 8000 OVC008CB
TEMPO 2903/2904 VRB11G16MPS -TSRA
FM290400 08004MPS 9000 -RA BR OVC015
BECMG 2904/2905 -RA
BECMG 2905/2906 OVC025
 
Вельск
SYNAR 22867 Вельск 290000Z 23001MPS //// //// 13/12 Q1016 RMK QFE753/1004 CLD:NO_OBSERVATIONS


NOWCAST.SU ULKW 290100Z 26003MPS 9999 FEW120 14/12 Q1016 NOSIG
RMK TURB: MOD SFC/FL90
AUTOTAF.ME ULKW 282200Z 2823/2908 VRB02MPS CAVOK TX23/2908Z TN13/2823Z
FM290300 29003MPS 9999 VCSH BKN080CB
TEMPO 2907/2908 VCTS
BECMG 2907/2908 VCSH
 
Санкт-Петербург (НИИ НМП)
SYNAR 26063 Санкт-Петербург 290000Z 00000MPS CAVOK 16/13 Q1019 RMK QFE763/1018 CLD:6ACCI
(340/11KM)


NOWCAST.SU ULLE 290100Z VRB02MPS 9999 FEW300 15/11 Q1019 NOSIG
RMK TURB: MOD FL70/FL90
AUTOTAF.ME ULLE 282200Z 2823/2908 VRB02MPS CAVOK TX25/2908Z TN15/2823Z
FM290200 VRB02MPS 9999 VCSH BKN110CB
 
Морской Фасад
SYNAR 26063 Санкт-Петербург 290000Z 00000MPS CAVOK 16/13 Q1019 RMK QFE763/1018 CLD:6ACCI


NOWCAST.SU ULLF 290100Z VRB02MPS 9999 FEW310 14/11 Q1019 NOSIG
RMK TURB: MOD FL70/FL90
AUTOTAF.ME ULLF 282200Z 2823/2908 VRB02MPS CAVOK TX22/2908Z TN14/2901Z
FM290200 VRB02MPS 9999 VCSH BKN110CB
FM290700 VRB02MPS CAVOK
 
ГПН-5
SYNAR 26063 Санкт-Петербург 290000Z 00000MPS CAVOK 16/13 Q1019 RMK QFE763/1018 CLD:6ACCI


NOWCAST.SU ULLG 290100Z VRB02MPS 9999 FEW300 15/11 Q1019 NOSIG
RMK TURB: MOD FL70/FL90
AUTOTAF.ME ULLG 282200Z 2823/2908 VRB02MPS CAVOK TX25/2908Z TN15/2823Z
FM290200 VRB02MPS 9999 VCSH BKN110CB
 
Санкт-Петербург (Пулково)
METAR ULLI 290130Z 12002MPS 090V160 CAVOK 14/13 Q1018 R28R/090060 NOSIG


NOWCAST.SU ULLI 290100Z VRB02MPS 9999 FEW290 15/11 Q1019 NOSIG
RMK TURB: MOD FL70/FL90
AUTOTAF.ME ULLI 282200Z 2823/2908 VRB02MPS CAVOK TX25/2908Z TN15/2823Z
FM290200 VRB02MPS 9999 VCSH BKN110CB
TAF AMD ULLI 282335Z 2900/2924 20003MPS 6000 SCT030
TEMPO 2900/2903 0500 PRFG
TEMPO 2910/2917 26007G13MPS 3100 -TSRA BKN016CB
2024/05/28 00:38=
Великий Новгород (Кречевицы)
SYNAR 26179 Великий Новгород 290000Z 00000MPS 9999 BCFG NSC 15/14 Q1019 RMK QFE761/1015 CLD:6ACCI
(210/14KM)


NOWCAST.SU ULLK 290100Z VRB02MPS 9999 VCSH BKN067CB 15/14 Q1020 NOSIG
RMK TURB: MOD FL70/FL80
AUTOTAF.ME ULLK 282200Z 2823/2908 VRB02MPS 9999 VCSH BKN150CB TX25/2908Z TN15/2900Z
FM290500 VRB02MPS CAVOK
FM290600 VRB02MPS 9999 VCSH BKN130CB
 
Петродворец (Марли)
SYNAR 26064 Ломоносов 290000Z 00000MPS CAVOK 17/15 Q1018 RMK QFE763/1018 CLD:2ACCI


NOWCAST.SU ULLN 290100Z VRB02MPS 9999 FEW310 16/12 Q1019 NOSIG
RMK TURB: MOD FL70/FL90
AUTOTAF.ME ULLN 282200Z 2823/2908 VRB02MPS CAVOK TX22/2907Z TN16/2823Z
FM290200 VRB02MPS 9999 VCSH BKN110CB
FM290700 VRB02MPS CAVOK
 
Санкт-Петербург (Хелидрайв)
SYNAR 26063 Санкт-Петербург 290000Z 00000MPS CAVOK 16/13 Q1019 RMK QFE763/1018 CLD:6ACCI
(10/16KM)


NOWCAST.SU ULLO 290100Z VRB02MPS 9999 FEW290 15/11 Q1019 NOSIG
RMK TURB: MOD FL70/FL90
AUTOTAF.ME ULLO 282200Z 2823/2908 VRB02MPS CAVOK TX25/2908Z TN15/2823Z
FM290200 VRB02MPS 9999 VCSH BKN110CB
 
Пушкин
SYNAR 26063 Санкт-Петербург 290000Z 00000MPS CAVOK 16/13 Q1019 RMK QFE763/1018 CLD:6ACCI
(360/32KM)


NOWCAST.SU ULLP 290100Z VRB02MPS 9999 VCSH BKN082CB 16/12 Q1019 NOSIG
RMK TURB: MOD FL70/FL80
AUTOTAF.ME ULLP 282200Z 2823/2908 VRB02MPS CAVOK TX25/2908Z TN15/2900Z
FM290000 VRB02MPS 9999 VCSH BKN080CB
TEMPO 2907/2909 VCTS
 
КАД-52
SYNAR 26002 Воейково 290000Z 22001MPS //// //// 16/13 Q1019 RMK QFE757/1009 CLD:NO_OBSERVATIONS
(50/13KM)


NOWCAST.SU ULLR 290100Z VRB02MPS 9999 FEW300 15/11 Q1019 NOSIG
RMK TURB: MOD FL70/FL90
AUTOTAF.ME ULLR 282200Z 2823/2908 VRB02MPS CAVOK TX25/2907Z TN15/2823Z
FM290200 VRB02MPS 9999 VCSH BKN110CB
 
Сиверский
SYNAR 26069 Белогорка 290000Z 00000MPS CAVOK 12/12 Q1019 RMK QFE756/1008 CLD:3AC


NOWCAST.SU ULLS 290100Z VRB02MPS 9999 SCT140 16/12 Q1019 NOSIG
RMK TURB: MOD FL70/FL80
AUTOTAF.ME ULLS 282200Z 2823/2908 VRB02MPS CAVOK TX24/2907Z TN16/2823Z
FM290200 VRB02MPS 9999 VCSH BKN080CB
FM290400 VRB02MPS CAVOK
FM290500 VRB02MPS 9999 VCSH BKN090CB
FM290800 VRB02MPS CAVOK
 
Бычье Поле
SYNAR 26060 Кронштадт 290000Z 00000MPS //// //// 18/16 Q1018 RMK QFE763/1017 CLD:NO_OBSERVATIONS


NOWCAST.SU ULLY 290100Z VRB02MPS 9999 BKN310 14/12 Q1018 NOSIG
RMK TURB: MOD FL70/FL90
AUTOTAF.ME ULLY 282200Z 2823/2908 23003MPS CAVOK TX17/2906Z TN14/2901Z
FM290300 VRB02MPS 9999 VCSH SCT110CB
BECMG 2905/2906 VCSH HZ
BECMG 2906/2907 5000
FM290800 VRB02MPS 2500 HZ NSC
 
Яхт-клуб
SYNAR 26063 Санкт-Петербург 290000Z 00000MPS CAVOK 16/13 Q1019 RMK QFE763/1018 CLD:6ACCI


NOWCAST.SU ULLZ 290100Z VRB02MPS 9999 FEW310 14/11 Q1019 NOSIG
RMK TURB: MOD FL70/FL90
AUTOTAF.ME ULLZ 282200Z 2823/2908 VRB02MPS CAVOK TX23/2908Z TN14/2900Z
FM290200 VRB02MPS 9999 VCSH BKN110CB
FM290700 VRB02MPS CAVOK
 
Ковдор
SYNAR 22217 Кандалакша 290000Z 15002G05MPS 9999 OVC020 04/04 Q1019 RMK QFE762/1016 CLD:8SC
(120/86KM)


NOWCAST.SU ULMD 290100Z VRB02MPS 9999 -SHRA OVC013CB 08/06 Q1017 NOSIG
AUTOTAF.ME ULMD 282200Z 2823/2908 VRB02MPS 9999 OVC008CB TX09/2823Z TN08/2900Z
TEMPO 2823/2824 TS
BECMG 2823/2900 VCSH
FM290100 VRB02MPS 9999 -SHRA OVC015CB
BECMG 2903/2904 -SHRA BR
BECMG 2904/2905 -SHRA
 
Апатиты (Хибины)
SYNAR 22213 Апатиты 290000Z 12003MPS 9999 -SHRA OVC006CB 02/02 Q1020 RMK QFE752/1003 CLD:8CB
(310/14KM)


NOWCAST.SU ULMK 290100Z 11004MPS 3000 -RA BR OVC028 04/03 Q1019 NOSIG
AUTOTAF.ME ULMK 282200Z 2823/2908 12003MPS 2500 VCSH BR OVC025CB TX05/2823Z TN04/2901Z
FM290000 11004MPS 5000 -SHRA BR BKN008 OVC010CB
FM290100 11004MPS 2500 -RA BR OVC025
BECMG 2901/2902 5000
BECMG 2907/2908 9000
 
Ловозеро
SYNAR 22127 Ловозеро 290000Z 13005G08MPS 4000 -SHRA OVC007CB 00/M01 Q1019 RMK QFE749/0999 CLD:8CB


NOWCAST.SU ULML 290100Z 15004MPS 5000 -RA BR OVC010 02/01 Q1019 NOSIG
AUTOTAF.ME ULML 282200Z 2823/2908 15004MPS 2500 -DZ BR OVC004 TX03/2908Z TN01/2823Z
BECMG 2823/2900 -RA BR
FM290100 15004MPS 5000 -RA BR OVC008
FM290400 15004MPS 9999 -RA OVC015
BECMG 2904/2905 BKN025
 
Мурманск
METAR ULMM 290130Z 08002MPS 9000 BKN006 03/02 Q1019 R13/290155 NOSIG RMK OBST OBSC QFE757


NOWCAST.SU ULMM 290100Z VRB02MPS 5000 -RA BR OVC014 05/04 Q1018 NOSIG
AUTOTAF.ME ULMM 282200Z 2823/2908 VRB02MPS 9999 -RA OVC015 TX06/2906Z TN05/2823Z
FM290000 VRB02MPS 5000 -RA BR OVC015
BECMG 2906/2907 9000
TAF ULMM 282250Z 2900/2924 12003G08MPS 6000 -SHRA BKN008 BKN011CB
TEMPO 2900/2903 2000 SHRA BR BKN004 BKN011CB
BECMG 2905/2907 BKN016CB
2024/05/28 00:21=
Мурманск (Килпъявр)
SYNAR 22113 Мурманск 290000Z 13002MPS 9999 OVC012CB 03/01 Q1019 RMK QFE759/1012 CLD:8CB
(120/29KM)


NOWCAST.SU ULMW 290100Z VRB02MPS 5000 BR OVC008 05/04 Q1018 NOSIG
AUTOTAF.ME ULMW 282200Z 2823/2908 VRB02MPS 2500 -RA BR OVC008 TX06/2907Z TN05/2823Z
FM290000 VRB02MPS 5000 -DZ BR OVC008
BECMG 2900/2901 BR
FM290700 VRB02MPS 9999 OVC008
 
Краснощелье
SYNAR 22235 Краснощелье 290000Z 10002G05MPS 9999 OVC010 M01/M01 Q1021 RMK QFE751/1002 CLD:8SC


NOWCAST.SU ULMX 290100Z 12004MPS 6000 -SN BR OVC023 00/M02 Q1021 NOSIG
AUTOTAF.ME ULMX 282200Z 2823/2908 12004MPS 2500 BR BKN004 TX02/2908Z TN00/2823Z
FM290000 12004MPS 5000 BR BKN025
BECMG 2900/2901 -SN BR
FM290300 12004MPS 9999 -SN OVC025
 
Валдай-Авиа
SYNAR 26298 Бологое 290000Z 29001MPS CAVOK 15/13 Q1019 RMK QFE747/0996 CLD:2AC
(100/48KM)


NOWCAST.SU ULNA 290100Z VRB02MPS 9999 VCSH BKN070CB 17/12 Q1019 NOSIG
RMK TURB: MOD FL70/FL80
AUTOTAF.ME ULNA 282200Z 2823/2908 VRB02MPS CAVOK TX25/2908Z TN17/2823Z
FM290000 VRB02MPS 9999 VCSH BKN060CB
TEMPO 2907/2908 VCTS
BECMG 2907/2908 VCSH
 
Боровичи
SYNAR 26291 Боровичи 290000Z 00000MPS CAVOK 13/13 Q1019 RMK QFE756/1008 CLD:1AC


NOWCAST.SU ULNB 290100Z VRB02MPS 9999 BKN070CB 15/11 Q1019 TEMPO VCSH
RMK TURB: MOD FL70/FL90
AUTOTAF.ME ULNB 282200Z 2823/2908 VRB02MPS CAVOK TX26/2908Z TN15/2901Z
FM290000 VRB02MPS 9999 BKN060CB
TEMPO 2824/2904 VCTS
BECMG 2903/2904 VCSH
TEMPO 2905/2906 VCTS
FM290600 VRB02MPS CAVOK
FM290700 VRB02MPS 9999 BKN095CB
TEMPO 2907/2908 VRB08G13MPS VCTS
BECMG 2907/2908 VCSH
 
Новгород
SYNAR 26179 Великий Новгород 290000Z 00000MPS 9999 BCFG NSC 15/14 Q1019 RMK QFE761/1015 CLD:6ACCI


NOWCAST.SU ULNN 290100Z VRB02MPS 9999 VCSH BKN067CB 16/14 Q1019 TEMPO FM0300 VCSH
AUTOTAF.ME ULNN 282200Z 2823/2908 VRB02MPS 9999 VCSH BKN080CB TX24/2908Z TN16/2823Z
TEMPO 2903/2905 VCTS
TEMPO 2905/2908 TS
 
Старая Русса
SYNAR 26275 Старая Русса 290000Z 00000MPS CAVOK 14/14 Q1018 RMK QFE761/1015 CLD:5ACCI


NOWCAST.SU ULNR 290100Z VRB02MPS 9999 FEW260 15/14 Q1019 NOSIG
RMK TURB: MOD FL70/FL80
AUTOTAF.ME ULNR 282200Z 2823/2908 VRB02MPS CAVOK TX26/2908Z TN15/2900Z
FM290300 VRB02MPS 9999 VCSH BKN080CB
TEMPO 2904/2905 VCTS
TEMPO 2905/2908 TS
 
Валдай
SYNAR 26298 Бологое 290000Z 29001MPS CAVOK 15/13 Q1019 RMK QFE747/0996 CLD:2AC
(110/45KM)


NOWCAST.SU ULNW 290100Z VRB02MPS 9999 VCSH SCT075CB 16/12 Q1019 NOSIG
RMK TURB: MOD FL50/FL70
AUTOTAF.ME ULNW 282200Z 2823/2908 VRB02MPS CAVOK TX26/2908Z TN16/2900Z
FM290000 VRB02MPS 9999 VCSH SCT080CB
FM290300 VRB02MPS CAVOK
FM290600 VRB02MPS 9999 BKN040CB
TEMPO 2906/2907 VCTS
BECMG 2906/2907 VCSH
 
Великие Луки
SYNAR 26477 Великие Луки 290000Z 00000MPS 9999 FEW033 13/13 Q1020 RMK QFE755/1006 CLD:8SCCI


NOWCAST.SU ULOL 290100Z VRB02MPS 9999 VCSH BKN082CB 15/14 Q1019 NOSIG
AUTOTAF.ME ULOL 282200Z 2823/2908 VRB02MPS 9999 -SHRA BKN060CB TX24/2908Z TN15/2900Z
BECMG 2823/2900 VCSH
TEMPO 2907/2908 5000 SHRA
 
Псков (Кресты)
METAR ULOO 290100Z VRB01MPS CAVOK 15/15 Q1018 NOSIG RMK QFE759


NOWCAST.SU ULOO 290100Z VRB02MPS 9999 VCSH BKN080CB 16/15 Q1019 NOSIG
AUTOTAF.ME ULOO 282200Z 2823/2908 VRB02MPS 9999 VCSH BKN060CB TX23/2908Z TN16/2900Z
BECMG 2901/2902 BKN015CB
BECMG 2902/2903 -SHRA
BECMG 2903/2904 VCSH
TEMPO 2904/2905 3000 SHRA
FM290500 VRB02MPS 9999 VCSH BKN025CB
TEMPO 2905/2906 2000 SHRA
TEMPO 2907/2909 VCTS
TAF ULOO 282254Z 2900/2909 18003MPS 6000 BKN016
TEMPO 2900/2903 0400 FG FEW002
TEMPO 2907/2909 3100 -SHRA BKN016CB
PROB40 TEMPO 2907/2909 -TSRA BKN016CB
2024/05/28 00:00=
Середка
SYNAR 26258 Псков 290000Z 00000MPS 9999 SCT033CB 16/15 Q1019 RMK QFE760/1013 CLD:8CBAC
(170/37KM)


NOWCAST.SU ULOR 290100Z 16004MPS 9999 BKN083CB 16/14 Q1019 TEMPO VCSH TEMPO TL0300 VCSH
AUTOTAF.ME ULOR 282200Z 2823/2908 16004MPS 9999 VCSH BKN002 BKN010CB TX20/2908Z TN16/2823Z
BECMG 2823/2900 BKN080CB
TEMPO 2901/2903 VCTS
BECMG 2902/2903 -SHRA
TEMPO 2905/2908 VCTS
FM290800 VRB02MPS CAVOK
 
Петрозаводск (Бесовец)
METAR ULPB 290130Z 23002MPS CAVOK 13/10 Q1017 R19/09//65 NOSIG RMK QFE759/1012


NOWCAST.SU ULPB 290100Z VRB02MPS 9999 FEW320 15/10 Q1017 NOSIG
RMK TURB: MOD FL50/FL90
AUTOTAF.ME ULPB 282200Z 2823/2908 VRB02MPS CAVOK TX26/2908Z TN15/2900Z
FM290500 VRB02MPS 9999 VCSH BKN080CB
TEMPO 2907/2909 VRB08G13MPS VCTS
TAF ULPB 282253Z 2900/2909 25003MPS 6000 SCT016
PROB40 2900/2903 1000 BR
2024/05/28 00:00=
Кемь
SYNAR 22520 Кемь-Порт 290000Z 35001MPS 4000 BR BKN020 03/03 Q1017 RMK QFE762/1016 CLD:7SC


TSAR ULPE 290100Z LAST HOUR TS OBS: 010/35KM, 330/21-38KM, 340/50KM, 350/35-48KM, 360/19-47KM
NEAREST TS 360/19KM
NOWCAST.SU ULPE 290100Z 04003MPS 1900 VCTS BR BKN001 BKN010CB 04/03 Q1018 NOSIG
AUTOTAF.ME ULPE 282200Z 2823/2908 04003MPS 5000 -SHRA BR BKN008CB TX07/2907Z TN04/2823Z
FM290000 04003MPS 5000 VCSH BR BKN004 BKN010CB
FM290100 04003MPS 2500 VCSH BR BKN002 BKN010CB
BECMG 2902/2903 5000
BECMG 2903/2904 BKN008CB
BECMG 2904/2905 BKN015CB
FM290700 07004MPS 5000 -SHRA BR OVC008CB
 
Калевала
SYNAR 22408 Калевала 290000Z 08001MPS 0300 FG VV/// 11/11 Q1016 RMK QFE751/1002 CLD:OBSC


NOWCAST.SU ULPK 290100Z VRB02MPS 9999 BKN080 13/11 Q1016 NOSIG
AUTOTAF.ME ULPK 282200Z 2823/2908 VRB02MPS 9999 -RA NSC TX17/2907Z TN13/2823Z
FM290200 VRB02MPS 9999 VCSH BKN060CB
FM290300 VRB02MPS CAVOK
FM290500 VRB02MPS 9999 VCSH BKN080CB
 
Валаам
SYNAR 22805 Валаам Остров 290000Z 15001MPS 4000 BR SKC 10/09 Q1018 RMK QFE761/1015 CLD:SKC


NOWCAST.SU ULPL 290100Z 27003MPS 0200 FG VV001 07/06 Q1018 NOSIG
RMK TURB: MOD FL40/FL70
AUTOTAF.ME ULPL 282200Z 2823/2908 28003MPS 1200 BR OVC004 TX07/2823Z TN07/2823Z
FM290000 28003MPS 0200 FG VV002
 
Костомукша
SYNAR 22408 Калевала 290000Z 08001MPS 0300 FG VV/// 11/11 Q1016 RMK QFE751/1002 CLD:OBSC
(20/70KM)


NOWCAST.SU ULPM 290100Z VRB02MPS 9999 BKN100 15/11 Q1016 NOSIG
AUTOTAF.ME ULPM 282200Z 2823/2908 VRB02MPS CAVOK TX23/2908Z TN14/2823Z
FM290700 VRB02MPS 9999 VCSH SCT040CB
 
Петрозаводск (Пески)
SYNAR 22820 Петрозаводск 290000Z 25002MPS CAVOK 16/09 Q1018 RMK QFE753/1004 CLD:2CI


NOWCAST.SU ULPP 290100Z VRB02MPS 9999 FEW320 15/10 Q1017 NOSIG
RMK TURB: MOD FL50/FL90
AUTOTAF.ME ULPP 282200Z 2823/2908 28003MPS CAVOK TX23/2908Z TN15/2823Z
FM290200 VRB02MPS 9999 VCSH SCT080CB
FM290700 VRB02MPS CAVOK
 
Сегежа
SYNAR 22621 Сегежа 290000Z 00000MPS 8000 //// 15/13 Q1016 RMK QFE751/1002 CLD:NO_OBSERVATIONS


TSAR ULPS 290100Z LAST HOUR TS OBS: 010/153KM, 360/153KM
NEAREST TS 10/153KM
NOWCAST.SU ULPS 290100Z VRB02MPS 1000 SHRA BR BKN003 BKN010CB 12/11 Q1016 NOSIG
AUTOTAF.ME ULPS 282200Z 2823/2908 VRB02MPS 1200 SHRA BR BKN004 BKN010CB TX16/2908Z TN12/2900Z
BECMG 2901/2902 VCSH BR
FM290300 VRB02MPS 9999 VCSH NSC
BECMG 2903/2904 BKN008 BKN010CB
FM290500 VRB02MPS 9999 BKN015
BECMG 2906/2907 BKN040
FM290800 03003MPS CAVOK
 
Сортавала
SYNAR 22802 Сортавала 290000Z 05001MPS CAVOK 10/09 Q1018 RMK QFE761/1015 CLD:2CI


NOWCAST.SU ULPW 290100Z 28003MPS 0500 FG SCT300 12/09 Q1017 NOSIG
RMK TURB: MOD FL50/FL90
AUTOTAF.ME ULPW 282200Z 2823/2908 27003MPS 0200 FG NSC TX17/2906Z TN12/2823Z
BECMG 2823/2900 OVC002
BECMG 2900/2901 NSC
FM290700 16004MPS 2500 HZ NSC
BECMG 2907/2908 5000
 
Старая Слобода
SYNAR 22913 Лодейное Поле 290000Z 00000MPS CAVOK 10/09 Q1018 RMK QFE761/1015 CLD:2CI
(120/14KM)


NOWCAST.SU ULSB 290100Z VRB02MPS 9999 FEW290 13/10 Q1018 NOSIG
RMK TURB: MOD FL50/FL90
AUTOTAF.ME ULSB 282200Z 2823/2908 VRB02MPS CAVOK TX26/2908Z TN13/2823Z
FM290000 VRB02MPS 9999 VCSH SCT080CB
FM290100 VRB02MPS CAVOK
 
Сельцо
SYNAR 26067 Волосово 290000Z 00000MPS CAVOK 13/13 Q1019 RMK QFE752/1003 CLD:3ASCI
(190/21KM)


NOWCAST.SU ULSC 290100Z VRB02MPS 9999 VCSH BKN080CB 16/12 Q1019 NOSIG
RMK TURB: MOD FL70/FL90
AUTOTAF.ME ULSC 282200Z 2823/2908 VRB02MPS 9999 VCSH BKN080CB TX25/2908Z TN16/2823Z
FM290000 VRB02MPS CAVOK
FM290100 VRB02MPS 9999 VCSH BKN080CB
TEMPO 2907/2908 5000 SHRA
 
Местаново
SYNAR 26067 Волосово 290000Z 00000MPS CAVOK 13/13 Q1019 RMK QFE752/1003 CLD:3ASCI
(150/23KM)


NOWCAST.SU ULSF 290100Z VRB02MPS 9999 VCSH BKN080CB 16/12 Q1019 NOSIG
RMK TURB: MOD FL70/FL90
AUTOTAF.ME ULSF 282200Z 2823/2908 VRB02MPS 9999 VCSH BKN080CB TX24/2908Z TN16/2823Z
FM290000 VRB02MPS CAVOK
FM290100 VRB02MPS 9999 VCSH BKN080CB
TEMPO 2907/2908 5000 SHRA
 
Гостилицы
SYNAR 26064 Ломоносов 290000Z 00000MPS CAVOK 17/15 Q1018 RMK QFE763/1018 CLD:2ACCI
(20/23KM)


NOWCAST.SU ULSG 290100Z VRB02MPS 9999 VCSH BKN081CB 16/12 Q1019 NOSIG
RMK TURB: MOD FL70/FL90
AUTOTAF.ME ULSG 282200Z 2823/2908 VRB02MPS 9999 VCSH BKN080CB TX25/2908Z TN16/2823Z
FM290000 VRB02MPS CAVOK
FM290100 VRB02MPS 9999 VCSH BKN080CB
TEMPO 2907/2908 5000 SHRA
 
Санкт-Петербург (Геркулес гидро)
SYNAR 26063 Санкт-Петербург 290000Z 00000MPS CAVOK 16/13 Q1019 RMK QFE763/1018 CLD:6ACCI


NOWCAST.SU ULSH 290100Z VRB02MPS 9999 FEW310 14/11 Q1019 NOSIG
RMK TURB: MOD FL70/FL90
AUTOTAF.ME ULSH 282200Z 2823/2908 VRB02MPS CAVOK TX22/2908Z TN14/2901Z
FM290200 VRB02MPS 9999 VCSH BKN110CB
FM290700 VRB02MPS CAVOK
 
Кусино
SYNAR 26080 Кириши 290000Z 00000MPS CAVOK 13/13 Q1019 RMK QFE761/1015 CLD:SKC
(70/13KM)


NOWCAST.SU ULSI 290100Z VRB02MPS 9999 FEW120 16/13 Q1019 NOSIG
RMK TURB: MOD FL70/FL90
AUTOTAF.ME ULSI 282200Z 2823/2908 VRB02MPS CAVOK TX26/2908Z TN16/2823Z
FM290400 VRB02MPS 9999 VCSH BKN100CB
 
Корпикюля
SYNAR 26069 Белогорка 290000Z 00000MPS CAVOK 12/12 Q1019 RMK QFE756/1008 CLD:3AC
(200/29KM)


NOWCAST.SU ULSK 290100Z VRB02MPS 9999 VCSH BKN082CB 16/12 Q1019 NOSIG
RMK TURB: MOD FL70/FL80
AUTOTAF.ME ULSK 282200Z 2823/2908 VRB02MPS CAVOK TX25/2908Z TN16/2823Z
FM290000 VRB02MPS 9999 VCSH BKN080CB
TEMPO 2907/2908 VCTS
FM290800 VRB02MPS CAVOK
 
Манушкино
SYNAR 26002 Воейково 290000Z 22001MPS //// //// 16/13 Q1019 RMK QFE757/1009 CLD:NO_OBSERVATIONS


NOWCAST.SU ULSM 290100Z VRB02MPS 9999 VCSH BKN083CB 15/12 Q1019 NOSIG
RMK TURB: MOD FL70/FL90
AUTOTAF.ME ULSM 282200Z 2823/2908 VRB02MPS CAVOK TX24/2908Z TN15/2823Z
FM290100 VRB02MPS 9999 VCSH BKN080CB
 
Аэродром Тихвин
SYNAR 26094 Тихвин 290000Z 00000MPS 0500 FG NSC 11/10 Q1019 RMK QFE758/1011 CLD:1AC


NOWCAST.SU ULST 290100Z VRB02MPS 9999 FEW130 16/12 Q1019 NOSIG
AUTOTAF.ME ULST 282200Z 2823/2908 VRB02MPS 9999 VCSH BKN080CB TX26/2908Z TN16/2900Z
FM290000 VRB02MPS CAVOK
FM290200 VRB02MPS 9999 VCSH BKN095CB
 
Куммолово
SYNAR 26061 Шепелево 290000Z 16002MPS //// //// 17/13 Q1018 RMK QFE763/1017 CLD:NO_OBSERVATIONS
(40/27KM)


NOWCAST.SU ULSU 290100Z VRB02MPS 9999 FEW180 16/12 Q1019 TEMPO FM0200 VCSH
RMK TURB: MOD FL70/FL90
AUTOTAF.ME ULSU 282200Z 2823/2908 VRB02MPS 9999 VCSH BKN080CB TX23/2908Z TN16/2823Z
FM290000 VRB02MPS CAVOK
FM290200 VRB02MPS 9999 BKN060CB
TEMPO 2902/2905 VCTS
BECMG 2904/2905 VCSH
 
Северный ветер
SYNAR 26072 Шлиссельбург 290000Z 00000MPS 4000 BR NSC 14/13 Q1019 RMK QFE762/1016 CLD:3AC
(290/29KM)


NOWCAST.SU ULSW 290100Z 21003MPS 9999 BKN083 14/12 Q1019 NOSIG
RMK TURB: MOD FL90/FL100
AUTOTAF.ME ULSW 282200Z 2823/2908 20003MPS CAVOK TX22/2908Z TN14/2901Z
FM290300 VRB02MPS 9999 VCSH BKN080CB
FM290500 VRB02MPS CAVOK
FM290600 VRB02MPS 9999 VCSH BKN100CB
 
ТосноСпас
SYNAR 26078 Любань 290000Z 00000MPS //// //// 12/12 Q1019 RMK QFE760/1014 CLD:NO_OBSERVATIONS
(130/29KM)


NOWCAST.SU ULSX 290100Z VRB02MPS 9999 VCSH BKN084CB 15/12 Q1019 NOSIG
RMK TURB: MOD FL70/FL80
AUTOTAF.ME ULSX 282200Z 2823/2908 VRB02MPS 9999 -SHRA BKN080CB TX25/2908Z TN15/2900Z
TEMPO 2824/2901 VCTS
BECMG 2900/2901 VCSH
TEMPO 2904/2905 VCTS
FM290500 VRB02MPS CAVOK
FM290600 VRB02MPS 9999 BKN095CB
TEMPO 2906/2909 VCTS
 
Сиворицы-2
SYNAR 26069 Белогорка 290000Z 00000MPS CAVOK 12/12 Q1019 RMK QFE756/1008 CLD:3AC
(150/17KM)


NOWCAST.SU ULSY 290100Z VRB02MPS 9999 SCT140 16/12 Q1019 NOSIG
RMK TURB: MOD FL70/FL80
AUTOTAF.ME ULSY 282200Z 2823/2908 VRB02MPS CAVOK TX25/2908Z TN16/2823Z
FM290200 VRB02MPS 9999 VCSH BKN080CB
FM290400 VRB02MPS CAVOK
FM290500 VRB02MPS 9999 VCSH BKN090CB
 
Озеро Красногвардейское
SYNAR 22897 Озерки 290000Z 05001MPS 9999 //// 14/12 Q1019 RMK QFE763/1017 CLD:NO_OBSERVATIONS
(240/15KM)


NOWCAST.SU ULSZ 290100Z VRB02MPS 9999 FEW310 15/12 Q1018 NOSIG
RMK TURB: MOD FL40/FL70
AUTOTAF.ME ULSZ 282200Z 2823/2908 22003MPS CAVOK TX24/2908Z TN15/2823Z
 
Череповец
METAR ULWC 282000Z 08001MPS 9999 SCT033CB 16/12 Q1018 R21/010060 NOSIG RMK QFE754/1005


NOWCAST.SU ULWC 290100Z VRB02MPS 9999 VCSH BKN075CB 16/12 Q1018 NOSIG
RMK TURB: MOD FL50/FL90
AUTOTAF.ME ULWC 282200Z 2823/2908 VRB02MPS 9999 BKN060CB TX26/2908Z TN16/2900Z
TEMPO 2823/2901 VCTS
BECMG 2900/2901 VCSH
FM290200 VRB02MPS CAVOK
FM290400 VRB02MPS 9999 VCSH BKN080CB
FM290600 VRB02MPS CAVOK
FM290700 VRB02MPS 9999 BKN080CB
TEMPO 2907/2909 VRB11G16MPS VCTS
TAF AMD ULWC 282018Z 2818/2903 CNL=
Великий Устюг
SYNAR 22981 Великий Устюг 290000Z 00000MPS CAVOK 08/08 Q1015 RMK QFE752/1002 CLD:2AC


NOWCAST.SU ULWU 290100Z VRB02MPS 9000 -SHRA BR BKN001 BKN010CB 08/07 Q1016 TEMPO FM0200 -SHRA
AUTOTAF.ME ULWU 282200Z 2823/2908 VRB02MPS 9000 VCSH BR BKN015CB TX09/2902Z TN08/2823Z
BECMG 2823/2900 BKN008CB
FM290100 VRB02MPS 9000 -SHRA BR BKN002 BKN010CB
BECMG 2901/2902 NSW
TEMPO 2902/2904 -TSRA
BECMG 2902/2903 BKN015CB
TEMPO 2904/2905 VRB14G19MPS -TSRA
FM290500 07004MPS 7000 -SHRA BR BKN015CB
FM290600 07004MPS 5000 -RA BR OVC025
FM290800 06004MPS 9999 -RA OVC025
 
Вологда
SYNAR 27037 Вологда 290000Z 00000MPS 0100 //// 11/10 Q1018 RMK QFE752/1002 CLD:NO_OBSERVATIONS


NOWCAST.SU ULWW 290100Z VRB02MPS 9999 FEW300 16/11 Q1018 NOSIG
RMK TURB: MOD FL70/FL90
AUTOTAF.ME ULWW 282200Z 2823/2908 VRB02MPS CAVOK TX27/2908Z TN15/2823Z
FM290200 VRB02MPS 9999 VCSH BKN080CB
TEMPO 2904/2906 VCTS
BECMG 2905/2906 VCSH
 
Брест
METAR UMBB 281300Z 11004G07MPS 9999 BKN043 26/05 Q1017 NOSIG


NOWCAST.SU UMBB 290100Z VRB02MPS 9999 BKN045CB 13/09 Q1017 TEMPO VCSH TEMPO TL0200 VCSH
AUTOTAF.ME UMBB 282200Z 2823/2908 10003MPS 9999 BKN040CB TX23/2908Z TN13/2901Z
TEMPO 2823/2902 VCTS
BECMG 2901/2902 VCSH
FM290700 VRB02MPS CAVOK
FM290800 12003MPS 9999 BKN080CB
TAF UMBB 281329Z 2812/2821 CNL=
 


NOSIG
 
Лида
SYNAR 26832 Лида 290000Z 11001MPS CAVOK 18/12 Q1018 RMK QFE749/0998 CLD:6AC


NOWCAST.SU UMDD 290100Z 13003MPS 9999 FEW120 14/12 Q1019 NOSIG
AUTOTAF.ME UMDD 282200Z 2823/2908 VRB02MPS CAVOK TX23/2908Z TN14/2901Z
FM290200 13003MPS 9999 VCSH BKN090CB
FM290600 VRB02MPS CAVOK
FM290700 15003MPS 9999 BKN040CB
TEMPO 2907/2909 VRB11G16MPS VCTS
 
Гомель
METAR UMGG 290100Z 06002MPS CAVOK 16/13 Q1019 NOSIG


NOWCAST.SU UMGG 290100Z 09003MPS 9999 SCT063CB 15/11 Q1020 TEMPO TL0200 VCSH
RMK TURB: MOD FL50/FL70
AUTOTAF.ME UMGG 282200Z 2823/2908 09003MPS 9999 VCSH SCT060CB TX25/2908Z TN14/2902Z
BECMG 2823/2900 -SHRA
TEMPO 2901/2902 VCTS
BECMG 2901/2902 VCSH
TAF UMGG 282258Z 2900/2924 10005MPS 9999 SCT030 TX25/2911Z TN14/2902Z
TEMPO 2900/2904 3000 BR
TEMPO 2908/2918 12006MPS SCT030CB
2024/05/28 00:21=
Витебск (Восточный)
METAR UMII 281620Z 16002MPS 120V200 9999 FEW040CB SCT100 24/14 Q1019 TEMPO 2000 TSRA BKN005


NOWCAST.SU UMII 290100Z VRB02MPS 9999 FEW340 16/13 Q1020 NOSIG
RMK TURB: MOD FL50/FL70
AUTOTAF.ME UMII 282200Z 2823/2908 VRB02MPS CAVOK TX24/2908Z TN16/2823Z
FM290400 VRB02MPS 9999 VCSH BKN060CB
FM290700 VRB02MPS CAVOK
TAF UMII 281630Z 2816/2824 CNL=
Орша
METAR UMIO 290130Z VRB01MPS CAVOK 15/12 Q1018 NOSIG RMK QFE746/0994


NOWCAST.SU UMIO 290100Z VRB02MPS 9999 VCSH BKN061CB 16/12 Q1020 NOSIG
RMK TURB: MOD FL50/FL70
AUTOTAF.ME UMIO 282200Z 2823/2908 VRB02MPS 9999 VCSH BKN060CB TX24/2908Z TN16/2823Z
BECMG 2823/2900 -SHRA
BECMG 2900/2901 VCSH
FM290200 VRB02MPS CAVOK
TAF UMIO 281402Z 2812/2821 CNL=
Калининград (Храброво)
METAR UMKK 290130Z 27002MPS CAVOK 15/15 Q1015 R24/CLRD95 NOSIG RMK QFE760/1014


NOWCAST.SU UMKK 290100Z 27003MPS 9999 VCSH BKN001 BKN010CB 14/12 Q1016 NOSIG
AUTOTAF.ME UMKK 282200Z 2823/2908 23004MPS 9999 -SHRA BKN060CB TX15/2823Z TN13/2903Z
FM290100 27003MPS 9999 VCSH BKN002 BKN010CB
BECMG 2902/2903 OVC015CB
FM290500 30003MPS 9999 OVC025CB
TEMPO 2905/2906 VCTS
BECMG 2905/2906 VCSH
TEMPO 2907/2909 VCTS
TAF UMKK 282254Z 2900/2924 30004G11MPS 6000 FEW006 BKN016CB
BECMG 2907/2910 36003G10MPS
TEMPO 2910/2924 -TSRA FEW004 BKN011CB
BECMG 2919/2922 VRB01MPS
2024/05/28 00:21=
МЛСП Д-6
SYNAR 26603 Нида 290000Z 28003G06MPS CAVOK 17/14 Q1015 RMK QFE761/1015 CLD:7
(80/23KM)


NOWCAST.SU UMKM 290100Z 22004MPS 9999 BKN001 BKN010CB 14/12 Q1016 TEMPO TS
RMK TURB: MOD FL70/FL80
AUTOTAF.ME UMKM 282200Z 2823/2908 20005MPS 9999 BKN080CB TX15/2823Z TN13/2903Z
TEMPO 2823/2824 TS
FM290000 19005MPS 5000 VCSH BR BKN080CB
FM290100 22004MPS 9999 BKN002 BKN010CB
TEMPO 2901/2902 TS
BECMG 2901/2902 26004MPS
TEMPO 2902/2904 VCTS
BECMG 2902/2903 OVC015CB
FM290400 29005MPS 9999 VCSH BKN002 BKN010CB
BECMG 2905/2906 OVC025CB
 
Минск (Мачулищи)
SYNAR 26850 Минск 290000Z 00000MPS 5000 BR NSC 14/13 Q1019 RMK QFE743/0990 CLD:2AC
(20/22KM)


NOWCAST.SU UMLI 290100Z VRB02MPS 9999 FEW120 16/12 Q1019 NOSIG
RMK TURB: MOD FL50/FL60
AUTOTAF.ME UMLI 282200Z 2823/2908 VRB02MPS CAVOK TX24/2908Z TN15/2902Z
FM290300 VRB02MPS 9999 VCSH BKN080CB
 
Барановичи
SYNAR 26941 Барановичи 290000Z 00000MPS CAVOK 15/10 Q1018 RMK QFE746/0994 CLD:5AC


NOWCAST.SU UMMA 290100Z 12003MPS 9999 VCSH BKN078CB 14/10 Q1018 NOSIG
RMK TURB: MOD FL70/FL80
AUTOTAF.ME UMMA 282200Z 2823/2908 11003MPS 9999 VCSH BKN090CB TX23/2908Z TN14/2901Z
FM290300 13003MPS CAVOK
FM290700 13004MPS 9999 VCSH BKN080CB
 
Гродно (Обухово)
METAR UMMG 281300Z 15004G07MPS 9999 SCT040 BKN066 28/08 Q1017 NOSIG


NOWCAST.SU UMMG 290100Z VRB02MPS 9999 VCSH BKN046CB 15/10 Q1018 TEMPO FM0200 VCSH
AUTOTAF.ME UMMG 282200Z 2823/2908 VRB02MPS 9999 VCSH BKN060CB TX23/2908Z TN15/2901Z
TEMPO 2902/2903 VCTS
BECMG 2902/2903 VCSH
TAF UMMG 281359Z 2813/2821 CNL=
Минск (Липки)
SYNAR 26850 Минск 290000Z 00000MPS 5000 BR NSC 14/13 Q1019 RMK QFE743/0990 CLD:2AC


NOWCAST.SU UMMI 290100Z VRB02MPS 9999 FEW120 16/12 Q1019 NOSIG
RMK TURB: MOD FL50/FL60
AUTOTAF.ME UMMI 282200Z 2823/2908 VRB02MPS CAVOK TX24/2908Z TN15/2902Z
FM290300 VRB02MPS 9999 VCSH BKN080CB
 
Поставы (Озерки)
SYNAR 26645 Лынтупы 290000Z 00000MPS 9000 NSC 14/13 Q1018 RMK QFE744/0993 CLD:2AC
(250/35KM)


NOWCAST.SU UMMK 290100Z VRB02MPS 9999 VCSH BKN080CB 16/13 Q1019 NOSIG
RMK TURB: MOD FL70/FL80
AUTOTAF.ME UMMK 282200Z 2823/2908 VRB02MPS 9999 BKN060CB TX24/2908Z TN16/2823Z
TEMPO 2823/2824 TS
TEMPO 2824/2901 VCTS
BECMG 2900/2901 VCSH
FM290200 VRB02MPS 9999 -RA NSC
FM290300 VRB02MPS 9999 -SHRA BKN090CB
FM290400 17003MPS CAVOK
FM290500 17003MPS 9999 VCSH BKN090CB
TEMPO 2906/2908 VCTS
FM290800 19003MPS CAVOK
 
Минск-1
SYNAR 26850 Минск 290000Z 00000MPS 5000 BR NSC 14/13 Q1019 RMK QFE743/0990 CLD:2AC
(40/15KM)


NOWCAST.SU UMMM 290100Z VRB02MPS 9999 FEW120 16/12 Q1019 NOSIG
RMK TURB: MOD FL50/FL60
AUTOTAF.ME UMMM 282200Z 2823/2908 VRB02MPS CAVOK TX24/2908Z TN15/2902Z
FM290300 VRB02MPS 9999 VCSH BKN080CB
 
Минск-2
METAR UMMS 290130Z 33001MPS 7000 2000N BCFG BR NSC 11/10 Q1017 NOSIG


NOWCAST.SU UMMS 290100Z VRB02MPS 9999 FEW320 15/12 Q1019 NOSIG
RMK TURB: MOD FL40/FL70
AUTOTAF.ME UMMS 282200Z 2823/2908 VRB02MPS CAVOK TX24/2908Z TN15/2901Z
FM290500 15003MPS 9999 VCSH SCT080CB
TAF AMD UMMS 290111Z 2901/2924 VRB02MPS 9999 BKN020
TEMPO 2901/2906 0300 -SHRA FG FEW002 BKN015CB
BECMG 2906/2908 15005G10MPS
TEMPO 2908/2918 VRB14MPS 3000 -TSRA SQ BKN020CB=
Бобруйск (Носовка)
SYNAR 26961 Бобруйск 290000Z 00000MPS 9999 MIFG NSC 12/11 Q1018 RMK QFE749/0999 CLD:2AC
(340/13KM)


NOWCAST.SU UMNB 290100Z VRB02MPS 9999 FEW180 14/11 Q1019 NOSIG
RMK TURB: MOD FL50/FL90
AUTOTAF.ME UMNB 282200Z 2823/2908 VRB02MPS CAVOK TX25/2908Z TN14/2901Z
FM290500 11004MPS 9999 VCSH SCT080CB
 
Гродно (Каролино)
SYNAR 26737 Варена 290000Z 08001MPS CAVOK 19/12 Q1017 RMK QFE752/1003 CLD:8
(40/87KM)


NOWCAST.SU UMNG 290100Z 15003MPS 9999 BKN046CB 15/10 Q1017 TEMPO VCSH TEMPO TL0200 VCSH
AUTOTAF.ME UMNG 282200Z 2823/2908 15003MPS 9999 BKN060CB TX23/2908Z TN15/2901Z
TEMPO 2823/2824 VCTS
BECMG 2823/2900 VCSH
TEMPO 2901/2902 VCTS
BECMG 2901/2902 VCSH
TEMPO 2907/2908 VCTS
 
Витебск (Куковячино)
SYNAR 26666 Витебск 290000Z 00000MPS 9999 FEW033 17/13 Q1019 RMK QFE748/0998 CLD:2SC
(80/18KM)


NOWCAST.SU UMNI 290100Z VRB02MPS 9999 FEW340 16/13 Q1020 NOSIG
RMK TURB: MOD FL50/FL70
AUTOTAF.ME UMNI 282200Z 2823/2908 VRB02MPS CAVOK TX25/2908Z TN16/2823Z
FM290200 VRB02MPS 9999 VCSH SCT080CB
FM290700 VRB02MPS CAVOK
 
Лунинец
SYNAR 33019 Пинск 290000Z 03001MPS CAVOK 13/11 Q1017 RMK QFE750/1000 CLD:2CI
(250/52KM)


NOWCAST.SU UMNL 290100Z VRB02MPS 9999 FEW280 15/11 Q1018 NOSIG
RMK TURB: MOD FL70/FL80
AUTOTAF.ME UMNL 282200Z 2823/2908 VRB02MPS 9999 VCSH BKN080CB TX24/2908Z TN15/2900Z
FM290000 VRB02MPS 9000 HZ NSC
FM290200 VRB02MPS 9999 VCSH BKN080CB
 
Могилев
METAR UMOO 281300Z 12004MPS 9999 SCT040TCU BKN/// 24/14 Q1021 NOSIG


NOWCAST.SU UMOO 290100Z VRB02MPS 9999 FEW330 16/12 Q1020 NOSIG
RMK TURB: MOD FL40/FL70
AUTOTAF.ME UMOO 282200Z 2823/2908 VRB02MPS CAVOK TX23/2908Z TN16/2900Z
FM290600 VRB02MPS 9999 VCSH BKN080CB
TAF UMOO 281337Z 2812/2821 CNL=
Хожево
SYNAR 26850 Минск 290000Z 00000MPS 5000 BR NSC 14/13 Q1019 RMK QFE743/0990 CLD:2AC
(120/63KM)


NOWCAST.SU UMOV 290100Z VRB02MPS 9999 SCT120 16/12 Q1019 NOSIG
RMK TURB: MOD FL70/FL80
AUTOTAF.ME UMOV 282200Z 2823/2908 VRB02MPS CAVOK TX24/2908Z TN15/2902Z
FM290200 VRB02MPS 9999 VCSH BKN080CB
 
Абакан
METAR UNAA 290100Z 20007MPS CAVOK 09/03 Q1016 R20/CLRD65 NOSIG RMK QFE740


NOWCAST.SU UNAA 290100Z 23010G15MPS 9999 BKN060 09/01 Q1017 NOSIG
RMK TURB: MOD SFC/FL30
AUTOTAF.ME UNAA 282200Z 2823/2908 23010MPS CAVOK TX18/2908Z TN06/2823Z
BECMG 2901/2902 BKN025TCU
BECMG 2905/2906 NSC
TAF UNAA 282240Z 2900/2924 23008G18MPS 9999 SCT030
BECMG 2913/2917 20003G08MPS
2024/05/28 00:21=
Краснотуранск
SYNAR 29768 Лебяжье 290000Z 18003MPS //// //// 08/02 Q1016 RMK QFE739/0986 CLD:NO_OBSERVATIONS
(160/13KM)


NOWCAST.SU UNAT 290100Z 20009G14MPS 9999 BKN035TCU 08/01 Q1015 NOSIG
RMK TURB: MOD SFC/FL40
AUTOTAF.ME UNAT 282200Z 2823/2908 20003MPS 9999 BKN025 TX15/2908Z TN06/2823Z
BECMG 2900/2901 20009G14MPS
 
Шушенское (Казанцево)
SYNAR 29869 Ермаковское 290000Z 00000MPS 9999 BKN033 06/05 Q1018 RMK QFE736/0982 CLD:6SCACCI
(110/27KM)


NOWCAST.SU UNAU 290100Z 23005G12MPS 9999 SCT044TCU 08/02 Q1017 NOSIG
RMK TURB: MOD SFC/FL40
AUTOTAF.ME UNAU 282200Z 2823/2908 24005G13MPS 9999 -RA BKN025 TX18/2908Z TN06/2823Z
BECMG 2905/2906 NSC
 
Барнаул (Имени Германа Титова)
METAR UNBB 290130Z 20010G16MPS 9999 BKN040CB 07/02 Q1008 R24/290055 NOSIG RMK QFE734


NOWCAST.SU UNBB 290100Z 21013G21MPS 9999 OVC029 07/03 Q1009 NOSIG
RMK TURB: MOD SFC/FL40
AUTOTAF.ME UNBB 282200Z 2823/2908 21013G21MPS 9999 OVC040 TX09/2905Z TN06/2908Z
BECMG 2902/2903 -RA
FM290500 22012G20MPS 2500 -RA BR OVC025
BECMG 2905/2906 5000
BECMG 2906/2907 OVC015
FM290800 26004MPS 9999 -RA OVC015
TAF UNBB 282300Z 2900/2924 19008G13MPS 8000 -SHRA BKN016CB
TEMPO 2900/2911 23013G20MPS BKN010CB
BECMG 2911/2913 26003G08MPS
2024/05/28 00:21=
Аккем
SYNAR 36443 Ак-Кем 290000Z 00000MPS CAVOK M04/M04 Q//// RMK CLD:2AS


NOWCAST.SU UNBC 290100Z VRB02MPS 9999 FEW190 M03/M09 Q1025 NOSIG
AUTOTAF.ME UNBC 282200Z 2823/2908 20003MPS CAVOK TX05/2908Z TNM06/2823Z
 
Горно-Алтайск
SYNAR 36052 Горно-Алтайск 290000Z 20002MPS 9999 BKN066 05/04 Q1017 RMK QFE736/0982 CLD:5AC


NOWCAST.SU UNBG 290100Z 18003MPS 9999 OVC045 05/02 Q1016 NOSIG
RMK TURB: MOD FL70/FL80
AUTOTAF.ME UNBG 282200Z 2823/2908 17003MPS 9999 BKN040 TX17/2907Z TN02/2823Z
BECMG 2901/2902 NSC
BECMG 2906/2907 BKN040TCU
FM290800 28009G15MPS 9999 VCSH BKN040CB
 
Бия
SYNAR 29939 Бийск 290000Z 18003MPS 9999 -SHRA OVC020CB 06/01 Q1015 RMK QFE740/0987 CLD:8CB
(310/35KM)


NOWCAST.SU UNBI 290100Z 19005G13MPS 9999 OVC042 07/04 Q1016 NOSIG
RMK TURB: MOD FL40/FL50
AUTOTAF.ME UNBI 282200Z 2823/2908 19004MPS CAVOK TX13/2907Z TN05/2823Z
BECMG 2823/2900 OVC040
BECMG 2902/2903 20009G16MPS
BECMG 2907/2908 26010G17MPS
 
Волчиха
SYNAR 36022 Волчиха 290000Z 20004MPS 9999 RESHRA OVC034CB 08/04 Q1013 RMK QFE741/0988 CLD:8CBAC


NOWCAST.SU UNBM 290100Z 21010G18MPS 9999 BKN030 09/04 Q1013 NOSIG
RMK TURB: MOD SFC/FL30
AUTOTAF.ME UNBM 282200Z 2823/2908 21010G18MPS 9999 OVC040 TX13/2907Z TN08/2823Z
FM290500 23011G18MPS 5000 -RA HZ OVC025
BECMG 2905/2906 2500
FM290700 24009G17MPS 5000 -RA HZ OVC015
FM290800 26005G13MPS 8000 -RA OVC015
 
Онгудай
SYNAR 36231 Онгудай 290000Z 00000MPS 9999 BKN010 03/01 Q1020 RMK QFE691/0922 CLD:7SCAC


NOWCAST.SU UNBN 290100Z 20004MPS 9999 FEW160 M01/M04 Q1023 NOSIG
AUTOTAF.ME UNBN 282200Z 2823/2908 19004MPS CAVOK TX09/2908Z TNM03/2823Z
BECMG 2902/2903 SCT040
BECMG 2904/2905 NSC
 
Усть-Кокса
SYNAR 36229 Усть-Кокса 290000Z 25001MPS 9999 SCT033CB 00/M01 Q1022 RMK QFE680/0907 CLD:4CB


NOWCAST.SU UNBU 290100Z 19004MPS 9999 FEW210 M01/M03 Q1023 NOSIG
AUTOTAF.ME UNBU 282200Z 2823/2908 18004MPS 5000 BR NSC TX10/2908Z TNM03/2823Z
FM290000 19004MPS CAVOK
BECMG 2902/2903 SCT025
BECMG 2903/2904 NSC
 
ТурСиб
SYNAR 36058 Чемал 290000Z 08002MPS 9999 BKN033 03/00 Q1019 RMK QFE727/0969 CLD:6SCAC
(160/21KM)


NOWCAST.SU UNBY 290100Z 16003MPS 9999 BKN027 03/01 Q1018 NOSIG
AUTOTAF.ME UNBY 282200Z 2823/2908 16003MPS CAVOK TX16/2908Z TNM00/2823Z
BECMG 2823/2900 BKN015
BECMG 2900/2901 BKN025
BECMG 2902/2903 NSC
 
Новосибирск (Северный)
SYNAR 29637 Учебная 290000Z 22004G13MPS 4000 -SHRA OVC020CB 08/05 Q1002 RMK QFE739/0986 CLD:8CB
(180/14KM)


NOWCAST.SU UNCC 290100Z 24010G17MPS 3000 -RA BR BKN019 07/05 Q1005 NOSIG
RMK TURB: MOD SFC/FL30
AUTOTAF.ME UNCC 282200Z 2823/2908 22013G19MPS 2500 -RA BR OVC008 TX07/2823Z TN06/2903Z
BECMG 2823/2900 OVC004
BECMG 2900/2901 BKN015
FM290200 26009G16MPS 9999 -SHRA BKN040CB
FM290300 28009G16MPS 9999 -SHRA BKN015CB
FM290500 28010G15MPS 9999 -RA NSC
 
Краснозерское
SYNAR 29813 Красноозерск 290000Z 25005MPS 9999 -SHRA BKN010CB 10/07 Q1005 RMK QFE739/0986 CLD:8CBAC


NOWCAST.SU UNCN 290100Z 30010MPS 2400 -SHRA BR BKN021CB 08/06 Q1008 NOSIG
RMK TURB: MOD SFC/FL30
AUTOTAF.ME UNCN 282200Z 2823/2908 27009G15MPS 5000 -SHRA BR OVC008CB TX10/2823Z TN05/2903Z
FM290000 29010MPS 2500 -SHRA BR OVC015CB
BECMG 2900/2901 BKN025CB
BECMG 2901/2902 -RA BR
FM290300 31008MPS 5000 -RA HZ BKN040
FM290400 31008MPS 9999 -RA BKN015
BECMG 2904/2905 BKN025
 
Карасук
SYNAR 36058 Чемал 290000Z 08002MPS 9999 BKN033 03/00 Q1019 RMK QFE727/0969 CLD:6SCAC
(160/21KM)


NOWCAST.SU UNCX 290100Z 16003MPS 9999 BKN027 03/01 Q1018 NOSIG
AUTOTAF.ME UNCX 282200Z 2823/2908 16003MPS CAVOK TX16/2908Z TNM00/2823Z
BECMG 2823/2900 BKN015
BECMG 2900/2901 BKN025
BECMG 2902/2903 NSC
 
Кемерово (Имени Алексея Леонова)
METAR UNEE 290130Z 17010G18MPS 9999 BKN023CB 06/02 Q1004 R23/CLRD60 NOSIG RMK QFE730


NOWCAST.SU UNEE 290100Z 20013G21MPS 9999 -RA OVC013 05/03 Q1005 NOSIG
RMK TURB: MOD SFC/FL30
AUTOTAF.ME UNEE 282200Z 2823/2908 19012G20MPS 9999 BKN015 BKN020TCU TX08/2906Z TN05/2823Z
BECMG 2900/2901 -RA
FM290200 20012G20MPS 7000 -RA BR OVC015
FM290400 22011G19MPS 9999 -RA OVC025
FM290500 23010G18MPS 9999 -SHRA OVC040CB
FM290600 24010G18MPS 2500 -SHRA BR BKN015CB
FM290700 25011G17MPS 7000 -SHRA HZ BKN015CB
FM290800 24011G17MPS 9999 -RA BKN025
TAF UNEE 282300Z 2900/2924 19009G23MPS 8000 BKN016CB TX09/2907Z TN01/2921Z
TEMPO 2900/2907 1500 TSRA BKN011CB
BECMG 2904/2907 24008G16MPS
BECMG 2909/2912 25003G08MPS BKN040
2024/05/28 00:21=
Тура МВЛ
SYNAR 24507 Тура 290000Z 36002MPS 9999 OVC020CB 03/02 Q1064 RMK QFE740/0986 CLD:8CB
(60/11KM)


NOWCAST.SU UNHT 290100Z VRB02MPS 9999 -RA OVC022 06/04 Q1006 NOSIG
AUTOTAF.ME UNHT 282200Z 2823/2908 36003MPS 9999 -RA BKN025 TX12/2905Z TN03/2823Z
BECMG 2823/2900 BKN015
BECMG 2900/2901 OVC025
FM290200 12005G13MPS 5000 -RA HZ BKN040
FM290300 13008G15MPS 9999 -RA BKN040
FM290500 20003MPS 5000 -RA HZ BKN040
FM290600 24005G12MPS 9999 -RA OVC040
BECMG 2907/2908 BKN015
 
Байкит
SYNAR 23891 Байкит 290000Z 00000MPS 4000 -SHSN OVC020CB 01/01 Q1007 RMK QFE733/0977 CLD:8CB


NOWCAST.SU UNIB 290100Z VRB02MPS 1000 RASN BR OVC015 02/02 Q1005 NOSIG
AUTOTAF.ME UNIB 282200Z 2823/2908 VRB02MPS 0500 +SN FG VV015 TX09/2908Z TN01/2823Z
FM290100 VRB02MPS 1200 RASN BR OVC015
FM290300 24003MPS 5000 -RASN BR OVC015
FM290400 23003MPS 9999 BKN025TCU
 
Эконда
 


NOWCAST.SU UNIH 290100Z 14005MPS 9999 FEW110 12/04 Q1011 NOSIG
RMK TURB: MOD SFC/FL40
AUTOTAF.ME UNIH 282200Z 2823/2908 13003MPS CAVOK TX20/2908Z TN09/2823Z
BECMG 2902/2903 14008G13MPS
FM290700 16013G18MPS 9999 SCT040TCU
BECMG 2907/2908 NSC
 
Енисейск
SYNAR 29263 Енисейск 290000Z 15003MPS CAVOK 05/02 Q1009 RMK QFE749/0999 CLD:6AC


NOWCAST.SU UNII 290100Z 17009G15MPS 9999 BKN022TCU 06/01 Q1008 NOSIG
RMK TURB: MOD SFC/FL30
AUTOTAF.ME UNII 282200Z 2823/2908 17004MPS CAVOK TX10/2904Z TN04/2823Z
BECMG 2823/2900 BKN015 BKN020TCU
FM290100 17009G15MPS 9999 BKN025TCU
FM290700 18010G18MPS 9999 VCSH OVC025CB
BECMG 2907/2908 OVC015CB
 
Мотыгино
SYNAR 29276 Мотыгино 290000Z 22002MPS //// //// 05/03 Q1012 RMK QFE744/0992 CLD:NO_OBSERVATIONS


NOWCAST.SU UNIM 290100Z 22004MPS 9999 BKN022TCU 05/02 Q1012 NOSIG
RMK TURB: MOD SFC/FL30
AUTOTAF.ME UNIM 282200Z 2823/2908 23004MPS 9999 BKN008 BKN020TCU TX12/2908Z TN04/2823Z
BECMG 2823/2900 BKN015 BKN020TCU
BECMG 2900/2901 BKN025TCU
BECMG 2904/2905 19009G14MPS
 
Подкаменная Тунгуска
SYNAR 23884 Бор 290000Z 13002MPS 9999 BKN020CB 03/00 Q1004 RMK QFE748/0997 CLD:7CB


NOWCAST.SU UNIP 290100Z 14005G13MPS 9999 BKN021 05/M02 Q1002 NOSIG
RMK TURB: MOD SFC/FL30
AUTOTAF.ME UNIP 282200Z 2823/2908 13003MPS 9999 BKN025 TX08/2903Z TN03/2823Z
BECMG 2823/2900 SCT015
BECMG 2900/2901 BKN025
BECMG 2901/2902 14009G15MPS
FM290500 15009G16MPS 9999 VCSH OVC025CB
FM290600 16005G13MPS 9999 -SHRA OVC015CB
 
Ярцево
SYNAR 23987 Ярцево 290000Z 12005MPS 9999 BKN020CB 06/02 Q1004 RMK QFE747/0997 CLD:5CB


NOWCAST.SU UNIQ 290100Z 15010G17MPS 9999 BKN018 05/00 Q1002 NOSIG
RMK TURB: MOD SFC/FL30
AUTOTAF.ME UNIQ 282200Z 2823/2908 14009G15MPS CAVOK TX06/2902Z TN04/2823Z
BECMG 2900/2901 BKN015
BECMG 2901/2902 BKN025TCU
FM290300 16011G18MPS 9999 -RA OVC015
FM290400 16012G19MPS 5000 -RA HZ OVC015
FM290500 16012G20MPS 1200 RA HZ OVC015
FM290600 16011G19MPS 0500 +RA HZ OVC015
FM290700 16011G19MPS 7000 -RA BR BKN015
FM290800 18010G18MPS 9999 -RA BKN025
 
Северо-Енисейск
SYNAR 23986 Северо-Енисейский 290000Z 19002MPS 9999 BKN010CB 02/M01 Q1006 RMK QFE709/0946 CLD:7CBAC


NOWCAST.SU UNIS 290100Z 19004MPS 9999 BKN043TCU 04/M03 Q1005 NOSIG
RMK TURB: MOD SFC/FL40
AUTOTAF.ME UNIS 282200Z 2823/2908 19003MPS 9999 BKN015 BKN020TCU TX08/2905Z TN01/2823Z
BECMG 2823/2900 NSC
BECMG 2900/2901 BKN040TCU
BECMG 2903/2904 18009G14MPS
 
Тура-Горный
SYNAR 24507 Тура 290000Z 36002MPS 9999 OVC020CB 03/02 Q1064 RMK QFE740/0986 CLD:8CB


NOWCAST.SU UNIT 290100Z 10005G12MPS 9999 -RA BKN033 07/03 Q1006 NOSIG
RMK TURB: MOD SFC/FL40
AUTOTAF.ME UNIT 282200Z 2823/2908 04003MPS 9999 -RA BKN025 TX15/2906Z TN04/2823Z
BECMG 2900/2901 10005G12MPS
BECMG 2901/2902 12011G16MPS
FM290500 18012G18MPS 9999 BKN040TCU
FM290600 20011G17MPS 5000 -RA OVC025
BECMG 2906/2907 2500
FM290800 21010G15MPS 2500 -RA BR OVC040
 
Ванавара
SYNAR 24908 Ванавара 290000Z 14003MPS CAVOK 14/05 Q1006 RMK QFE731/0975 CLD:2CI


NOWCAST.SU UNIW 290100Z 16005G13MPS 9999 FEW270 16/06 Q1005 NOSIG
RMK TURB: MOD FL50/FL70
AUTOTAF.ME UNIW 282200Z 2823/2908 13005G13MPS CAVOK TX20/2904Z TN12/2823Z
BECMG 2901/2902 BKN040TCU
BECMG 2902/2903 19005G12MPS
FM290400 21005G12MPS 5000 HZ BKN040TCU
FM290500 23009G14MPS 9999 BKN040TCU
BECMG 2905/2906 25010G15MPS
FM290800 25005G10MPS 9999 BKN040TCU
 
Осиновый Мыс
SYNAR 29282 Богучаны 290000Z 25003MPS 9999 -SHRA OVC020CB 04/03 Q1011 RMK QFE746/0995 CLD:8CB
(20/97KM)


NOWCAST.SU UNJS 290100Z 26004MPS 9999 -RA OVC010 05/02 Q1013 NOSIG
RMK TURB: MOD SFC/FL30
AUTOTAF.ME UNJS 282200Z 2823/2908 27005G13MPS 9999 -RA OVC015 TX13/2908Z TN03/2823Z
BECMG 2823/2900 OVC025
BECMG 2900/2901 OVC008
BECMG 2901/2902 BKN025
FM290500 22004MPS CAVOK
FM290600 21005G11MPS 9999 BKN025TCU
FM290800 21009MPS CAVOK
 
Богучаны
SYNAR 29282 Богучаны 290000Z 25003MPS 9999 -SHRA OVC020CB 04/03 Q1011 RMK QFE746/0995 CLD:8CB


NOWCAST.SU UNKB 290100Z 26005G13MPS 9999 -RA BKN029 04/02 Q1011 NOSIG
RMK TURB: MOD SFC/FL30
AUTOTAF.ME UNKB 282200Z 2823/2908 26005G13MPS 9999 -RA OVC025 TX13/2908Z TN04/2900Z
BECMG 2905/2906 HZ
FM290700 20005G11MPS 9999 SCT040TCU
BECMG 2907/2908 NSC
 
Кодинск
SYNAR 29199 Кодинск 290000Z 27003MPS //// //// 08/05 Q1008 RMK QFE733/0977 CLD:NO_OBSERVATIONS
(20/16KM)


NOWCAST.SU UNKI 290100Z 27009G15MPS 8000 HZ BKN033TCU 07/03 Q1010 NOSIG
RMK TURB: MOD FL30/FL40
AUTOTAF.ME UNKI 282200Z 2823/2908 26004MPS 8000 HZ BKN025TCU TX12/2908Z TN07/2900Z
FM290000 27009G16MPS 5000 HZ BKN025TCU
FM290200 27009G14MPS 9999 BKN040TCU
BECMG 2904/2905 BKN015 SCT020TCU
BECMG 2906/2907 BKN025
BECMG 2907/2908 NSC
 
Красноярск (Северный)
SYNAR 29571 Минино 290000Z 20003MPS 9999 BKN020CB 06/02 Q1014 RMK QFE739/0985 CLD:5CB
(220/22KM)


NOWCAST.SU UNKK 290100Z 20005G13MPS 9999 BKN054 06/03 Q1013 NOSIG
RMK TURB: MOD SFC/FL30
AUTOTAF.ME UNKK 282200Z 2823/2908 21004MPS CAVOK TX14/2908Z TN04/2823Z
FM290200 20009G14MPS 9999 BKN040TCU
 
Красноярск (Емельяново)
METAR UNKL 290130Z 18005MPS 120V240 9999 SCT025 08/02 Q1012 R29/CLRD65 NOSIG RMK QFE733


NOWCAST.SU UNKL 290100Z 20005G13MPS 9999 BKN023 05/02 Q1012 NOSIG
RMK TURB: MOD SFC/FL40
AUTOTAF.ME UNKL 282200Z 2823/2908 21004MPS CAVOK TX12/2907Z TN03/2823Z
BECMG 2900/2901 BKN025
BECMG 2901/2902 20009G15MPS
TAF UNKL 282257Z 2900/2924 19005G12MPS 9999 BKN016CB
TEMPO 2900/2906 23010G19MPS
BECMG 2906/2909 22011G25MPS
BECMG 2911/2914 22005G12MPS
BECMG 2915/2918 29003G08MPS
2024/05/28 00:21=
Красноярск (Черемшанка)
SYNAR 29571 Минино 290000Z 20003MPS 9999 BKN020CB 06/02 Q1014 RMK QFE739/0985 CLD:5CB
(140/16KM)


NOWCAST.SU UNKM 290100Z 20005G13MPS 9999 SKC 06/02 Q1012 NOSIG
RMK TURB: MOD SFC/FL40
AUTOTAF.ME UNKM 282200Z 2823/2908 21004MPS CAVOK TX12/2907Z TN03/2823Z
FM290200 20009G15MPS 9999 BKN025TCU
 
Канск (Восточный)
SYNAR 29581 Канск 290000Z 25003MPS 9999 SCT020CB 06/03 Q1015 RMK QFE743/0990 CLD:7CBAC


NOWCAST.SU UNKN 290100Z 26009G14MPS 9999 BKN035TCU 06/02 Q1015 NOSIG
RMK TURB: MOD SFC/FL30
AUTOTAF.ME UNKN 282200Z 2823/2908 26009G14MPS 9999 -RA NSC TX14/2908Z TN05/2823Z
FM290000 26009G14MPS 9999 BKN025TCU
 
Шарыпово
SYNAR 29558 Шарыпово 290000Z 18004MPS 9999 BKN020CB 05/M01 Q1011 RMK QFE729/0973 CLD:8CBAC


NOWCAST.SU UNKO 290100Z 21010G18MPS 9999 SCT030 05/02 Q1009 NOSIG
RMK TURB: MOD SFC/FL40
AUTOTAF.ME UNKO 282200Z 2823/2908 20009G17MPS 9999 OVC025 TX09/2907Z TN03/2823Z
BECMG 2905/2906 -RA
 
Красноярск (Бобровый Лог)
SYNAR 29570 Красноярск 290000Z 20001MPS 9999 SCT020CB 05/03 Q1013 RMK QFE735/0980 CLD:6CBAC


NOWCAST.SU UNKP 290100Z 20005G13MPS 9999 BKN058 06/02 Q1013 NOSIG
RMK TURB: MOD SFC/FL30
AUTOTAF.ME UNKP 282200Z 2823/2908 21004MPS CAVOK TX13/2907Z TN04/2823Z
FM290200 20009G14MPS 9999 BKN040
 
Ачинск
SYNAR 29467 Ачинск 290000Z 17004MPS 9999 BKN020CB 06/01 Q1011 RMK QFE735/0980 CLD:7CBAC


NOWCAST.SU UNKS 290100Z 19012G18MPS 9999 FEW220 06/02 Q1009 NOSIG
RMK TURB: MOD SFC/FL30
AUTOTAF.ME UNKS 282200Z 2823/2908 19010G18MPS CAVOK TX10/2907Z TN04/2823Z
BECMG 2901/2902 BKN040TCU
BECMG 2904/2905 -RA
 
Вознесенка
SYNAR 29570 Красноярск 290000Z 20001MPS 9999 SCT020CB 05/03 Q1013 RMK QFE735/0980 CLD:6CBAC
(270/31KM)


NOWCAST.SU UNKW 290100Z 20005G13MPS 9999 BKN054 06/03 Q1014 NOSIG
RMK TURB: MOD FL30/FL40
AUTOTAF.ME UNKW 282200Z 2823/2908 21004MPS CAVOK TX14/2907Z TN04/2823Z
BECMG 2823/2900 BKN025TCU
BECMG 2900/2901 NSC
FM290200 21009G14MPS 9999 BKN040TCU
 
Кызыл
SYNAR 36096 Кызыл 290000Z 25002MPS 9999 RESHRA BKN033CB 07/01 Q1016 RMK QFE706/0942 CLD:7CBAC


NOWCAST.SU UNKY 290100Z 29005MPS 9999 BKN043 08/M03 Q1017 NOSIG
RMK TURB: MOD FL50/FL110
AUTOTAF.ME UNKY 282200Z 2823/2908 29009G14MPS 5000 DRDU BKN025TCU TX16/2908Z TN07/2823Z
BECMG 2823/2900 HZ
FM290100 29005MPS 9999 BKN040
BECMG 2901/2902 30004MPS
BECMG 2902/2903 NSC
 
Колпашево
SYNAR 29231 Колпашево 290000Z 23002MPS 9999 RESHRA OVC010CB 02/01 Q996 RMK QFE740/0986 CLD:8CB


NOWCAST.SU UNLL 290100Z 28005G12MPS 8000 -SHSN BR OVC022CB 02/01 Q0996 NOSIG
RMK TURB: MOD SFC/FL170
AUTOTAF.ME UNLL 282200Z 2823/2908 25004MPS 1200 RASN BR OVC015 TX03/2823Z TN01/2903Z
FM290000 27005G12MPS 8000 -SN BR OVC015
FM290100 28005G12MPS 8000 -SHSN BR OVC025CB
FM290200 29009G14MPS 2500 SHSN BR BKN008 BKN010CB
BECMG 2902/2903 BKN004 BKN010CB
BECMG 2903/2904 BKN025CB
BECMG 2904/2905 SHSN HZ
FM290700 27010G15MPS 9000 -SHRASN HZ BKN040CB
FM290800 26010G15MPS 9999 -SHRASN BKN025CB
 
Парабель
SYNAR 29128 Парабель 290000Z 28003MPS 9999 -SHSN SCT020CB 01/M01 Q995 RMK QFE741/0988 CLD:8CBACCI


NOWCAST.SU UNLP 290100Z 28005G13MPS 4000 -SN BR BKN016 01/M02 Q0997 NOSIG
RMK TURB: MOD SFC/FL170
AUTOTAF.ME UNLP 282200Z 2823/2908 29005G13MPS 2500 SN BR OVC015 TX03/2907Z TN01/2823Z
FM290000 29005G13MPS 0500 +SN FG VV008
FM290100 28005G13MPS 5000 -SN BR BKN015
FM290200 28009G14MPS 9999 -SHSN BKN025CB
BECMG 2904/2905 -SHRASN
FM290600 28010G15MPS 9999 -SHSN OVC015CB
BECMG 2906/2907 OVC025CB
 
Новосибирск (Ельцовка)
SYNAR 29637 Учебная 290000Z 22004G13MPS 4000 -SHRA OVC020CB 08/05 Q1002 RMK QFE739/0986 CLD:8CB
(210/15KM)


NOWCAST.SU UNNE 290100Z 24010G17MPS 4000 -RA BR BKN019 07/05 Q1005 NOSIG
RMK TURB: MOD SFC/FL30
AUTOTAF.ME UNNE 282200Z 2823/2908 22013G19MPS 5000 -RA BR OVC008 TX07/2823Z TN06/2903Z
FM290000 23011G17MPS 2500 -RA BR OVC004
FM290100 24010G17MPS 5000 -RA BR BKN015
FM290200 26009G16MPS 9999 -SHRA BKN040CB
FM290300 28009G16MPS 9999 -SHRA BKN015CB
FM290500 28010G15MPS 9999 -RA NSC
 
Новосибирск (Городской Аэропорт)
SYNAR 29637 Учебная 290000Z 22004G13MPS 4000 -SHRA OVC020CB 08/05 Q1002 RMK QFE739/0986 CLD:8CB
(180/14KM)


NOWCAST.SU UNNG 290100Z 24010G17MPS 3000 -RA BR BKN019 07/05 Q1005 NOSIG
RMK TURB: MOD SFC/FL30
AUTOTAF.ME UNNG 282200Z 2823/2908 22013G19MPS 2500 -RA BR OVC008 TX07/2823Z TN06/2903Z
BECMG 2823/2900 OVC004
BECMG 2900/2901 BKN015
FM290200 26009G16MPS 9999 -SHRA BKN040CB
FM290300 28009G16MPS 9999 -SHRA BKN015CB
FM290500 28010G15MPS 9999 -RA NSC
 
Мочище
SYNAR 29637 Учебная 290000Z 22004G13MPS 4000 -SHRA OVC020CB 08/05 Q1002 RMK QFE739/0986 CLD:8CB
(220/27KM)


NOWCAST.SU UNNM 290100Z 24010G17MPS 2800 -RA BR BKN018 07/05 Q1005 NOSIG
RMK TURB: MOD SFC/FL30
AUTOTAF.ME UNNM 282200Z 2823/2908 22013G19MPS 5000 -RA BR OVC008 TX07/2823Z TN06/2902Z
FM290000 23011G17MPS 2500 -RA BR OVC004
BECMG 2900/2901 BKN015
FM290200 26009G16MPS 9999 -SHRA BKN040CB
BECMG 2902/2903 28009G16MPS
FM290500 28010G15MPS 9999 -RA NSC
 
Северное
SYNAR 29418 Северное 290000Z 32002MPS CAVOK M00/M05 Q1004 RMK QFE741/0989 CLD:2ACCI


NOWCAST.SU UNNS 290100Z 29005G13MPS 9000 -SN DRSN BKN018 00/M04 Q1006 NOSIG
RMK TURB: MOD SFC/FL30
AUTOTAF.ME UNNS 282200Z 2823/2908 28009G15MPS 1200 SN BLSN BKN004 OVC010CB TX06/2908Z TN00/2823Z
FM290000 29005G13MPS 2500 SN BLSN OVC008
FM290100 29005G13MPS 9000 -SN DRSN BKN015
FM290200 29009G14MPS 9999 -SN BKN040
BECMG 2903/2904 BKN015 BKN020TCU
BECMG 2904/2905 BKN025TCU
 
Новосибирск (Толмачёво)
METAR UNNT 290130Z 31009MPS 9000 -SHRA FEW007 OVC021CB 05/03 Q1003 WS R25 R25/290250 R16/////// NOSIG RMK QFE742/0990


NOWCAST.SU UNNT 290100Z 24010G17MPS 3000 -SHRA BR BKN026CB 07/05 Q1005 NOSIG
RMK TURB: MOD SFC/FL40
AUTOTAF.ME UNNT 282200Z 2823/2908 22012G18MPS 2500 -SHRA OVC008CB TX08/2823Z TN06/2903Z
FM290000 23011G17MPS 2500 -SHRA BR OVC015CB
BECMG 2900/2901 BKN025CB
FM290200 26011G17MPS 9999 -RA BKN040
FM290300 28012G18MPS 2500 RASN HZ NSC
FM290400 28012G17MPS 9999 -RASN NSC
FM290600 28011G16MPS 9999 BKN040TCU
BECMG 2906/2907 BKN015 BKN020TCU
BECMG 2907/2908 BKN040TCU
TAF UNNT 282300Z 2900/2924 22010G18MPS 8000 BKN016CB TX10/2907Z TN00/2924Z
TEMPO 2900/2904 27014G25MPS -TSRA BKN011CB
BECMG 2904/2905 27009G18MPS BKN040CB
BECMG 2913/2917 25003G08MPS
2024/05/28 00:21=
Усть-Ишим
SYNAR 28382 Усть-Ишим 290000Z 31006G10MPS 9999 FEW010 M01/M07 Q1011 RMK QFE752/1003 CLD:1ST


NOWCAST.SU UNOI 290100Z 30004MPS 9999 SKC 00/M07 Q1011 NOSIG
RMK TURB: MOD SFC/FL50
AUTOTAF.ME UNOI 282200Z 2823/2908 29004MPS CAVOK TX06/2907Z TNM02/2823Z
BECMG 2902/2903 30009G14MPS
 
Омск (Калачево)
SYNAR 28698 Омск 290000Z 33003MPS 9999 SCT020CB 02/M04 Q1010 RMK QFE746/0995 CLD:7CBAC
(10/29KM)


NOWCAST.SU UNOL 290100Z 32003MPS 9999 FEW230 03/M02 Q1012 NOSIG
AUTOTAF.ME UNOL 282200Z 2823/2908 33003MPS 9999 -RA NSC TX10/2908Z TN03/2823Z
BECMG 2823/2900 -RASN
BECMG 2903/2904 31008G13MPS
BECMG 2905/2906 BKN040TCU
 
Омск Центральный
METAR UNOO 290130Z 33006MPS 9999 SCT033CB 03/M06 Q1011 R25/290150 NOSIG RMK QFE750


NOWCAST.SU UNOO 290100Z 32003MPS 9999 FEW230 03/M02 Q1012 NOSIG
AUTOTAF.ME UNOO 282200Z 2823/2908 33003MPS 9999 -RA BKN040 TX09/2908Z TN03/2823Z
FM290000 32003MPS CAVOK
BECMG 2903/2904 31008G13MPS
BECMG 2905/2906 BKN040TCU
TAF UNOO 282255Z 2900/2924 35005G13MPS 9999 SCT010 BKN030CB
TEMPO 2900/2902 33013MPS 2100 -SHRA BR BKN007 BKN020CB
BECMG 2903/2905 31005G13MPS
BECMG 2913/2915 35003G08MPS
2024/05/28 00:21=
Омск (Северный)
SYNAR 28698 Омск 290000Z 33003MPS 9999 SCT020CB 02/M04 Q1010 RMK QFE746/0995 CLD:7CBAC
(300/12KM)


NOWCAST.SU UNOS 290100Z 32003MPS 9999 FEW230 03/M02 Q1012 NOSIG
AUTOTAF.ME UNOS 282200Z 2823/2908 33003MPS 9999 -RA NSC TX09/2908Z TN03/2823Z
BECMG 2903/2904 31008G13MPS
BECMG 2905/2906 BKN040TCU
 
Тара
SYNAR 28493 Тара 290000Z 29003MPS CAVOK M00/M05 Q1008 RMK QFE749/0999 CLD:SKC


NOWCAST.SU UNOT 290100Z 29005G13MPS 9999 SKC M01/M06 Q1009 NOSIG
RMK TURB: MOD FL70/FL80
AUTOTAF.ME UNOT 282200Z 2823/2908 29004MPS CAVOK TX06/2908Z TNM02/2823Z
BECMG 2901/2902 BKN040TCU
BECMG 2902/2903 29009G14MPS
BECMG 2906/2907 NSC
 
Омск (Поповка)
SYNAR 28698 Омск 290000Z 33003MPS 9999 SCT020CB 02/M04 Q1010 RMK QFE746/0995 CLD:7CBAC
(50/25KM)


NOWCAST.SU UNOY 290100Z 32003MPS 9999 FEW230 03/M02 Q1012 NOSIG
AUTOTAF.ME UNOY 282200Z 2823/2908 32003MPS 9999 BKN040 TX09/2908Z TN03/2823Z
BECMG 2823/2900 NSC
BECMG 2902/2903 32008G13MPS
 
Красноярск (Кузнецово)
SYNAR 29570 Красноярск 290000Z 20001MPS 9999 SCT020CB 05/03 Q1013 RMK QFE735/0980 CLD:6CBAC
(300/18KM)


NOWCAST.SU UNQK 290100Z 20005G13MPS 9999 BKN035 06/02 Q1013 NOSIG
RMK TURB: MOD SFC/FL30
AUTOTAF.ME UNQK 282200Z 2823/2908 21004MPS CAVOK TX13/2907Z TN04/2823Z
BECMG 2900/2901 BKN040
BECMG 2901/2902 20009G14MPS
 
Манский
SYNAR 29578 Шалинское 290000Z 19001MPS 9999 SCT033 04/02 Q1014 RMK QFE725/0966 CLD:7CUACCI


NOWCAST.SU UNQM 290100Z 22005G13MPS 9999 BKN046 06/02 Q1014 NOSIG
AUTOTAF.ME UNQM 282200Z 2823/2908 22003MPS 9999 BKN025TCU TX14/2908Z TN04/2823Z
BECMG 2901/2902 22009G14MPS
 
Назарово
SYNAR 29561 Назарово 290000Z 19004MPS 9999 BKN033 05/01 Q1011 RMK QFE735/0980 CLD:7SCCC
(300/12KM)


NOWCAST.SU UNQN 290100Z 19011G17MPS 9999 BKN040 06/02 Q1010 NOSIG
RMK TURB: MOD SFC/FL40
AUTOTAF.ME UNQN 282200Z 2823/2908 19009G17MPS CAVOK TX11/2907Z TN04/2823Z
BECMG 2900/2901 BKN040
FM290800 23011G18MPS 9999 VCSH OVC040CB
 
Красноярск (Солнечный)
SYNAR 29571 Минино 290000Z 20003MPS 9999 BKN020CB 06/02 Q1014 RMK QFE739/0985 CLD:5CB
(250/13KM)


NOWCAST.SU UNQS 290100Z 20005G13MPS 9999 BKN052 06/03 Q1013 NOSIG
RMK TURB: MOD SFC/FL30
AUTOTAF.ME UNQS 282200Z 2823/2908 21004MPS 9999 BKN025TCU TX14/2908Z TN04/2823Z
BECMG 2823/2900 NSC
FM290200 20009G14MPS 9999 BKN040TCU
 
Тасеево
SYNAR 29379 Тасеево 290000Z 24004MPS CAVOK 06/03 Q1014 RMK QFE745/0994 CLD:7ACCI
(280/21KM)


NOWCAST.SU UNQT 290100Z 24004MPS 9999 FEW140 06/01 Q1013 NOSIG
RMK TURB: MOD SFC/FL30
AUTOTAF.ME UNQT 282200Z 2823/2908 25004MPS 9999 -RA OVC025 TX14/2908Z TN05/2823Z
BECMG 2900/2901 NSC
BECMG 2901/2902 BKN040
BECMG 2904/2905 22009G14MPS
FM290800 22009G14MPS 9000 HZ BKN040TCU
 
Долгий Мост
SYNAR 29485 Абан 290000Z 23003MPS 9999 BKN020CB 05/03 Q1015 RMK QFE738/0985 CLD:7CB
(260/48KM)


NOWCAST.SU UNQX 290100Z 26003MPS 9999 BKN025TCU 05/01 Q1014 NOSIG
RMK TURB: MOD SFC/FL30
AUTOTAF.ME UNQX 282200Z 2823/2908 27004MPS 2500 RASN BR OVC015 TX14/2908Z TN04/2823Z
FM290000 26003MPS 9999 -RA OVC025
BECMG 2903/2904 NSC
BECMG 2905/2906 BKN025TCU
FM290800 23009G14MPS 9999 DRDU SCT040TCU
 
Барабинск
SYNAR 29612 Барабинск 290000Z 30005MPS 9999 BKN020CB 03/00 Q1005 RMK QFE743/0991 CLD:5CB


NOWCAST.SU UNRR 290100Z 30010G16MPS 1000 HZ SKC 02/M02 Q1008 NOSIG
RMK TURB: MOD SFC/FL30
AUTOTAF.ME UNRR 282200Z 2823/2908 31011G17MPS 1200 SHRASN BR BKN002 OVC010CB TX07/2907Z TN02/2823Z
FM290000 30010G17MPS 1200 SN BR BKN025
FM290100 30010G16MPS 1200 HZ NSC
BECMG 2901/2902 2500
FM290300 30010G15MPS 9999 SCT040TCU
BECMG 2903/2904 NSC
BECMG 2905/2906 BKN040TCU
FM290800 29011G16MPS CAVOK
 
Игол (Центральный)
SYNAR 29203 Новый Васюган 290000Z 27005MPS 9999 FEW006CB M03/M04 Q1002 RMK QFE744/0992 CLD:5CBACCI
(0/93KM)


NOWCAST.SU UNSG 290100Z 28005G13MPS 9999 BKN022TCU M01/M05 Q1006 NOSIG
RMK TURB: MOD SFC/FL70
AUTOTAF.ME UNSG 282200Z 2823/2908 29005G13MPS CAVOK TX03/2906Z TNM02/2823Z
BECMG 2823/2900 BKN015 BKN020TCU
BECMG 2900/2901 BKN025TCU
FM290300 29009G14MPS 9999 -SHSN BKN040CB
BECMG 2904/2905 BKN015CB
FM290600 29009G14MPS 9999 -SHRASN OVC025CB
FM290700 30009G15MPS 2500 SHRASN HZ BKN025CB
 
Шингинская
SYNAR 29313 Пудино 290000Z 27005MPS 4000 -SHSN OVC020CB M00/M01 Q999 RMK QFE740/0987 CLD:8CB
(150/100KM)


NOWCAST.SU UNSI 290100Z 29009G15MPS 9999 -SN BKN027 M01/M05 Q1001 NOSIG
RMK TURB: MOD SFC/FL40
AUTOTAF.ME UNSI 282200Z 2823/2908 30009G16MPS 9999 -SN OVC015 TX03/2907Z TNM01/2823Z
BECMG 2823/2900 BKN025
FM290300 29010G15MPS 9999 -SHSN BKN040CB
BECMG 2904/2905 -SHSN HZ
FM290600 28010G15MPS 2500 SHSN HZ OVC040CB
FM290800 28010G15MPS 2500 SHRASN HZ OVC015CB
 
Стрежевой
SYNAR 23955 Александровское 290000Z 29004MPS 9999 BKN029CB M00/M04 Q996 RMK QFE742/0990 CLD:8CBCI
(160/33KM)


NOWCAST.SU UNSS 290100Z 29010G15MPS 9999 BKN025TCU M02/M05 Q0998 NOSIG
RMK TURB: MOD SFC/FL30
AUTOTAF.ME UNSS 282200Z 2823/2908 29009G15MPS 9999 BKN015 BKN020TCU TX01/2907Z TNM02/2823Z
BECMG 2823/2900 BKN025TCU
BECMG 2903/2904 -SN
FM290500 30010G15MPS 2500 SN BLSN OVC040
BECMG 2905/2906 BKN040CB
FM290700 29010G15MPS 1200 SHSN HZ OVC040CB
 
Бакчар
SYNAR 29328 Бакчар 290000Z 24003MPS 9999 SHRA OVC010CB 03/01 Q998 RMK QFE738/0985 CLD:8CB


NOWCAST.SU UNTB 290100Z 26010G15MPS 2000 SHSN BR BKN023CB 02/01 Q1000 NOSIG
RMK TURB: MOD SFC/FL30
AUTOTAF.ME UNTB 282200Z 2823/2908 25009G15MPS 2500 SHRASN BR BKN015CB TX03/2823Z TN02/2901Z
BECMG 2823/2900 OVC025CB
BECMG 2900/2901 SHSN BR
FM290500 28010G15MPS 2500 SHRASN HZ BKN015CB
BECMG 2906/2907 BKN025CB
FM290800 28010G15MPS 9999 -SHRASN OVC025CB
 
Березкино
SYNAR 29430 Томск 290000Z 12001MPS 9999 -SHRA OVC017CB 05/04 Q1001 RMK QFE738/0984 CLD:8CB
(90/14KM)


NOWCAST.SU UNTR 290100Z 22012G20MPS 2700 -SHRA BR BKN024CB 07/04 Q0999 NOSIG
RMK TURB: MOD SFC/FL30
AUTOTAF.ME UNTR 282200Z 2823/2908 20013G21MPS 5000 BR BKN008 TX07/2823Z TN04/2906Z
FM290000 21013G21MPS 2500 -DZ BR OVC008
FM290100 22012G20MPS 2500 -SHRA BR BKN025CB
FM290200 23011G19MPS 9999 -SHRA BKN040CB
FM290300 25011G18MPS 0500 FG NSC
FM290400 26011G17MPS 0500 BLDU NSC
FM290500 27011G16MPS 1200 SHRASN BLDU BKN040CB
FM290600 27011G16MPS 9999 DRDU SCT040TCU
 
Томск (Богашёво)
METAR UNTT 290130Z 20010G16MPS 9000 -SHRA BKN013CB 05/03 Q0999 R21/190050 NOSIG RMK QFE734


NOWCAST.SU UNTT 290100Z 21011G19MPS 6000 -RA BR BKN019 06/04 Q1000 NOSIG
RMK TURB: MOD SFC/FL30
AUTOTAF.ME UNTT 282200Z 2823/2908 19012G20MPS 9999 BKN008 TX06/2823Z TN05/2905Z
FM290000 20012G20MPS 5000 -DZ BR OVC008
FM290100 21011G19MPS 5000 -RA BR BKN015
FM290200 23010G18MPS 7000 -SHRA BR BKN025CB
FM290300 25011G18MPS 9000 -SHRA BR BKN040CB
FM290400 26011G17MPS 1200 SHRASN HZ BKN040CB
FM290600 27011G16MPS 9999 -SHSN BKN025CB
BECMG 2906/2907 BKN015CB
FM290800 27010G16MPS 9999 BKN025TCU
TAF UNTT 282300Z 2900/2909 26008G20MPS 6000 -SHRA BKN016CB
TEMPO 2900/2906 21010G23MPS 2000 SHRA BKN007 BKN016CB
2024/05/28 00:00=
Таштагол
SYNAR 29954 Таштагол 290000Z 00000MPS 4000 BR SCT033 04/04 Q1018 RMK QFE725/0967 CLD:6SCACCI


NOWCAST.SU UNWI 290100Z 20003MPS 9999 BKN024 05/02 Q1016 NOSIG
RMK TURB: MOD FL50/FL60
AUTOTAF.ME UNWI 282200Z 2823/2908 19003MPS 9999 BKN040 TX12/2907Z TN03/2823Z
BECMG 2823/2900 BKN015
BECMG 2900/2901 BKN025
BECMG 2902/2903 NSC
FM290400 22009G17MPS CAVOK
FM290700 24005G13MPS 9999 OVC040
FM290800 25004MPS 9999 OVC040
 
Новокузнецк (Спиченково)
METAR UNWW 290130Z 18009G14MPS 9999 -SHRA BKN030CB 05/02 Q1012 R19/290150 NOSIG RMK QFE732


NOWCAST.SU UNWW 290100Z 20012G20MPS 9999 BKN021TCU 05/03 Q1012 NOSIG
RMK TURB: MOD SFC/FL40
AUTOTAF.ME UNWW 282200Z 2823/2908 20011G19MPS 9999 BKN040 TX09/2908Z TN04/2823Z
FM290200 20013G21MPS 5000 BR BKN025TCU
BECMG 2903/2904 -RA BR
FM290500 21013G21MPS 9999 -RA OVC025
BECMG 2907/2908 -RA BR
TAF UNWW 282300Z 2900/2924 19008G18MPS 8000 -SHRA BKN020CB TX10/2909Z TN02/2920Z
TEMPO 2901/2909 22013G23MPS
BECMG 2909/2911 24006G15MPS
TEMPO 2911/2924 BKN011CB
BECMG 2913/2916 30003G08MPS
2024/05/28 23:21 Ammendment=
Диксон
SYNAR 20674 Остров Диксон 290000Z 22008MPS 7000 -SHSN OVC005CB M02/M02 Q991 RMK QFE738/0984 CLD:8CB


NOWCAST.SU UODD 290100Z 19010MPS 3000 BLSN BKN001 M01/M02 Q0994 NOSIG
AUTOTAF.ME UODD 282200Z 2823/2908 19008MPS 2500 BR OVC002 TX00/2903Z TNM01/2823Z
BECMG 2823/2900 BLSN
BECMG 2902/2903 20013MPS
BECMG 2905/2906 BKN004
FM290800 19014MPS 2500 SN BLSN OVC004
 
Нагурское
SYNAR 20046 Остров Хейса 290000Z 01008MPS CAVOK M07/M10 Q1022 RMK QFE764/1018 CLD:SKC
(90/191KM)


NOWCAST.SU UODN 290100Z VRB02MPS 9999 FEW110 M08/M10 Q1024 NOSIG
AUTOTAF.ME UODN 282200Z 2823/2908 VRB02MPS CAVOK TXM05/2908Z TNM09/2823Z
 
Остров Средний
 


NOWCAST.SU UODS 290100Z 08007G12MPS 1000 SN BR OVC003 01/M01 Q1000 NOSIG
RMK TURB: MOD SFC/FL20
AUTOTAF.ME UODS 282200Z 2823/2908 07010G15MPS 1200 SN BR OVC004 TX01/2823Z TN01/2823Z
FM290200 08006MPS 1200 SHSN BR BKN004 OVC010CB
BECMG 2902/2903 07005MPS
FM290400 07004MPS 9999 -SHRASN NSC
FM290500 07005MPS 9999 -RA OVC008
BECMG 2906/2907 -RA BR
FM290800 14004MPS 1200 RASN BR OVC004
 
Хатанга
SYNAR 20891 Хатанга 290000Z 22007MPS 9999 BKN015 01/M01 Q1006 RMK QFE751/1002 CLD:8SCAC


NOWCAST.SU UOHH 290100Z 26010G15MPS 9000 BR BKN016 02/00 Q1008 NOSIG
RMK TURB: MOD SFC/FL20
AUTOTAF.ME UOHH 282200Z 2823/2908 24009G14MPS 8000 BR BKN008 TX06/2907Z TN02/2900Z
BECMG 2823/2900 BKN004
BECMG 2900/2901 BKN015
FM290200 25008G13MPS 9999 BKN025TCU
BECMG 2904/2905 24004MPS
FM290700 22003MPS 9999 BKN015
FM290800 VRB02MPS CAVOK
 
Новая
SYNAR 20891 Хатанга 290000Z 22007MPS 9999 BKN015 01/M01 Q1006 RMK QFE751/1002 CLD:8SCAC
(60/50KM)


NOWCAST.SU UOHN 290100Z 25005G11MPS 9000 -SN BR BKN020 02/M01 Q1009 NOSIG
RMK TURB: MOD SFC/FL20
AUTOTAF.ME UOHN 282200Z 2823/2908 25005MPS 0500 RASN FG VV004 TX06/2907Z TN01/2823Z
FM290000 25008G13MPS 2500 -SN BR OVC004
FM290100 25005G11MPS 9000 -SN BR BKN025
BECMG 2905/2906 BKN015
BECMG 2906/2907 VRB02MPS
BECMG 2907/2908 BKN040TCU
 
Светлогорск
SYNAR 23376 Светлогорск 290000Z 12002MPS //// //// 02/M04 Q1008 RMK QFE747/0996 CLD:NO_OBSERVATIONS
(0/12KM)


NOWCAST.SU UOIG 290100Z 10004MPS 9999 BKN022 00/M02 Q1007 NOSIG
AUTOTAF.ME UOIG 282200Z 2823/2908 08003MPS 2500 BR BKN004 TX04/2907Z TNM02/2823Z
FM290100 10004MPS 9999 BKN025
BECMG 2904/2905 NSC
BECMG 2905/2906 BKN015 BKN020TCU
BECMG 2907/2908 BKN040
 
Хантайское озеро
SYNAR 23176 Исток 290000Z 00000MPS 9999 BKN020 00/M03 Q1009 RMK QFE749/0998 CLD:8SCAC
(310/37KM)


NOWCAST.SU UOIH 290100Z VRB02MPS 9999 BKN058 M03/M05 Q1007 NOSIG
AUTOTAF.ME UOIH 282200Z 2823/2908 VRB02MPS CAVOK TX01/2906Z TNM04/2823Z
BECMG 2901/2902 BKN040
BECMG 2902/2903 NSC
BECMG 2903/2904 BKN040
 
Игарка
SYNAR 23274 Игарка 290000Z 15003MPS 9999 FEW050 01/M03 Q1008 RMK QFE753/1004 CLD:7SCCI


NOWCAST.SU UOII 290100Z 13004MPS 9999 BKN017 00/M02 Q1007 NOSIG
RMK TURB: MOD SFC/FL20
AUTOTAF.ME UOII 282200Z 2823/2908 14004MPS CAVOK TX03/2907Z TNM03/2823Z
BECMG 2823/2900 BKN015
FM290200 12004MPS 5000 BR BKN015
FM290600 09005G10MPS 9999 BKN015
BECMG 2906/2907 08005MPS
BECMG 2907/2908 NSC
 
Снежногорск
SYNAR 23179 Снежногорск 290000Z 14002MPS 9999 OVC020CB 00/M03 Q1008 RMK QFE747/0996 CLD:8CB


NOWCAST.SU UOIS 290100Z 12004MPS 9999 BKN011 M02/M04 Q1008 NOSIG
AUTOTAF.ME UOIS 282200Z 2823/2908 13003MPS CAVOK TX02/2906Z TNM04/2823Z
BECMG 2900/2901 BKN008
BECMG 2901/2902 BKN015
BECMG 2902/2903 BKN025
FM290500 10005MPS CAVOK
FM290600 09005MPS 9999 BKN040
FM290800 07005MPS 9999 BKN025
 
Дудинка
SYNAR 23174 Потапово 290000Z 18003MPS 9999 BKN020 01/M02 Q1007 RMK QFE751/1001 CLD:7SCAC
(180/78KM)


NOWCAST.SU UOOD 290100Z 16004MPS 7000 DRSN BKN012 M02/M04 Q1007 NOSIG
AUTOTAF.ME UOOD 282200Z 2823/2908 16003MPS 9999 BKN015 TX01/2905Z TNM04/2823Z
BECMG 2823/2900 DRSN
BECMG 2900/2901 7000
FM290200 17005G13MPS 8000 -SN DRSN NSC
BECMG 2902/2903 BKN008
FM290500 17005G11MPS 9999 BKN015
FM290800 VRB02MPS 9999 BKN025
 
Ванкор
SYNAR 23363 Советская Речка 290000Z 11003MPS 9999 SCT066 00/M03 Q1006 RMK QFE750/1000 CLD:7ACCI
(180/109KM)


NOWCAST.SU UOOG 290100Z 15004MPS 9999 OVC150 M01/M02 Q1005 NOSIG
AUTOTAF.ME UOOG 282200Z 2823/2908 14004MPS 0500 SN FZFG VV004 TX02/2907Z TNM02/2823Z
FM290000 15005G10MPS 1200 SN BR OVC004
FM290100 15004MPS CAVOK
BECMG 2901/2902 BKN015
BECMG 2902/2903 NSC
BECMG 2903/2904 BKN015
FM290500 12003MPS 9999 BKN008
FM290600 10003MPS CAVOK
FM290800 07003MPS 9999 BKN008
 
Северо-Соленое
SYNAR 20978 Караул 290000Z 23003MPS 9999 BKN020 M03/M05 Q1005 RMK QFE751/1001 CLD:7SC
(30/120KM)


NOWCAST.SU UOOI 290100Z VRB02MPS 9999 BKN041 M07/M08 Q1006 NOSIG
AUTOTAF.ME UOOI 282200Z 2823/2908 VRB02MPS CAVOK TXM00/2908Z TNM09/2823Z
BECMG 2823/2900 BKN025
FM290500 VRB02MPS 5000 -SN BR BKN004
BECMG 2905/2906 2500
BECMG 2906/2907 BKN002
 
Южно-Соленое
SYNAR 20978 Караул 290000Z 23003MPS 9999 BKN020 M03/M05 Q1005 RMK QFE751/1001 CLD:7SC
(30/127KM)


NOWCAST.SU UOOJ 290100Z VRB02MPS 9999 BKN042 M07/M08 Q1006 NOSIG
AUTOTAF.ME UOOJ 282200Z 2823/2908 VRB02MPS CAVOK TX01/2908Z TNM08/2823Z
BECMG 2823/2900 BKN025
FM290400 VRB02MPS 5000 -SN BR BKN004
BECMG 2904/2905 2500
BECMG 2905/2906 5000
FM290700 VRB02MPS 2500 -SN BR BKN008
FM290800 VRB02MPS 2500 BR BKN004
 
Факел
SYNAR 20978 Караул 290000Z 23003MPS 9999 BKN020 M03/M05 Q1005 RMK QFE751/1001 CLD:7SC
(330/98KM)


NOWCAST.SU UOOK 290100Z VRB02MPS 9999 BKN022 M03/M04 Q1007 NOSIG
AUTOTAF.ME UOOK 282200Z 2823/2908 18003MPS 9999 BKN025 TX01/2906Z TNM05/2823Z
FM290200 17003MPS 7000 -SN BR BKN015
FM290300 17003MPS 0500 +SN FZFG VV008
BECMG 2903/2904 +SN FG
BECMG 2906/2907 FG
BECMG 2907/2908 NSC
 
Пелятка Норильская
SYNAR 20978 Караул 290000Z 23003MPS 9999 BKN020 M03/M05 Q1005 RMK QFE751/1001 CLD:7SC
(40/73KM)


NOWCAST.SU UOOL 290100Z 21003MPS 9999 FEW220 M06/M07 Q1005 NOSIG
AUTOTAF.ME UOOL 282200Z 2823/2908 21003MPS 9999 OVC004 TXM01/2907Z TNM07/2823Z
BECMG 2823/2900 NSC
BECMG 2904/2905 BKN040
 
Мессояха
SYNAR 20978 Караул 290000Z 23003MPS 9999 BKN020 M03/M05 Q1005 RMK QFE751/1001 CLD:7SC
(10/109KM)


NOWCAST.SU UOOM 290100Z VRB02MPS 9999 -SN BKN012 M06/M07 Q1005 NOSIG
AUTOTAF.ME UOOM 282200Z 2823/2908 VRB02MPS 9999 BKN025 TX01/2907Z TNM07/2823Z
BECMG 2823/2900 BKN015
BECMG 2900/2901 -SN
BECMG 2901/2902 -SN BR
FM290300 VRB02MPS 2500 -SN BR BKN015
FM290400 VRB02MPS 0500 +SN FZFG VV008
FM290500 VRB02MPS 0500 +SN FG VV015
FM290800 VRB02MPS 0500 FG BKN015
 
Волочанка
SYNAR 20982 Волочанка 290000Z 24003MPS 9999 FEW020 00/M01 Q1007 RMK QFE752/1002 CLD:5CUCS


NOWCAST.SU UOON 290100Z 25003MPS 9999 BKN033TCU 01/M02 Q1009 NOSIG
RMK TURB: MOD SFC/FL20
AUTOTAF.ME UOON 282200Z 2823/2908 26005G13MPS 1200 SN BR OVC025 TX05/2907Z TN01/2823Z
FM290000 26004MPS 9999 BKN025
BECMG 2902/2903 VRB02MPS
BECMG 2906/2907 10005MPS
 
Норильск (Алыкель)
METAR UOOO 290130Z 18007MPS 9999 -SN NSC 00/M01 Q1006 R19/15//60 NOSIG RMK QFE738/0985


NOWCAST.SU UOOO 290100Z 14003MPS 9999 BKN018 M02/M04 Q1008 NOSIG
AUTOTAF.ME UOOO 282200Z 2823/2908 16003MPS 9999 BKN015 TX02/2907Z TNM04/2823Z
BECMG 2901/2902 BKN025
BECMG 2906/2907 NSC
TAF UOOO 282300Z 2900/2924 18005G13MPS 6000 BKN016
TEMPO 2900/2903 0300 FZFG VV002
BECMG 2903/2906 13003G08MPS
BECMG 2911/2915 01006G13MPS
2024/05/28 00:21=
Усть-Порт
SYNAR 20978 Караул 290000Z 23003MPS 9999 BKN020 M03/M05 Q1005 RMK QFE751/1001 CLD:7SC
(310/66KM)


NOWCAST.SU UOOP 290100Z VRB02MPS 9999 BKN022 M03/M04 Q1007 NOSIG
AUTOTAF.ME UOOP 282200Z 2823/2908 18003MPS 9999 BKN025 TX01/2907Z TNM04/2823Z
FM290200 17003MPS 7000 BR BKN015
FM290300 17003MPS 0500 +SN FZFG VV008
BECMG 2903/2904 +SN FG
FM290800 17003MPS 0500 FG NSC
 
Караул
SYNAR 20978 Караул 290000Z 23003MPS 9999 BKN020 M03/M05 Q1005 RMK QFE751/1001 CLD:7SC


NOWCAST.SU UOOR 290100Z 20004MPS 9999 FEW200 M04/M06 Q1006 NOSIG
AUTOTAF.ME UOOR 282200Z 2823/2908 20004MPS 9999 BKN015 TXM00/2908Z TNM05/2823Z
BECMG 2823/2900 BKN025
BECMG 2900/2901 NSC
BECMG 2902/2903 BKN040
FM290400 20004MPS CAVOK
 
Усть-Тарея
 


NOWCAST.SU UOOU 290100Z 21011G16MPS 9999 DRSN BKN018 M01/M03 Q1002 NOSIG
RMK TURB: MOD SFC/FL30
AUTOTAF.ME UOOU 282200Z 2823/2908 21010G16MPS 9999 DRSN BKN015 TXM01/2823Z TNM01/2823Z
BECMG 2823/2900 BKN025TCU
BECMG 2900/2901 BKN015
BECMG 2906/2907 BKN025
 
Валек
SYNAR 23078 Норильск 290000Z 16004MPS 9999 SCT020 00/M04 Q1008 RMK QFE749/0999 CLD:6SCAC


NOWCAST.SU UOOW 290100Z 12004MPS 7000 BR BKN014 M02/M04 Q1008 NOSIG
AUTOTAF.ME UOOW 282200Z 2823/2908 12003MPS 2500 BR BKN015 TX01/2907Z TNM04/2823Z
FM290000 12004MPS 0500 FZFG BKN015
FM290100 12004MPS 7000 BR BKN015
FM290200 13004MPS 9999 BKN040
BECMG 2906/2907 NSC
 
Туруханск
SYNAR 23472 Туруханск 290000Z 10002MPS 9999 BKN020 02/M03 Q1007 RMK QFE751/1002 CLD:6SCCS


NOWCAST.SU UOTT 290100Z 10004MPS 9999 BKN030 02/M01 Q1005 NOSIG
AUTOTAF.ME UOTT 282200Z 2823/2908 11004MPS 9999 BKN040 TX08/2908Z TNM00/2823Z
 
Севастополь (Бельбек)
SYNAR 33998 Ай-Петри 290000Z 30001MPS 9999 FEW010 10/03 Q//// RMK CLD:7SCCI
(120/47KM)


TSAR URFB 290100Z LAST HOUR TS OBS: 320/171KM, 330/190KM, 350/109-157KM, 360/107-156KM
NEAREST TS 360/107KM
NOWCAST.SU URFB 290100Z VRB02MPS 3000 BR BKN001 16/14 Q1013 NOSIG
AUTOTAF.ME URFB 282200Z 2823/2908 VRB02MPS 5000 VCSH BR BKN015CB TX17/2906Z TN15/2823Z
BECMG 2823/2900 BR
FM290100 VRB02MPS 2500 BR BKN002
FM290300 VRB02MPS 5000 BR NSC
FM290500 VRB02MPS 5000 -RA BR BKN015
FM290700 27003MPS 8000 -DZ BR BKN002
FM290800 26004MPS 9999 -RA BKN025
 
Симферополь
SYNAR 33946 Симферополь 290000Z 22003MPS 9999 OVC005 15/15 Q1012 RMK QFE743/0990 CLD:8ST


TSAR URFF 290100Z LAST HOUR TS OBS: 320/84KM, 330/76-105KM, 340/70-126KM, 350/94-118KM
NEAREST TS 340/70KM
NOWCAST.SU URFF 290100Z VRB02MPS 7000 VCSH BR BKN001 BKN010CB 14/13 Q1013 NOSIG
AUTOTAF.ME URFF 282200Z 2823/2908 VRB02MPS 9999 VCSH BKN015CB TX18/2907Z TN14/2823Z
FM290000 VRB02MPS 5000 VCSH BR BKN008 BKN010CB
BECMG 2900/2901 BKN002 BKN010CB
FM290300 VRB02MPS 2500 VCSH OVC015CB
FM290500 VRB02MPS 5000 VCSH BR BKN025CB
BECMG 2907/2908 -SHRA BR
 
Саки
SYNAR 33946 Симферополь 290000Z 22003MPS 9999 OVC005 15/15 Q1012 RMK QFE743/0990 CLD:8ST
(100/29KM)


TSAR URFI 290100Z LAST HOUR TS OBS: 010/62KM, 310/141KM, 320/157KM, 340/66KM, 350/63-113KM, 360/87-111KM
NEAREST TS 10/62KM
NOWCAST.SU URFI 290100Z 26004MPS 9000 VCSH BR BKN001 BKN010CB 16/15 Q1013 NOSIG
AUTOTAF.ME URFI 282200Z 2823/2908 25003MPS 8000 VCSH BR BKN015CB TX17/2904Z TN16/2823Z
BECMG 2900/2901 BKN002 BKN010CB
BECMG 2901/2902 VCSH
BECMG 2902/2903 BKN004 BKN010CB
FM290400 VRB02MPS 9999 VCSH BKN002 BKN010CB
FM290500 25003MPS 5000 BR BKN002 BKN020TCU
FM290600 25003MPS 5000 BR BKN008 BKN020TCU
FM290700 25003MPS 5000 BR BKN025TCU
FM290800 25004MPS 9999 BKN025TCU
 
Симферополь (Заводское)
SYNAR 33946 Симферополь 290000Z 22003MPS 9999 OVC005 15/15 Q1012 RMK QFE743/0990 CLD:8ST
(330/14KM)


TSAR URFW 290100Z LAST HOUR TS OBS: 320/100KM, 330/93-121KM, 340/86-143KM, 350/134KM
NEAREST TS 340/86KM
NOWCAST.SU URFW 290100Z VRB02MPS 5000 VCSH BR BKN001 BKN010CB 13/13 Q1013 NOSIG
AUTOTAF.ME URFW 282200Z 2823/2908 VRB02MPS 9999 VCSH NSC TX18/2907Z TN13/2823Z
BECMG 2823/2900 VCSH BR
FM290100 VRB02MPS 5000 VCSH BR BKN002 BKN010CB
BECMG 2901/2902 2500
BECMG 2902/2903 NSC
FM290400 VRB02MPS 2500 VCSH NSC
FM290500 VRB02MPS 2500 VCSH BR BKN015CB
FM290600 26003MPS 5000 VCSH BR BKN025CB
FM290800 26004MPS 5000 -SHRA BR OVC025CB
 
Анапа (Витязево)
METAR URKA 290100Z 14002MPS CAVOK 16/14 Q1009 R03/010070 TEMPO 1000 TSRA SCT004 BKN016CB RMK QFE753/1004


NOWCAST.SU URKA 290100Z VRB02MPS 6000 VCSH BKN047CB 16/14 Q1011 TEMPO FM0200 -SHRA
AUTOTAF.ME URKA 282200Z 2823/2908 09003MPS 9000 VCSH BR BKN100CB TX17/2907Z TN16/2823Z
FM290100 VRB02MPS 5000 VCSH BKN040CB
FM290200 VRB02MPS 2500 OVC040CB
TEMPO 2902/2904 -TSRA
FM290400 VRB02MPS 5000 -SHRA BR OVC015CB
BECMG 2904/2905 BKN008 OVC010CB
BECMG 2906/2907 BKN002 OVC010CB
FM290800 21005MPS 9000 -SHRA BR BKN002 OVC010CB
TAF URKA 282245Z 2900/2924 21003G08MPS 6000 -SHRA BKN020CB
TEMPO 2900/2912 22007G12MPS 1500 TSRA SCT004 BKN016CB
BECMG 2915/2917 9999 NSW SCT030CB
2024/05/28 00:21=
 


NOSIG
 
Геленджик
SYNAR 37004 Геленджик 290000Z 05001MPS 9999 OVC020CB 20/15 Q1010 RMK QFE755/1007 CLD:8CB


NOWCAST.SU URKG 290100Z 16003MPS 6000 -SHRA BR BKN082CB 18/15 Q1011 NOSIG
AUTOTAF.ME URKG 282200Z 2823/2908 11003MPS 9000 HZ NSC TX19/2823Z TN17/2902Z
BECMG 2823/2900 -RA HZ
FM290100 16003MPS 5000 -SHRA BR BKN080CB
FM290200 20003MPS 2500 -SHRA BR BKN004 OVC010CB
FM290600 21003MPS 5000 -SHRA BR BKN008 OVC010CB
 
Краснодар (Пашковский)
METAR URKK 290130Z 14004MPS 9999 FEW///CB 16/12 Q1010 R05R/CLRD70 TEMPO 1000 TSRA SCT005 BKN016CB RMK QFE754


TSAR URKK 290100Z LAST HOUR TS OBS: 140/169-189KM, 150/174-181KM
NEAREST TS 140/169KM
NOWCAST.SU URKK 290100Z VRB02MPS 9999 OVC270 19/12 Q1011 NOSIG
RMK TURB: MOD FL110/FL120
AUTOTAF.ME URKK 282200Z 2823/2908 06003MPS CAVOK TX20/2823Z TN17/2903Z
FM290200 VRB02MPS 7000 -SHRA HZ OVC130CB
FM290300 VRB02MPS 5000 -SHRA BR BKN025CB
BECMG 2903/2904 BKN002 BKN010CB
FM290500 VRB02MPS 9999 BKN002 BKN010CB
TEMPO 2905/2909 -TSRA
BECMG 2905/2906 OVC015CB
BECMG 2907/2908 BKN025CB
TAF URKK 282244Z 2900/2924 07003G08MPS 9999 BKN020CB
TEMPO 2900/2916 1500 TSRA SCT006 BKN016CB
BECMG 2903/2905 23003G08MPS
2024/05/28 00:21=
Майкоп
SYNAR 37021 Майкоп 290000Z 17001MPS 9999 FEW033 15/13 Q1011 RMK QFE738/0985 CLD:8SCAC


TSAR URKM 290100Z LAST HOUR TS OBS: 140/80-177KM, 150/101-198KM, 160/95-176KM, 170/114-168KM, 180/113-164KM
NEAREST TS 140/80KM
NOWCAST.SU URKM 290100Z VRB02MPS 8000 VCSH HZ OVC137CB 17/12 Q1011 NOSIG
RMK TURB: MOD FL110/FL120
AUTOTAF.ME URKM 282200Z 2823/2908 VRB02MPS 9000 HZ NSC TX20/2906Z TN16/2902Z
FM290000 VRB02MPS 8000 VCSH HZ BKN140CB
FM290200 VRB02MPS 9000 -SHRA BR BKN008CB
FM290300 VRB02MPS 9999 -SHRA BKN060CB
BECMG 2903/2904 BKN015CB
TEMPO 2904/2905 5000 SHRA
FM290500 VRB02MPS 9999 VCSH BKN025CB
BECMG 2906/2907 NSW
TEMPO 2907/2909 3000 -TSRA
 
Геленджик Бухта
SYNAR 37004 Геленджик 290000Z 05001MPS 9999 OVC020CB 20/15 Q1010 RMK QFE755/1007 CLD:8CB


NOWCAST.SU URKN 290100Z 16003MPS 6000 -SHRA BR BKN083CB 18/15 Q1011 NOSIG
AUTOTAF.ME URKN 282200Z 2823/2908 11003MPS 9000 HZ NSC TX19/2823Z TN17/2902Z
BECMG 2823/2900 -RA HZ
FM290100 16003MPS 5000 -SHRA BR BKN080CB
FM290200 20003MPS 2500 SHRA BR BKN004 OVC010CB
BECMG 2902/2903 -SHRA BR
BECMG 2904/2905 5000
FM290600 21003MPS 5000 -SHRA BR BKN008 OVC010CB
 
Армавир (Центральный)
SYNAR 37031 Армавир 290000Z 10005G11MPS CAVOK 19/06 Q1011 RMK QFE744/0992 CLD:3CI


TSAR URKR 290100Z LAST HOUR TS OBS: 190/127-151KM, 200/102-160KM, 210/166KM
NEAREST TS 200/102KM
NOWCAST.SU URKR 290100Z 09007G15MPS 0500 FG BKN290 17/05 Q1012 NOSIG
AUTOTAF.ME URKR 282200Z 2823/2908 09008G16MPS 0500 FG NSC TX23/2908Z TN17/2901Z
FM290400 09004MPS 0500 VCSH FG BKN140CB
FM290500 09003MPS 0500 BKN140CB
TEMPO 2905/2909 VCTS
 
Энем-АС
SYNAR 37014 Горячий Ключ 290000Z 00000MPS 9999 SCT020CB 15/14 Q1010 RMK QFE751/1002 CLD:8CBAC
(160/37KM)


TSAR URKS 290100Z LAST HOUR TS OBS: 140/183KM, 150/174KM
NEAREST TS 150/174KM
NOWCAST.SU URKS 290100Z VRB02MPS 9000 -RA HZ BKN090 19/11 Q1011 NOSIG
RMK TURB: MOD FL110/FL120
AUTOTAF.ME URKS 282200Z 2823/2908 06003MPS CAVOK TX20/2823Z TN17/2903Z
BECMG 2900/2901 -RA HZ
FM290200 VRB02MPS 7000 -SHRA HZ BKN025CB
FM290300 VRB02MPS 5000 -SHRA BR BKN025CB
FM290400 VRB02MPS 9000 -SHRA BR BKN002 BKN010CB
BECMG 2904/2905 NSW
TEMPO 2905/2909 -TSRA
BECMG 2905/2906 OVC015CB
FM290800 19003MPS 9999 BKN025CB
 
Тихорецк
SYNAR 34838 Тихорецк 290000Z 07003MPS CAVOK 18/04 Q1012 RMK QFE751/1002 CLD:5CS


NOWCAST.SU URKT 290100Z 09009G17MPS 9999 DRDU BKN290 18/05 Q1013 NOSIG
RMK TURB: MOD SFC/FL20
AUTOTAF.ME URKT 282200Z 2823/2908 08009G17MPS 9999 DRDU NSC TX22/2907Z TN17/2902Z
FM290500 10009G15MPS 9999 VCSH DRDU BKN150CB
TEMPO 2906/2908 VCTS
BECMG 2907/2908 -SHRA HZ
 
Краснодар (Белевцы)
SYNAR 34922 Тимашевск 290000Z 06003MPS CAVOK 16/07 Q1011 RMK QFE756/1008 CLD:2CS
(340/44KM)


TSAR URKY 290100Z LAST HOUR TS OBS: 140/193KM
NEAREST TS 140/193KM
NOWCAST.SU URKY 290100Z VRB02MPS 9999 OVC270 19/08 Q1011 TEMPO FM0300 VCSH
RMK TURB: MOD FL110/FL120
AUTOTAF.ME URKY 282200Z 2823/2908 06003MPS CAVOK TX20/2823Z TN18/2902Z
FM290200 VRB02MPS 9999 -SHRA OVC130CB
TEMPO 2903/2904 VCTS
FM290400 VRB02MPS 9999 -SHRA BKN015CB
FM290500 VRB02MPS 9999 BKN008CB
TEMPO 2905/2909 -TSRA
BECMG 2905/2906 OVC015CB
BECMG 2907/2908 BKN025CB
 
Новотитаровская (Азимут)
SYNAR 34922 Тимашевск 290000Z 06003MPS CAVOK 16/07 Q1011 RMK QFE756/1008 CLD:2CS
(0/42KM)


NOWCAST.SU URKZ 290100Z 10004MPS 9999 VCSH BKN100CB 19/07 Q1012 NOSIG
RMK TURB: MOD FL90/FL110
AUTOTAF.ME URKZ 282200Z 2823/2908 09005G13MPS 9999 VCSH DRDU BKN120CB TX21/2908Z TN17/2903Z
TEMPO 2824/2901 VCTS
BECMG 2900/2901 VCSH
FM290200 10003MPS CAVOK
FM290300 VRB02MPS 9999 -SHRA BKN040CB
BECMG 2903/2904 -SHRA HZ
FM290500 VRB02MPS 5000 -SHRA OVC080CB
BECMG 2905/2906 NSW
TEMPO 2906/2909 -TSRA
FM290700 15003MPS 7000 BKN040CB
FM290800 17003MPS 9999 OVC040CB
 
Ессентуки
SYNAR 37123 Кисловодск 290000Z 13003MPS CAVOK 14/09 Q1015 RMK QFE679/0905 CLD:SKC
(210/20KM)


TSAR URME 290100Z LAST HOUR TS OBS: 140/153-191KM, 150/55-173KM, 160/49-160KM, 170/74-151KM, 180/72-148KM, 190/74-151KM, 200/103-161KM, 210/109-146KM, 220/125-165KM, 230/106-146KM, 240/130KM
NEAREST TS 160/49KM
NOWCAST.SU URME 290100Z 14003MPS 9999 VCSH SCT223CB 12/07 Q1015 NOSIG
AUTOTAF.ME URME 282200Z 2823/2908 14003MPS CAVOK TX22/2908Z TN12/2900Z
FM290000 14003MPS 9999 VCSH SCT230CB
FM290200 VRB02MPS CAVOK
FM290300 VRB02MPS 9999 VCSH BKN150CB
 
Грозный (Северный)
METAR URMG 290130Z VRB01MPS CAVOK 12/08 Q1012 R26/090070 NOSIG RMK QFE744/0992


TSAR URMG 290100Z LAST HOUR TS OBS: 180/73-99KM, 190/75-100KM, 200/80-129KM, 210/88-110KM, 240/133KM
NEAREST TS 180/73KM
NOWCAST.SU URMG 290100Z VRB02MPS 9999 VCSH BKN162CB 13/08 Q1013 NOSIG
AUTOTAF.ME URMG 282200Z 2823/2908 VRB02MPS CAVOK TX25/2908Z TN13/2823Z
FM290000 VRB02MPS 9999 VCSH BKN170CB
FM290200 VRB02MPS CAVOK
TAF URMG 282300Z 2900/2909 11003G08MPS 9999 BKN030
TEMPO 2900/2909 6000 -SHRA BKN016 BKN030CB
2024/05/28 00:00=
Кисловодск
SYNAR 37123 Кисловодск 290000Z 13003MPS CAVOK 14/09 Q1015 RMK QFE679/0905 CLD:SKC


TSAR URMK 290100Z LAST HOUR TS OBS: 130/57KM, 140/46-173KM, 150/67-194KM, 160/91-172KM, 170/62-139KM, 180/60-136KM, 190/87-164KM, 200/91-143KM, 210/97-194KM, 220/105-173KM, 230/86-137KM, 240/110-123KM
NEAREST TS 140/46KM
NOWCAST.SU URMK 290100Z VRB02MPS 9999 VCSH SCT219CB 10/04 Q1016 NOSIG
AUTOTAF.ME URMK 282200Z 2823/2908 VRB02MPS CAVOK TX20/2907Z TN10/2823Z
FM290000 VRB02MPS 9999 VCSH SCT220CB
TEMPO 2907/2908 VCTS
BECMG 2907/2908 NSW
 
Махачкала (Уйташ)
METAR URML 290130Z 19003MPS 9999 NSC 12/09 Q1012 R32/01//70 NOSIG RMK QFE758/1011


NOWCAST.SU URML 290100Z 15004MPS 9999 SCT290 17/09 Q1014 NOSIG
AUTOTAF.ME URML 282200Z 2823/2908 14004MPS 9000 HZ NSC TX22/2907Z TN17/2823Z
BECMG 2902/2903 HZ
FM290400 14005MPS 9999 VCSH BKN200CB
FM290600 13006MPS CAVOK
TAF URML 282300Z 2900/2909 22002G07MPS 9999 SCT050
BECMG 2904/2906 12005G10MPS
2024/05/28 00:00=
Минеральные Воды
METAR URMM 290130Z 10002MPS 9999 NSC 11/09 Q1013 R11/090070 TEMPO 0300 FG OVC002 RMK QFE732/0976


TSAR URMM 290100Z LAST HOUR TS OBS: 150/158-194KM, 160/147-181KM, 170/66-171KM, 180/91-167KM, 190/66-171KM, 200/98-180KM, 210/135-186KM, 220/143-182KM, 230/134-145KM
NEAREST TS 170/66KM
NOWCAST.SU URMM 290100Z 14003MPS 9999 FEW270 13/06 Q1015 NOSIG
AUTOTAF.ME URMM 282200Z 2823/2908 14003MPS CAVOK TX21/2908Z TN13/2823Z
FM290300 VRB02MPS 9999 VCSH BKN160CB
FM290400 VRB02MPS CAVOK
TAF URMM 282300Z 2900/2924 09003G08MPS 9999 BKN030 TX25/2911Z TN11/2902Z
TEMPO 2900/2909 6000 -SHRA BKN016 BKN030CB
BECMG 2911/2913 29003G08MPS
2024/05/28 00:21=
Нальчик
METAR URMN 290100Z 31002MPS 9999 FEW/// 12/11 Q1011 R24/////// NOSIG RMK QFE722


TSAR URMN 290100Z LAST HOUR TS OBS: 130/147-164KM, 150/75-104KM, 160/68-120KM, 170/88-115KM, 180/63-87KM, 190/90-115KM, 200/66-118KM, 210/42-101KM, 220/52-149KM, 230/63-160KM, 240/76-129KM, 250/38-119KM, 260/53-83KM, 290/39-53KM
NEAREST TS 250/38KM
NOWCAST.SU URMN 290100Z VRB02MPS 9999 VCSH BKN232CB 12/07 Q1016 NOSIG
AUTOTAF.ME URMN 282200Z 2823/2908 VRB02MPS 9999 VCSH BKN240CB TX22/2908Z TN12/2823Z
FM290200 VRB02MPS CAVOK
FM290700 03003MPS 9999 VCSH BKN240CB
TAF URMN 282300Z 2900/2909 28003G09MPS 9999 BKN020
TEMPO 2900/2909 6000 -SHRA BKN016CB
2024/05/28 00:12=
Владикавказ (Беслан)
METAR URMO 290130Z 34002MPS 9999 SCT/// 12/09 Q1012 R09/010070 NOSIG RMK QFE715/0954


TSAR URMO 290100Z LAST HOUR TS OBS: 120/101KM, 130/77-117KM, 140/66-106KM, 150/88-118KM, 200/57KM, 210/87-95KM, 220/65KM, 230/47-127KM, 240/60-140KM, 250/89-127KM, 260/119KM, 270/99-115KM, 280/117KM, 290/124KM
NEAREST TS 230/47KM
NOWCAST.SU URMO 290100Z VRB02MPS 9999 VCSH BKN230CB 13/10 Q1017 NOSIG
AUTOTAF.ME URMO 282200Z 2823/2908 VRB02MPS 9999 VCSH OVC230CB TX22/2908Z TN13/2823Z
BECMG 2823/2900 -SHRA
BECMG 2900/2901 VCSH
FM290200 VRB02MPS CAVOK
TAF URMO 282300Z 2900/2909 12003G08MPS 9999 BKN030
TEMPO 2900/2909 6000 -SHRA BKN016 BKN030CB
2024/05/28 00:00=
Магас
SYNAR 37218 Назрань 290000Z 17001MPS CAVOK 15/13 Q1015 RMK QFE702/0936 CLD:8AC
(210/23KM)


TSAR URMS 290100Z LAST HOUR TS OBS: 140/85KM, 150/76-106KM, 160/70-99KM, 170/66-119KM, 180/92KM, 220/86-126KM, 230/97-109KM, 240/82-135KM, 250/124KM
NEAREST TS 170/66KM
NOWCAST.SU URMS 290100Z VRB02MPS 9999 VCSH BKN132CB 13/07 Q1014 NOSIG
AUTOTAF.ME URMS 282200Z 2823/2908 VRB02MPS CAVOK TX23/2908Z TN13/2823Z
FM290100 VRB02MPS 9999 VCSH BKN140CB
FM290200 VRB02MPS CAVOK
 
Ставрополь (Шпаковское)
METAR URMT 290130Z 11006MPS CAVOK 14/07 Q1013 R07/010070 NOSIG RMK QFE720


TSAR URMT 290100Z LAST HOUR TS OBS: 150/184KM, 160/178KM, 210/189-197KM, 220/158-177KM
NEAREST TS 220/158KM
NOWCAST.SU URMT 290100Z 11010G18MPS 9999 VCSH DRDU BKN152CB 15/05 Q1014 NOSIG
RMK TURB: MOD SFC/FL40
AUTOTAF.ME URMT 282200Z 2823/2908 11011G19MPS 9999 DRDU NSC TX23/2908Z TN15/2900Z
FM290100 11010G18MPS 9999 VCSH DRDU BKN160CB
BECMG 2907/2908 VCSH
TAF URMT 282300Z 2900/2909 11006G14MPS CAVOK
2024/05/28 00:12=
Грачевка
SYNAR 34949 Ставрополь 290000Z 09007MPS CAVOK 15/06 Q1014 RMK QFE720/0960 CLD:2CI
(250/29KM)


NOWCAST.SU URMX 290100Z 12009G17MPS 9999 DRDU SCT150 16/08 Q1015 NOSIG
RMK TURB: MOD SFC/FL150
AUTOTAF.ME URMX 282200Z 2823/2908 11009G17MPS 9999 DRDU NSC TX23/2908Z TN16/2823Z
FM290400 12005G13MPS 9999 VCSH DRDU BKN140CB
 
Казачья
SYNAR 34949 Ставрополь 290000Z 09007MPS CAVOK 15/06 Q1014 RMK QFE720/0960 CLD:2CI
(60/38KM)


TSAR URMZ 290100Z LAST HOUR TS OBS: 140/180KM, 200/157KM, 210/142-171KM, 220/121-179KM
NEAREST TS 220/121KM
NOWCAST.SU URMZ 290100Z 10004MPS 9999 VCSH BKN158CB 16/05 Q1013 NOSIG
AUTOTAF.ME URMZ 282200Z 2823/2908 10009G17MPS 9999 DRDU NSC TX23/2908Z TN16/2900Z
FM290000 10005G13MPS 9999 VCSH DRDU BKN100CB
FM290100 10004MPS 9999 VCSH BKN160CB
FM290300 14003MPS CAVOK
FM290400 14004MPS 9999 VCSH BKN140CB
BECMG 2905/2906 VCSH HZ
BECMG 2906/2907 VCSH
 
Шахты
SYNAR 34635 Шахты 290000Z 06003MPS CAVOK 15/03 Q1017 RMK QFE751/1002 CLD:SKC


NOWCAST.SU URRH 290100Z 07008G16MPS 9999 OVC095 18/04 Q1017 NOSIG
RMK TURB: MOD SFC/FL20
AUTOTAF.ME URRH 282200Z 2823/2908 08008G15MPS CAVOK TX26/2908Z TN18/2900Z
 
Миллерово
SYNAR 34438 Миллерово 290000Z 08004MPS CAVOK 15/M00 Q1019 RMK QFE750/1000 CLD:SKC


NOWCAST.SU URRI 290100Z 08005G13MPS 9999 SCT320 16/M01 Q1020 NOSIG
RMK TURB: MOD SFC/FL90
AUTOTAF.ME URRI 282200Z 2823/2908 08005G13MPS CAVOK TX25/2908Z TN15/2902Z
 
Ростов-на-Дону (Платов)
METAR URRP 290130Z 08008MPS CAVOK 17/04 Q1015 R05/CLRD70 NOSIG RMK QFE756/1009


NOWCAST.SU URRP 290100Z 08009G17MPS 9999 DRDU BKN095 19/04 Q1016 NOSIG
RMK TURB: MOD SFC/FL20
AUTOTAF.ME URRP 282200Z 2823/2908 08009G16MPS 9999 DRDU NSC TX26/2908Z TN19/2900Z
TAF URRP 282255Z 2900/2924 10008G14MPS 9999 SCT030
TEMPO 2906/2915 13009G16MPS SCT020CB
BECMG 2915/2917 17003G12MPS SCT016 SCT020CB
2024/05/28 00:00=
Волгодонск
SYNAR 34646 Цимлянск 290000Z 04003MPS CAVOK 17/08 Q1017 RMK QFE757/1009 CLD:SKC


NOWCAST.SU URRQ 290100Z 09005G13MPS 9999 BKN100 17/06 Q1018 NOSIG
AUTOTAF.ME URRQ 282200Z 2823/2908 09005G13MPS CAVOK TX26/2908Z TN17/2901Z
BECMG 2905/2906 10010G15MPS
BECMG 2907/2908 DRDU
 
Ростов-на-Дону
SYNAR 34735 Зерноград 290000Z 09002MPS CAVOK 18/04 Q1015 RMK QFE753/1004 CLD:6ACCS
(140/59KM)


NOWCAST.SU URRR 290100Z 08009G17MPS 9999 DRDU BKN095 19/05 Q1016 NOSIG
RMK TURB: MOD SFC/FL20
AUTOTAF.ME URRR 282200Z 2823/2908 08009G16MPS CAVOK TX26/2908Z TN18/2902Z
BECMG 2900/2901 DRDU
 
Таганрог (Южный)
SYNAR 34720 Таганрог 290000Z 05003MPS 9999 BKN020 19/08 Q1014 RMK QFE757/1010 CLD:7SC


NOWCAST.SU URRT 290100Z 08009G16MPS 9999 BKN083 19/07 Q1014 NOSIG
RMK TURB: MOD SFC/FL20
AUTOTAF.ME URRT 282200Z 2823/2908 07009G16MPS CAVOK TX23/2907Z TN19/2901Z
BECMG 2907/2908 13010G15MPS
 
Лазаревское
SYNAR 37018 Туапсе 290000Z 16003G10MPS 4000 -SHRA BKN020CB 19/18 Q1012 RMK QFE753/1004 CLD:8CBCI
(310/30KM)


TSAR URSA 290100Z LAST HOUR TS OBS: 080/112KM, 090/96-111KM, 100/115KM, 110/72-100KM, 120/98-124KM, 130/86-154KM, 140/104-193KM
NEAREST TS 110/72KM
NOWCAST.SU URSA 290100Z VRB02MPS 2500 -SHRA BR BKN021CB 15/15 Q1015 TEMPO FM0200 -TSRA
AUTOTAF.ME URSA 282200Z 2823/2908 VRB02MPS 5000 -SHRA SCT090CB TX16/2823Z TN15/2900Z
FM290000 VRB02MPS 2500 SCT080CB
TEMPO 2824/2901 VCTS
BECMG 2900/2901 -SHRA BR
FM290200 VRB02MPS 2500 OVC015CB
TEMPO 2902/2907 -TSRA
FM290700 VRB02MPS 2500 BKN002 OVC010CB
TEMPO 2907/2908 TSRA
FM290800 VRB02MPS 0500 +SHRA FG BKN002 OVC010CB
 
Сочи
METAR URSS 290130Z 22002MPS 9999 VCTS SCT015 OVC033CB 18/17 Q1011 WS ALL RWY R02/290060 R06/290060 NOSIG RMK R06/21002MPS MT OBSC QFE757


TSAR URSS 290100Z LAST HOUR TS OBS: 040/27-95KM, 050/66-77KM, 060/38-52KM, 070/66-80KM, 090/47-108KM, 100/17-112KM, 110/69-98KM, 120/55-122KM, 130/43-151KM, 140/72-161KM, 150/34-152KM
NEAREST TS 100/17KM
NOWCAST.SU URSS 290100Z VRB02MPS 3500 BKN019CB 16/16 Q1014 TEMPO -TSRA TEMPO -TSRA
AUTOTAF.ME URSS 282200Z 2823/2908 VRB02MPS 5000 SCT025CB TX17/2823Z TN16/2900Z
TEMPO 2823/2824 3000 -TSRA
BECMG 2823/2900 2500
TEMPO 2824/2907 -TSRA
BECMG 2900/2901 BKN015CB
FM290300 VRB02MPS 5000 BKN008 BKN010CB
FM290400 VRB02MPS 2500 BKN002 OVC010CB
BECMG 2905/2906 BKN004 BKN010CB
FM290700 VRB02MPS 2500 -SHRA BR BKN002 BKN010CB
FM290800 VRB02MPS 2500 SHRA BR BKN002 BKN010CB
TAF URSS 282256Z 2900/2924 15007G14MPS 7000 -SHRA SCT010 BKN030CB OVC100
TEMPO 2900/2912 VRB09G16MPS 1200 TSRA BKN006 BKN030CB OVC100
FM291200 28005G10MPS 9999 SCT016 SCT040 BKN100
BECMG 2917/2918 05003G08MPS SCT016 SCT100
TEMPO 2918/2924 SCT007 SCT100
2024/05/28 00:21 Ammendment=
Вертолетчик
SYNAR 37171 Сочи (Адлер) 290000Z 26003MPS 4000 TSRA OVC007CB 19/19 Q1013 RMK QFE758/1010 CLD:8CB
(160/30KM)


TSAR URSW 290100Z LAST HOUR TS OBS: 060/89KM, 070/65KM, 080/80KM, 090/62-93KM, 100/32-47KM, 110/83-112KM, 120/56-122KM, 130/44-152KM, 140/73-191KM, 150/64-183KM
NEAREST TS 100/32KM
NOWCAST.SU URSW 290100Z VRB02MPS 3500 BKN017CB 16/16 Q1014 TEMPO -TSRA TEMPO -TSRA
AUTOTAF.ME URSW 282200Z 2823/2908 VRB02MPS 7000 SCT025CB TX17/2907Z TN16/2823Z
TEMPO 2823/2824 3000 -TSRA
BECMG 2823/2900 2500
TEMPO 2824/2907 -TSRA
BECMG 2900/2901 BKN015CB
BECMG 2902/2903 5000
FM290400 VRB02MPS 2500 OVC008CB
FM290700 VRB02MPS 1200 BKN008 BKN010CB
TEMPO 2907/2908 TSRA
FM290800 VRB02MPS 0500 +SHRA FG BKN008 BKN010CB
 
Астрахань
METAR URWA 290130Z 06006MPS CAVOK 17/11 Q1017 R09/010070 NOSIG RMK QFE764/1019


NOWCAST.SU URWA 290100Z 07005G10MPS 9999 FEW320 18/05 Q1019 NOSIG
RMK TURB: MOD FL90/FL100
AUTOTAF.ME URWA 282200Z 2823/2908 07004MPS CAVOK TX29/2907Z TN17/2823Z
BECMG 2903/2904 HZ
BECMG 2904/2905 7000
FM290600 11009G14MPS 5000 VCSH DRDU SCT100CB
FM290700 12009G14MPS 5000 DRDU NSC
TAF URWA 282258Z 2900/2909 08006G12MPS CAVOK
BECMG 2904/2906 12008G14MPS
2024/05/28 00:12=
Элиста
METAR URWI 290130Z AUTO 06004MPS 9999 // ///////// 13/06 Q1016


NOWCAST.SU URWI 290100Z 08004MPS 9999 FEW160 16/04 Q1018 NOSIG
RMK TURB: MOD SFC/FL20
AUTOTAF.ME URWI 282200Z 2823/2908 09004MPS CAVOK TX29/2908Z TN16/2900Z
BECMG 2903/2904 DRDU
BECMG 2904/2905 08010G15MPS
TAF AMD URWI 281555Z 2815/2824 CNL=
Камышин
SYNAR 34363 Камышин 290000Z 05003MPS CAVOK 14/01 Q1022 RMK QFE755/1007 CLD:SKC


NOWCAST.SU URWK 290100Z VRB02MPS 9999 SKC 11/01 Q1023 NOSIG
AUTOTAF.ME URWK 282200Z 2823/2908 VRB02MPS CAVOK TX24/2908Z TN11/2823Z
 
МЛСК им. В.Филановского
SYNAR 34984 Лагань 290000Z 04004MPS CAVOK 19/12 Q1015 RMK QFE763/1017 CLD:SKC
(300/99KM)


NOWCAST.SU URWO 290100Z 09007G13MPS 6000 HZ BKN083 20/15 Q1016 NOSIG
RMK TURB: MOD FL40/FL90
AUTOTAF.ME URWO 282200Z 2823/2908 08007G13MPS 7000 HZ NSC TX20/2823Z TN20/2823Z
BECMG 2823/2900 5000
 
Волгоград (Гумрак)
METAR URWW 290130Z 08006MPS CAVOK 13/M01 Q1020 R05/010070 NOSIG


NOWCAST.SU URWW 290100Z 08004MPS 9999 SKC 13/00 Q1022 NOSIG
AUTOTAF.ME URWW 282200Z 2823/2908 08004MPS CAVOK TX25/2908Z TN13/2823Z
TAF URWW 282258Z 2900/2909 07006G12MPS 9999 SCT020
TEMPO 2900/2909 10007G14MPS
2024/05/28 00:12=
Челябинск (Баландино)
METAR USCC 290130Z 04002MPS CAVOK 10/08 Q1013 R27/000060 TEMPO 0300 FG VV002 RMK QFE740


NOWCAST.SU USCC 290100Z VRB02MPS 9999 OVC010 10/08 Q1014 NOSIG
AUTOTAF.ME USCC 282200Z 2823/2908 VRB02MPS 9999 -RA NSC TX13/2905Z TN10/2900Z
BECMG 2900/2901 OVC008
BECMG 2902/2903 BKN015
BECMG 2904/2905 BKN025TCU
FM290600 34004MPS 5000 HZ BKN025TCU
FM290700 34004MPS 9999 BKN025TCU
TAF AMD USCC 282316Z 2900/2924 04003G08MPS 6000 BKN016
TEMPO 2900/2903 0300 FG VV003
TEMPO 2903/2924 -RA OVC009
2024/05/28 00:21=
Устиново
SYNAR 28630 Златоуст 290000Z 31001MPS CAVOK 11/02 Q1014 RMK QFE712/0950 CLD:2CI
(330/41KM)


NOWCAST.SU USCD 290100Z 28003MPS 9999 BKN088 13/05 Q1015 NOSIG
RMK TURB: MOD SFC/FL40
AUTOTAF.ME USCD 282200Z 2823/2908 28004MPS CAVOK TX16/2905Z TN13/2823Z
FM290200 29003MPS 9999 -SHRA BKN080CB
 
Челябинск (Шагол)
SYNAR 28645 Челябинск 290000Z 33001MPS 9999 FEW010CB 09/08 Q1014 RMK QFE739/0985 CLD:2CB
(180/12KM)


NOWCAST.SU USCG 290100Z VRB02MPS 9999 OVC010 11/08 Q1014 NOSIG
AUTOTAF.ME USCG 282200Z 2823/2908 VRB02MPS 9999 -RA OVC015 TX14/2907Z TN11/2900Z
FM290000 VRB02MPS CAVOK
BECMG 2900/2901 OVC008
BECMG 2902/2903 BKN015
BECMG 2904/2905 BKN025TCU
FM290600 34004MPS 5000 HZ BKN025TCU
FM290800 34003MPS 9999 BKN040
 
Магнитогорск
METAR USCM 290130Z 22002MPS 9999 SCT040 14/01 Q1017 R18/090060 TEMPO 22012MPS RMK QFE725


NOWCAST.SU USCM 290100Z 26004MPS 9999 FEW170 12/03 Q1018 NOSIG
AUTOTAF.ME USCM 282200Z 2823/2908 25003MPS CAVOK TX21/2907Z TN11/2823Z
BECMG 2903/2904 28009G16MPS
FM290500 28010G15MPS 9999 VCSH OVC150CB
TAF USCM 282255Z 2900/2909 25003G12MPS 9999 SCT040
2024/05/28 00:00=
Сабетта
METAR USDA 290130Z 28007MPS 7000 -SN BLSN BKN034 M03/M04 Q1003 R22/450245 NOSIG RMK QFE751/1001


NOWCAST.SU USDA 290100Z 30010G15MPS 2000 SN BLSN OVC002 M02/M03 Q1004 NOSIG
RMK TURB: MOD SFC/FL20
AUTOTAF.ME USDA 282200Z 2823/2908 30009G15MPS 0500 SN BLSN OVC002 TXM01/2902Z TNM02/2823Z
BECMG 2823/2900 2500
BECMG 2900/2901 OVC004
BECMG 2901/2902 OVC002
FM290300 29009G14MPS 2500 SN BLSN OVC008
FM290500 29010G15MPS 2500 SN BLSN OVC002
FM290600 29010G15MPS 2500 SN BLSN OVC015
FM290700 29009G14MPS 2500 SN BLSN OVC008
FM290800 29009G14MPS 0500 SN BLSN OVC008
TAF USDA 290000Z 2901/2909 29009MPS 6000 -SHSN BKN016CB
TEMPO 2901/2906 2000 SHSN BKN010CB=
Бованенково
SYNAR 20967 Сеяха 290000Z 29007MPS 9999 OVC020 M04/M05 Q1006 RMK QFE752/1003 CLD:8SC
(90/158KM)


NOWCAST.SU USDB 290100Z 31010G16MPS 0500 SN BLSN OVC001 M03/M04 Q1007 NOSIG
RMK TURB: MOD SFC/FL20
AUTOTAF.ME USDB 282200Z 2823/2908 31010G16MPS 0500 BLSN OVC002 TXM02/2904Z TNM03/2823Z
BECMG 2823/2900 SN BLSN
BECMG 2903/2904 OVC004
FM290500 30010G15MPS 2500 SN BLSN OVC002
BECMG 2905/2906 OVC004
 
Салехард
SYNAR 23330 Салехард 290000Z 33002MPS 9999 BKN017CB M03/M09 Q1012 RMK QFE757/1010 CLD:8CBAC


NOWCAST.SU USDD 290100Z 32005G11MPS 9999 BKN042 M04/M08 Q1011 NOSIG
RMK TURB: MOD FL50/FL60
AUTOTAF.ME USDD 282200Z 2823/2908 32005G12MPS 9999 OVC040 TXM00/2906Z TNM05/2823Z
BECMG 2902/2903 NSC
BECMG 2903/2904 SCT040TCU
 
Сеяха-1
SYNAR 20967 Сеяха 290000Z 29007MPS 9999 OVC020 M04/M05 Q1006 RMK QFE752/1003 CLD:8SC


NOWCAST.SU USDE 290100Z 28007MPS 0500 +SN FZFG VV004 M03/M04 Q1005 NOSIG
RMK TURB: MOD SFC/FL20
AUTOTAF.ME USDE 282200Z 2823/2908 29005G10MPS 0500 FZFG VV004 TXM00/2908Z TNM03/2823Z
FM290000 29005G12MPS 0500 SN BLSN OVC008
FM290100 28007MPS 0500 +SN FZFG VV004
BECMG 2901/2902 OVC008
FM290400 28008G13MPS 0500 SN BLSN OVC004
BECMG 2905/2906 OVC008
BECMG 2906/2907 OVC004
 
Гыда
SYNAR 20871 Сопочная Карга 290000Z 23011G14MPS 4000 BLSN NSC M03/M04 Q1000 RMK QFE749/0999 CLD:8AC
(50/184KM)


NOWCAST.SU USDG 290100Z 23008MPS 3000 -SN BR OVC001 M02/M04 Q1002 NOSIG
RMK TURB: MOD SFC/FL20
AUTOTAF.ME USDG 282200Z 2823/2908 24007MPS 2500 BR OVC002 TXM00/2907Z TNM03/2823Z
BECMG 2823/2900 -SN BR
BECMG 2901/2902 OVC004
FM290300 22008MPS 5000 -SN BR OVC008
FM290400 22009G14MPS 9999 -SN DRSN BKN008
FM290500 22009G14MPS 9999 DRSN BKN015
 
Харасавей
SYNAR 20864 Тамбей 290000Z 29009MPS //// //// M04/M04 Q1002 RMK QFE751/1001 CLD:NO_OBSERVATIONS
(80/176KM)


NOWCAST.SU USDH 290100Z 32011G17MPS 0500 SN BLSN OVC001 M03/M04 Q1008 NOSIG
RMK TURB: MOD SFC/FL20
AUTOTAF.ME USDH 282200Z 2823/2908 32011G17MPS 0500 SN BLSN OVC002 TXM02/2904Z TNM03/2823Z
BECMG 2901/2902 1200
 
Антипаюта
SYNAR 23058 Антипаюта 290000Z 00000MPS //// //// 00/00 Q//// RMK CLD:NO_OBSERVATIONS


NOWCAST.SU USDI 290100Z VRB02MPS 2000 BR OVC005 M04/M05 Q1006 NOSIG
AUTOTAF.ME USDI 282200Z 2823/2908 VRB02MPS 0500 FZFG BKN004 TXM01/2906Z TNM05/2823Z
FM290000 VRB02MPS 1200 BR BKN004
BECMG 2900/2901 2500
FM290200 VRB02MPS 5000 BR NSC
FM290300 VRB02MPS 9999 BKN015
BECMG 2903/2904 BKN008
BECMG 2904/2905 BKN015
 
Мыс Каменный
SYNAR 23242 Новый Порт 290000Z 30004MPS CAVOK M03/M04 Q1007 RMK QFE754/1006 CLD:8AC
(200/92KM)


NOWCAST.SU USDK 290100Z 33004MPS 9999 BKN004 M04/M05 Q1007 NOSIG
AUTOTAF.ME USDK 282200Z 2823/2908 33004MPS 2500 BR OVC002 TXM01/2907Z TNM04/2823Z
FM290000 33004MPS 5000 BR BKN004
FM290100 33004MPS 9999 BKN004
BECMG 2901/2902 OVC008
BECMG 2902/2903 BKN015
BECMG 2905/2906 NSC
FM290700 31005MPS 9999 BKN015
 
Лабытнанги
SYNAR 23330 Салехард 290000Z 33002MPS 9999 BKN017CB M03/M09 Q1012 RMK QFE757/1010 CLD:8CBAC
(150/19KM)


NOWCAST.SU USDL 290100Z 32005G11MPS 9999 BKN042 M04/M08 Q1011 NOSIG
RMK TURB: MOD FL50/FL60
AUTOTAF.ME USDL 282200Z 2823/2908 32005G12MPS 9999 OVC040 TXM00/2907Z TNM05/2823Z
BECMG 2902/2903 NSC
BECMG 2903/2904 SCT040TCU
 
Утренний
 


NOWCAST.SU USDM 290100Z 27007MPS 1500 SN BR OVC001 M02/M03 Q1002 NOSIG
AUTOTAF.ME USDM 282200Z 2823/2908 28007G12MPS 0500 SN BLSN OVC002 TXM00/2908Z TNM02/2823Z
BECMG 2823/2900 1200
BECMG 2900/2901 SN BR
FM290200 27006MPS 0500 +SN FZFG VV002
FM290600 26008G13MPS 0500 SN BLSN OVC004
BECMG 2906/2907 +SN FZFG
FM290800 26008MPS 2500 SN BR OVC004
 
Толька
SYNAR 23662 Толька 290000Z 09003MPS CAVOK 02/M03 Q999 RMK QFE746/0994 CLD:8CI


NOWCAST.SU USDO 290100Z 10009G15MPS 9999 BKN041 03/M02 Q0997 NOSIG
AUTOTAF.ME USDO 282200Z 2823/2908 10008G14MPS 9999 BKN015 TX08/2906Z TN01/2823Z
BECMG 2823/2900 BKN025TCU
BECMG 2904/2905 DRDU
BECMG 2906/2907 -RA DRDU
FM290800 07010G15MPS 5000 -RA DRDU OVC025
 
Красноселькуп
SYNAR 23465 Красноселькуп 290000Z 11004MPS 9999 BKN020 02/M03 Q1002 RMK QFE749/0999 CLD:6SC


NOWCAST.SU USDP 290100Z 11008MPS 9999 BKN035 02/M02 Q1001 NOSIG
AUTOTAF.ME USDP 282200Z 2823/2908 11008MPS CAVOK TX07/2908Z TN01/2823Z
BECMG 2900/2901 BKN040
 
Яр-Сале
SYNAR 23345 Ныда 290000Z 01006MPS 9999 BKN010 M04/M04 Q1006 RMK QFE754/1005 CLD:7SC
(110/96KM)


NOWCAST.SU USDR 290100Z 35009G14MPS 8000 DRSN BKN010 M04/M06 Q1008 NOSIG
RMK TURB: MOD SFC/FL20
AUTOTAF.ME USDR 282200Z 2823/2908 35007G12MPS 5000 BLSN OVC002 TXM02/2906Z TNM05/2823Z
FM290000 35009G14MPS 2500 BLSN OVC004
FM290100 35009G14MPS 8000 DRSN BKN008
FM290400 35010G15MPS CAVOK
BECMG 2904/2905 BKN008
BECMG 2905/2906 DRSN
FM290700 34010G15MPS 9999 BKN015
 
Тарко-Сале
SYNAR 23552 Тарко-Сале 290000Z 03002MPS 2000 SHSN OVC006CB M00/M00 Q999 RMK QFE746/0995 CLD:8CB


NOWCAST.SU USDS 290100Z 08008MPS 7000 -SN BR BKN003 02/00 Q0998 NOSIG
AUTOTAF.ME USDS 282200Z 2823/2908 09008MPS 0200 SN BLSN OVC002 TX06/2906Z TNM00/2823Z
BECMG 2823/2900 +SN FG
FM290100 08008MPS 7000 -SN BR BKN004
BECMG 2901/2902 -RASN BR
FM290300 07008MPS 9999 BKN015 BKN020TCU
BECMG 2903/2904 SCT040
FM290800 05010G15MPS 9999 -RA BKN025
 
Тазовский
SYNAR 23256 Тазовский 290000Z 04004MPS 9999 SCT036 M01/M03 Q1004 RMK QFE750/1000 CLD:7SCAC


NOWCAST.SU USDT 290100Z 03004MPS 0200 +SN FZFG BKN001 M03/M04 Q1004 NOSIG
AUTOTAF.ME USDT 282200Z 2823/2908 03004MPS 9999 -SN BKN008 TX01/2908Z TNM04/2823Z
FM290000 03004MPS 1200 +SN FZFG BKN002
BECMG 2900/2901 0200
FM290200 02005MPS 2500 -SN BR OVC002
FM290300 02005MPS 1200 BR BKN004
FM290400 02005MPS 5000 BR BKN015
FM290500 02005MPS 9999 BKN015
 
Уренгой
SYNAR 23453 Уренгой 290000Z 03003MPS 1600 ///010 M01/M01 Q1001 RMK QFE748/0998 CLD:


NOWCAST.SU USDU 290100Z 08007MPS 9999 BKN013 01/M01 Q1001 NOSIG
AUTOTAF.ME USDU 282200Z 2823/2908 07007G12MPS 2500 BLSN OVC004 TX06/2908Z TNM01/2823Z
FM290000 08005G12MPS 5000 -SN BR BKN015
FM290100 08007MPS 9999 BKN015
BECMG 2902/2903 BKN025TCU
 
Новый Порт
SYNAR 23242 Новый Порт 290000Z 30004MPS CAVOK M03/M04 Q1007 RMK QFE754/1006 CLD:8AC


NOWCAST.SU USDW 290100Z 35004MPS 3000 BR BKN005 M05/M06 Q1007 NOSIG
AUTOTAF.ME USDW 282200Z 2823/2908 34003MPS 2500 BR BKN004 TXM01/2908Z TNM06/2823Z
FM290200 35005MPS 9999 BKN008
BECMG 2903/2904 35008MPS
BECMG 2904/2905 BKN015
 
Березово
SYNAR 23631 Березово 290000Z 30007G10MPS 9999 SCT009CB M03/M07 Q1013 RMK QFE757/1009 CLD:6CBAC


NOWCAST.SU USHB 290100Z 33009G14MPS 9999 BKN022TCU M02/M09 Q1013 NOSIG
RMK TURB: MOD SFC/FL20
AUTOTAF.ME USHB 282200Z 2823/2908 33005G13MPS CAVOK TX03/2908Z TNM03/2823Z
BECMG 2823/2900 BKN015
BECMG 2900/2901 BKN025TCU
BECMG 2903/2904 35010G15MPS
 
Ханты-Мансийск
METAR USHH 290130Z 31004G09MPS 280V350 9999 BKN030 M00/M09 Q1009 R24/010060 NOSIG


NOWCAST.SU USHH 290100Z 32013G18MPS 9999 BKN043TCU M01/M08 Q1009 NOSIG
RMK TURB: MOD SFC/FL20
AUTOTAF.ME USHH 282200Z 2823/2908 31012G17MPS 9999 BKN025TCU TX03/2907Z TNM02/2823Z
FM290500 33012G17MPS 9999 -SHSN OVC040CB
BECMG 2906/2907 -SHRASN
TAF USHH 282235Z 2900/2924 30003G12MPS 9999 BKN016
TEMPO 2900/2915 34007G17MPS 0800 +SHSN SCT003 BKN016CB
2024/05/28 00:00=
Игрим
SYNAR 23631 Березово 290000Z 30007G10MPS 9999 SCT009CB M03/M07 Q1013 RMK QFE757/1009 CLD:6CBAC
(20/85KM)


NOWCAST.SU USHI 290100Z 33009G14MPS 9999 DRDU BKN026TCU M02/M09 Q1014 NOSIG
RMK TURB: MOD SFC/FL20
AUTOTAF.ME USHI 282200Z 2823/2908 32005G13MPS CAVOK TX03/2907Z TNM02/2823Z
FM290100 33009G14MPS 9999 DRDU BKN025TCU
BECMG 2907/2908 35010G15MPS
 
Междуреченский
SYNAR 28064 Леуши 290000Z 32003MPS 9999 SCT020 M01/M06 Q1014 RMK QFE753/1004 CLD:5SCCI
(300/11KM)


NOWCAST.SU USHM 290100Z 32004MPS 9999 SKC 00/M09 Q1013 NOSIG
RMK TURB: MOD SFC/FL40
AUTOTAF.ME USHM 282200Z 2823/2908 31004MPS CAVOK TX06/2908Z TNM01/2823Z
FM290400 33009G14MPS 9999 BKN040TCU
BECMG 2905/2906 NSC
 
Нягань
SYNAR 23823 Вонъеган 290000Z 33003MPS 9999 BKN020CB M02/M08 Q1013 RMK QFE750/1000 CLD:7CB
(240/41KM)


NOWCAST.SU USHN 290100Z 33005G13MPS 9999 BKN024TCU M02/M09 Q1012 NOSIG
RMK TURB: MOD SFC/FL30
AUTOTAF.ME USHN 282200Z 2823/2908 32005G13MPS 9999 BKN025TCU TX03/2908Z TNM03/2823Z
 
Горноправдинск
SYNAR 23939 Алтай 290000Z 32004MPS 9999 SCT020 M01/M06 Q1010 RMK QFE754/1006 CLD:3SC
(300/59KM)


NOWCAST.SU USHP 290100Z 31009G14MPS 9999 BKN026TCU M01/M08 Q1009 NOSIG
RMK TURB: MOD SFC/FL30
AUTOTAF.ME USHP 282200Z 2823/2908 31005G13MPS 9999 BKN025TCU TX04/2908Z TNM01/2823Z
BECMG 2902/2903 32010G15MPS
FM290800 32010G15MPS 9999 -SHSN OVC025CB
 
Белоярский
SYNAR 23734 Октябрьское 290000Z 32003MPS 9999 OVC020CB M02/M07 Q1011 RMK QFE752/1002 CLD:8CB
(190/141KM)


NOWCAST.SU USHQ 290100Z 33005G13MPS 9999 BKN019 BKN020TCU M02/M08 Q1011 NOSIG
RMK TURB: MOD SFC/FL20
AUTOTAF.ME USHQ 282200Z 2823/2908 32004MPS 9999 BKN015 BKN020TCU TX03/2908Z TNM03/2823Z
BECMG 2901/2902 BKN025TCU
BECMG 2904/2905 34009G14MPS
BECMG 2905/2906 HZ
 
Советский
SYNAR 23829 Атымья 290000Z 32002MPS CAVOK M02/M10 Q1016 RMK QFE752/1002 CLD:SKC
(250/81KM)


NOWCAST.SU USHS 290100Z 33004MPS 9999 SKC M01/M10 Q1015 NOSIG
RMK TURB: MOD SFC/FL30
AUTOTAF.ME USHS 282200Z 2823/2908 32004MPS CAVOK TX05/2908Z TNM01/2823Z
BECMG 2902/2903 BKN040TCU
BECMG 2903/2904 NSC
BECMG 2904/2905 BKN040TCU
FM290700 34005G11MPS CAVOK
 
Урай
SYNAR 23929 Шаим 290000Z 35005MPS 9999 BKN020 01/M07 Q1015 RMK QFE756/1008 CLD:5SC
(310/41KM)


NOWCAST.SU USHU 290100Z 32004MPS 9999 SKC 00/M09 Q1014 NOSIG
RMK TURB: MOD SFC/FL20
AUTOTAF.ME USHU 282200Z 2823/2908 31004MPS CAVOK TX05/2907Z TNM02/2823Z
 
Няксимволь
SYNAR 23724 Няксимволь 290000Z 33003MPS CAVOK M03/M09 Q1018 RMK QFE758/1011 CLD:SKC


NOWCAST.SU USHW 290100Z 32003MPS 9999 BKN045 M01/M09 Q1017 NOSIG
AUTOTAF.ME USHW 282200Z 2823/2908 31003MPS 9999 BKN040 TX06/2908Z TNM03/2823Z
BECMG 2904/2905 NSC
 
Ижевск
SYNAR 28411 Ижевск 290000Z 07001MPS CAVOK 11/06 Q1015 RMK QFE747/0996 CLD:5ACCI


NOWCAST.SU USII 290100Z VRB02MPS 9999 BKN080CB 14/08 Q1016 TEMPO VCSH TEMPO TL0300 VCSH
AUTOTAF.ME USII 282200Z 2823/2908 VRB02MPS 9999 VCSH BKN140CB TX22/2908Z TN14/2823Z
FM290000 VRB02MPS CAVOK
FM290100 VRB02MPS 9999 BKN080CB
TEMPO 2901/2903 VCTS
BECMG 2902/2903 VCSH
FM290500 VRB02MPS 5000 VCSH HZ BKN025CB
TEMPO 2907/2908 VRB14G19MPS VCTS
BECMG 2907/2908 9999
 
Киров (Победилово)
SYNAR 27199 Киров 290000Z 10001G04MPS 9999 FEW020 13/08 Q1016 RMK QFE748/0997 CLD:7SCACCI
(60/20KM)


NOWCAST.SU USKK 290100Z VRB02MPS 1000 VCSH BR BKN001 BKN010CB 12/11 Q1017 NOSIG
AUTOTAF.ME USKK 282200Z 2823/2908 VRB02MPS 2500 -SHRA BR BKN004 BKN010CB TX22/2908Z TN12/2823Z
FM290000 VRB02MPS 1200 VCSH BR BKN004 BKN010CB
BECMG 2900/2901 BKN002 BKN010CB
FM290200 VRB02MPS 2500 BR BKN002
FM290300 VRB02MPS 9999 BKN015
FM290400 VRB02MPS 9999 VCSH BKN015CB
BECMG 2904/2905 BKN025CB
TEMPO 2906/2907 5000 SHRA
FM290700 28005G10MPS 9999 BKN040CB
TEMPO 2907/2908 VRB14G19MPS 5000 TS
BECMG 2907/2908 NSW
 
Котельнич
SYNAR 27283 Котельнич 290000Z 34001MPS 9999 FEW010 12/10 Q1016 RMK QFE750/1001 CLD:5SCACCI


NOWCAST.SU USKO 290100Z VRB02MPS 9999 VCSH BKN001 BKN010CB 13/12 Q1017 NOSIG
AUTOTAF.ME USKO 282200Z 2823/2908 VRB02MPS 9999 VCSH BKN080CB TX25/2908Z TN13/2900Z
BECMG 2900/2901 BKN002 BKN010CB
BECMG 2902/2903 BKN060CB
TEMPO 2906/2907 5000 SHRA
TEMPO 2907/2909 VRB17G22MPS VCTS
BECMG 2907/2908 28009G14MPS
 
КС Лонг-Юганская
SYNAR 23445 Надым 290000Z 35005MPS 9999 FEW010 M02/M06 Q1005 RMK QFE751/1002 CLD:8SCACCI
(40/112KM)


NOWCAST.SU USML 290100Z 34010MPS 9000 -SN DRSN OVC013 M04/M06 Q1006 NOSIG
AUTOTAF.ME USML 282200Z 2823/2908 35009G14MPS 5000 -SN BLSN BKN004 TXM01/2906Z TNM04/2823Z
FM290000 34010G15MPS 5000 -SN DRSN BKN015
BECMG 2900/2901 9000
FM290200 35012MPS 2500 SN BLSN OVC015
BECMG 2902/2903 BLSN
BECMG 2904/2905 SN BLSN
FM290600 36014G19MPS 2500 SN BLSN OVC015
 
Надым
SYNAR 23445 Надым 290000Z 35005MPS 9999 FEW010 M02/M06 Q1005 RMK QFE751/1002 CLD:8SCACCI


NOWCAST.SU USMM 290100Z 35012G17MPS 2000 SN BLSN BKN024 M03/M06 Q1005 NOSIG
RMK TURB: MOD SFC/FL20
AUTOTAF.ME USMM 282200Z 2823/2908 35010G15MPS 5000 DRSN BKN002 TXM01/2906Z TNM04/2823Z
FM290000 35010G15MPS 9999 -SN DRSN BKN025
FM290100 35012G17MPS 2500 SN BLSN BKN025
BECMG 2901/2902 BLSN
FM290400 36013G18MPS 2500 SN BLSN BKN015
FM290600 36014G19MPS 0500 SN BLSN OVC008
BECMG 2907/2908 2500
 
Ямбург
SYNAR 23058 Антипаюта 290000Z 00000MPS //// //// 00/00 Q//// RMK CLD:NO_OBSERVATIONS
(30/141KM)


NOWCAST.SU USMQ 290100Z VRB02MPS 1000 BR OVC002 M07/M08 Q1006 NOSIG
AUTOTAF.ME USMQ 282200Z 2823/2908 VRB02MPS 0500 FZFG BKN004 TXM01/2907Z TNM09/2823Z
FM290100 VRB02MPS 1200 BR OVC004
BECMG 2901/2902 2500
FM290300 36004MPS 9999 BKN015
 
Новый Уренгой
SYNAR 23358 Новый Уренгой 290000Z 36005MPS 9999 -SN SCT003 M02/M03 Q1002 RMK QFE746/0994 CLD:8STAS
(70/12KM)


NOWCAST.SU USMU 290100Z 03007G12MPS 1400 SN BLSN OVC002 M02/M03 Q1001 NOSIG
RMK TURB: MOD FL30/FL40
AUTOTAF.ME USMU 282200Z 2823/2908 02006G12MPS 1200 SN BLSN OVC008 TXM00/2905Z TNM03/2823Z
FM290000 03007G13MPS 0500 SN BLSN OVC004
BECMG 2900/2901 1200
FM290200 03006MPS 1200 SN BR OVC008
FM290300 03006MPS 2500 SN BR BKN004
BECMG 2903/2904 -FZDZ BR
BECMG 2904/2905 -SN BR
FM290600 02008MPS 2500 BR BKN004
FM290700 01008MPS 2500 BLSN BKN004
FM290800 01008MPS 2500 BR OVC015
 
Нижневартовск
METAR USNN 290130Z 31005G12MPS 9999 SCT027 M01/M05 Q0996 R21/0///65 NOSIG RMK QFE742


NOWCAST.SU USNN 290100Z 30012G17MPS 9999 BKN024 M02/M07 Q0998 NOSIG
RMK TURB: MOD SFC/FL30
AUTOTAF.ME USNN 282200Z 2823/2908 30011G16MPS 9999 BKN015 BKN020TCU TXM00/2905Z TNM02/2823Z
BECMG 2900/2901 BKN025
FM290400 30012G17MPS 2500 SN BLSN BKN040
BECMG 2904/2905 1200
BECMG 2905/2906 OVC025CB
FM290800 29014G19MPS 1200 SN BLSN OVC015CB
TAF USNN 282245Z 2900/2924 31007G14MPS 6000 -SHSN FEW010 BKN016CB
TEMPO 2900/2912 32010G20MPS 1000 SHSN SCT004 BKN016CB
BECMG 2918/2920 9999 NSW BKN016
2024/05/28 00:21=
Радужный
SYNAR 23758 Радужный 290000Z 30005MPS //// //// M02/M03 Q993 RMK QFE738/0984 CLD:NO_OBSERVATIONS


NOWCAST.SU USNR 290100Z 31011G18MPS 0500 SN BLSN OVC002 M03/M05 Q0994 NOSIG
RMK TURB: MOD SFC/FL30
AUTOTAF.ME USNR 282200Z 2823/2908 31010G17MPS 0500 SN BLSN OVC004 TX02/2908Z TNM03/2823Z
BECMG 2905/2906 +SN FG
BECMG 2907/2908 32005G13MPS
 
Пермь (Бахаревка)
SYNAR 28224 Пермь 290000Z 36001MPS 9999 BKN066 07/02 Q1016 RMK QFE746/0995 CLD:7ACCC
(80/29KM)


NOWCAST.SU USPB 290100Z VRB02MPS 9999 BKN035 08/05 Q1017 NOSIG
AUTOTAF.ME USPB 282200Z 2823/2908 VRB02MPS 9999 -RA BKN040 TX11/2906Z TN08/2823Z
BECMG 2901/2902 NSC
BECMG 2905/2906 OVC040
BECMG 2906/2907 NSC
FM290800 04004MPS 9999 OVC040
 
Пермь (Большое Савино)
METAR USPP 290130Z 02003MPS 350V080 CAVOK 09/04 Q1016 R21/090060 NOSIG RMK QFE751


NOWCAST.SU USPP 290100Z VRB02MPS 9999 BKN040 08/05 Q1017 NOSIG
AUTOTAF.ME USPP 282200Z 2823/2908 VRB02MPS 9000 -RA BR BKN040 TX11/2906Z TN08/2823Z
BECMG 2901/2902 NSC
BECMG 2905/2906 OVC040
BECMG 2906/2907 NSC
FM290800 04004MPS 7000 HZ NSC
TAF USPP 282253Z 2900/2924 05003G14MPS 8000 -SHRA BKN016CB
BECMG 2916/2917 35003G14MPS
2024/05/28 00:21=
Березники
SYNAR 28029 Березники 290000Z 02003MPS 9999 BKN066 01/M02 Q1017 RMK QFE747/0996 CLD:5AC
(170/23KM)


NOWCAST.SU USPT 290100Z VRB02MPS 9999 BKN120 01/M07 Q1018 NOSIG
AUTOTAF.ME USPT 282200Z 2823/2908 VRB02MPS CAVOK TX07/2908Z TN00/2900Z
 
Когалым
SYNAR 23748 Когалым 290000Z 31008MPS CAVOK M02/M06 Q999 RMK QFE743/0991 CLD:8AC


NOWCAST.SU USRK 290100Z 32010MPS 9999 BKN020TCU M03/M06 Q1000 NOSIG
AUTOTAF.ME USRK 282200Z 2823/2908 31008MPS 9999 DRSN BKN025 TXM00/2908Z TNM03/2823Z
BECMG 2901/2902 -SN
FM290300 32013G18MPS 1200 SN BLSN BKN025
FM290500 32016G21MPS 0500 SN BLSN BKN015
BECMG 2906/2907 OVC008
 
Нефтеюганск
SYNAR 23849 Сургут 290000Z 32008G11MPS 9999 SCT028CB M01/M07 Q1002 RMK QFE746/0994 CLD:7CB
(60/48KM)


NOWCAST.SU USRN 290100Z 31013G18MPS 2000 SN BLSN BKN019 M01/M05 Q1004 NOSIG
RMK TURB: MOD SFC/FL30
AUTOTAF.ME USRN 282200Z 2823/2908 31012G17MPS 2500 SN BLSN BKN015 TX02/2907Z TNM02/2823Z
BECMG 2823/2900 BKN025
BECMG 2900/2901 BKN015
FM290200 32014G19MPS 1200 SN BLSN BKN015CB
BECMG 2902/2903 0500
FM290400 32014G19MPS 2500 SN BLSN BKN025CB
FM290500 32015G20MPS 5000 -SHSN HZ BKN025CB
FM290700 32015G20MPS 9999 -SHSN OVC040CB
FM290800 32015G20MPS 9999 -SHRASN OVC040CB
 
Ноябрьск
SYNAR 23657 Ноябрьск 290000Z 33007G10MPS 1400 SHSN OVC004CB M03/M03 Q997 RMK QFE735/0981 CLD:8CB


NOWCAST.SU USRO 290100Z 33013G18MPS 1000 SN BLSN BKN023 M03/M06 Q0997 NOSIG
RMK TURB: MOD SFC/FL30
AUTOTAF.ME USRO 282200Z 2823/2908 33012MPS 0500 HZ BKN025 TX04/2908Z TNM03/2823Z
BECMG 2823/2900 SN BLSN
BECMG 2900/2901 1200
BECMG 2901/2902 BKN015
FM290400 33014MPS 0500 SN BLSN OVC004
FM290600 34010MPS 1200 SN BR OVC004
FM290700 35012MPS 1200 RASN BR OVC015
FM290800 01012MPS 1200 SHRASN BR OVC025CB
 
Сургут
METAR USRR 290130Z 31008MPS 9999 SCT027CB M01/M07 Q1002 R25/35//55 TEMPO 0500 +SHSN VV002 RMK QFE746


NOWCAST.SU USRR 290100Z 31011G16MPS 5000 -SN BLSN OVC015 M02/M05 Q1001 NOSIG
RMK TURB: MOD SFC/FL30
AUTOTAF.ME USRR 282200Z 2823/2908 31010MPS 7000 BR BKN008 BKN020TCU TXM00/2904Z TNM03/2823Z
FM290000 31010G15MPS 1200 SN BLSN OVC008
FM290100 31011G16MPS 5000 -SN BLSN OVC015
FM290200 32011G16MPS 9999 -SN DRSN BKN025CB
FM290300 33012G17MPS 2500 SN BLSN BKN040CB
FM290700 32015G20MPS 1200 SN BLSN OVC025CB
BECMG 2907/2908 BKN015CB
TAF USRR 282239Z 2900/2924 31008G15MPS 9999 FEW005 BKN016CB
TEMPO 2900/2915 34010G20MPS 0500 +SHSN BKN002 OVC010CB
2024/05/28 00:21=
Североуральск
SYNAR 23919 Североуральск 290000Z 35001MPS CAVOK M01/M09 Q1017 RMK QFE743/0991 CLD:SKC


NOWCAST.SU USSE 290100Z VRB02MPS 9999 FEW250 M01/M09 Q1016 NOSIG
RMK TURB: MOD FL30/FL40
AUTOTAF.ME USSE 282200Z 2823/2908 VRB02MPS CAVOK TX07/2908Z TNM02/2823Z
BECMG 2901/2902 SCT040TCU
BECMG 2905/2906 NSC
 
Грань
SYNAR 28240 Нижний Тагил 290000Z 04001MPS 9999 FEW020 01/M01 Q1014 RMK QFE737/0983 CLD:2SC
(350/17KM)


NOWCAST.SU USSG 290100Z VRB02MPS 9999 BKN009 03/00 Q1015 NOSIG
AUTOTAF.ME USSG 282200Z 2823/2908 VRB02MPS 5000 -RA BR BKN008 TX09/2908Z TN03/2900Z
FM290000 VRB02MPS 1200 BR BKN004
FM290100 VRB02MPS 9999 BKN008
BECMG 2901/2902 BKN015
BECMG 2902/2903 BKN025
BECMG 2904/2905 NSC
FM290600 34003MPS 9999 BKN040TCU
 
Ивдель
SYNAR 23921 Ивдель 290000Z 35001MPS 9999 SCT033 M02/M09 Q1018 RMK QFE754/1006 CLD:5SCACCI


NOWCAST.SU USSI 290100Z VRB02MPS 9999 SCT041 M01/M09 Q1017 NOSIG
RMK TURB: MOD FL30/FL50
AUTOTAF.ME USSI 282200Z 2823/2908 VRB02MPS 9999 SCT040 TX07/2908Z TNM03/2823Z
BECMG 2907/2908 NSC
 
Екатеринбург (Арамиль)
SYNAR 28440 Екатеринбург 290000Z 34002MPS 9999 OVC020CB 08/04 Q1014 RMK QFE735/0980 CLD:8CB
(330/17KM)


NOWCAST.SU USSK 290100Z VRB02MPS 9999 -RA OVC012 07/05 Q1014 NOSIG
RMK TURB: MOD SFC/FL30
AUTOTAF.ME USSK 282200Z 2823/2908 34003MPS 9999 -RA OVC040 TX12/2907Z TN07/2823Z
BECMG 2823/2900 NSC
BECMG 2900/2901 OVC015
BECMG 2902/2903 -RA BR
FM290400 34003MPS 9999 -RA BKN025
 
Алапаевск
SYNAR 28248 Алапаевск 290000Z 00000MPS CAVOK M02/M05 Q1015 RMK QFE749/0999 CLD:SKC


NOWCAST.SU USSQ 290100Z VRB02MPS 9999 FEW150 01/M08 Q1016 NOSIG
AUTOTAF.ME USSQ 282200Z 2823/2908 VRB02MPS CAVOK TX09/2907Z TN00/2900Z
BECMG 2901/2902 SCT040
 
Екатеринбург (Кольцово)
METAR USSS 290130Z 33004MPS 9999 SCT010 BKN033CB 08/07 Q1014 R26L/290050 R26R/290040 NOSIG RMK QFE740/0986


NOWCAST.SU USSS 290100Z VRB02MPS 9999 -RA OVC012 07/05 Q1014 NOSIG
RMK TURB: MOD SFC/FL30
AUTOTAF.ME USSS 282200Z 2823/2908 34003MPS 9999 -RA OVC040 TX12/2907Z TN07/2823Z
BECMG 2823/2900 NSC
BECMG 2900/2901 OVC015
BECMG 2903/2904 BKN025
TAF USSS 282258Z 2900/2924 36003G10MPS 9999 BKN016CB
TEMPO 2900/2916 06006G15MPS -SHRA
FM291800 08003G10MPS 6000 BKN011
2024/05/28 00:21=
Тавда
SYNAR 28264 Тавда 290000Z 24001MPS CAVOK M03/M09 Q1015 RMK QFE755/1007 CLD:2AC


NOWCAST.SU USSW 290100Z VRB02MPS 9999 SCT055 00/M09 Q1015 NOSIG
RMK TURB: MOD FL50/FL60
AUTOTAF.ME USSW 282200Z 2823/2908 VRB02MPS CAVOK TX08/2907Z TNM02/2823Z
 
Сосьва
SYNAR 28049 Гари 290000Z 33005MPS CAVOK M01/M08 Q1016 RMK QFE750/1000 CLD:SKC
(50/39KM)


NOWCAST.SU USSX 290100Z VRB02MPS 9999 SKC M01/M08 Q1016 NOSIG
AUTOTAF.ME USSX 282200Z 2823/2908 VRB02MPS 9999 SCT040 TX08/2908Z TNM02/2823Z
BECMG 2900/2901 NSC
BECMG 2902/2903 SCT040TCU
 
Уват
SYNAR 28076 Демьянское 290000Z 32002MPS CAVOK M01/M07 Q1010 RMK QFE752/1003 CLD:SKC
(20/54KM)


NOWCAST.SU USTA 290100Z 31005G13MPS 9999 SKC 00/M08 Q1011 NOSIG
RMK TURB: MOD SFC/FL20
AUTOTAF.ME USTA 282200Z 2823/2908 30004MPS CAVOK TX05/2907Z TNM02/2823Z
BECMG 2901/2902 BKN025TCU
BECMG 2902/2903 32009G14MPS
 
Тобольск (Ремезов)
SYNAR 28275 Тобольск 290000Z 28002MPS CAVOK 00/M06 Q1013 RMK QFE755/1007 CLD:3ACCI
(330/12KM)


NOWCAST.SU USTJ 290100Z 32004MPS 9999 SKC 01/M08 Q1012 NOSIG
RMK TURB: MOD SFC/FL50
AUTOTAF.ME USTJ 282200Z 2823/2908 31003MPS CAVOK TX06/2906Z TNM01/2823Z
BECMG 2903/2904 32009G14MPS
 
Тюмень (Плеханово)
SYNAR 28367 Тюмень 290000Z 00000MPS CAVOK M00/M04 Q1015 RMK QFE751/1002 CLD:6CI


NOWCAST.SU USTL 290100Z VRB02MPS 9999 SKC 02/M09 Q1015 NOSIG
AUTOTAF.ME USTL 282200Z 2823/2908 VRB02MPS CAVOK TX10/2908Z TN01/2823Z
BECMG 2905/2906 BKN040TCU
BECMG 2906/2907 NSC
 
Тобольск
SYNAR 28275 Тобольск 290000Z 28002MPS CAVOK 00/M06 Q1013 RMK QFE755/1007 CLD:3ACCI


NOWCAST.SU USTO 290100Z 31004MPS 9999 BKN061 01/M08 Q1013 NOSIG
RMK TURB: MOD FL30/FL50
AUTOTAF.ME USTO 282200Z 2823/2908 30003MPS CAVOK TX07/2908Z TNM01/2823Z
 
Тюмень (Рощино)
METAR USTR 290130Z 30001MPS CAVOK 03/M05 Q1015 R30/090065 R03/090065 NOSIG


NOWCAST.SU USTR 290100Z VRB02MPS 9999 SKC 02/M09 Q1015 NOSIG
AUTOTAF.ME USTR 282200Z 2823/2908 VRB02MPS CAVOK TX10/2908Z TN01/2823Z
BECMG 2905/2906 BKN040TCU
BECMG 2906/2907 NSC
TAF USTR 282232Z 2900/2924 30003G08MPS 9999 SCT020
BECMG 2903/2905 33005G12MPS
BECMG 2914/2916 04003G09MPS
2024/05/28 00:21=
Курган
SYNAR 28661 Курган 290000Z 04001MPS 9999 RESHRA BKN033CB 04/02 Q1014 RMK QFE754/1005 CLD:8CBAC


NOWCAST.SU USUU 290100Z VRB02MPS 8000 -RA BR OVC031 05/02 Q1014 NOSIG
AUTOTAF.ME USUU 282200Z 2823/2908 VRB02MPS 5000 -RA BR OVC025 TX11/2908Z TN05/2901Z
FM290200 VRB02MPS 9999 -RA BKN025
BECMG 2906/2907 NSC
BECMG 2907/2908 BKN040TCU
 
Ashgabat
METAR UTAA 290100Z 08004KT 9999 FEW100 19/12 Q1015 R88/70D NOSIG


NOWCAST.SU UTAA 290100Z VRB02KT 9999 SKC 22/03 Q1015 NOSIG
RMK TURB: MOD FL50/FL90
AUTOTAF.ME UTAA 282200Z 2823/2908 VRB02KT CAVOK TX30/2908Z TN21/2900Z
BECMG 2904/2905 12006KT
TAF UTAA 282245Z 2900/2924 27014KT 6000 SCT040 FEW050CB TEMP0 2900/2904 20012KT
BECMG 2904/2906 04014KT
TEMPO 2909/2914 08016G26KT 3000 DRDU
BECMG 2916/2918 18012KT
2024/05/28 00:03=
Turkmenbashi
METAR UTAK 290100Z 14004KT CAVOK 20/06 Q1015 R16R/CLRD70 NOSIG


NOWCAST.SU UTAK 290100Z 03004KT 7000 HZ SKC 19/06 Q1016 NOSIG
AUTOTAF.ME UTAK 282200Z 2823/2908 35004KT 7000 HZ NSC TX34/2907Z TN19/2823Z
BECMG 2903/2904 11008KT
BECMG 2905/2906 13014KT
BECMG 2907/2908 19008KT
TAF UTAK 282230Z 2900/2924 09014G24KT CAVOK
TEMPO 2900/2903 02014KT 4000 BR SCT010 SCT100
BECMG 2904/2906 15014G24KT 6000 NSC
TEMPO 2906/2910 3000 DRDU BKN100
BECMG 2910/2911 30018KT
2024/05/28 00:03=
Mary
METAR UTAM 290100Z 00000KT CAVOK 18/08 Q1015 R88/CLRD70 NOSIG


NOWCAST.SU UTAM 290100Z 07008KT 9999 SKC 20/03 Q1015 NOSIG
RMK TURB: MOD FL70/FL90
AUTOTAF.ME UTAM 282200Z 2823/2908 06008KT CAVOK TX32/2908Z TN19/2823Z
TAF UTAM 282230Z 2900/2924 35014KT CAVOK
TEMPO 2900/2906 VRB04KT 5000
TEMPO 2906/2914 03012G22KT SCT050
2024/05/28 00:03=
Dashoguz
METAR UTAT 290100Z 07008KT CAVOK 17/00 Q1019 R08/CLRD70 NOSIG


NOWCAST.SU UTAT 290100Z 07010G22KT 9000 HZ SKC 18/M03 Q1020 NOSIG
AUTOTAF.ME UTAT 282200Z 2823/2908 06010G26KT 8000 DRDU NSC TX27/2908Z TN18/2823Z
BECMG 2823/2900 HZ
TAF UTAT 282232Z 2900/2924 05016KT 9999 SCT050CB BKN100
TEMPO 2900/2906 01016KT
2024/05/28 00:03=
Dushanbe
METAR UTDD 290130Z 08005MPS 9999 FEW066 18/11 Q1015 R09/CLRD// NOSIG RMK QFE693/0924


NOWCAST.SU UTDD 290100Z 08003MPS 9999 BKN110 12/06 Q1019 NOSIG
RMK TURB: MOD FL110/FL150
AUTOTAF.ME UTDD 282200Z 2823/2908 07003MPS CAVOK TX23/2908Z TN11/2823Z
FM290200 09003MPS 9999 VCSH BKN120CB
FM290300 10003MPS CAVOK
FM290400 VRB02MPS 9999 VCSH SCT120CB
FM290700 VRB02MPS CAVOK
TAF UTDD 282300Z 2900/2924 10005MPS 7000 SCT050CB BKN100
TEMPO 2900/2918 VRB08G13MPS 3100 -TSRA HZ
BECMG 2919/2920 VRB02MPS
2024/05/28 00:21=
METAR UTDK 290130Z 04003MPS 9999 FEW130 19/11 Q1015 R01/09//70 RMK QFE704/0938


NOSIG
TAF UTDK 290002Z 2901/2913 03005MPS 7000 FEW066CB SCT100
PROB40 TEMPO 2901/2913 -TSRA
BECMG 2902/2904 VRB02MPS=
Khudzhand
METAR UTDL 290130Z 25007MPS 9999 FEW086 18/07 Q1016 R26/CLRD70 NOSIG RMK QFE724/0966


NOWCAST.SU UTDL 290100Z VRB02MPS 9999 SKC 15/03 Q1021 NOSIG
AUTOTAF.ME UTDL 282200Z 2823/2908 VRB02MPS CAVOK TX24/2908Z TN14/2823Z
FM290800 32003MPS 9999 VCSH SCT160CB
TAF UTDL 282300Z 2900/2924 25007MPS 9999 SCT080
BECMG 2914/2916 VRB02MPS
2024/05/28 00:21=
Namangan
METAR UTFN 290130Z 34006KT 9999 NSC 20/08 Q1014 R28/CLRD70 NOSIG


NOWCAST.SU UTFN 290100Z 04008KT 9999 SKC 18/08 Q1016 NOSIG
RMK TURB: MOD FL110/FL120
AUTOTAF.ME UTFN 282200Z 2823/2908 04010KT CAVOK TX28/2908Z TN16/2823Z
BECMG 2904/2905 05004KT
TAF UTFN 282300Z 2900/2924 33010KT 9999 NSC
TEMPO 2900/2910 22010G20KT FEW050CB
2024/05/28 00:00=
Nukus Karakalpak
METAR UTNN 290130Z 36004KT CAVOK 15/M00 Q1020 R33/CLRD60 NOSIG


NOWCAST.SU UTNN 290100Z 06010G22KT 9000 HZ FEW120 17/M03 Q1021 NOSIG
AUTOTAF.ME UTNN 282200Z 2823/2908 06010G24KT CAVOK TX26/2907Z TN16/2823Z
BECMG 2823/2900 HZ
TAF UTNN 282300Z 2900/2924 03008G18KT CAVOK
2024/05/28 00:09=
Urgench
METAR UTNU 290130Z 04008KT CAVOK 15/01 Q1019 R31/CLRD70 NOSIG


NOWCAST.SU UTNU 290100Z 06012KT 9000 HZ SKC 18/M03 Q1020 NOSIG
AUTOTAF.ME UTNU 282200Z 2823/2908 06014G26KT 9000 DRDU NSC TX27/2908Z TN18/2823Z
BECMG 2823/2900 HZ
TAF UTNU 282300Z 2900/2924 03012G22KT CAVOK
TEMPO 2900/2909 09014G24KT
2024/05/28 00:09=
Navoi
METAR UTSA 290130Z 07006KT 9999 NSC 17/05 Q1016 R07/CLRD70 NOSIG


NOWCAST.SU UTSA 290100Z 02012G22KT 9999 SKC 19/M02 Q1016 NOSIG
RMK TURB: MOD FL70/FL80
AUTOTAF.ME UTSA 282200Z 2823/2908 03012G24KT 9000 HZ NSC TX27/2908Z TN18/2900Z
FM290500 01018G28KT 9999 DRDU NSC
TAF UTSA 282301Z 2900/2924 02010KT 7000 NSC
TEMPO 2900/2911 06016KT 5000 FU SCT033
2024/05/28 00:09=
Bukhara
METAR UTSB 290130Z 35008KT CAVOK 17/06 Q1015 R01/CLRD70 NOSIG


NOWCAST.SU UTSB 290100Z 02012KT 9999 SKC 21/M01 Q1016 NOSIG
RMK TURB: MOD FL50/FL70
AUTOTAF.ME UTSB 282200Z 2823/2908 03012G24KT CAVOK TX28/2907Z TN20/2900Z
TAF UTSB 282300Z 2900/2924 36010KT 7000 NSC
TEMPO 2900/2911 04016KT SCT033
2024/05/28 00:09=
Karshi Khanabad
METAR UTSK 290130Z 07004KT 030V090 CAVOK 18/07 Q1014 R34/CLRD70


NOWCAST.SU UTSK 290100Z 02018G28KT 9999 SKC 18/02 Q1015 NOSIG
RMK TURB: MOD FL70/FL80
AUTOTAF.ME UTSK 282200Z 2823/2908 01016KT CAVOK TX29/2907Z TN17/2900Z
BECMG 2902/2903 03008KT
BECMG 2907/2908 33008KT
TAF UTSK 290000Z 2901/2910 06008KT CAVOK
TEMPO 2901/2910 34010G20KT=
Samarkand
METAR UTSS 290130Z 14012KT 9999 NSC 17/03 Q1016 R09/CLRD70 NOSIG


NOWCAST.SU UTSS 290100Z VRB02KT 9999 SKC 14/01 Q1020 NOSIG
AUTOTAF.ME UTSS 282200Z 2823/2908 VRB02KT CAVOK TX25/2908Z TN13/2823Z
BECMG 2902/2903 07006KT
TAF UTSS 282300Z 2900/2924 14010G20KT 9999 NSC
TEMPO 2900/2912 34016G26KT
2024/05/28 00:09=
Termez
METAR UTST 290100Z 27004KT CAVOK 18/11 Q1012 R25/CLRD70 NOSIG


NOWCAST.SU UTST 290100Z 24012G22KT 9999 SKC 22/06 Q1012 NOSIG
RMK TURB: MOD FL70/FL120
AUTOTAF.ME UTST 282200Z 2823/2908 24012G24KT CAVOK TX33/2908Z TN21/2823Z
BECMG 2904/2905 26018KT
TAF UTST 282300Z 2900/2924 VRB06KT 6000 NSC TX36/2911Z TN19/2901Z
TEMPO 2900/2910 25014G24KT 2400 HZ SCT060CB BKN100
2024/05/28 00:09=
Tashkent-vostoch
SYNAR 38457 Ташкент 290000Z 01034MPS 0100 FEW006 00/09 Q1013 RMK QFE718/0958 CLD:1AC
(240/11KM)


NOWCAST.SU UTTP 290100Z 09004KT 9999 VCSH BKN151CB 14/06 Q1018 NOSIG
RMK TURB: MOD FL90/FL100
AUTOTAF.ME UTTP 282200Z 2823/2908 06006KT 9999 VCSH BKN180CB TX25/2908Z TN13/2823Z
FM290000 07006KT CAVOK
FM290100 09004KT 9999 VCSH BKN160CB
FM290200 13004KT CAVOK
 
Taskent Yuzni
METAR UTTT 290130Z 15006KT 090V210 CAVOK 17/08 Q1016 R08R/CLRD70 NOSIG


NOWCAST.SU UTTT 290100Z 09004KT 9999 VCSH BKN150CB 14/06 Q1018 NOSIG
RMK TURB: MOD FL90/FL100
AUTOTAF.ME UTTT 282200Z 2823/2908 06006KT 9999 VCSH BKN180CB TX26/2908Z TN12/2823Z
FM290000 07006KT CAVOK
FM290100 09004KT 9999 VCSH BKN150CB
FM290200 13004KT CAVOK
TAF UTTT 282300Z 2900/2924 09010KT 7000 NSC
TEMPO 2906/2916 30015KT
2024/05/28 00:09=
Ржев (Компрессорная)
SYNAR 26499 Старица 290000Z 00000MPS 9999 BKN020 13/11 Q1020 RMK QFE748/0997 CLD:5SC
(60/50KM)


NOWCAST.SU UUAK 290100Z VRB02MPS 9999 VCSH BKN060CB 16/10 Q1020 NOSIG
RMK TURB: MOD FL70/FL90
AUTOTAF.ME UUAK 282200Z 2823/2908 VRB02MPS 9999 VCSH BKN060CB TX24/2908Z TN16/2823Z
FM290200 VRB02MPS CAVOK
FM290400 VRB02MPS 9999 VCSH BKN060CB
 
Охотактив
SYNAR 27333 Кострома 290000Z 12001MPS //// //// 12/10 Q1019 RMK QFE752/1003 CLD:NO_OBSERVATIONS
(270/11KM)


NOWCAST.SU UUAO 290100Z VRB02MPS 9999 FEW350 14/08 Q1020 NOSIG
AUTOTAF.ME UUAO 282200Z 2823/2908 VRB02MPS CAVOK TX26/2908Z TN13/2823Z
FM290800 25003MPS 9999 VCSH SCT060CB
 
Кострома (Сокеркино)
SYNAR 27333 Кострома 290000Z 12001MPS //// //// 12/10 Q1019 RMK QFE752/1003 CLD:NO_OBSERVATIONS
(240/16KM)


NOWCAST.SU UUBA 290100Z VRB02MPS 9999 FEW350 14/09 Q1019 NOSIG
RMK TURB: MOD FL50/FL70
AUTOTAF.ME UUBA 282200Z 2823/2908 VRB02MPS CAVOK TX27/2908Z TN13/2823Z
FM290600 24003MPS 9999 VCSH BKN060CB
 
Москва (Быково)
SYNAR 27613 Домодедово 290000Z 18002MPS CAVOK 14/11 Q1022 RMK QFE748/0997 CLD:3AC
(200/26KM)


NOWCAST.SU UUBB 290100Z VRB02MPS 9999 SKC 14/07 Q1021 NOSIG
RMK TURB: MOD FL50/FL70
AUTOTAF.ME UUBB 282200Z 2823/2908 21003MPS CAVOK TX25/2908Z TN14/2823Z
FM290500 VRB02MPS 9999 VCSH BKN060CB
FM290800 VRB02MPS CAVOK
 
Калуга (Грабцево)
METAR UUBC 290130Z 00000MPS CAVOK 13/13 Q1019 R31/CLRD60 NOSIG RMK QFE747/0997


NOWCAST.SU UUBC 290100Z VRB02MPS 9999 SKC 16/12 Q1021 NOSIG
RMK TURB: MOD FL50/FL60
AUTOTAF.ME UUBC 282200Z 2823/2908 VRB02MPS 9999 VCSH BKN040CB TX24/2908Z TN15/2900Z
FM290100 VRB02MPS CAVOK
FM290700 VRB02MPS 9999 VCSH BKN040CB
TEMPO 2907/2909 5000 SHRA
BECMG 2907/2908 -SHRA
TAF UUBC 281643Z 2818/2903 VRB01MPS CAVOK=
Рязань (Дягилево)
SYNAR 27730 Рязань 290000Z 17001MPS CAVOK 14/07 Q1021 RMK QFE751/1002 CLD:3AC


NOWCAST.SU UUBD 290100Z 21003MPS 9999 SKC 15/09 Q1022 NOSIG
RMK TURB: MOD FL40/FL50
AUTOTAF.ME UUBD 282200Z 2823/2908 20003MPS CAVOK TX24/2908Z TN15/2823Z
BECMG 2902/2903 BKN040
BECMG 2904/2905 NSC
FM290600 22003MPS 9999 VCSH BKN040CB
FM290800 20004MPS CAVOK
 
Сасово
SYNAR 27745 Сасово 290000Z 19001MPS CAVOK 11/08 Q1021 RMK QFE755/1007 CLD:SKC


NOWCAST.SU UUBG 290100Z 24003MPS 9999 SKC 12/04 Q1022 NOSIG
RMK TURB: MOD FL40/FL50
AUTOTAF.ME UUBG 282200Z 2823/2908 23003MPS CAVOK TX24/2908Z TN12/2823Z
 
Иваново (Южный)
SYNAR 27347 Иваново 290000Z 00000MPS CAVOK 10/09 Q1020 RMK QFE753/1004 CLD:2CI


NOWCAST.SU UUBI 290100Z VRB02MPS 9999 FEW360 14/07 Q1020 NOSIG
RMK TURB: MOD FL40/FL50
AUTOTAF.ME UUBI 282200Z 2823/2908 25003MPS CAVOK TX26/2908Z TN13/2900Z
FM290700 VRB02MPS 9999 VCSH SCT080CB
 
Рыбинск (Староселье)
SYNAR 27225 Рыбинск 290000Z 00000MPS CAVOK 14/12 Q1019 RMK QFE754/1006 CLD:SKC
(270/15KM)


NOWCAST.SU UUBK 290100Z VRB02MPS 9999 BKN064 16/09 Q1019 NOSIG
RMK TURB: MOD FL50/FL90
AUTOTAF.ME UUBK 282200Z 2823/2908 VRB02MPS CAVOK TX26/2908Z TN16/2823Z
FM290700 VRB02MPS 9999 VCSH BKN040CB
 
Владимир (Семязино)
SYNAR 27532 Владимир 290000Z 00000MPS CAVOK 10/06 Q1020 RMK QFE749/0999 CLD:SKC


NOWCAST.SU UUBL 290100Z VRB02MPS 9999 SCT062 13/09 Q1021 NOSIG
RMK TURB: MOD FL50/FL70
AUTOTAF.ME UUBL 282200Z 2823/2908 VRB02MPS CAVOK TX26/2908Z TN12/2900Z
FM290600 VRB02MPS 9999 VCSH SCT060CB
 
Мячково
SYNAR 27613 Домодедово 290000Z 18002MPS CAVOK 14/11 Q1022 RMK QFE748/0997 CLD:3AC
(200/19KM)


NOWCAST.SU UUBM 290100Z VRB02MPS 9999 SKC 14/08 Q1021 NOSIG
RMK TURB: MOD FL50/FL70
AUTOTAF.ME UUBM 282200Z 2823/2908 21003MPS CAVOK TX25/2908Z TN14/2900Z
FM290500 VRB02MPS 9999 VCSH BKN060CB
FM290800 VRB02MPS CAVOK
 
Тверь (Змеево)
SYNAR 27402 Тверь 290000Z 00000MPS CAVOK 13/11 Q1020 RMK QFE751/1002 CLD:2AC


NOWCAST.SU UUBN 290100Z VRB02MPS 9999 FEW350 16/10 Q1020 NOSIG
RMK TURB: MOD FL50/FL90
AUTOTAF.ME UUBN 282200Z 2823/2908 VRB02MPS CAVOK TX25/2908Z TN16/2901Z
FM290500 VRB02MPS 9999 VCSH BKN060CB
 
Брянск
METAR UUBP 200930Z 33003MPS 280V020 CAVOK 25/10 Q1015 R34/////// NOSIG RMK QFE743/0991


NOWCAST.SU UUBP 290100Z VRB02MPS 9999 VCSH SCT061CB 15/11 Q1021 NOSIG
RMK TURB: MOD FL50/FL60
AUTOTAF.ME UUBP 282200Z 2823/2908 VRB02MPS 9999 VCSH SCT060CB TX24/2908Z TN15/2901Z
FM290200 VRB02MPS CAVOK
FM290800 VRB02MPS 9999 VCSH SCT040CB
TAF UUBP 121357Z 1215/1224 CNL=
Шарья
SYNAR 27271 Шарья 290000Z 00000MPS CAVOK 08/06 Q1018 RMK QFE752/1002 CLD:1CI


NOWCAST.SU UUBQ 290100Z 26003MPS 9999 VCSH BKN090CB 14/09 Q1017 NOSIG
RMK TURB: MOD FL70/FL90
AUTOTAF.ME UUBQ 282200Z 2823/2908 VRB02MPS 9999 VCSH BKN080CB TX27/2908Z TN13/2823Z
FM290200 27003MPS CAVOK
FM290500 27004MPS 9999 VCSH SCT090CB
 
Рязань (Турлатово)
SYNAR 27730 Рязань 290000Z 17001MPS CAVOK 14/07 Q1021 RMK QFE751/1002 CLD:3AC
(310/13KM)


NOWCAST.SU UUBR 290100Z 21003MPS 9999 SKC 14/09 Q1022 NOSIG
RMK TURB: MOD FL40/FL50
AUTOTAF.ME UUBR 282200Z 2823/2908 21003MPS CAVOK TX24/2908Z TN14/2823Z
BECMG 2902/2903 BKN040
BECMG 2906/2907 NSC
 
Смоленск (Южный)
SYNAR 26781 Смоленск 290000Z 00000MPS CAVOK 14/11 Q1020 RMK QFE743/0991 CLD:4CI


NOWCAST.SU UUBS 290100Z VRB02MPS 9999 VCSH SCT060CB 15/11 Q1020 NOSIG
RMK TURB: MOD FL70/FL80
AUTOTAF.ME UUBS 282200Z 2823/2908 VRB02MPS 9999 VCSH BKN060CB TX24/2908Z TN14/2902Z
FM290300 VRB02MPS CAVOK
FM290400 VRB02MPS 9999 BKN060CB
TEMPO 2904/2905 VCTS
FM290500 VRB02MPS CAVOK
FM290600 VRB02MPS 9999 VCSH SCT080CB
TEMPO 2907/2908 VCTS
BECMG 2907/2908 -SHRA
 
 


NOSIG
 
Раменское (Жуковский)
METAR UUBW 290130Z 09001MPS CAVOK 12/12 Q1019 R30/010060 NOSIG RMK QFE754


NOWCAST.SU UUBW 290100Z VRB02MPS 9999 SKC 14/07 Q1021 NOSIG
RMK TURB: MOD FL50/FL70
AUTOTAF.ME UUBW 282200Z 2823/2908 21003MPS CAVOK TX25/2908Z TN14/2900Z
FM290500 VRB02MPS 9999 VCSH BKN060CB
FM290800 VRB02MPS CAVOK
TAF UUBW 282255Z 2900/2924 18003MPS 8000 SCT040 TX28/2912Z TN10/2901Z
TEMPO 2900/2903 0400 FG
2024/05/28 00:00=
Ярославль (Левцово)
SYNAR 27330 Ярославль 290000Z 00000MPS CAVOK 10/10 Q1019 RMK QFE756/1008 CLD:SKC
(220/14KM)


NOWCAST.SU UUBX 290100Z VRB02MPS 9999 FEW350 14/09 Q1020 NOSIG
RMK TURB: MOD FL40/FL50
AUTOTAF.ME UUBX 282200Z 2823/2908 VRB02MPS CAVOK TX26/2908Z TN14/2823Z
FM290600 VRB02MPS 9999 VCSH BKN080CB
 
Листвянка
SYNAR 27730 Рязань 290000Z 17001MPS CAVOK 14/07 Q1021 RMK QFE751/1002 CLD:3AC
(310/21KM)


NOWCAST.SU UUBZ 290100Z 21003MPS 9999 SKC 14/09 Q1022 NOSIG
RMK TURB: MOD FL40/FL50
AUTOTAF.ME UUBZ 282200Z 2823/2908 21003MPS CAVOK TX24/2908Z TN14/2823Z
BECMG 2902/2903 BKN040
BECMG 2906/2907 NSC
 
Белоомут
SYNAR 27730 Рязань 290000Z 17001MPS CAVOK 14/07 Q1021 RMK QFE751/1002 CLD:3AC
(140/44KM)


NOWCAST.SU UUCB 290100Z VRB02MPS 9999 VCSH BKN048CB 15/10 Q1022 NOSIG
RMK TURB: MOD FL50/FL60
AUTOTAF.ME UUCB 282200Z 2823/2908 VRB02MPS 9999 BKN040 TX24/2908Z TN15/2823Z
FM290000 VRB02MPS 9999 VCSH BKN040CB
FM290200 VRB02MPS CAVOK
FM290500 VRB02MPS 9999 VCSH SCT060CB
BECMG 2907/2908 -SHRA
 
Дорожный
SYNAR 27417 Клин 290000Z 00000MPS //// //// 10/10 Q1020 RMK QFE750/1000 CLD:NO_OBSERVATIONS


NOWCAST.SU UUCD 290100Z VRB02MPS 9999 FEW370 14/08 Q1020 NOSIG
RMK TURB: MOD FL50/FL60
AUTOTAF.ME UUCD 282200Z 2823/2908 VRB02MPS CAVOK TX25/2907Z TN13/2900Z
FM290400 VRB02MPS 9999 VCSH SCT060CB
 
Хоругвино
SYNAR 27514 Шереметьево 290000Z 32001MPS CAVOK 15/08 Q1013 RMK QFE746/0994 CLD:2AC
(140/22KM)


NOWCAST.SU UUCH 290100Z VRB02MPS 9999 SCT060 14/07 Q1021 NOSIG
RMK TURB: MOD FL50/FL70
AUTOTAF.ME UUCH 282200Z 2823/2908 VRB02MPS CAVOK TX25/2907Z TN14/2823Z
FM290300 VRB02MPS 9999 VCSH SCT060CB
 
Ильясово
SYNAR 27627 Кашира 290000Z 20001MPS 9999 //// 15/10 Q1021 RMK QFE745/0994 CLD:NO_OBSERVATIONS
(260/44KM)


NOWCAST.SU UUCI 290100Z VRB02MPS 9999 SKC 15/11 Q1021 NOSIG
AUTOTAF.ME UUCI 282200Z 2823/2908 VRB02MPS 9999 VCSH BKN040CB TX24/2908Z TN14/2900Z
FM290100 VRB02MPS CAVOK
FM290500 22003MPS 9999 VCSH BKN060CB
BECMG 2907/2908 -SHRA
 
Кузнечково
SYNAR 27417 Клин 290000Z 00000MPS //// //// 10/10 Q1020 RMK QFE750/1000 CLD:NO_OBSERVATIONS
(40/19KM)


NOWCAST.SU UUCJ 290100Z VRB02MPS 9999 FEW370 14/08 Q1021 NOSIG
RMK TURB: MOD FL40/FL70
AUTOTAF.ME UUCJ 282200Z 2823/2908 VRB02MPS CAVOK TX25/2908Z TN13/2900Z
FM290400 VRB02MPS 9999 VCSH SCT060CB
 
Горка
SYNAR 27518 Подмосковная 290000Z 00000MPS 9999 //// 09/08 Q1021 RMK QFE750/1000 CLD:NO_OBSERVATIONS
(100/13KM)


NOWCAST.SU UUCK 290100Z VRB02MPS 9999 SKC 14/08 Q1021 NOSIG
RMK TURB: MOD FL40/FL70
AUTOTAF.ME UUCK 282200Z 2823/2908 VRB02MPS CAVOK TX24/2908Z TN14/2823Z
FM290500 VRB02MPS 9999 VCSH BKN060CB
 
Нудоль
SYNAR 27511 Ново-Йерусалим 290000Z 00000MPS CAVOK 09/09 Q1021 RMK QFE750/1000 CLD:SKC
(140/27KM)


NOWCAST.SU UUCN 290100Z VRB02MPS 9999 FEW370 14/08 Q1021 NOSIG
RMK TURB: MOD FL40/FL70
AUTOTAF.ME UUCN 282200Z 2823/2908 VRB02MPS CAVOK TX25/2908Z TN13/2823Z
FM290400 VRB02MPS 9999 VCSH SCT060CB
 
Павлово
SYNAR 27518 Подмосковная 290000Z 00000MPS 9999 //// 09/08 Q1021 RMK QFE750/1000 CLD:NO_OBSERVATIONS
(160/12KM)


NOWCAST.SU UUCO 290100Z VRB02MPS 9999 SCT062 13/07 Q1021 NOSIG
RMK TURB: MOD FL50/FL70
AUTOTAF.ME UUCO 282200Z 2823/2908 VRB02MPS CAVOK TX25/2908Z TN13/2900Z
FM290300 VRB02MPS 9999 VCSH SCT060CB
 
Янино
SYNAR 27538 Черусти 290000Z 00000MPS 8000 //// 09/09 Q1020 RMK QFE753/1004 CLD:NO_OBSERVATIONS
(40/54KM)


NOWCAST.SU UUCQ 290100Z VRB02MPS 9999 VCSH BKN047CB 15/10 Q1022 NOSIG
RMK TURB: MOD FL50/FL60
AUTOTAF.ME UUCQ 282200Z 2823/2908 VRB02MPS 9999 BKN040 TX24/2908Z TN15/2823Z
FM290000 VRB02MPS 9999 VCSH BKN040CB
FM290200 VRB02MPS CAVOK
FM290500 VRB02MPS 9999 VCSH SCT060CB
BECMG 2907/2908 -SHRA
 
Торбеево
SYNAR 27618 Серпухов 290000Z 00000MPS 9999 FEW020 13/12 Q1020 RMK QFE750/1000 CLD:3SCAC
(240/30KM)


NOWCAST.SU UUCT 290100Z VRB02MPS 9999 VCSH BKN045CB 15/12 Q1021 NOSIG
AUTOTAF.ME UUCT 282200Z 2823/2908 VRB02MPS 9999 VCSH BKN040CB TX25/2908Z TN15/2823Z
FM290200 VRB02MPS CAVOK
FM290600 VRB02MPS 9999 VCSH BKN040CB
TEMPO 2907/2908 5000 SHRA
BECMG 2907/2908 -SHRA
 
Гринвуд
SYNAR 27619 Москва (Тушино) 290000Z 00000MPS //// SCT033 13/09 Q1020 RMK QFE750/1000 CLD:3SC


NOWCAST.SU UUCU 290100Z VRB02MPS 9999 FEW370 14/08 Q1021 NOSIG
RMK TURB: MOD FL40/FL70
AUTOTAF.ME UUCU 282200Z 2823/2908 VRB02MPS CAVOK TX26/2908Z TN14/2900Z
FM290300 VRB02MPS 9999 VCSH SCT060CB
 
Вихрево
SYNAR 27419 Дмитров 290000Z 00000MPS //// //// 12/09 Q1020 RMK QFE748/0998 CLD:NO_OBSERVATIONS
(290/38KM)


NOWCAST.SU UUCW 290100Z VRB02MPS 9999 FEW370 15/08 Q1021 NOSIG
RMK TURB: MOD FL50/FL70
AUTOTAF.ME UUCW 282200Z 2823/2908 VRB02MPS CAVOK TX26/2907Z TN15/2823Z
FM290400 VRB02MPS 9999 VCSH SCT060CB
 
Университет Сбербанка
SYNAR 27511 Ново-Йерусалим 290000Z 00000MPS CAVOK 09/09 Q1021 RMK QFE750/1000 CLD:SKC
(300/13KM)


NOWCAST.SU UUCX 290100Z VRB02MPS 9999 SCT063 13/08 Q1021 NOSIG
RMK TURB: MOD FL50/FL70
AUTOTAF.ME UUCX 282200Z 2823/2908 VRB02MPS CAVOK TX25/2908Z TN13/2900Z
FM290300 VRB02MPS 9999 VCSH SCT060CB
 
Дубна
SYNAR 27417 Клин 290000Z 00000MPS //// //// 10/10 Q1020 RMK QFE750/1000 CLD:NO_OBSERVATIONS
(210/44KM)


NOWCAST.SU UUDB 290100Z VRB02MPS 9999 FEW370 14/10 Q1020 NOSIG
RMK TURB: MOD FL50/FL60
AUTOTAF.ME UUDB 282200Z 2823/2908 VRB02MPS CAVOK TX24/2907Z TN14/2823Z
FM290400 VRB02MPS 9999 VCSH SCT060CB
 
Сонино
SYNAR 27710 Алексин 290000Z 00000MPS //// NSC 13/12 Q1021 RMK QFE747/0997 CLD:3AC
(230/24KM)


NOWCAST.SU UUDC 290100Z VRB02MPS 9999 VCSH BKN044CB 15/11 Q1021 NOSIG
AUTOTAF.ME UUDC 282200Z 2823/2908 VRB02MPS 9999 VCSH BKN040CB TX23/2908Z TN15/2823Z
FM290300 VRB02MPS CAVOK
FM290700 21003MPS 9999 VCSH BKN040CB
BECMG 2907/2908 -SHRA
 
Москва (Домодедово)
METAR UUDD 290130Z 15002MPS CAVOK 13/12 Q1019 R14R/CLRD60 NOSIG


NOWCAST.SU UUDD 290400Z VRB02MPS 9999 SKC 18/10 Q1020 NOSIG
RMK TURB: MOD FL50/FL70
AUTOTAF.ME UUDD 290000Z 2903/2912 VRB02MPS CAVOK TX27/2910Z TN16/2903Z
FM290500 VRB02MPS 9999 VCSH BKN060CB
FM290800 VRB02MPS CAVOK
BECMG 2908/2909 VCSH
FM291100 VRB02MPS 9999 VCSH BKN060CB
TAF UUDD 282251Z 2900/3006 18003MPS CAVOK TX28/2912Z TN13/2902Z
2024/05/28 00:20=
Большое Грызлово
SYNAR 27618 Серпухов 290000Z 00000MPS 9999 FEW020 13/12 Q1020 RMK QFE750/1000 CLD:3SCAC
(320/20KM)


NOWCAST.SU UUDG 290100Z VRB02MPS 9999 VCSH BKN060CB 15/11 Q1021 NOSIG
AUTOTAF.ME UUDG 282200Z 2823/2908 VRB02MPS 9999 VCSH BKN060CB TX24/2907Z TN15/2823Z
FM290500 VRB02MPS CAVOK
FM290600 VRB02MPS 9999 VCSH BKN060CB
BECMG 2907/2908 -SHRA
 
Ярославль (Туношна)
METAR UUDL 290130Z 03001MPS CAVOK 11/09 Q1018 R23/010060 NOSIG RMK QFE755


NOWCAST.SU UUDL 290100Z VRB02MPS 9999 FEW350 14/09 Q1020 NOSIG
RMK TURB: MOD FL40/FL50
AUTOTAF.ME UUDL 282200Z 2823/2908 VRB02MPS CAVOK TX26/2908Z TN14/2823Z
FM290700 VRB02MPS 9999 VCSH BKN060CB
TAF UUDL 282300Z 2900/2924 25003MPS 9999 SCT040 TX28/2913Z TN09/2902Z
2024/05/28 00:00=
Новинки
SYNAR 27618 Серпухов 290000Z 00000MPS 9999 FEW020 13/12 Q1020 RMK QFE750/1000 CLD:3SCAC
(250/13KM)


NOWCAST.SU UUDN 290100Z VRB02MPS 9999 VCSH BKN062CB 15/12 Q1021 NOSIG
AUTOTAF.ME UUDN 282200Z 2823/2908 VRB02MPS 9999 VCSH BKN060CB TX25/2908Z TN15/2823Z
FM290500 VRB02MPS CAVOK
FM290600 VRB02MPS 9999 VCSH BKN060CB
TEMPO 2907/2908 5000 SHRA
BECMG 2907/2908 -SHRA
 
Пахомово
SYNAR 27618 Серпухов 290000Z 00000MPS 9999 FEW020 13/12 Q1020 RMK QFE750/1000 CLD:3SCAC
(350/35KM)


NOWCAST.SU UUDP 290100Z VRB02MPS 9999 VCSH BKN043CB 15/10 Q1021 NOSIG
AUTOTAF.ME UUDP 282200Z 2823/2908 VRB02MPS 9999 VCSH BKN040CB TX23/2907Z TN15/2823Z
FM290300 VRB02MPS CAVOK
FM290700 21003MPS 9999 VCSH BKN040CB
BECMG 2907/2908 -SHRA
 
Хелипорт Реутов
SYNAR 27605 Москва (Балчуг) 290000Z 00000MPS 9999 BKN033 19/10 Q1020 RMK QFE753/1005 CLD:6SC
(260/14KM)


NOWCAST.SU UUDR 290100Z VRB02MPS 9999 FEW380 15/08 Q1021 NOSIG
RMK TURB: MOD FL50/FL70
AUTOTAF.ME UUDR 282200Z 2823/2908 VRB02MPS CAVOK TX26/2908Z TN15/2823Z
FM290400 VRB02MPS 9999 VCSH SCT060CB
 
Чулпаново
SYNAR 27613 Домодедово 290000Z 18002MPS CAVOK 14/11 Q1022 RMK QFE748/0997 CLD:3AC
(90/17KM)


NOWCAST.SU UUDU 290100Z VRB02MPS 9999 SKC 15/09 Q1021 NOSIG
RMK TURB: MOD FL50/FL70
AUTOTAF.ME UUDU 282200Z 2823/2908 VRB02MPS CAVOK TX25/2908Z TN15/2823Z
FM290300 VRB02MPS 9999 VCSH BKN060CB
FM290800 VRB02MPS CAVOK
 
Взлетная
SYNAR 27613 Домодедово 290000Z 18002MPS CAVOK 14/11 Q1022 RMK QFE748/0997 CLD:3AC


NOWCAST.SU UUDW 290100Z VRB02MPS 9999 SKC 15/09 Q1021 NOSIG
RMK TURB: MOD FL50/FL70
AUTOTAF.ME UUDW 282200Z 2823/2908 VRB02MPS CAVOK TX25/2908Z TN15/2823Z
FM290300 VRB02MPS 9999 VCSH BKN060CB
FM290800 VRB02MPS CAVOK
 
Киверичи (Запад)
SYNAR 27217 Бежецк 290000Z 00000MPS 4000 BR SKC 10/09 Q1019 RMK QFE751/1002 CLD:SKC
(10/45KM)


NOWCAST.SU UUEC 290100Z VRB02MPS 9999 VCSH SCT063CB 14/11 Q1020 NOSIG
RMK TURB: MOD FL50/FL90
AUTOTAF.ME UUEC 282200Z 2823/2908 VRB02MPS 9999 VCSH SCT060CB TX26/2908Z TN14/2823Z
 
Москва (Шереметьево)
METAR UUEE 290130Z 31002MPS CAVOK 14/08 Q1019 R24L/CLRD62 R24C/CLRD62 NOSIG


NOWCAST.SU UUEE 290100Z VRB02MPS 9999 FEW370 15/08 Q1021 NOSIG
RMK TURB: MOD FL40/FL70
AUTOTAF.ME UUEE 282200Z 2823/2908 VRB02MPS CAVOK TX26/2908Z TN15/2823Z
FM290300 VRB02MPS 9999 VCSH SCT060CB
TAF UUEE 282252Z 2900/2924 21003MPS CAVOK TX28/2912Z TN12/2901Z
2024/05/28 00:21=
 


NOSIG
 
Кимры (Борки)
SYNAR 27419 Дмитров 290000Z 00000MPS //// //// 12/09 Q1020 RMK QFE748/0998 CLD:NO_OBSERVATIONS
(160/52KM)


NOWCAST.SU UUEI 290100Z VRB02MPS 9999 FEW360 14/11 Q1020 NOSIG
RMK TURB: MOD FL40/FL50
AUTOTAF.ME UUEI 282200Z 2823/2908 VRB02MPS CAVOK TX25/2908Z TN14/2823Z
 
Волен (Хелипорт)
SYNAR 27419 Дмитров 290000Z 00000MPS //// //// 12/09 Q1020 RMK QFE748/0998 CLD:NO_OBSERVATIONS


NOWCAST.SU UUEJ 290100Z VRB02MPS 9999 FEW370 14/07 Q1020 NOSIG
RMK TURB: MOD FL40/FL70
AUTOTAF.ME UUEJ 282200Z 2823/2908 VRB02MPS CAVOK TX26/2908Z TN14/2823Z
 
Конаково
SYNAR 27417 Клин 290000Z 00000MPS //// //// 10/10 Q1020 RMK QFE750/1000 CLD:NO_OBSERVATIONS
(190/33KM)


NOWCAST.SU UUEL 290100Z VRB02MPS 9999 FEW370 14/10 Q1020 NOSIG
RMK TURB: MOD FL50/FL60
AUTOTAF.ME UUEL 282200Z 2823/2908 VRB02MPS CAVOK TX25/2908Z TN14/2823Z
FM290400 VRB02MPS 9999 VCSH SCT060CB
 
Тверь (Мигалово)
SYNAR 27402 Тверь 290000Z 00000MPS CAVOK 13/11 Q1020 RMK QFE751/1002 CLD:2AC


NOWCAST.SU UUEM 290100Z VRB02MPS 9999 FEW350 16/11 Q1020 NOSIG
RMK TURB: MOD FL50/FL90
AUTOTAF.ME UUEM 282200Z 2823/2908 VRB02MPS CAVOK TX26/2908Z TN16/2900Z
FM290500 VRB02MPS 9999 VCSH BKN060CB
 
Завидово (Русь)
SYNAR 27417 Клин 290000Z 00000MPS //// //// 10/10 Q1020 RMK QFE750/1000 CLD:NO_OBSERVATIONS
(120/36KM)


NOWCAST.SU UUEP 290100Z VRB02MPS 9999 FEW370 14/09 Q1020 NOSIG
RMK TURB: MOD FL50/FL90
AUTOTAF.ME UUEP 282200Z 2823/2908 VRB02MPS CAVOK TX25/2908Z TN14/2823Z
FM290700 VRB02MPS 9999 VCSH BKN080CB
 
Гурбан
SYNAR 27419 Дмитров 290000Z 00000MPS //// //// 12/09 Q1020 RMK QFE748/0998 CLD:NO_OBSERVATIONS
(0/21KM)


NOWCAST.SU UUEQ 290100Z VRB02MPS 9999 FEW380 15/08 Q1021 NOSIG
RMK TURB: MOD FL40/FL70
AUTOTAF.ME UUEQ 282200Z 2823/2908 VRB02MPS CAVOK TX26/2908Z TN15/2823Z
FM290300 VRB02MPS 9999 VCSH SCT060CB
 
Талдом (Юркино)
SYNAR 27419 Дмитров 290000Z 00000MPS //// //// 12/09 Q1020 RMK QFE748/0998 CLD:NO_OBSERVATIONS
(180/43KM)


NOWCAST.SU UUET 290100Z VRB02MPS 9999 FEW370 14/09 Q1020 NOSIG
RMK TURB: MOD FL40/FL70
AUTOTAF.ME UUET 282200Z 2823/2908 VRB02MPS CAVOK TX25/2908Z TN14/2823Z
 
Залесье
SYNAR 26499 Старица 290000Z 00000MPS 9999 BKN020 13/11 Q1020 RMK QFE748/0997 CLD:5SC
(200/35KM)


NOWCAST.SU UUEX 290100Z VRB02MPS 9999 SKC 16/11 Q1020 NOSIG
RMK TURB: MOD FL50/FL90
AUTOTAF.ME UUEX 282200Z 2823/2908 VRB02MPS 9999 VCSH BKN060CB TX24/2907Z TN16/2901Z
FM290000 VRB02MPS CAVOK
FM290600 VRB02MPS 9999 VCSH SCT080CB
FM290700 VRB02MPS CAVOK
FM290800 24003MPS 9999 VCSH SCT060CB
 
Юрьевское (Волжанка)
SYNAR 27402 Тверь 290000Z 00000MPS CAVOK 13/11 Q1020 RMK QFE751/1002 CLD:2AC
(290/27KM)


NOWCAST.SU UUEY 290100Z VRB02MPS 9999 SCT064 15/10 Q1020 NOSIG
RMK TURB: MOD FL50/FL70
AUTOTAF.ME UUEY 282200Z 2823/2908 VRB02MPS CAVOK TX24/2908Z TN15/2823Z
FM290200 VRB02MPS 9999 VCSH SCT060CB
 
Хатенки
SYNAR 27707 Сухиничи 290000Z 00000MPS 9999 FEW020 15/12 Q1020 RMK QFE743/0991 CLD:4SCAC
(270/25KM)


NOWCAST.SU UUFH 290100Z VRB02MPS 9999 SCT043CB 16/13 Q1021 TEMPO VCSH
RMK TURB: MOD FL50/FL60
AUTOTAF.ME UUFH 282200Z 2823/2908 VRB02MPS 9999 -SHRA SCT040CB TX23/2908Z TN16/2823Z
TEMPO 2901/2904 VCTS
BECMG 2903/2904 -SHRA
FM290500 VRB02MPS CAVOK
FM290700 VRB02MPS 9999 SCT025CB
TEMPO 2907/2909 5000 VCTS
 
Михеево
SYNAR 27606 Малоярославец 290000Z 00000MPS 9999 FEW020 12/12 Q1020 RMK QFE747/0996 CLD:2CU
(70/40KM)


NOWCAST.SU UUFM 290100Z VRB02MPS 9999 SKC 15/13 Q1021 NOSIG
RMK TURB: MOD FL50/FL70
AUTOTAF.ME UUFM 282200Z 2823/2908 VRB02MPS CAVOK TX25/2908Z TN15/2823Z
FM290200 VRB02MPS 9999 VCSH BKN060CB
FM290600 VRB02MPS CAVOK
FM290800 VRB02MPS 9999 VCSH BKN060CB
 
Недельное
SYNAR 27606 Малоярославец 290000Z 00000MPS 9999 FEW020 12/12 Q1020 RMK QFE747/0996 CLD:2CU
(330/24KM)


NOWCAST.SU UUFN 290100Z VRB02MPS 9999 SKC 14/12 Q1021 NOSIG
AUTOTAF.ME UUFN 282200Z 2823/2908 VRB02MPS CAVOK TX26/2908Z TN14/2900Z
FM290800 VRB02MPS 9999 VCSH BKN060CB
 
Калуга (Орешково)
SYNAR 27705 Калуга 290000Z 10001MPS 9999 BKN033 16/11 Q1020 RMK QFE745/0993 CLD:6SC
(70/33KM)


NOWCAST.SU UUFO 290100Z VRB02MPS 9999 VCSH BKN080CB 16/12 Q1021 NOSIG
AUTOTAF.ME UUFO 282200Z 2823/2908 VRB02MPS 9999 VCSH BKN080CB TX23/2908Z TN16/2823Z
FM290300 VRB02MPS CAVOK
FM290700 VRB02MPS 9999 VCSH SCT025CB
BECMG 2907/2908 -SHRA
 
Стародуб
SYNAR 26985 Унеча 290000Z 00000MPS 9999 BKN020 14/11 Q1019 RMK QFE747/0997 CLD:7SC
(340/30KM)


NOWCAST.SU UUFS 290100Z VRB02MPS 9999 SCT062CB 18/10 Q1020 TEMPO TL0300 VCSH
RMK TURB: MOD FL70/FL80
AUTOTAF.ME UUFS 282200Z 2823/2908 VRB02MPS 9999 SCT060CB TX25/2908Z TN18/2823Z
TEMPO 2823/2903 VCTS
FM290300 VRB02MPS CAVOK
FM290500 11003MPS 9999 VCSH BKN060CB
 
Иваньково
SYNAR 27627 Кашира 290000Z 20001MPS 9999 //// 15/10 Q1021 RMK QFE745/0994 CLD:NO_OBSERVATIONS
(50/18KM)


NOWCAST.SU UUGI 290100Z 21003MPS 9999 VCSH BKN044CB 15/11 Q1022 NOSIG
AUTOTAF.ME UUGI 282200Z 2823/2908 21003MPS 9999 VCSH BKN040CB TX24/2908Z TN14/2900Z
FM290300 VRB02MPS CAVOK
FM290600 21003MPS 9999 VCSH BKN060CB
 
Макариха ДНС
SYNAR 23410 Усинск 290000Z 29003MPS //// //// M03/M08 Q1021 RMK QFE758/1011 CLD:NO_OBSERVATIONS
(210/91KM)


NOWCAST.SU UUHH 290100Z 32005G10MPS 9999 BKN028 M05/M09 Q1020 NOSIG
AUTOTAF.ME UUHH 282200Z 2823/2908 33005G12MPS 9999 BKN025 TXM02/2907Z TNM06/2823Z
BECMG 2901/2902 BKN015
BECMG 2903/2904 BKN025TCU
 
Уса-38
SYNAR 23410 Усинск 290000Z 29003MPS //// //// M03/M08 Q1021 RMK QFE758/1011 CLD:NO_OBSERVATIONS


NOWCAST.SU UUHM 290100Z 33005MPS 9999 BKN028 M04/M07 Q1021 NOSIG
AUTOTAF.ME UUHM 282200Z 2823/2908 34005MPS 9999 BKN025 TXM00/2907Z TNM05/2823Z
 
Дарьино
SYNAR 27428 Александров 290000Z 00000MPS CAVOK 09/08 Q1021 RMK QFE748/0998 CLD:SKC


NOWCAST.SU UUID 290100Z VRB02MPS 9999 FEW370 13/08 Q1021 NOSIG
RMK TURB: MOD FL40/FL70
AUTOTAF.ME UUID 282200Z 2823/2908 VRB02MPS CAVOK TX26/2908Z TN13/2823Z
FM290400 VRB02MPS 9999 VCSH SCT060CB
 
Плес (Спасское)
SYNAR 27344 Приволжск 290000Z 11001MPS CAVOK 09/09 Q1019 RMK QFE754/1005 CLD:SKC
(240/14KM)


NOWCAST.SU UUIE 290100Z VRB02MPS 9999 FEW350 13/08 Q1020 NOSIG
RMK TURB: MOD FL50/FL60
AUTOTAF.ME UUIE 282200Z 2823/2908 26003MPS CAVOK TX25/2908Z TN13/2823Z
FM290800 25003MPS 9999 VCSH BKN080CB
 
Аэродром Доброград
SYNAR 27532 Владимир 290000Z 00000MPS CAVOK 10/06 Q1020 RMK QFE749/0999 CLD:SKC
(260/56KM)


NOWCAST.SU UUIG 290100Z VRB02MPS 9999 FEW380 13/07 Q1021 NOSIG
RMK TURB: MOD FL50/FL70
AUTOTAF.ME UUIG 282200Z 2823/2908 VRB02MPS CAVOK TX27/2908Z TN13/2823Z
FM290800 VRB02MPS 9999 VCSH SCT060CB
 
Палех
SYNAR 27441 Шуя 290000Z 00000MPS CAVOK 12/07 Q1020 RMK QFE755/1007 CLD:SKC
(280/28KM)


NOWCAST.SU UUIH 290100Z 25003MPS 9999 FEW350 14/06 Q1020 NOSIG
RMK TURB: MOD FL40/FL50
AUTOTAF.ME UUIH 282200Z 2823/2908 25003MPS CAVOK TX26/2908Z TN13/2900Z
 
Мордыш
SYNAR 27532 Владимир 290000Z 00000MPS CAVOK 10/06 Q1020 RMK QFE749/0999 CLD:SKC
(220/26KM)


NOWCAST.SU UUIM 290100Z VRB02MPS 9999 FEW064 13/07 Q1021 NOSIG
RMK TURB: MOD FL50/FL70
AUTOTAF.ME UUIM 282200Z 2823/2908 VRB02MPS CAVOK TX25/2907Z TN12/2900Z
 
Небылое
SYNAR 27437 Юрьев-Польский 290000Z 16001MPS CAVOK 10/08 Q1020 RMK QFE751/1001 CLD:SKC
(300/19KM)


NOWCAST.SU UUIN 290100Z 25003MPS 9999 FEW370 13/07 Q1021 NOSIG
RMK TURB: MOD FL40/FL70
AUTOTAF.ME UUIN 282200Z 2823/2908 25003MPS CAVOK TX25/2908Z TN13/2823Z
 
Павловское
SYNAR 27532 Владимир 290000Z 00000MPS CAVOK 10/06 Q1020 RMK QFE749/0999 CLD:SKC
(200/23KM)


NOWCAST.SU UUIP 290100Z VRB02MPS 9999 FEW063 13/07 Q1021 NOSIG
RMK TURB: MOD FL50/FL70
AUTOTAF.ME UUIP 282200Z 2823/2908 VRB02MPS CAVOK TX25/2907Z TN13/2823Z
 
Сновицы
SYNAR 27532 Владимир 290000Z 00000MPS CAVOK 10/06 Q1020 RMK QFE749/0999 CLD:SKC


NOWCAST.SU UUIS 290100Z VRB02MPS 9999 SCT062 13/08 Q1021 NOSIG
RMK TURB: MOD FL50/FL70
AUTOTAF.ME UUIS 282200Z 2823/2908 VRB02MPS CAVOK TX26/2908Z TN13/2823Z
FM290600 VRB02MPS 9999 VCSH SCT060CB
 
Почаевский проезд
SYNAR 27532 Владимир 290000Z 00000MPS CAVOK 10/06 Q1020 RMK QFE749/0999 CLD:SKC


NOWCAST.SU UUIX 290100Z VRB02MPS 9999 SCT063 13/09 Q1021 NOSIG
RMK TURB: MOD FL50/FL70
AUTOTAF.ME UUIX 282200Z 2823/2908 VRB02MPS CAVOK TX26/2908Z TN12/2900Z
FM290600 VRB02MPS 9999 VCSH SCT060CB
 
Шилово (Крутицы)
SYNAR 27736 Шилово 290000Z 00000MPS 4000 BR SKC 09/08 Q1022 RMK QFE757/1009 CLD:SKC


NOWCAST.SU UUJK 290100Z 21003MPS 9999 SKC 13/06 Q1022 NOSIG
RMK TURB: MOD FL40/FL50
AUTOTAF.ME UUJK 282200Z 2823/2908 21003MPS CAVOK TX24/2908Z TN13/2823Z
BECMG 2904/2905 BKN040
BECMG 2907/2908 NSC
 
Кубинка
SYNAR 27611 Наро-Фоминск 290000Z 00000MPS 9999 SCT020 12/10 Q1020 RMK QFE747/0997 CLD:4SC
(170/26KM)


NOWCAST.SU UUMB 290100Z VRB02MPS 9999 SKC 14/09 Q1021 NOSIG
RMK TURB: MOD FL40/FL70
AUTOTAF.ME UUMB 282200Z 2823/2908 VRB02MPS CAVOK TX24/2908Z TN14/2823Z
FM290700 VRB02MPS 9999 VCSH BKN080CB
 
Черноголовка
SYNAR 27523 Павловский Посад 290000Z 00000MPS CAVOK 11/10 Q1020 RMK QFE752/1003 CLD:3AC
(140/36KM)


NOWCAST.SU UUMC 290100Z VRB02MPS 9999 FEW370 14/08 Q1021 NOSIG
RMK TURB: MOD FL50/FL70
AUTOTAF.ME UUMC 282200Z 2823/2908 VRB02MPS CAVOK TX26/2908Z TN14/2823Z
FM290600 VRB02MPS 9999 VCSH BKN060CB
 
Сельниково
SYNAR 27730 Рязань 290000Z 17001MPS CAVOK 14/07 Q1021 RMK QFE751/1002 CLD:3AC
(150/66KM)


NOWCAST.SU UUMD 290100Z VRB02MPS 9999 SKC 15/11 Q1021 NOSIG
AUTOTAF.ME UUMD 282200Z 2823/2908 VRB02MPS 9999 VCSH BKN040CB TX24/2908Z TN15/2900Z
FM290100 VRB02MPS CAVOK
FM290500 22003MPS 9999 VCSH BKN060CB
BECMG 2907/2908 -SHRA
 
Северка
SYNAR 27613 Домодедово 290000Z 18002MPS CAVOK 14/11 Q1022 RMK QFE748/0997 CLD:3AC
(290/54KM)


NOWCAST.SU UUML 290100Z VRB02MPS 9999 SKC 16/11 Q1021 NOSIG
AUTOTAF.ME UUML 282200Z 2823/2908 21003MPS 9999 VCSH BKN040CB TX24/2908Z TN16/2823Z
FM290100 VRB02MPS CAVOK
FM290500 22003MPS 9999 VCSH BKN060CB
BECMG 2907/2908 -SHRA
 
КС-18 Мышкин
SYNAR 27225 Рыбинск 290000Z 00000MPS CAVOK 14/12 Q1019 RMK QFE754/1006 CLD:SKC
(30/34KM)


NOWCAST.SU UUMN 290100Z VRB02MPS 9999 BKN064 16/09 Q1019 NOSIG
RMK TURB: MOD FL40/FL90
AUTOTAF.ME UUMN 282200Z 2823/2908 VRB02MPS CAVOK TX26/2908Z TN16/2823Z
FM290700 VRB02MPS 9999 VCSH SCT040CB
 
Москва (Остафьево)
METAR UUMO 290130Z VRB01MPS CAVOK 11/10 Q1019 R07/CLRD60 NOSIG RMK QFE750/1000


NOWCAST.SU UUMO 290100Z VRB02MPS 9999 SKC 14/08 Q1021 NOSIG
RMK TURB: MOD FL50/FL70
AUTOTAF.ME UUMO 282200Z 2823/2908 VRB02MPS CAVOK TX25/2908Z TN14/2900Z
FM290300 VRB02MPS 9999 VCSH BKN060CB
FM290800 VRB02MPS CAVOK
TAF UUMO 282246Z 2900/2909 19002MPS CAVOK
2024/05/28 00:00=
Буньково
SYNAR 27511 Ново-Йерусалим 290000Z 00000MPS CAVOK 09/09 Q1021 RMK QFE750/1000 CLD:SKC


NOWCAST.SU UUMR 290100Z VRB02MPS 9999 SCT061 14/08 Q1021 NOSIG
RMK TURB: MOD FL50/FL70
AUTOTAF.ME UUMR 282200Z 2823/2908 VRB02MPS CAVOK TX25/2908Z TN13/2900Z
FM290300 VRB02MPS 9999 VCSH SCT060CB
 
Чкаловский
SYNAR 27612 Москва (ВДНХ) 290000Z 00000MPS CAVOK 14/10 Q1021 RMK QFE751/1002 CLD:5AC
(260/28KM)


NOWCAST.SU UUMU 290100Z VRB02MPS 9999 FEW380 15/08 Q1021 NOSIG
RMK TURB: MOD FL50/FL70
AUTOTAF.ME UUMU 282200Z 2823/2908 VRB02MPS CAVOK TX26/2908Z TN15/2823Z
FM290400 VRB02MPS 9999 VCSH SCT060CB
 
Воскресенск
SYNAR 27613 Домодедово 290000Z 18002MPS CAVOK 14/11 Q1022 RMK QFE748/0997 CLD:3AC
(280/45KM)


NOWCAST.SU UUMV 290100Z VRB02MPS 9999 SKC 15/09 Q1021 NOSIG
RMK TURB: MOD FL50/FL70
AUTOTAF.ME UUMV 282200Z 2823/2908 VRB02MPS CAVOK TX25/2908Z TN15/2823Z
FM290600 VRB02MPS 9999 VCSH SCT060CB
FM290800 VRB02MPS CAVOK
 
Аэродром Ватулино
SYNAR 27509 Можайск 290000Z 22001MPS 9999 //// 10/10 Q1021 RMK QFE748/0998 CLD:NO_OBSERVATIONS
(210/18KM)


NOWCAST.SU UUMW 290100Z VRB02MPS 9999 FEW370 14/09 Q1021 NOSIG
RMK TURB: MOD FL50/FL90
AUTOTAF.ME UUMW 282200Z 2823/2908 VRB02MPS 9999 VCSH SCT060CB TX23/2908Z TN14/2901Z
FM290000 VRB02MPS CAVOK
FM290600 VRB02MPS 9999 VCSH BKN060CB
 
Благовещенье
SYNAR 27419 Дмитров 290000Z 00000MPS //// //// 12/09 Q1020 RMK QFE748/0998 CLD:NO_OBSERVATIONS
(270/33KM)


NOWCAST.SU UUMX 290100Z VRB02MPS 9999 FEW360 14/08 Q1021 NOSIG
RMK TURB: MOD FL40/FL70
AUTOTAF.ME UUMX 282200Z 2823/2908 VRB02MPS CAVOK TX26/2908Z TN14/2823Z
FM290600 VRB02MPS 9999 VCSH SCT040CB
FM290700 VRB02MPS CAVOK
 
Озеры
SYNAR 27627 Кашира 290000Z 20001MPS 9999 //// 15/10 Q1021 RMK QFE745/0994 CLD:NO_OBSERVATIONS
(270/31KM)


NOWCAST.SU UUMY 290100Z VRB02MPS 9999 SKC 14/11 Q1021 NOSIG
AUTOTAF.ME UUMY 282200Z 2823/2908 21003MPS 9999 VCSH BKN040CB TX24/2908Z TN14/2823Z
FM290100 VRB02MPS CAVOK
FM290500 22003MPS 9999 VCSH BKN060CB
BECMG 2907/2908 -SHRA
 
Белгород
METAR UUOB 290130Z 05003MPS CAVOK 13/04 Q1019 R11/010070 NOSIG


NOWCAST.SU UUOB 290100Z 09003MPS 9999 FEW280 16/04 Q1020 NOSIG
RMK TURB: MOD FL50/FL90
AUTOTAF.ME UUOB 282200Z 2823/2908 09003MPS CAVOK TX24/2908Z TN15/2902Z
BECMG 2907/2908 10008G13MPS
TAF UUOB 281655Z 2818/2903 09003MPS 9999 SCT040=
Воронеж (Придача)
SYNAR 34123 Воронеж 290000Z 00000MPS CAVOK 11/06 Q1021 RMK QFE752/1003 CLD:SKC


NOWCAST.SU UUOD 290100Z 12003MPS 9999 SKC 12/01 Q1022 NOSIG
RMK TURB: MOD FL40/FL50
AUTOTAF.ME UUOD 282200Z 2823/2908 13003MPS CAVOK TX23/2908Z TN12/2900Z
 
Курск (Восточный)
METAR UUOK 290130Z AUTO 35001MPS 9999 // NCD 12/08 Q1020 RMK QFE747/0996


NOWCAST.SU UUOK 290100Z 12003MPS 9999 SKC 15/07 Q1021 NOSIG
RMK TURB: MOD FL50/FL70
AUTOTAF.ME UUOK 282200Z 2823/2908 12003MPS CAVOK TX22/2908Z TN14/2902Z
BECMG 2905/2906 SCT040
FM290700 13004MPS 9999 VCSH SCT040CB
FM290800 13004MPS CAVOK
TAF AMD UUOK 281903Z 2818/2903 CNL=
Липецк
METAR UUOL 290130Z AUTO 05001MPS 9999 NCD 10/04 Q1021


NOWCAST.SU UUOL 290100Z VRB02MPS 9999 SKC 12/03 Q1023 NOSIG
AUTOTAF.ME UUOL 282200Z 2823/2908 VRB02MPS CAVOK TX23/2908Z TN12/2900Z
TAF UUOL 282300Z 2900/2909 17003MPS CAVOK
2024/05/28 00:00=
Воронеж (Чертовицкое)
METAR UUOO 290130Z 13001MPS CAVOK 07/04 Q1020 R12/010070 NOSIG RMK QFE751


NOWCAST.SU UUOO 290100Z VRB02MPS 9999 SKC 12/03 Q1022 NOSIG
RMK TURB: MOD FL40/FL50
AUTOTAF.ME UUOO 282200Z 2823/2908 VRB02MPS CAVOK TX23/2908Z TN12/2901Z
TAF UUOO 282300Z 2900/2909 12003MPS CAVOK
2024/05/28 00:12=
Орел (Южный)
SYNAR 27906 Орел 290000Z 13001MPS CAVOK 16/10 Q1021 RMK QFE747/0997 CLD:3AC


NOWCAST.SU UUOR 290100Z VRB02MPS 9999 VCSH SCT079CB 17/10 Q1021 NOSIG
AUTOTAF.ME UUOR 282200Z 2823/2908 VRB02MPS CAVOK TX24/2908Z TN17/2823Z
FM290100 VRB02MPS 9999 VCSH SCT080CB
 
Старый Оскол
SYNAR 34110 Богородицкое 290000Z 00000MPS CAVOK 10/06 Q1021 RMK QFE745/0993 CLD:SKC
(240/34KM)


NOWCAST.SU UUOS 290100Z 11003MPS 9999 SCT044 14/03 Q1022 NOSIG
RMK TURB: MOD FL50/FL60
AUTOTAF.ME UUOS 282200Z 2823/2908 12003MPS CAVOK TX23/2908Z TN13/2902Z
BECMG 2823/2900 SCT040
BECMG 2903/2904 NSC
 
Тамбов (Донское)
SYNAR 27947 Тамбов 290000Z 00000MPS CAVOK 07/05 Q1022 RMK QFE755/1006 CLD:SKC


NOWCAST.SU UUOT 290100Z VRB02MPS 9999 SKC 11/03 Q1023 NOSIG
RMK TURB: MOD FL40/FL50
AUTOTAF.ME UUOT 282200Z 2823/2908 VRB02MPS CAVOK TX24/2908Z TN11/2823Z
 
Усмань (Чистоозерская)
SYNAR 34026 Конь-Колодезь 290000Z 00000MPS CAVOK 09/04 Q1021 RMK QFE753/1004 CLD:SKC
(290/39KM)


NOWCAST.SU UUOU 290100Z VRB02MPS 9999 SKC 12/02 Q1023 NOSIG
RMK TURB: MOD FL40/FL50
AUTOTAF.ME UUOU 282200Z 2823/2908 VRB02MPS CAVOK TX23/2908Z TN12/2823Z
 
Валуйки
SYNAR 34321 Валуйки 290000Z 08001MPS CAVOK 15/00 Q1020 RMK QFE754/1006 CLD:SKC


NOWCAST.SU UUOW 290100Z 09003MPS 9999 FEW300 14/01 Q1020 NOSIG
RMK TURB: MOD SFC/FL40
AUTOTAF.ME UUOW 282200Z 2823/2908 10004MPS CAVOK TX25/2908Z TN14/2901Z
 
Воронеж (Солнечная)
SYNAR 34123 Воронеж 290000Z 00000MPS CAVOK 11/06 Q1021 RMK QFE752/1003 CLD:SKC


NOWCAST.SU UUOZ 290100Z VRB02MPS 9999 SKC 12/03 Q1022 NOSIG
RMK TURB: MOD FL40/FL50
AUTOTAF.ME UUOZ 282200Z 2823/2908 VRB02MPS CAVOK TX23/2908Z TN12/2901Z
 
Гаврилов Ям (Агат)
SYNAR 27329 Ростов Великий 290000Z 00000MPS CAVOK 10/10 Q1020 RMK QFE755/1007 CLD:SKC
(240/28KM)


NOWCAST.SU UUQA 290100Z VRB02MPS 9999 FEW350 14/09 Q1020 NOSIG
RMK TURB: MOD FL40/FL50
AUTOTAF.ME UUQA 282200Z 2823/2908 VRB02MPS CAVOK TX26/2908Z TN14/2823Z
FM290700 VRB02MPS 9999 VCSH BKN060CB
 
Ярославль (Любим)
SYNAR 27330 Ярославль 290000Z 00000MPS CAVOK 10/10 Q1019 RMK QFE756/1008 CLD:SKC


NOWCAST.SU UUQL 290100Z VRB02MPS 9999 FEW350 15/09 Q1020 NOSIG
RMK TURB: MOD FL40/FL50
AUTOTAF.ME UUQL 282200Z 2823/2908 VRB02MPS CAVOK TX26/2908Z TN14/2823Z
FM290700 VRB02MPS 9999 VCSH BKN060CB
 
Попов Луг
SYNAR 27425 Переславль-Залесский 290000Z 00000MPS CAVOK 10/09 Q1020 RMK QFE749/0998 CLD:SKC


NOWCAST.SU UUQP 290100Z VRB02MPS 9999 FEW370 14/11 Q1021 NOSIG
RMK TURB: MOD FL40/FL70
AUTOTAF.ME UUQP 282200Z 2823/2908 VRB02MPS CAVOK TX26/2908Z TN13/2900Z
FM290400 VRB02MPS 9999 VCSH SCT060CB
 
Рыбинск-Аксон
SYNAR 27225 Рыбинск 290000Z 00000MPS CAVOK 14/12 Q1019 RMK QFE754/1006 CLD:SKC


NOWCAST.SU UUQR 290100Z VRB02MPS 9999 BKN065 16/10 Q1019 NOSIG
RMK TURB: MOD FL50/FL90
AUTOTAF.ME UUQR 282200Z 2823/2908 VRB02MPS CAVOK TX25/2908Z TN16/2823Z
FM290700 VRB02MPS 9999 VCSH BKN080CB
 
Лось
SYNAR 27425 Переславль-Залесский 290000Z 00000MPS CAVOK 10/09 Q1020 RMK QFE749/0998 CLD:SKC
(110/33KM)


NOWCAST.SU UUQX 290100Z VRB02MPS 9999 FEW370 13/09 Q1020 NOSIG
RMK TURB: MOD FL50/FL60
AUTOTAF.ME UUQX 282200Z 2823/2908 VRB02MPS CAVOK TX26/2908Z TN13/2823Z
 
Строгановка
SYNAR 23217 Харьяга 290000Z 33005MPS //// //// M04/M06 Q1021 RMK QFE757/1010 CLD:NO_OBSERVATIONS
(10/33KM)


NOWCAST.SU UURA 290100Z 31004MPS 9999 BKN022 M06/M08 Q1021 NOSIG
AUTOTAF.ME UURA 282200Z 2823/2908 32004MPS 9999 BKN025 TXM02/2907Z TNM07/2823Z
BECMG 2902/2903 BKN015
BECMG 2903/2904 BKN025
 
Сандивей ДНС
SYNAR 23217 Харьяга 290000Z 33005MPS //// //// M04/M06 Q1021 RMK QFE757/1010 CLD:NO_OBSERVATIONS
(290/69KM)


NOWCAST.SU UURD 290100Z 31004MPS 9999 BKN021 M06/M09 Q1020 NOSIG
AUTOTAF.ME UURD 282200Z 2823/2908 32004MPS 9999 BKN025 TXM03/2906Z TNM07/2823Z
BECMG 2902/2903 BKN015
BECMG 2907/2908 BKN025TCU
 
Кипиево
SYNAR 23411 Мутный Материк 290000Z 35001MPS //// //// M02/M08 Q1022 RMK QFE760/1013 CLD:NO_OBSERVATIONS
(40/43KM)


NOWCAST.SU UURK 290100Z VRB02MPS 9999 BKN017 BKN020TCU M03/M08 Q1023 NOSIG
AUTOTAF.ME UURK 282200Z 2823/2908 VRB02MPS 9999 BKN040 TX01/2907Z TNM05/2823Z
BECMG 2900/2901 BKN015 BKN020TCU
BECMG 2901/2902 BKN025TCU
 
Приуральское
SYNAR 23418 Печора 290000Z 36002MPS 9999 BKN043 M02/M07 Q1021 RMK QFE760/1014 CLD:7SC
(320/56KM)


NOWCAST.SU UURP 290100Z 35004MPS 9999 BKN031 M04/M08 Q1020 NOSIG
RMK TURB: MOD SFC/FL20
AUTOTAF.ME UURP 282200Z 2823/2908 35004MPS 9999 OVC008 TX01/2908Z TNM05/2823Z
BECMG 2823/2900 NSC
BECMG 2900/2901 BKN025
BECMG 2906/2907 BKN015 BKN020TCU
FM290800 01004MPS 9999 BKN025TCU
 
Аржаники
SYNAR 27507 Гагарин 290000Z 00000MPS 4000 BR NSC 10/09 Q1020 RMK QFE747/0997 CLD:1AC
(180/44KM)


NOWCAST.SU UUSA 290100Z VRB02MPS 9999 FEW370 14/10 Q1021 NOSIG
RMK TURB: MOD FL40/FL90
AUTOTAF.ME UUSA 282200Z 2823/2908 VRB02MPS CAVOK TX24/2907Z TN14/2823Z
FM290400 VRB02MPS 9999 VCSH SCT080CB
 
Горовидка
SYNAR 26695 Вязьма 290000Z 00000MPS 4000 BR SKC 10/09 Q1021 RMK QFE743/0990 CLD:SKC
(200/14KM)


NOWCAST.SU UUSG 290100Z VRB02MPS 9000 VCSH BR BKN075CB 15/11 Q1020 NOSIG
RMK TURB: MOD FL50/FL90
AUTOTAF.ME UUSG 282200Z 2823/2908 VRB02MPS 9999 VCSH BKN080CB TX25/2908Z TN15/2823Z
BECMG 2900/2901 VCSH BR
FM290200 VRB02MPS 8000 BR NSC
FM290600 VRB02MPS 9999 VCSH BKN060CB
FM290800 VRB02MPS CAVOK
 
Кирилловка
SYNAR 27402 Тверь 290000Z 00000MPS CAVOK 13/11 Q1020 RMK QFE751/1002 CLD:2AC
(350/34KM)


NOWCAST.SU UUTA 290100Z VRB02MPS 9999 FEW370 14/09 Q1020 NOSIG
RMK TURB: MOD FL50/FL90
AUTOTAF.ME UUTA 282200Z 2823/2908 VRB02MPS CAVOK TX25/2908Z TN14/2900Z
FM290600 VRB02MPS 9999 VCSH BKN080CB
 
Адмиральская Бухта
SYNAR 27402 Тверь 290000Z 00000MPS CAVOK 13/11 Q1020 RMK QFE751/1002 CLD:2AC
(290/22KM)


NOWCAST.SU UUTB 290100Z VRB02MPS 9999 FEW350 17/10 Q1020 NOSIG
RMK TURB: MOD FL50/FL90
AUTOTAF.ME UUTB 282200Z 2823/2908 VRB02MPS CAVOK TX25/2908Z TN17/2823Z
FM290500 VRB02MPS 9999 VCSH BKN060CB
 
Серебряный Бор
SYNAR 27417 Клин 290000Z 00000MPS //// //// 10/10 Q1020 RMK QFE750/1000 CLD:NO_OBSERVATIONS
(30/28KM)


NOWCAST.SU UUTF 290100Z VRB02MPS 9999 FEW370 14/08 Q1021 NOSIG
RMK TURB: MOD FL40/FL70
AUTOTAF.ME UUTF 282200Z 2823/2908 VRB02MPS CAVOK TX25/2908Z TN13/2900Z
FM290400 VRB02MPS 9999 VCSH SCT060CB
 
Большая Волга
SYNAR 27417 Клин 290000Z 00000MPS //// //// 10/10 Q1020 RMK QFE750/1000 CLD:NO_OBSERVATIONS
(210/47KM)


NOWCAST.SU UUTG 290100Z VRB02MPS 9999 FEW370 14/10 Q1020 NOSIG
RMK TURB: MOD FL50/FL60
AUTOTAF.ME UUTG 282200Z 2823/2908 VRB02MPS CAVOK TX24/2907Z TN14/2823Z
FM290400 VRB02MPS 9999 VCSH SCT060CB
 
Вараксино
SYNAR 26499 Старица 290000Z 00000MPS 9999 BKN020 13/11 Q1020 RMK QFE748/0997 CLD:5SC
(40/66KM)


NOWCAST.SU UUTH 290100Z VRB02MPS 9999 VCSH BKN061CB 15/10 Q1020 NOSIG
RMK TURB: MOD FL70/FL80
AUTOTAF.ME UUTH 282200Z 2823/2908 VRB02MPS 9999 VCSH BKN060CB TX24/2908Z TN15/2900Z
 
Завидово (Треуголка)
SYNAR 27417 Клин 290000Z 00000MPS //// //// 10/10 Q1020 RMK QFE750/1000 CLD:NO_OBSERVATIONS
(150/29KM)


NOWCAST.SU UUTJ 290100Z VRB02MPS 9999 SCT063 14/09 Q1020 NOSIG
RMK TURB: MOD FL50/FL70
AUTOTAF.ME UUTJ 282200Z 2823/2908 VRB02MPS CAVOK TX25/2907Z TN14/2823Z
FM290400 VRB02MPS 9999 VCSH SCT060CB
 
Калязин
SYNAR 27316 Кашин 290000Z 00000MPS CAVOK 10/09 Q1019 RMK QFE752/1002 CLD:2AC
(300/21KM)


NOWCAST.SU UUTK 290100Z VRB02MPS 9999 FEW360 14/10 Q1020 NOSIG
RMK TURB: MOD FL40/FL50
AUTOTAF.ME UUTK 282200Z 2823/2908 VRB02MPS CAVOK TX25/2908Z TN14/2823Z
 
Александровская Слобода
SYNAR 27402 Тверь 290000Z 00000MPS CAVOK 13/11 Q1020 RMK QFE751/1002 CLD:2AC
(280/48KM)


NOWCAST.SU UUTL 290100Z VRB02MPS 9999 SCT064 15/10 Q1020 NOSIG
RMK TURB: MOD FL50/FL70
AUTOTAF.ME UUTL 282200Z 2823/2908 VRB02MPS CAVOK TX24/2908Z TN15/2823Z
FM290200 VRB02MPS 9999 VCSH SCT060CB
 
Орловка
SYNAR 26499 Старица 290000Z 00000MPS 9999 BKN020 13/11 Q1020 RMK QFE748/0997 CLD:5SC
(350/38KM)


NOWCAST.SU UUTO 290100Z VRB02MPS 9999 FEW370 14/10 Q1021 NOSIG
RMK TURB: MOD FL40/FL90
AUTOTAF.ME UUTO 282200Z 2823/2908 VRB02MPS CAVOK TX24/2907Z TN14/2823Z
FM290400 VRB02MPS 9999 VCSH SCT080CB
 
Поповка
SYNAR 27316 Кашин 290000Z 00000MPS CAVOK 10/09 Q1019 RMK QFE752/1002 CLD:2AC
(290/19KM)


NOWCAST.SU UUTP 290100Z VRB02MPS 9999 FEW340 14/11 Q1020 NOSIG
RMK TURB: MOD FL50/FL60
AUTOTAF.ME UUTP 282200Z 2823/2908 23003MPS CAVOK TX25/2908Z TN14/2823Z
FM290700 VRB02MPS 9999 VCSH SCT080CB
 
Свердловка
SYNAR 27417 Клин 290000Z 00000MPS //// //// 10/10 Q1020 RMK QFE750/1000 CLD:NO_OBSERVATIONS
(160/32KM)


NOWCAST.SU UUTQ 290100Z VRB02MPS 9999 SCT064 14/09 Q1020 NOSIG
RMK TURB: MOD FL50/FL70
AUTOTAF.ME UUTQ 282200Z 2823/2908 VRB02MPS CAVOK TX26/2908Z TN14/2900Z
FM290400 VRB02MPS 9999 VCSH SCT060CB
 
Старица
SYNAR 26499 Старица 290000Z 00000MPS 9999 BKN020 13/11 Q1020 RMK QFE748/0997 CLD:5SC


NOWCAST.SU UUTS 290100Z VRB02MPS 9999 FEW360 16/11 Q1020 NOSIG
RMK TURB: MOD FL50/FL90
AUTOTAF.ME UUTS 282200Z 2823/2908 VRB02MPS CAVOK TX24/2908Z TN16/2823Z
FM290700 VRB02MPS 9999 VCSH SCT040CB
 
Волжская 7
SYNAR 27417 Клин 290000Z 00000MPS //// //// 10/10 Q1020 RMK QFE750/1000 CLD:NO_OBSERVATIONS
(160/32KM)


NOWCAST.SU UUTV 290100Z VRB02MPS 9999 SCT064 14/08 Q1020 NOSIG
RMK TURB: MOD FL50/FL70
AUTOTAF.ME UUTV 282200Z 2823/2908 VRB02MPS CAVOK TX26/2908Z TN14/2823Z
FM290400 VRB02MPS 9999 VCSH SCT060CB
 
Волга Кантри Клаб
SYNAR 26499 Старица 290000Z 00000MPS 9999 BKN020 13/11 Q1020 RMK QFE748/0997 CLD:5SC
(30/34KM)


NOWCAST.SU UUTW 290100Z VRB02MPS 9999 FEW370 15/10 Q1020 NOSIG
RMK TURB: MOD FL50/FL90
AUTOTAF.ME UUTW 282200Z 2823/2908 VRB02MPS CAVOK TX24/2908Z TN15/2823Z
FM290500 VRB02MPS 9999 VCSH BKN080CB
 
Завидово (Большое)
SYNAR 27417 Клин 290000Z 00000MPS //// //// 10/10 Q1020 RMK QFE750/1000 CLD:NO_OBSERVATIONS
(150/25KM)


NOWCAST.SU UUTZ 290100Z VRB02MPS 9999 SCT063 14/08 Q1020 NOSIG
RMK TURB: MOD FL50/FL70
AUTOTAF.ME UUTZ 282200Z 2823/2908 VRB02MPS CAVOK TX26/2908Z TN14/2823Z
FM290400 VRB02MPS 9999 VCSH SCT060CB
 
Москва (Кремль)
SYNAR 27605 Москва (Балчуг) 290000Z 00000MPS 9999 BKN033 19/10 Q1020 RMK QFE753/1005 CLD:6SC


NOWCAST.SU UUUC 290100Z VRB02MPS 9999 SKC 14/07 Q1021 NOSIG
RMK TURB: MOD FL50/FL70
AUTOTAF.ME UUUC 282200Z 2823/2908 VRB02MPS CAVOK TX25/2908Z TN14/2823Z
FM290300 VRB02MPS 9999 VCSH BKN060CB
FM290800 VRB02MPS CAVOK
 
ГКБ №15
SYNAR 27605 Москва (Балчуг) 290000Z 00000MPS 9999 BKN033 19/10 Q1020 RMK QFE753/1005 CLD:6SC
(280/13KM)


NOWCAST.SU UUUN 290100Z VRB02MPS 9999 SKC 14/08 Q1021 NOSIG
RMK TURB: MOD FL50/FL70
AUTOTAF.ME UUUN 282200Z 2823/2908 21003MPS CAVOK TX25/2908Z TN14/2823Z
FM290500 VRB02MPS 9999 VCSH BKN060CB
FM290800 VRB02MPS CAVOK
 
 


NOSIG
 
Хелипорт-Москва
SYNAR 27619 Москва (Тушино) 290000Z 00000MPS //// SCT033 13/09 Q1020 RMK QFE750/1000 CLD:3SC


NOWCAST.SU UUUZ 290100Z VRB02MPS 9999 FEW380 14/08 Q1021 NOSIG
RMK TURB: MOD FL40/FL70
AUTOTAF.ME UUUZ 282200Z 2823/2908 VRB02MPS CAVOK TX26/2908Z TN14/2900Z
FM290300 VRB02MPS 9999 VCSH SCT060CB
 
Ермолино
SYNAR 27611 Наро-Фоминск 290000Z 00000MPS 9999 SCT020 12/10 Q1020 RMK QFE747/0997 CLD:4SC
(20/18KM)


NOWCAST.SU UUWE 290100Z VRB02MPS 9999 SKC 14/11 Q1021 NOSIG
AUTOTAF.ME UUWE 282200Z 2823/2908 VRB02MPS CAVOK TX26/2908Z TN14/2823Z
FM290800 VRB02MPS 9999 VCSH BKN060CB
 
Аэроград Можайский
SYNAR 27509 Можайск 290000Z 22001MPS 9999 //// 10/10 Q1021 RMK QFE748/0998 CLD:NO_OBSERVATIONS
(280/13KM)


NOWCAST.SU UUWH 290100Z VRB02MPS 9999 FEW370 15/11 Q1021 NOSIG
RMK TURB: MOD FL50/FL90
AUTOTAF.ME UUWH 282200Z 2823/2908 VRB02MPS 9999 VCSH SCT060CB TX23/2908Z TN15/2823Z
FM290000 VRB02MPS CAVOK
FM290600 VRB02MPS 9999 VCSH BKN060CB
 
Кудиново
SYNAR 27606 Малоярославец 290000Z 00000MPS 9999 FEW020 12/12 Q1020 RMK QFE747/0996 CLD:2CU
(90/15KM)


NOWCAST.SU UUWK 290100Z VRB02MPS 9999 SKC 14/12 Q1021 NOSIG
RMK TURB: MOD FL50/FL70
AUTOTAF.ME UUWK 282200Z 2823/2908 VRB02MPS CAVOK TX25/2908Z TN14/2823Z
FM290200 VRB02MPS 9999 VCSH BKN060CB
FM290600 VRB02MPS CAVOK
FM290800 VRB02MPS 9999 VCSH BKN060CB
 
Лужки
SYNAR 27614 Михайловское 290000Z 00000MPS //// //// 11/11 Q1021 RMK QFE748/0997 CLD:NO_OBSERVATIONS


NOWCAST.SU UUWL 290100Z VRB02MPS 9999 SKC 15/08 Q1021 NOSIG
RMK TURB: MOD FL40/FL70
AUTOTAF.ME UUWL 282200Z 2823/2908 VRB02MPS CAVOK TX24/2908Z TN15/2823Z
FM290500 VRB02MPS 9999 VCSH BKN060CB
 
Народное Небо
SYNAR 27509 Можайск 290000Z 22001MPS 9999 //// 10/10 Q1021 RMK QFE748/0998 CLD:NO_OBSERVATIONS
(300/12KM)


NOWCAST.SU UUWN 290100Z VRB02MPS 9999 FEW370 15/11 Q1021 NOSIG
RMK TURB: MOD FL50/FL90
AUTOTAF.ME UUWN 282200Z 2823/2908 VRB02MPS 9999 VCSH SCT060CB TX23/2908Z TN15/2823Z
FM290000 VRB02MPS CAVOK
FM290600 VRB02MPS 9999 VCSH BKN060CB
 
ГБУ Областной аэропорт Протасово
SYNAR 27730 Рязань 290000Z 17001MPS CAVOK 14/07 Q1021 RMK QFE751/1002 CLD:3AC
(320/21KM)


NOWCAST.SU UUWP 290100Z 21003MPS 9999 SKC 14/09 Q1022 NOSIG
RMK TURB: MOD FL40/FL50
AUTOTAF.ME UUWP 282200Z 2823/2908 21003MPS CAVOK TX24/2908Z TN14/2823Z
BECMG 2902/2903 BKN040
BECMG 2906/2907 NSC
 
Шишкин Лес
SYNAR 27614 Михайловское 290000Z 00000MPS //// //// 11/11 Q1021 RMK QFE748/0997 CLD:NO_OBSERVATIONS


NOWCAST.SU UUWQ 290100Z VRB02MPS 9999 SKC 15/10 Q1021 NOSIG
RMK TURB: MOD FL40/FL70
AUTOTAF.ME UUWQ 282200Z 2823/2908 VRB02MPS CAVOK TX24/2907Z TN15/2823Z
FM290500 VRB02MPS 9999 VCSH BKN060CB
 
Аэросоюз-Ясенево
SYNAR 27524 Внуково 290000Z 27001MPS CAVOK 16/08 Q1020 RMK QFE745/0993 CLD:4AC
(270/13KM)


NOWCAST.SU UUWR 290100Z VRB02MPS 9999 SKC 14/07 Q1021 NOSIG
RMK TURB: MOD FL50/FL70
AUTOTAF.ME UUWR 282200Z 2823/2908 VRB02MPS CAVOK TX25/2908Z TN14/2900Z
FM290300 VRB02MPS 9999 VCSH BKN060CB
FM290800 VRB02MPS CAVOK
 
Москва (Внуково)
METAR UUWW 290130Z 22001MPS CAVOK 13/10 Q1019 R24/000070 NOSIG


NOWCAST.SU UUWW 290100Z VRB02MPS 9999 SKC 14/07 Q1021 NOSIG
RMK TURB: MOD FL50/FL70
AUTOTAF.ME UUWW 282200Z 2823/2908 VRB02MPS CAVOK TX25/2908Z TN14/2823Z
FM290300 VRB02MPS 9999 VCSH BKN060CB
FM290800 VRB02MPS CAVOK
TAF UUWW 282252Z 2900/2924 22003MPS CAVOK TX29/2912Z TN13/2901Z
2024/05/28 00:21=
Аносино-2
SYNAR 27511 Ново-Йерусалим 290000Z 00000MPS CAVOK 09/09 Q1021 RMK QFE750/1000 CLD:SKC
(310/13KM)


NOWCAST.SU UUWY 290100Z VRB02MPS 9999 SCT062 13/08 Q1021 NOSIG
RMK TURB: MOD FL50/FL70
AUTOTAF.ME UUWY 282200Z 2823/2908 VRB02MPS CAVOK TX25/2908Z TN13/2900Z
FM290300 VRB02MPS 9999 VCSH SCT060CB
 
Знаменское
SYNAR 27518 Подмосковная 290000Z 00000MPS 9999 //// 09/08 Q1021 RMK QFE750/1000 CLD:NO_OBSERVATIONS


NOWCAST.SU UUWZ 290100Z VRB02MPS 9999 SKC 14/08 Q1021 NOSIG
RMK TURB: MOD FL40/FL70
AUTOTAF.ME UUWZ 282200Z 2823/2908 VRB02MPS CAVOK TX24/2908Z TN14/2823Z
FM290500 VRB02MPS 9999 VCSH BKN060CB
 
ПЭК Ущелье
SYNAR 23527 Саранпауль 290000Z 32004MPS CAVOK M02/M11 Q1018 RMK QFE761/1014 CLD:3AC
(90/87KM)


NOWCAST.SU UUXE 290100Z VRB02MPS 1000 BR BKN003 M09/M11 Q1017 NOSIG
AUTOTAF.ME UUXE 282200Z 2823/2908 VRB02MPS 1200 BR NSC TXM03/2908Z TNM11/2823Z
BECMG 2823/2900 BKN004
FM290200 35003MPS 5000 BR BKN008
BECMG 2902/2903 OVC015
FM290400 34004MPS 9999 OVC025
BECMG 2905/2906 34005MPS
FM290700 34005MPS CAVOK
 
Черпаю (ДНС)
SYNAR 23324 Петрунь 290000Z 32004MPS 9999 OVC045CB M03/M07 Q1019 RMK QFE758/1011 CLD:8CB
(170/114KM)


NOWCAST.SU UUXZ 290100Z 31004MPS 9999 BKN056 M07/M08 Q1018 NOSIG
RMK TURB: MOD SFC/FL20
AUTOTAF.ME UUXZ 282200Z 2823/2908 32005G13MPS 9999 BKN015 TXM04/2906Z TNM07/2823Z
BECMG 2823/2900 NSC
BECMG 2905/2906 BKN025TCU
 
Ухта
SYNAR 23606 Ухта 290000Z 05002MPS CAVOK M03/M08 Q1021 RMK QFE753/1004 CLD:SKC


NOWCAST.SU UUYH 290100Z 02003MPS 9999 BKN016 M02/M08 Q1021 NOSIG
RMK TURB: MOD SFC/FL20
AUTOTAF.ME UUYH 282200Z 2823/2908 VRB02MPS 9999 BKN025 TX05/2908Z TNM03/2823Z
BECMG 2900/2901 BKN015
BECMG 2901/2902 SCT025TCU
BECMG 2903/2904 NSC
FM290600 VRB02MPS 9999 SCT025TCU
FM290700 VRB02MPS CAVOK
 
Инта
SYNAR 23324 Петрунь 290000Z 32004MPS 9999 OVC045CB M03/M07 Q1019 RMK QFE758/1011 CLD:8CB
(40/51KM)


NOWCAST.SU UUYI 290100Z 31004MPS 9999 BKN015 M05/M08 Q1020 NOSIG
AUTOTAF.ME UUYI 282200Z 2823/2908 31004MPS 9999 BKN008 TXM01/2907Z TNM06/2823Z
BECMG 2900/2901 BKN015
BECMG 2902/2903 BKN025TCU
BECMG 2905/2906 -SN
FM290800 32007MPS 9999 -SHSN OVC040CB
 
Вуктыл
SYNAR 23711 Троицко-Печорское 290000Z 34001MPS CAVOK M03/M09 Q1020 RMK QFE752/1003 CLD:2AC
(200/136KM)


NOWCAST.SU UUYK 290100Z 35004MPS 9999 BKN023TCU M03/M08 Q1020 NOSIG
RMK TURB: MOD SFC/FL20
AUTOTAF.ME UUYK 282200Z 2823/2908 35004MPS 9999 BKN025TCU TX04/2908Z TNM03/2823Z
BECMG 2823/2900 BKN015 BKN020TCU
BECMG 2900/2901 BKN025TCU
BECMG 2904/2905 BKN015 BKN020TCU
FM290700 36005MPS 9999 BKN025TCU
 
Емва
SYNAR 23701 Весляна 290000Z 08002MPS //// //// 00/M07 Q1021 RMK QFE756/1008 CLD:NO_OBSERVATIONS
(360/42KM)


NOWCAST.SU UUYM 290100Z 08003MPS 9999 SCT070 02/M07 Q1020 NOSIG
RMK TURB: MOD SFC/FL20
AUTOTAF.ME UUYM 282200Z 2823/2908 07003MPS CAVOK TX08/2908Z TN02/2823Z
BECMG 2902/2903 SCT040TCU
BECMG 2904/2905 NSC
 
Печора
SYNAR 23418 Печора 290000Z 36002MPS 9999 BKN043 M02/M07 Q1021 RMK QFE760/1014 CLD:7SC


NOWCAST.SU UUYP 290100Z 35003MPS 9999 BKN019 BKN020TCU M04/M07 Q1021 NOSIG
RMK TURB: MOD SFC/FL20
AUTOTAF.ME UUYP 282200Z 2823/2908 34003MPS 9999 BKN015 BKN020TCU TX02/2908Z TNM04/2823Z
BECMG 2901/2902 BKN025TCU
BECMG 2905/2906 BKN015 BKN020TCU
BECMG 2906/2907 BKN025TCU
 
Троицко-Печорск
SYNAR 23711 Троицко-Печорское 290000Z 34001MPS CAVOK M03/M09 Q1020 RMK QFE752/1003 CLD:2AC


NOWCAST.SU UUYR 290100Z 36003MPS 9999 FEW230 M02/M08 Q1020 NOSIG
RMK TURB: MOD SFC/FL20
AUTOTAF.ME UUYR 282200Z 2823/2908 VRB02MPS 9999 BKN015 TX06/2908Z TNM03/2823Z
BECMG 2900/2901 NSC
BECMG 2902/2903 BKN040TCU
BECMG 2904/2905 NSC
 
Усинск
SYNAR 23410 Усинск 290000Z 29003MPS //// //// M03/M08 Q1021 RMK QFE758/1011 CLD:NO_OBSERVATIONS


NOWCAST.SU UUYS 290100Z 33005MPS 9999 BKN026 M04/M07 Q1021 NOSIG
AUTOTAF.ME UUYS 282200Z 2823/2908 34005MPS 9999 BKN040 TXM00/2907Z TNM05/2823Z
 
Усть-Кулом
SYNAR 23803 Усть-Кулом 290000Z 07001MPS CAVOK M01/M09 Q1020 RMK QFE752/1003 CLD:8ACCI


NOWCAST.SU UUYT 290100Z VRB02MPS 9999 OVC120 00/M07 Q1020 NOSIG
AUTOTAF.ME UUYT 282200Z 2823/2908 VRB02MPS CAVOK TX07/2908Z TN00/2823Z
BECMG 2901/2902 SCT025TCU
BECMG 2903/2904 NSC
 
Ижма
SYNAR 23503 Ижма 290000Z 00000MPS //// //// M02/M06 Q1023 RMK QFE763/1017 CLD:NO_OBSERVATIONS


NOWCAST.SU UUYV 290100Z VRB02MPS 9999 BKN036 M04/M07 Q1023 NOSIG
AUTOTAF.ME UUYV 282200Z 2823/2908 VRB02MPS 9999 BKN025 TX02/2907Z TNM05/2823Z
 
Воркута
SYNAR 23226 Воркута 290000Z 34006MPS 9999 FEW033 M06/M10 Q1014 RMK QFE745/0993 CLD:8SCACCI


NOWCAST.SU UUYW 290100Z 32008G14MPS 9999 DRSN OVC039 M06/M08 Q1014 NOSIG
AUTOTAF.ME UUYW 282200Z 2823/2908 32009G15MPS 5000 BLSN OVC004 TXM03/2907Z TNM06/2823Z
FM290000 32009G15MPS 7000 DRSN OVC008
FM290100 32008G14MPS 9999 DRSN OVC040
BECMG 2907/2908 -SN
 
Усть-Цильма
SYNAR 23405 Усть-Цильма 290000Z 04001MPS CAVOK M02/M07 Q1023 RMK QFE759/1013 CLD:5AC


NOWCAST.SU UUYX 290100Z VRB02MPS 9999 BKN042 M05/M07 Q1024 NOSIG
AUTOTAF.ME UUYX 282200Z 2823/2908 VRB02MPS CAVOK TX02/2908Z TNM06/2823Z
BECMG 2823/2900 BKN040
 
Сыктывкар
METAR UUYY 290130Z 06003MPS 030V100 9999 -SHRA FEW008 BKN025CB 03/01 Q1019 R36/19//55 NOSIG RMK QFE755/1007


NOWCAST.SU UUYY 290100Z 08003MPS 1500 RASN BR OVC045 02/M02 Q1019 NOSIG
RMK TURB: MOD SFC/FL20
AUTOTAF.ME UUYY 282200Z 2823/2908 07003MPS CAVOK TX07/2908Z TN01/2902Z
FM290100 08003MPS 1200 RASN BR OVC040
BECMG 2901/2902 OVC002
FM290300 08003MPS 0500 +SN FG VV015
FM290400 08003MPS 1200 SN BR OVC015
FM290500 09003MPS 1200 RASN BR OVC025
FM290600 VRB02MPS 2500 RASN HZ BKN025
FM290700 VRB02MPS 9999 -RA BKN025
TAF UUYY 282300Z 2900/2924 08003G10MPS 6000 FEW011 BKN020CB
TEMPO 2900/2903 0300 SHRASN FG BKN002 BKN016CB
TEMPO 2903/2906 1500 SHSNRA BKN016CB
BECMG 2911/2913 06003MPS
BECMG 2918/2920 09003MPS
2024/05/28 00:21=
Большое Болдино
SYNAR 27665 Лукоянов 290000Z 25001MPS CAVOK 12/04 Q1021 RMK QFE746/0994 CLD:SKC
(270/52KM)


NOWCAST.SU UWGB 290100Z 26003MPS 9999 FEW390 12/06 Q1022 NOSIG
RMK TURB: MOD FL50/FL70
AUTOTAF.ME UWGB 282200Z 2823/2908 VRB02MPS CAVOK TX24/2908Z TN11/2823Z
FM290700 27004MPS 9999 VCSH SCT040CB
 
Нижний Новгород (Стригино)
METAR UWGG 290130Z 00000MPS CAVOK 11/08 Q1019 R18L/090070 NOSIG


NOWCAST.SU UWGG 290100Z 24003MPS 9999 FEW380 13/07 Q1021 NOSIG
RMK TURB: MOD FL40/FL70
AUTOTAF.ME UWGG 282200Z 2823/2908 24003MPS CAVOK TX25/2908Z TN13/2823Z
TAF UWGG 282251Z 2900/2924 23003MPS 9999 SCT040 TX27/2912Z TN12/2901Z
2024/05/28 00:21=
Бабино
SYNAR 27459 Нижний Новгород 290000Z 00000MPS CAVOK 14/06 Q1019 RMK QFE750/1000 CLD:SKC
(80/26KM)


NOWCAST.SU UWGI 290100Z 25003MPS 9999 FEW380 13/07 Q1021 NOSIG
RMK TURB: MOD FL40/FL70
AUTOTAF.ME UWGI 282200Z 2823/2908 24003MPS CAVOK TX25/2908Z TN13/2823Z
 
Охлопково
SYNAR 27459 Нижний Новгород 290000Z 00000MPS CAVOK 14/06 Q1019 RMK QFE750/1000 CLD:SKC
(80/57KM)


NOWCAST.SU UWGO 290100Z VRB02MPS 9999 FEW380 13/07 Q1021 NOSIG
RMK TURB: MOD FL50/FL70
AUTOTAF.ME UWGO 282200Z 2823/2908 VRB02MPS CAVOK TX26/2908Z TN12/2823Z
FM290800 26003MPS 9999 VCSH SCT060CB
 
Вознесенское
SYNAR 27752 Темников 290000Z 00000MPS CAVOK 08/05 Q1022 RMK QFE753/1004 CLD:SKC
(140/40KM)


NOWCAST.SU UWGV 290100Z VRB02MPS 9999 FEW390 12/06 Q1022 NOSIG
RMK TURB: MOD FL50/FL70
AUTOTAF.ME UWGV 282200Z 2823/2908 VRB02MPS CAVOK TX25/2908Z TN11/2823Z
BECMG 2905/2906 SCT040TCU
FM290700 23003MPS 9999 VCSH SCT040CB
 
Бугульма
SYNAR 28711 Бугульма 290000Z 25004MPS CAVOK 12/03 Q1019 RMK QFE736/0982 CLD:2AC


NOWCAST.SU UWKB 290100Z 26005G13MPS 9999 SCT260 12/05 Q1020 NOSIG
AUTOTAF.ME UWKB 282200Z 2823/2908 26004MPS CAVOK TX23/2908Z TN11/2823Z
BECMG 2905/2906 27009G14MPS
 
Казань
METAR UWKD 290130Z 26003MPS CAVOK 12/08 Q1017 R29/CLRD70 NOSIG RMK QFE752/1003


NOWCAST.SU UWKD 290100Z 29004MPS 9999 FEW290 14/08 Q1020 NOSIG
RMK TURB: MOD FL40/FL50
AUTOTAF.ME UWKD 282200Z 2823/2908 28004MPS CAVOK TX25/2908Z TN13/2823Z
BECMG 2907/2908 SCT040TCU
TAF UWKD 282300Z 2900/2924 26003MPS CAVOK TX28/2912Z TN12/2902Z
FM290600 29005G12MPS 9999 SCT030
PROB40 2914/2920 VRB15MPS 3100 -TSRA SQ BKN016 BKN020CB
2024/05/28 00:21=
Нижнекамск (Бегишево)
METAR UWKE 290130Z 24006MPS CAVOK 13/08 Q1016 R21/090070 NOSIG RMK QFE745/0994


NOWCAST.SU UWKE 290100Z 26004MPS 9999 BKN061 14/08 Q1018 NOSIG
RMK TURB: MOD SFC/FL70
AUTOTAF.ME UWKE 282200Z 2823/2908 25004MPS CAVOK TX24/2908Z TN14/2823Z
FM290600 27005G10MPS 9999 VCSH BKN080CB
TAF UWKE 282300Z 2900/2924 24003G10MPS 9999 SCT040
TEMPO 2900/2918 27007G14MPS
2024/05/28 00:21=
Балтаси
SYNAR 27593 Арск 290000Z 22002MPS CAVOK 12/05 Q1017 RMK QFE749/0998 CLD:SKC
(210/38KM)


NOWCAST.SU UWKF 290100Z 27004MPS 9999 FEW280 14/07 Q1018 NOSIG
RMK TURB: MOD FL50/FL70
AUTOTAF.ME UWKF 282200Z 2823/2908 27004MPS CAVOK TX25/2908Z TN13/2823Z
FM290300 28004MPS 9999 VCSH BKN060CB
BECMG 2906/2907 29009G14MPS
 
Казань (Борисоглебское)
SYNAR 27595 Казань 290000Z 26001MPS CAVOK 15/07 Q1018 RMK QFE752/1003 CLD:SKC
(160/16KM)


NOWCAST.SU UWKG 290100Z 27004MPS 9999 FEW300 14/08 Q1019 NOSIG
RMK TURB: MOD FL50/FL60
AUTOTAF.ME UWKG 282200Z 2823/2908 27004MPS CAVOK TX25/2908Z TN13/2823Z
FM290800 27007MPS 9999 VCSH BKN040CB
 
Йошкар-Ола
SYNAR 27485 Йошкар-Ола 290000Z 25003G06MPS CAVOK 14/08 Q1017 RMK QFE752/1003 CLD:2CI
(220/11KM)


NOWCAST.SU UWKJ 290100Z 26003MPS 9999 FEW310 14/08 Q1019 NOSIG
RMK TURB: MOD FL50/FL70
AUTOTAF.ME UWKJ 282200Z 2823/2908 26003MPS CAVOK TX27/2908Z TN13/2823Z
FM290800 28004MPS 9999 VCSH SCT100CB
 
Елабуга (Северный)
SYNAR 28506 Елабуга 290000Z 29002MPS CAVOK 14/05 Q1017 RMK QFE754/1005 CLD:SKC


NOWCAST.SU UWKL 290100Z 27004MPS 9999 SCT160 14/08 Q1018 NOSIG
RMK TURB: MOD SFC/FL70
AUTOTAF.ME UWKL 282200Z 2823/2908 27004MPS CAVOK TX24/2908Z TN13/2823Z
FM290400 28005G11MPS 9999 VCSH BKN080CB
TEMPO 2906/2907 VCTS
TEMPO 2907/2908 VRB14G19MPS 5000 VCTS
BECMG 2907/2908 28009G14MPS
 
Мензелинск
SYNAR 28517 Мензелинск 290000Z 24003MPS CAVOK 11/06 Q1016 RMK QFE751/1002 CLD:2CI


NOWCAST.SU UWKP 290100Z 27005G13MPS 9999 BKN063 15/07 Q1018 NOSIG
RMK TURB: MOD SFC/FL70
AUTOTAF.ME UWKP 282200Z 2823/2908 26005G13MPS CAVOK TX24/2908Z TN14/2823Z
FM290600 28005G10MPS 9999 VCSH BKN060CB
 
Куралово
SYNAR 27594 Вязовые 290000Z 27007MPS CAVOK 16/07 Q1018 RMK QFE752/1003 CLD:2CI
(320/27KM)


NOWCAST.SU UWKQ 290100Z 27004MPS 9999 FEW310 14/08 Q1020 NOSIG
RMK TURB: MOD FL50/FL60
AUTOTAF.ME UWKQ 282200Z 2823/2908 26004MPS CAVOK TX24/2907Z TN13/2823Z
 
Сарманово
SYNAR 28606 Акташ 290000Z 24001MPS CAVOK 13/04 Q1018 RMK QFE753/1004 CLD:2CI
(230/37KM)


NOWCAST.SU UWKR 290100Z 26005G13MPS 9999 BKN270 14/07 Q1018 NOSIG
RMK TURB: MOD FL50/FL70
AUTOTAF.ME UWKR 282200Z 2823/2908 26005G13MPS CAVOK TX24/2908Z TN13/2823Z
FM290700 28009G14MPS 9999 VCSH BKN080CB
 
Чебоксары
METAR UWKS 290130Z 28005MPS CAVOK 17/07 Q1018 R24/090060 NOSIG RMK QFE749


NOWCAST.SU UWKS 290100Z 27003MPS 9999 FEW330 14/07 Q1020 NOSIG
RMK TURB: MOD FL50/FL70
AUTOTAF.ME UWKS 282200Z 2823/2908 26003MPS CAVOK TX24/2908Z TN14/2823Z
TAF AMD UWKS 281930Z 2818/2903 CNL=
Казань (Юдино)
SYNAR 27595 Казань 290000Z 26001MPS CAVOK 15/07 Q1018 RMK QFE752/1003 CLD:SKC
(140/18KM)


NOWCAST.SU UWKW 290100Z 27004MPS 9999 FEW300 14/08 Q1019 NOSIG
RMK TURB: MOD FL50/FL60
AUTOTAF.ME UWKW 282200Z 2823/2908 27004MPS CAVOK TX25/2908Z TN14/2823Z
FM290800 27007MPS 9999 VCSH BKN040CB
 
Ульяновск (Баратаевка)
METAR UWLL 290130Z 18002MPS CAVOK 09/04 Q1020 R20/090065 NOSIG RMK QFE755/1006


NOWCAST.SU UWLL 290100Z 27004MPS 9999 SKC 13/05 Q1022 NOSIG
RMK TURB: MOD FL40/FL50
AUTOTAF.ME UWLL 282200Z 2823/2908 27004MPS CAVOK TX25/2908Z TN12/2823Z
BECMG 2905/2906 SCT040TCU
TAF UWLL 282253Z 2900/2924 27003G08MPS 9999 SCT016 TX27/2912Z TN07/2901Z
2024/05/28 00:00=
Новоселки
SYNAR 27799 Димитровград 290000Z 00000MPS CAVOK 07/06 Q1020 RMK QFE758/1011 CLD:SKC
(350/36KM)


NOWCAST.SU UWLN 290100Z VRB02MPS 9999 SCT046 12/06 Q1022 NOSIG
RMK TURB: MOD FL50/FL60
AUTOTAF.ME UWLN 282200Z 2823/2908 VRB02MPS CAVOK TX24/2908Z TN11/2823Z
BECMG 2823/2900 SCT040
BECMG 2901/2902 NSC
 
Солдатская Ташла
SYNAR 27785 Ульяновск 290000Z 20001MPS CAVOK 08/02 Q1021 RMK QFE753/1005 CLD:SKC
(350/29KM)


NOWCAST.SU UWLS 290100Z 25003MPS 9999 SKC 12/05 Q1022 NOSIG
RMK TURB: MOD FL50/FL60
AUTOTAF.ME UWLS 282200Z 2823/2908 24003MPS CAVOK TX24/2907Z TN11/2823Z
BECMG 2904/2905 SCT040TCU
BECMG 2906/2907 NSC
 
Ульяновск (Восточный)
METAR UWLW 290100Z VRB01MPS CAVOK 12/05 Q1019 R20/CLRD60 NOSIG RMK QFE759/1012


NOWCAST.SU UWLW 290100Z 24003MPS 9999 FEW330 14/08 Q1021 NOSIG
RMK TURB: MOD FL50/FL60
AUTOTAF.ME UWLW 282200Z 2823/2908 25003MPS CAVOK TX22/2908Z TN13/2823Z
BECMG 2907/2908 SCT040TCU
TAF UWLW 282247Z 2900/2924 26003MPS 9999 SCT030 TX27/2912Z TN12/2902Z
TEMPO 2906/2915 31005G10MPS
2024/05/28 00:21=
Зилаир
SYNAR 35026 Зилаир 290000Z 00000MPS CAVOK 03/01 Q1019 RMK QFE718/0957 CLD:1CI


NOWCAST.SU UWOI 290100Z 26003MPS 9999 FEW270 08/02 Q1023 NOSIG
AUTOTAF.ME UWOI 282200Z 2823/2908 VRB02MPS CAVOK TX18/2908Z TN07/2823Z
BECMG 2905/2906 27008G13MPS
BECMG 2907/2908 BKN040TCU
 
Оренбург
METAR UWOO 290130Z 23002MPS CAVOK 08/03 Q1021 R26/CLRD60 NOSIG RMK QFE755/1007


NOWCAST.SU UWOO 290100Z 26003MPS 9999 FEW310 10/02 Q1023 NOSIG
AUTOTAF.ME UWOO 282200Z 2823/2908 26003MPS CAVOK TX23/2908Z TN09/2900Z
BECMG 2905/2906 SCT040TCU
TAF UWOO 282243Z 2900/2924 26003G08MPS 9999 SCT030 TX26/2911Z TN08/2901Z
TEMPO 2905/2916 28005G10MPS
2024/05/28 00:21=
Первомайский
SYNAR 35008 Первомайский 290000Z 00000MPS CAVOK 05/01 Q1023 RMK QFE760/1014 CLD:SKC


NOWCAST.SU UWOP 290100Z 27003MPS 9999 SKC 11/02 Q1024 NOSIG
AUTOTAF.ME UWOP 282200Z 2823/2908 VRB02MPS CAVOK TX24/2908Z TN10/2823Z
BECMG 2905/2906 SCT040TCU
 
Орск
METAR UWOR 290100Z 26005MPS CAVOK 10/02 Q1021 R25/CLRD60 NOSIG RMK QFE742/0989


NOWCAST.SU UWOR 290100Z 27005MPS 9999 FEW300 11/02 Q1023 NOSIG
AUTOTAF.ME UWOR 282200Z 2823/2908 26004MPS CAVOK TX21/2908Z TN10/2823Z
TAF UWOR 282243Z 2900/2909 26005G10MPS 9999 SCT030 TX22/2900Z TN08/2901Z
TEMPO 2905/2909 28008G15MPS
2024/05/28 00:00=
Бузулук
SYNAR 28909 Бузулук 290000Z 14001MPS CAVOK 08/03 Q1021 RMK QFE758/1011 CLD:SKC


NOWCAST.SU UWOX 290100Z VRB02MPS 9999 FEW300 11/03 Q1022 NOSIG
AUTOTAF.ME UWOX 282200Z 2823/2908 VRB02MPS CAVOK TX24/2908Z TN09/2823Z
BECMG 2906/2907 SCT040TCU
BECMG 2907/2908 NSC
 
Кушкуль (Сакмара)
SYNAR 35121 Оренбург 290000Z 23003MPS CAVOK 09/02 Q1022 RMK QFE756/1008 CLD:2CI
(190/26KM)


NOWCAST.SU UWOY 290100Z 27004MPS 9999 FEW310 11/02 Q1023 NOSIG
AUTOTAF.ME UWOY 282200Z 2823/2908 26003MPS CAVOK TX23/2908Z TN10/2823Z
BECMG 2905/2906 SCT040TCU
 
Пенза (Терновка)
SYNAR 27962 Пенза 290000Z 27001MPS CAVOK 08/04 Q1023 RMK QFE751/1002 CLD:SKC


NOWCAST.SU UWPP 290100Z VRB02MPS 9999 SKC 11/04 Q1024 NOSIG
RMK TURB: MOD FL40/FL50
AUTOTAF.ME UWPP 282300Z 2900/2909 VRB02MPS CAVOK TX24/2909Z TN10/2900Z
 
Саранск
METAR UWPS 290130Z 11001MPS CAVOK 10/03 Q1021 R20/CLRD60 NOSIG RMK QFE748


NOWCAST.SU UWPS 290400Z 25003MPS 9999 SKC 16/07 Q1022 NOSIG
AUTOTAF.ME UWPS 290000Z 2903/2912 VRB02MPS CAVOK TX24/2910Z TN14/2903Z
BECMG 2908/2909 SCT040TCU
BECMG 2910/2911 NSC
TAF UWPS 281653Z 2818/2903 24003G08MPS CAVOK TX15/2818Z TN09/2903Z=
Балаково (Малая Быковка)
SYNAR 34086 Балаково 290000Z 00000MPS CAVOK 06/04 Q1022 RMK QFE763/1018 CLD:SKC
(20/19KM)


NOWCAST.SU UWSB 290400Z VRB02MPS 9999 SKC 17/05 Q1023 NOSIG
AUTOTAF.ME UWSB 290000Z 2903/2912 VRB02MPS CAVOK TX26/2911Z TN14/2903Z
 
Саратов (Гагарин)
METAR UWSG 290130Z 30003MPS CAVOK 08/02 Q1022 R08/CLRD70 NOSIG RMK QFE764/1019


NOWCAST.SU UWSG 290400Z VRB02MPS 9999 SKC 14/05 Q1023 NOSIG
AUTOTAF.ME UWSG 290000Z 2903/2912 VRB02MPS CAVOK TX22/2911Z TN13/2903Z
TAF UWSG 282252Z 2900/2909 30003MPS CAVOK TX24/2909Z TN06/2901Z
BECMG 2905/2907 12003G09MPS
2024/05/28 00:00=
Красный Кут
SYNAR 34273 Красный Кут 290000Z 00000MPS CAVOK 04/03 Q1023 RMK QFE762/1016 CLD:SKC


NOWCAST.SU UWSK 290400Z VRB02MPS 9999 SKC 16/02 Q1023 NOSIG
AUTOTAF.ME UWSK 290000Z 2903/2912 VRB02MPS CAVOK TX26/2911Z TN14/2903Z
 
Пугачев
SYNAR 34098 Пугачев 290000Z 19001MPS CAVOK 06/04 Q1023 RMK QFE763/1018 CLD:SKC


NOWCAST.SU UWSP 290400Z VRB02MPS 9999 SKC 17/04 Q1023 NOSIG
AUTOTAF.ME UWSP 290000Z 2903/2912 VRB02MPS CAVOK TX26/2910Z TN15/2903Z
 
Саратов (Центральный)
SYNAR 34178 Саратов (ЮВ) 290000Z 27001MPS CAVOK 10/01 Q1023 RMK QFE755/1007 CLD:SKC


NOWCAST.SU UWSS 290400Z VRB02MPS 9999 SKC 15/05 Q1023 NOSIG
AUTOTAF.ME UWSS 290000Z 2903/2912 VRB02MPS CAVOK TX22/2911Z TN13/2903Z
 
Балашов (Репное)
SYNAR 34152 Балашов 290000Z 00000MPS CAVOK 08/M00 Q1023 RMK QFE752/1003 CLD:SKC


NOWCAST.SU UWSW 290400Z VRB02MPS 9999 SKC 15/02 Q1023 NOSIG
AUTOTAF.ME UWSW 290000Z 2903/2912 VRB02MPS CAVOK TX25/2911Z TN13/2903Z
 
Караишево
SYNAR 27693 Лаишево 290000Z 26002MPS //// //// 12/05 Q1019 RMK QFE752/1003 CLD:NO_OBSERVATIONS
(140/19KM)


NOWCAST.SU UWTK 290400Z 29004MPS 9999 FEW320 19/09 Q1019 NOSIG
RMK TURB: MOD FL50/FL70
AUTOTAF.ME UWTK 290000Z 2903/2912 29004MPS CAVOK TX26/2910Z TN17/2903Z
BECMG 2907/2908 SCT040TCU
FM290900 28008G13MPS 9999 VCSH BKN040CB
FM291000 28008G13MPS CAVOK
 
Альметьевск (Пойма)
SYNAR 28606 Акташ 290000Z 24001MPS CAVOK 13/04 Q1018 RMK QFE753/1004 CLD:2CI
(330/13KM)


NOWCAST.SU UWTP 290400Z 26005G10MPS 9999 FEW270 18/08 Q1019 NOSIG
RMK TURB: MOD FL50/FL70
AUTOTAF.ME UWTP 290000Z 2903/2912 26004MPS CAVOK TX25/2909Z TN16/2903Z
BECMG 2906/2907 27009G14MPS
FM290800 28009G14MPS 9999 VCSH BKN040CB
FM291100 28009G14MPS CAVOK
FM291200 28009G14MPS 9999 VCSH BKN060CB
 
Казань (Автодром)
SYNAR 27595 Казань 290000Z 26001MPS CAVOK 15/07 Q1018 RMK QFE752/1003 CLD:SKC
(190/16KM)


NOWCAST.SU UWTX 290400Z 28005G12MPS 9999 FEW330 19/09 Q1018 NOSIG
RMK TURB: MOD FL50/FL60
AUTOTAF.ME UWTX 290000Z 2903/2912 28004MPS CAVOK TX26/2909Z TN17/2903Z
FM290700 28007MPS 9999 VCSH BKN040CB
BECMG 2911/2912 26009G14MPS
 
Белорецк
SYNAR 28831 Белорецк 290000Z 00000MPS //// NSC 08/01 Q1018 RMK QFE715/0954 CLD:2


NOWCAST.SU UWUB 290400Z 27005G13MPS 9999 FEW200 14/05 Q1018 NOSIG
RMK TURB: MOD SFC/FL50
AUTOTAF.ME UWUB 290000Z 2903/2912 27005G13MPS CAVOK TX19/2909Z TN13/2903Z
BECMG 2904/2905 BKN025TCU
BECMG 2905/2906 28010G16MPS
FM290700 28010G15MPS 9999 BKN040CB
TEMPO 2907/2908 VRB14G19MPS VCTS
TEMPO 2908/2910 VRB17G22MPS VCTS
BECMG 2909/2910 NSW
TEMPO 2910/2913 VRB17G22MPS -TSRA
 
Нефтекамск
SYNAR 28419 Янаул 290000Z 28002MPS 9999 FEW020 13/06 Q1015 RMK QFE751/1002 CLD:6SCACCI
(60/38KM)


NOWCAST.SU UWUF 290400Z VRB02MPS 9999 -SHRA BKN024CB 17/10 Q1017 TEMPO FM0600 VRB14G19MPS VCSH
RMK TURB: MOD SFC/FL20
AUTOTAF.ME UWUF 290000Z 2903/2912 32003MPS 9999 -SHRA BKN080CB TX24/2911Z TN17/2903Z
BECMG 2904/2905 VCSH
TEMPO 2906/2908 VRB14G19MPS VCTS
TEMPO 2908/2910 VRB14G19MPS 5000 VCTS
BECMG 2908/2909 28008G13MPS
BECMG 2909/2910 NSW
TEMPO 2910/2911 VRB14G19MPS 5000 -TSRA
TEMPO 2911/2912 VRB17G22MPS 5000 -TSRA
 
Октябрьский
SYNAR 28712 Туймазы 290000Z 00000MPS CAVOK 12/02 Q1018 RMK QFE751/1002 CLD:SKC
(50/27KM)


NOWCAST.SU UWUK 290400Z 27005G13MPS 9999 FEW260 18/07 Q1019 NOSIG
RMK TURB: MOD FL70/FL80
AUTOTAF.ME UWUK 290000Z 2903/2912 26005G13MPS CAVOK TX25/2909Z TN16/2903Z
FM290600 28005G11MPS 9999 VCSH SCT060CB
 
Уфа (Максимовка)
SYNAR 28722 Уфа 290000Z 25001MPS 9999 FEW033 13/03 Q1016 RMK QFE752/1003 CLD:2SCCI
(240/25KM)


NOWCAST.SU UWUM 290400Z 28004MPS 9999 VCSH OVC063CB 18/08 Q1017 TEMPO FM0600 VRB17G22MPS -SHRA
RMK TURB: MOD SFC/FL20
AUTOTAF.ME UWUM 290000Z 2903/2912 27004MPS 9999 VCSH BKN060CB TX24/2911Z TN16/2903Z
BECMG 2904/2905 -SHRA
BECMG 2905/2906 NSW
TEMPO 2906/2907 VRB17G22MPS -TSRA
TEMPO 2907/2908 VRB17G22MPS TS
TEMPO 2908/2909 VRB17G22MPS VCTS
TEMPO 2909/2910 VRB17G22MPS 5000 VCTS
TEMPO 2910/2911 VRB17G22MPS VCTS
FM291100 29009G14MPS 9999 BKN040CB
TEMPO 2911/2913 VRB17G22MPS -TSRA
 
Первушино
SYNAR 28624 Кушнаренково 290000Z 25002MPS 9999 FEW066 11/04 Q1016 RMK QFE753/1004 CLD:8ACCI
(300/29KM)


NOWCAST.SU UWUO 290400Z 28004MPS 9999 OVC063CB 18/08 Q1017 TEMPO TS
RMK TURB: MOD SFC/FL20
AUTOTAF.ME UWUO 290000Z 2903/2912 27004MPS 9999 BKN060CB TX24/2911Z TN17/2903Z
TEMPO 2903/2904 VCTS
TEMPO 2904/2905 TS
BECMG 2904/2905 NSW
TEMPO 2905/2906 VRB14G19MPS -TSRA
TEMPO 2906/2907 VRB17G22MPS -TSRA
TEMPO 2907/2908 VRB17G22MPS TS
TEMPO 2908/2909 VRB17G22MPS VCTS
TEMPO 2909/2910 VRB17G22MPS 5000 VCTS
TEMPO 2910/2911 VRB17G22MPS VCTS
FM291100 29009G14MPS 9999 BKN040CB
TEMPO 2911/2913 VRB17G22MPS -TSRA
 
Стерлитамак
SYNAR 28825 Стерлитамак 290000Z 00000MPS CAVOK 06/02 Q1019 RMK QFE752/1002 CLD:SKC
(70/16KM)


NOWCAST.SU UWUS 290400Z 24004MPS 9999 BKN061 18/06 Q1020 NOSIG
AUTOTAF.ME UWUS 290000Z 2903/2912 23004MPS CAVOK TX25/2910Z TN16/2903Z
BECMG 2904/2905 SCT040TCU
FM290800 27008G13MPS 9999 VCSH BKN040CB
BECMG 2908/2909 -SHRA
FM291000 27009G14MPS 9999 VCSH BKN040CB
 
Уфа
METAR UWUU 290130Z 21005MPS CAVOK 12/04 Q1016 R14R/0///60 NOSIG


NOWCAST.SU UWUU 290400Z 27005G13MPS 9999 VCSH BKN062CB 18/07 Q1018 NOSIG
RMK TURB: MOD SFC/FL70
AUTOTAF.ME UWUU 290000Z 2903/2912 27005G13MPS CAVOK TX25/2910Z TN17/2903Z
FM290400 27005G13MPS 9999 VCSH BKN060CB
TEMPO 2907/2909 VRB14G19MPS VCTS
TEMPO 2909/2911 VRB17G22MPS VCTS
TEMPO 2911/2912 VRB17G22MPS TS
FM291200 28010G15MPS 9999 BKN040CB
TAF UWUU 282257Z 2900/2924 22005G10MPS 9999 BKN040 TX25/2911Z TN09/2901Z
TEMPO 2900/2909 26005G10MPS BKN020CB
FM290900 27007G13MPS 9999 BKN030
TEMPO 2909/2921 30009G17MPS 6000 -TSRAGR BKN016CB
TEMPO 2921/2924 34003G10MPS
2024/05/28 00:21=
Старосубхангулово (Бурзян)
SYNAR 28823 Тукан 290000Z 02001MPS CAVOK 03/01 Q1018 RMK QFE715/0953 CLD:2ACCI
(10/87KM)


NOWCAST.SU UWUW 290400Z 27004MPS 9999 BKN280 15/04 Q1021 NOSIG
RMK TURB: MOD SFC/FL40
AUTOTAF.ME UWUW 290000Z 2903/2912 27003MPS CAVOK TX22/2909Z TN13/2903Z
FM290800 27009G14MPS 9999 VCSH BKN060CB
FM291100 28004MPS 9999 -SHRA BKN040CB
 
Бугуруслан (Главный)
SYNAR 28806 Бугуруслан 290000Z 25001MPS CAVOK 10/02 Q1020 RMK QFE756/1008 CLD:SKC


NOWCAST.SU UWWB 290400Z 27004MPS 9999 FEW280 17/06 Q1021 NOSIG
AUTOTAF.ME UWWB 290000Z 2903/2912 26004MPS CAVOK TX25/2910Z TN15/2903Z
BECMG 2905/2906 SCT040TCU
BECMG 2906/2907 NSC
BECMG 2908/2909 SCT040TCU
FM291000 28007MPS CAVOK
 
Самара (Безымянка)
SYNAR 28904 Самара (Безымянка) 290000Z 00001MPS CAVOK 11/04 Q1018 RMK QFE760/1013 CLD:SKC


NOWCAST.SU UWWG 290400Z 27003MPS 9999 FEW350 17/07 Q1022 NOSIG
AUTOTAF.ME UWWG 290000Z 2903/2912 27003MPS CAVOK TX26/2910Z TN15/2903Z
 
Красный Яр
SYNAR 28900 Самара (ОГМС) 290000Z 25001MPS CAVOK 14/05 Q1021 RMK QFE753/1004 CLD:SKC
(210/32KM)


NOWCAST.SU UWWQ 290400Z 28003MPS 9999 FEW340 17/07 Q1021 NOSIG
AUTOTAF.ME UWWQ 290000Z 2903/2912 VRB02MPS CAVOK TX26/2911Z TN15/2903Z
 
Самара (Смышляевка)
SYNAR 28904 Самара (Безымянка) 290000Z 00001MPS CAVOK 11/04 Q1018 RMK QFE760/1013 CLD:SKC


NOWCAST.SU UWWS 290400Z 27003MPS 9999 FEW350 17/07 Q1022 NOSIG
AUTOTAF.ME UWWS 290000Z 2903/2912 27003MPS CAVOK TX26/2910Z TN15/2903Z
 
Самара (Кряж)
SYNAR 28904 Самара (Безымянка) 290000Z 00001MPS CAVOK 11/04 Q1018 RMK QFE760/1013 CLD:SKC
(60/14KM)


NOWCAST.SU UWWV 290400Z 27003MPS 9999 SKC 17/07 Q1022 NOSIG
AUTOTAF.ME UWWV 290000Z 2903/2912 26003MPS CAVOK TX26/2911Z TN15/2903Z
 
Самара (Курумоч)
METAR UWWW 290130Z 24003MPS CAVOK 09/05 Q1020 R33/CLRD63 NOSIG RMK QFE754/1006


NOWCAST.SU UWWW 290400Z 28003MPS 9999 FEW380 18/07 Q1021 NOSIG
AUTOTAF.ME UWWW 290000Z 2903/2912 27003MPS CAVOK TX25/2909Z TN16/2903Z
BECMG 2905/2906 SCT040TCU
BECMG 2906/2907 NSC
TAF UWWW 282251Z 2900/2924 26003MPS 9999 SCT030 TX27/2911Z TN10/2901Z
TEMPO 2906/2915 29006G12MPS
2024/05/28 00:21=
Бугуруслан (Северный)
SYNAR 28806 Бугуруслан 290000Z 25001MPS CAVOK 10/02 Q1020 RMK QFE756/1008 CLD:SKC
(150/12KM)


NOWCAST.SU UWWZ 290400Z 27004MPS 9999 FEW270 17/06 Q1021 NOSIG
AUTOTAF.ME UWWZ 290000Z 2903/2912 26004MPS CAVOK TX25/2909Z TN15/2903Z
BECMG 2905/2906 SCT040TCU
BECMG 2906/2907 NSC
BECMG 2908/2909 SCT040TCU
FM291000 28007MPS CAVOK
 

Таблица обновляется в 12 и 42 минуты каждого часа круглосуточно.

Цвет рамки ячеек таблицы означает класс метеоусловий (высота нижней границы облаков* х видимость):
зелёный - VFR (выше 900х8000);
голубой - MVFR (ниже 900х8000, но не ниже 300х5000);
красный - IFR (ниже 300х5000, но не ниже 150х2000);
пурпурный - LIFR (ниже 150х2000, но не ниже 90х800);
фиолетовый - VLIFR (ниже 90х800).

*ВНГО - высота нижней границы самого нижнего слоя облаков, закрывающего более половины небосвода (BKN или OVC).